ENHM 241620Z 14017KT 9999 BKN046 07/03 Q1025 W08/S4 UUOK 241600Z 03006MPS CAVOK 11/M09 Q1025 NOSIG RMK 30CLRD70 KIWI 241553Z AUTO 32008G20KT 270V050 10SM FEW049 OVC085 10/M03 A2959 RMK AO2 PK WND 32029/1541 SLP021 T01001028 KJMR 241630Z AUTO 10009KT 7SM -RA BKN009 OVC014 02/01 A2980 RMK AO2 P0003 KJMS 241556Z AUTO 26003KT 10SM CLR 08/07 A2970 RMK AO2 SLP067 T00780067 PPIT 241556Z AUTO 32008KT 10SM CLR M01/M01 A2957 RMK AO2 SLP012 T10061006 FZRANO KIXA 241635Z AUTO 27004KT 10SM CLR 18/M02 A3011 RMK AO2 UUOO 241630Z 36004G07MPS CAVOK 08/M11 Q1023 NOSIG RMK 30090060 KIXD 241650Z 16010KT 4SM -RA BR FEW006 BKN040 OVC050 16/14 A2961 RMK AO2 LTG DSNT SW-NW P0017 ENHV 241550Z 30019KT 9999 -SHRA BKN014 03/01 Q1019 KM63 241556Z AUTO 25008KT 12SM CLR 19/M10 A3010 RMK AO2 SLP131 T01871096 PPIZ 241619Z AUTO 04014KT 8SM SCT005 OVC016 M06/M07 A2984 RMK AO2 TSNO $ KIYA 241635Z AUTO 16012G18KT 10SM SCT026 BKN030 29/20 A2995 RMK AO2 T02930197 ENKB 241620Z 36002KT CAVOK 12/05 Q1026 KJNX 241635Z AUTO 00000KT 10SM CLR 16/00 A3012 RMK AO2 OYMB 241400Z 09010KT 9999 SCT030 34/M02 Q1012 KIZA 241635Z AUTO 00000KT 10SM CLR 14/05 A3003 RMK AO2 ENLA 241620Z AUTO 12022KT 9999NDV OVC013/// 07/06 Q1022 W///S4 KJOT 241635Z AUTO 16015G23KT 10SM CLR 16/02 A2992 RMK AO2 T01570024 KJQF 241555Z 00000KT 10SM CLR 18/01 A3017 LBGO 241600Z 08009MPS 9999 SCT040 BKN070 19/11 Q1009 NOSIG KIZG 241554Z AUTO 36017G24KT 10SM CLR 11/M04 A2967 RMK AO2 PK WND 35026/1544 SLP050 T01111039 ENKR 241620Z 31014KT 9999 DZ FEW009 BKN019 03/00 Q1017 RMK WIND 775FT 30024KT ENLK 241550Z 30011KT CAVOK 07/01 Q1028 KN03 241635Z AUTO 34009G19KT 288V018 10SM CLR 07/M06 A3005 RMK AO2 ENMH 241550Z 31013KT 9999 SHRA SCT012 BKN020 03/M01 Q1018 KLAA 241553Z AUTO 34013KT 10SM CLR 14/M04 A3001 RMK AO2 SLP135 T01391039 ENNA 241620Z 32023KT 9999 FEW010 BKN025 04/01 Q1021 RMK WIND 1800FT 30019KT ENML 241620Z 24003KT CAVOK 16/06 Q1025 ENNE 241550Z 36009KT CAVOK 07/05 Q1027 W04/S4 KLAF 241554Z 13016G25KT 10SM CLR 15/00 A2997 RMK AO2 SLP149 T01500000 ENMS 241550Z 32005KT CAVOK 14/M02 Q1027 RMK WIND 412FT 34004KT ENOA 241620Z 16009KT 9999 BKN050 09/02 Q1026 W///S3 KLBB 241553Z 34020G23KT 10SM CLR 17/02 A3004 RMK AO2 PK WND 01026/1508 SLP130 T01720022 ENNK 241550Z 24010KT CAVOK 09/M05 Q1027 KLAL 241650Z 16007KT 10SM SCT035 27/17 A3002 KJTC 241635Z AUTO 08005KT 10SM CLR 13/M13 A3020 RMK AO2 KLAM 241635Z AUTO 00000KT 10SM CLR 09/M13 A3017 RMK AO2 T00901127 ENNM 241620Z VRB03KT CAVOK 17/02 Q1025 KLAN 241553Z 12017KT 10SM OVC090 11/M08 A3011 RMK AO2 SLP201 T01061078 KLBE 241645Z 32006KT 10SM SCT150 10/M06 A3013 KLBF 241553Z AUTO 32012G23KT 10SM CLR 16/M03 A2989 RMK AO2 SLP109 T01561033 KJSO 241635Z AUTO 18009G15KT 10SM SCT050 SCT055 OVC075 22/16 A2988 RMK AO2 T02240158 ENNO 241650Z 11006KT 060V140 CAVOK 13/M05 Q1028 KLAR 241553Z AUTO 26011G18KT 10SM CLR 05/M11 A3001 RMK AO2 SLP135 T00501106 $ LATI 241650Z 26005KT 9999 FEW015CB BKN020 BKN070 17/13 Q1009 NOSIG KLAS 241556Z 00000KT 10SM FEW250 20/M11 A2996 RMK AO2 SLP128 T02001106 VMMC 241630Z 11014KT 6000 FEW006 SCT020 23/22 Q1011 TEMPO 4500 BR KJST 241554Z AUTO 32007KT 10SM CLR 06/M08 A3009 RMK AO2 SLP205 T00611083 KLBL 241635Z AUTO 36022G28KT 10SM CLR 17/M01 A2998 RMK AO1 ENOL 241650Z 32007KT CAVOK 10/05 Q1026 NOSIG KLAW 241553Z 34024G35KT 10SM CLR 21/08 A2979 RMK AO2 PK WND 34040/1524 SLP079 T02110083 KLAX 241653Z 00000KT 10SM FEW280 20/09 A3000 RMK AO2 SLP156 T02000089 KLCH 241553Z 19011KT 10SM SCT020 OVC060 24/17 A2993 RMK AO2 SLP142 T02440172 KLCI 241635Z AUTO 33017G29KT 10SM CLR 09/M04 A2972 RMK AO1 KLBR 241635Z AUTO 19006KT 7SM OVC039 23/17 A2981 RMK AO1 T02270165 KN38 241635Z AUTO 32009G18KT 280V010 10SM CLR 08/M09 A3007 RMK AO2 ENQA 241620Z AUTO 17004KT 9999NDV BKN057/// BKN087/// 11/02 Q1027 W06/S4 KLBT 241554Z AUTO 04007KT 10SM CLR 18/04 A3013 RMK AO2 SLP201 T01830044 KLCK 241635Z AUTO 09014G18KT 10SM CLR 15/M14 A3008 RMK AO2 T01491143 ENQC 241620Z AUTO 00000KT 9999NDV FEW071/// BKN095/// 10/06 Q1026 W///S4 ENOV 241650Z 23006KT CAVOK 16/03 Q1025 RMK WIND 2175FT VRB02KT KLBX 241553Z AUTO 16015KT 10SM FEW019 SCT024 SCT038 24/19 A2991 RMK AO2 SLP126 T02390194 VLVT 241630Z 18004KT 3000 BR FEW020 31/26 Q1007 NOSIG KLDJ 241655Z AUTO 31018G27KT 10SM CLR 15/M08 A2994 RMK AO2 T01481083 KKLS 241635Z 00000KT 10SM FEW024 SCT028 BKN034 11/07 A2985 RMK AO1 ENRA 241620Z 30008KT CAVOK 10/M08 Q1028 KLEB 241553Z 35015G27KT 10SM CLR 09/M06 A2981 RMK AO2 PK WND 32030/1540 SLP095 T00891061 KJVL 241645Z 15016G25KT 10SM OVC070 14/01 A2984 OYRN 241600Z 11004KT 9999 FEW025 28/19 Q1011 KLDM 241635Z AUTO 14006KT 10SM -RA SCT035 OVC055 10/02 A3006 RMK AO2 T00960021 KLEE 241553Z 18004KT 10SM CLR 25/18 A3004 RMK AO2 SLP170 T02500178 OYSH 241500Z 11008KT 9999 BKN030 27/03 Q//// KJWG 241635Z AUTO 32020G25KT 10SM CLR 20/07 A2983 RMK AO2 T02010074 ENQR 241620Z AUTO 11003KT 040V210 8000NDV SCT077/// BKN086/// 11/05 Q1027 W///S4 KN60 241652Z AUTO 28015G24KT 12/00 A2971 RMK AO1 PK WND 29027/1622 SLP069 T01220000 UUWW 241630Z 34004MPS CAVOK 06/M12 Q1025 NOSIG ENSB 241650Z 13007KT 9999 FEW025 M09/M15 Q1024 RMK WIND 1400FT 07006KT OYSN 241700Z 09006KT 050V140 9999 FEW030 22/M01 Q1026 NOSIG ENRM 241620Z 27005KT CAVOK 12/01 Q1027 ENSD 241650Z 03004KT 310V110 CAVOK 15/04 Q1024 RMK WIND 1138FT 08008KT UWGG 241630Z 32004MPS 9999 SCT033 03/M08 Q1020 NOSIG 36090070 RMK QFE758 KJVW 241635Z AUTO 18012G17KT 10SM FEW042 26/23 A2993 RMK AO2 TSNO LCEN 241620Z 12005KT CAVOK 26/07 Q1009 NOSIG ENSE 241620Z AUTO 15009KT 9999NDV BKN071/// BKN086/// 09/05 Q1027 W///S/ OYSQ 241600Z 06007KT 9999 SCT018 29/21 Q1010 ENRO 241650Z 14006KT CAVOK 10/M04 Q1026 ENSF 241620Z AUTO 19011KT 9999NDV FEW056/// BKN084/// 10/04 Q1027 W///S3 ENSG 241650Z 08003KT 020V120 CAVOK 10/M03 Q1026 RMK WIND 3901FT 11014KT ENSH 241550Z 23006KT CAVOK 07/M00 Q1028 KJXI 241635Z AUTO 20012G16KT 9SM BKN047 24/17 A2983 RMK AO2 KLFI 241558Z AUTO VRB05KT 10SM CLR 15/M02 A3011 RMK AO2 SLP203 T01451022 $ KLGA 241651Z 33023G28KT 10SM SCT250 13/M11 A2988 RMK AO2 PK WND 31029/1604 SLP118 T01281106 ENRS 241620Z 27006KT CAVOK 08/01 Q1028 KLFK 241648Z AUTO 18008KT 8SM -TSRA FEW032 SCT065 BKN110 24/18 A2988 RMK AO2 RAB42 TSB44 P0001 KLGB 241553Z 00000KT 10SM CLR 18/11 A2999 RMK AO2 SLP154 T01780111 ENSK 241550Z 26009KT CAVOK 08/M01 Q1028 KLGC 241635Z AUTO 22003KT 10SM SCT070 26/11 A3001 RMK AO2 T02580107 EPBC 241600Z 06012KT CAVOK 20/06 Q1020= ENTC 241650Z 27011KT 9999 FEW020 BKN032 05/01 Q1026 NOSIG RMK WIND 2600FT 28015KT ENSL 241550Z 13030KT 9999 BKN013 07/04 Q1023 W06/S5 KLGD 241635Z AUTO 15007KT 10SM FEW034 FEW050 BKN085 08/04 A2985 RMK AO1 LBPD 241600Z 09005MPS 9999 -RA FEW020 SCT040 BKN100 16/14 Q1008 NOSIG KLEW 241635Z AUTO 33022G30KT 10SM OVC090 09/M04 A2963 RMK AO1 KJXN 241556Z 12014KT 10SM BKN080 BKN090 09/M06 A3011 RMK AO2 SLP201 T00891061 ENSN 241650Z VRB02KT CAVOK 11/M05 Q1028 OYSY 241700Z 14008KT 100V190 CAVOK 32/08 Q1012 KLEX 241554Z 12009KT 10SM CLR 16/03 A3006 RMK AO2 SLP178 T01610033 ENSO 241550Z 16003KT CAVOK 12/M00 Q1026 KJYG 241635Z AUTO 06003KT 2SM BR OVC006 06/05 A2971 RMK AO2 KJWY 241635Z AUTO 21019G25KT 10SM SCT022 SCT030 24/17 A2981 RMK AO2 T02400169 ENRY 241650Z 09007KT 060V120 CAVOK 13/M06 Q1028 ENSR 241550Z 30016KT 9999 VCSH BKN030 06/00 Q1024 RMK WIND 1119FT 29018KT ENSS 241650Z 35013KT 9999 FEW015 BKN035 02/M00 Q1016 RMK WIND 500FT 35016KT KLFT 241640Z 19010KT 10SM BKN033 26/19 A2994 RMK AO2 T02610189 KLHB 241635Z AUTO 21008KT 10SM OVC028 24/18 A2989 RMK AO2 T02380176 ENST 241620Z 02006KT CAVOK 13/M02 Q1028 RMK WIND 300FT 02008KT KJYL 241635Z AUTO 00000KT 10SM CLR 26/14 A3004 RMK AO2 T02550140 KJYM 241634Z AUTO 12014KT 10SM BKN110 11/M08 A3008 RMK AO2 T01131079 UUYY 241630Z VRB01MPS 9000 SCT040 BKN066 M01/M08 Q1013 NOSIG 01CLRD61 RMK QFE751/1001 EPCE 241630Z 07014KT CAVOK 15/03 Q1022 RMK 154 042 0/0= KJYO 241635Z AUTO 35005KT 10SM CLR 13/M01 A3011 RMK AO2 OYTZ 241600Z 15010KT 9999 SCT030 25/08 Q1018 ENTO 241650Z 14004KT CAVOK 11/M05 Q1028 KJZI 241655Z AUTO 08015G23KT 10SM CLR 21/13 A3007 RMK A02 LTG DATA MISG P000 KJYR 241635Z AUTO 34015G21KT 10SM CLR 14/08 A2977 RMK AO2 EPDA 241630Z 07015KT CAVOK 18/06 Q1020 RMK 181 046 3/1= ENVA 241650Z 24012G22KT CAVOK 14/03 Q1025 NOSIG RMK WIND 670FT 31007KT FGBT 241600Z 10004KT 8000 -TSRA FEW010 FEW020CB BKN100 27/25 Q1007 TEMPO 4000 TSRA KLGU 241651Z AUTO 00000KT 10SM OVC095 09/M02 A3004 RMK AO2 SLP164 T00941017 KLIC 241555Z AUTO 36011KT 10SM CLR 09/M07 A3004 RMK AO2 SLP152 T00941067 KLHM 241635Z AUTO 10011KT 10SM BKN120 17/08 A3005 RMK AO1 ENVD 241550Z VRB05KT 9999 -SHRA FEW010 SCT015 BKN024 03/00 Q1017 EPDE 241630Z 08008KT CAVOK 18/06 Q1019 RMK 184 043 5/5= EPBY 241630Z 08009KT CAVOK 20/07 Q1020 KLHQ 241553Z AUTO 09009G17KT 10SM CLR 12/M07 A3012 RMK AO2 SLP202 T01221067 ENVH 241620Z AUTO 09020KT 9999NDV OVC009/// 08/06 Q1022 W///S4 UWKD 241630Z 33005MPS 9999 BKN033CB 01/M03 Q1013 R29/1/0060 NOSIG RMK QFE748/0998 UWKE 241630Z 33006MPS 9999 SCT020CB 00/M03 Q1008 NOSIG RMK QFE739/0985 03210365 KMAE 241453Z AUTO 30006KT 10SM CLR 13/08 A3008 RMK AO2 SLP184 T01280078 53011 KLHW 241558Z AUTO VRB02KT 10SM CLR 27/16 A3001 RMK AO2 SLP165 T02680163 KLHX 241553Z AUTO 32009KT 10SM CLR 12/M06 A3005 RMK AO2 SLP148 T01171056 KMAF 241553Z 02018G27KT 2 1/2SM BLDU CLR 19/02 A3003 RMK AO2 PK WND 36030/1525 SLP127 T01940022 KLJF 241632Z AUTO 09006KT 10SM RA OVC008 06/06 A2974 RMK AO2 P0001 LBSF 241630Z 06004MPS 020V090 4000 TSRA BKN028CB OVC039 15/12 Q1009 NOSIG DXNG 241500Z VRB05KT 9999 FEW010 33/21 Q1011 NOSIG KLHZ 241635Z AUTO 00000KT 10SM CLR 15/M01 A3013 RMK AO2 VOCB 241600Z 20008KT 4000 HZ FEW015 27/23 Q1012 NOSIG KMAI 241553Z AUTO 18004KT 10SM CLR 26/16 A3000 RMK AO2 SLP156 T02560161 PWINO VOBL 241630Z VRB02KT 6000 NSC 30/15 Q1015 NOSIG KLIT 241553Z 19010KT 10SM SCT050 BKN100 BKN250 23/14 A2984 RMK AO2 SLP105 T02330139 KO22 241615Z AUTO 15005KT 10SM CLR 14/05 A3008 RMK AO1 KMAN 241635Z AUTO 13011G18KT 10SM OVC070 11/08 A2993 RMK AO1 KMAO 241635Z AUTO 05003KT 10SM CLR 20/02 A3011 RMK AO2 VOCI 241630Z 12003KT 4000 HZ SCT015 BKN080 24/22 Q1011 NOSIG KMBG 241652Z AUTO 30017G23KT 10SM BKN085 16/M04 A2974 RMK AO2 SLP075 T01561039 UWKS 241630Z 36006MPS 9999 -SHSN BKN033CB 01/M03 Q1016 TEMPO 35012G17MPS RMK QFE746 060/0060 VNKT 241550Z 20003KT 7000 FEW020 SCT025 BKN100 23/05 Q1014 NOSIG VOCL 241630Z 00000KT 6000 FEW015 BKN090 29/25 Q1010 NOSIG KMCB 241553Z AUTO 19007KT 10SM CLR 23/17 A2999 RMK AO2 SLP150 T02330167 KMBL 241635Z AUTO 11008KT 10SM FEW048 BKN070 OVC085 10/M05 A3006 RMK AO1 KMCC 241635Z AUTO 13012KT 10SM CLR 15/09 A3008 RMK AO2 KMCD 241636Z AUTO 10006KT 10SM OVC110 03/M02 A3014 RMK AO2 T00301020 KMCE 241553Z AUTO 36010KT 10SM CLR 17/09 A3008 RMK AO2 SLP185 T01720089 EPGD 241630Z 06008KT 040V100 CAVOK 13/02 Q1022 KMCF 241558Z AUTO 28006KT 10SM CLR 26/21 A3003 RMK AO2 DZE1503 SLP172 P0000 T02590210 KLKR 241655Z AUTO 09003KT 10SM CLR 20/03 A3010 RMK AO2 KMCI 241553Z 15008KT 10SM FEW015 SCT022 BKN085 15/13 A2963 RMK AO2 LTG DSNT SE AND S SLP028 CB DSNT SE-S MOV N T01500128 KMBS 241553Z 11008KT 10SM BKN095 11/M08 A3015 RMK AO2 SLP215 T01061083 KLLJ 241555Z AUTO 21011KT 10SM OVC048 07/M02 A2989 RMK AO2 SLP110 T00671022 KMCJ 241635Z AUTO 05009KT 010V010 10SM SCT026 24/18 A2986 RMK AO1 KMCK 241553Z AUTO 33022G29KT 10SM CLR 17/M04 A2991 RMK AO2 PK WND 31031/1530 SLP116 T01671039 LCLK 241630Z 04003KT CAVOK 24/15 Q1008 NOSIG UWLW 241600Z 36008G11MPS 8000 BKN025CB BKN100 02/M02 Q1014 20290250 TEMPO 34013MPS 2100 -SHRASN BKN007 RMK QFE755 KLKU 241635Z AUTO 29007KT 260V320 10SM CLR 14/M05 A3010 RMK AO2 KLKV 241635Z AUTO 19018G23KT 10SM FEW035 SCT041 BKN049 11/01 A2999 RMK AO1 KMDD 241635Z AUTO 01012G23KT 4SM HZ CLR 21/01 A3004 RMK AO2 T02060011 KMCN 241553Z 00000KT 10SM CLR 24/10 A3003 RMK AO2 SLP167 T02440100 KMCO 241553Z 13005KT 10SM FEW040 FEW140 28/18 A3002 RMK AO2 SLP165 T02780178 KMDH 241652Z 17012G21KT 10SM CLR 22/07 A2985 RMK AO2 SLP107 T02220067 KLLQ 241553Z AUTO 17008G14KT 10SM CLR 24/14 A2989 RMK AO2 SLP117 T02440144 KMDJ 241635Z AUTO 16009KT 10SM SCT014 24/20 A3003 RMK A01 KMEB 241652Z AUTO 07007KT 10SM CLR 18/02 A3012 RMK AO2 SLP198 T01830022 KLNC 241635Z AUTO 20014G18KT 10SM SCT021 SCT027 BKN032 24/17 A2982 RMK AO2 T02360172 KLND 241553Z AUTO 00000KT 10SM CLR 06/M09 A2995 RMK AO2 SLP138 T00611089 KMCW 241624Z AUTO 15009KT 7SM -RA BKN013 BKN021 OVC026 07/06 A2968 RMK AO2 P0000 T00720061 KLMO 241635Z AUTO 08008KT 10SM CLR 14/M03 A3001 RMK AO2 T01351033 KMCX 241635Z AUTO 11013G20KT 090V150 10SM CLR 15/00 A2996 RMK AO2 T01500000 KO54 241635Z AUTO 00000KT 10SM OVC032 09/07 A3004 RMK AO1 KMEH 241556Z AUTO 00000KT 10SM SCT032 BKN048 OVC070 06/05 A2982 RMK AO2 RAE54 SLP104 P0007 T00610050 KMDQ 241635Z AUTO 17007KT 10SM CLR 23/M01 A2998 RMK AO2 KMEI 241558Z 16007KT 10SM BKN065 26/15 A2997 RMK AO2 SLP145 T02560150 KMDS 241635Z AUTO 34012KT 10SM FEW013 FEW120 09/09 A2973 RMK AO2 KLNK 241554Z 35020KT 10SM OVC090 15/08 A2972 RMK AO2 PK WND 34026/1529 SLP060 T01500078 KLMT 241553Z 12003KT 10SM OVC046 08/03 A2994 RMK AO2 SLP129 T00830033 KMDT 241556Z 33010G19KT 10SM CLR 12/M09 A3008 RMK AO2 SLP188 T01221089 PNO $ LDDU 241630Z VRB01G39KT 9999 SCT004 16/15 Q1009 NOSIG KLNL 241635Z AUTO 14010G17KT 5SM -SN OVC020 03/00 A2997 RMK AO2 T00261002 UWOO 241630Z 34011MPS 4400 -SHSNRA OVC010CB 01/M00 Q0998 26290054 TEMPO 33015MPS 0700 +SHSNRA VV003 RMK QFE738/0985 õíòî ôõòâ 0M-0900 KMFD 241652Z 11011G16KT 10SM CLR 11/M07 A3011 RMK AO2 SLP203 T01061067 $ KMEM 241554Z 19011G18KT 10SM OVC250 23/09 A2989 RMK AO2 SLP118 T02330094 $ KMFE 241623Z 15013G18KT 10SM SCT025 28/20 A2982 RMK AO2 ENZV 241650Z 08006KT 9999 BKN045 10/01 Q1026 NOSIG KMDW 241651Z 16015G24KT 10SM SCT150 OVC250 16/03 A2992 RMK AO2 SLP133 T01610028 LBWN 241630Z 08007MPS CAVOK 14/09 Q1012 NOSIG UWOR 241600Z 20005MPS 7000 BKN040CB OVC100 11/M01 Q0994 25CLRD65 NOSIG RMK QFE723/0964 KLNP 241635Z AUTO 23005KT 10SM CLR 18/M03 A3006 RMK AO2 KMDZ 241635Z AUTO 11014G21KT 5SM RA BKN008 BKN013 OVC048 03/02 A2986 RMK AO2 P0002 T00270018 KMER 241445Z 36010KT 10SM SKC 14/12 A3007 KMFI 241554Z AUTO 12014G21KT 5SM -RA BR FEW013 BKN060 OVC080 04/02 A2987 RMK AO2 PK WND 12028/1526 SLP126 P0004 T00390022 KLNR 241556Z AUTO 09014KT 8SM -RA OVC055 08/04 A2983 RMK AO2 PK WND 09026/1507 RAB1458E11B50 SLP098 P0000 T00780039 EPIR 241630Z 11012KT CAVOK 19/08 Q1019 RMK 192 049 3/1= KLNS 241553Z 34012G27KT 10SM CLR 11/M08 A3006 RMK AO2 PK WND 33027/1549 SLP182 T01061078 KO69 241635Z AUTO 28009KT 10SM SCT017 15/12 A3012 RMK AO1 KLOL 241553Z AUTO 18007KT 10SM CLR 14/M02 A3003 RMK AO2 SLP156 T01391017 TSNO KLPC 241635Z AUTO 01008KT 10SM CLR 21/05 A3004 RMK AO1 KMGC 241635Z AUTO 13010G19KT 10SM SCT110 15/M03 A2996 RMK AO2 KLOM 241635Z AUTO 30009G15KT 270V340 10SM CLR 13/M08 A3000 RMK AO1 KMGE 241558Z VRB06KT 10SM SCT250 20/04 A3006 RMK AO2A SLP175 T02040044 $ KMGG 241637Z AUTO 09006KT 7SM -RA OVC008 05/05 A2975 RMK AO2 P0004 T00500045 KMEZ 241635Z AUTO 00000KT 10SM SCT011 BKN017 OVC048 20/20 A2982 RMK AO2 LTG DSNT N THRU S PWINO LCPH 241630Z 28003KT CAVOK 21/19 Q1008 KLOR 241653Z AUTO VRB05KT 10SM SCT070 27/13 A2998 RMK AO2 SLP148 T02720133 $ KMFR 241553Z 33004KT 10SM -RA FEW005 BKN049 OVC055 11/09 A2994 RMK AO2 RAB28 SLP136 P0000 T01060094 KMGJ 241554Z AUTO 32022G29KT 10SM CLR 12/M10 A2991 RMK AO2 PK WND 32029/1553 SLP128 T01221100 TSNO KLOT 241635Z AUTO 16021G30KT 10SM SCT120 16/03 A2991 RMK AO2 T01610029 TSNO EPLB 241630Z 05010KT CAVOK 18/07 Q1019 KLOU 241553Z 10009KT 070V130 10SM CLR 17/02 A3003 RMK AO2 SLP166 T01670022 EPKK 241630Z 07010KT 9999 FEW046 18/10 Q1016 KMGM 241553Z 13004KT 10SM SCT070 24/10 A3001 RMK AO2 SLP160 T02440100 KMFV 241635Z AUTO 33011G17KT 10SM CLR 13/M04 A3008 RMK AO2 KMHE 241653Z AUTO 34016G23KT 10SM CLR 17/01 A2974 RMK AO2 SLP071 T01720011 KMGN 241634Z AUTO 08006KT 10SM OVC100 09/M05 A3012 RMK AO2 T00971053 FHAW 2406050Z 12017KT 9999 FEW018 27/20 Q1012 BLU VOHS 241610Z 05006KT 5000 HZ SCT020 FEW030CB BKN100 30/13 Q1013 TEMPO 3000 -TSRA RMK CB TO NE N KLOZ 241553Z AUTO VRB03KT 10SM CLR 17/02 A3004 RMK AO2 SLP169 T01670017 KO86 241630Z AUTO 16011G17KT 10SM BKN024 11/05 A3003 RMK AO1 KLPR 241553Z AUTO 11007KT 080V150 10SM OVC095 11/M09 A3017 RMK AO2 SLP220 T01111089 TSNO KMGR 241635Z AUTO 00000KT 10SM SCT070 SCT080 27/16 A3001 RMK AO2 KMIA 241553Z VRB03KT 10SM FEW040 28/16 A3002 RMK AO2 SLP166 T02830161 LCRA 241550Z 07003KT CAVOK 24/14 Q1008 NOSIG EPKS 241630Z 03004KT 9999 VCTS SCT025CB 18/13 Q1019 RMK 184 070 5/4= KMIB 241558Z AUTO 30014KT 10SM FEW120 10/02 A2967 RMK AO2 SLP062 T01030024 $ KMHK 241652Z 36011G22KT 10SM -RA SCT040 BKN070 OVC085 12/11 A2968 RMK AO2 PK WND 03027/1617 SLP045 P0010 T01220106 KLQK 241655Z AUTO 10SM CLR 20/ A3008 RMK AO2 T0202 EPMB 241630Z 06010KT CAVOK 18/03 Q1022 RMK 179 035 2/2= EPLK 241630Z 10009KT CAVOK 19/06 Q1018 RMK 190 043 7/1= KMIC 241650Z 08005KT 3SM -RA BR OVC010 05/03 A2974 RMK AO2 CIG 007V013 P0009 EPKT 241630Z 07010KT 9999 SCT050CB 18/09 Q1017 EPLL 241630Z 08011KT CAVOK 20/06 Q1018 KLRD 241556Z 19005KT 10SM OVC016 24/19 A2987 RMK AO2 T02440194 SLP105 VOHY 241340Z 09005KT 5000 HZ FEW020 SCT025 FEW030CB 36/14 Q1010 NOSIG KMGW 241553Z 06007KT 10SM CLR 09/M08 A3016 RMK AO2 SLP217 T00941078 KMIE 241553Z 13013G23KT 10SM CLR 13/M06 A3005 RMK AO2 PK WND 14026/1524 SLP174 T01281061 KLRF 241558Z AUTO 18008G16KT 10SM BKN170 24/14 A2984 RMK AO2 SLP106 T02360144 KMGY 241553Z AUTO 11013G19KT 10SM FEW110 13/M06 A3008 RMK AO2 SLP186 T01281061 KMHR 241645Z 09007KT 10SM FEW014 SCT100 15/11 A3007 EPMI 241630Z 29002KT 9999 SCT040 BKN100 19/13 Q1020 RMK 186 071 5/3= KMHS 241556Z AUTO VRB03KT 10SM SCT033 OVC043 09/02 A3000 RMK AO2 SLP172 T00940022 KLRJ 241635Z AUTO 33014G22KT 9SM 12/10 A2971 RMK AO2 PWINO KMHT 241553Z 32022G34KT 10SM FEW060 11/M06 A2969 RMK AO2 PK WND 35036/1501 SLP068 T01061056 KLSB 241635Z AUTO 32005KT 10SM CLR 19/M10 A3011 RMK AO2 LEAB 241617Z 28023KT 7000 FEW015 SCT035TCU 17/09 Q1015 TEMPO 3000 SHRA SCT030TCU KMHV 241635Z AUTO 09005KT 10SM CLR 16/M02 A3004 RMK AO1 EPMM 241630Z 10010KT CAVOK 19/03 Q1021 RMK 190 035 4/4= KLSE 241636Z 13009KT 4SM -RA BR OVC043 06/04 A2978 RMK AO2 P0013 T00610044 KLRO 241655Z AUTO 08008G16KT 360V020 10SM -RA CLR 21/11 A3007 RMK AO2 KLSF 241555Z VRB01KT 6SM HZ CLR 26/10 A3000 RMK AO2A SLP160 T02630101 EPMO 241630Z 07011KT CAVOK 18/05 Q1020 EPLY 241630Z 07008KT 9999 SCT040 BKN200 19/07 Q1019 RMK 191 044 6/4= UWSS 241630Z 36009G13MPS 9999 SCT050CB 04/M05 Q1016 300///60 NOSIG RMK QFE748 LEBA 241600Z 29011KT 240V330 9999 SCT075 21/08 Q1018 KMIS 241635Z AUTO VRB03KT 8SM FEW013 24/18 A3002 RMK A01 LEBB 241630Z 33010KT 290V010 9999 FEW019 SCT025CB BKN060 16/11 Q1013 TEMPO TS SHRA SCT025CB KNAK 241554Z AUTO 34010KT 10SM CLR 12/M04 A3009 RMK AO2 SLP191 T01221039 KMKC 241644Z 18006KT 6SM -RA BKN011 OVC080 17/14 A2962 RMK AO2 RAE1557B12 TSE10 P0000 T01670139 KNBC 241556Z 16012G19KT 7SM FEW025 24/14 A3005 RMK AO2 SLP175 T02440139 KLRU 241635Z AUTO 03005KT 10SM CLR 20/M11 A3013 RMK AO2 T02011108 LEAL 241630Z 16006KT 110V230 CAVOK 23/09 Q1012 NOSIG LEAM 241630Z 23030G43KT 9999 FEW015 22/12 Q1013 KMIV 241554Z AUTO 29018G26KT 10SM CLR 13/M07 A3002 RMK AO2 PK WND 29027/1502 SLP164 T01331067 KMKE 241652Z 13015KT 10SM BKN075 OVC150 10/03 A2996 RMK AO2 SLP149 T01000028 KMIW 241610Z AUTO 18011KT 5SM -RA BR SCT013 BKN020 OVC095 08/07 A2968 RMK AO2 P0003 T00830072 LEAO 241600Z 28017KT 240V310 9999 SCT035 17/03 Q1017 LEBG 241600Z 25014KT 200V280 9999 FEW038TCU SCT040 12/01 Q1014 KNBG 241555Z 18004KT 10SM SCT020 SCT250 26/17 A2999 RMK AO2 SLP155 T02560167 PNO KMKG 241555Z 10013KT 10SM OVC095 10/04 A3004 RMK AO2 RAE27 SLP176 P0000 T01000039 KMJQ 241632Z AUTO 33003KT 4SM BR OVC006 06/05 A2969 RMK AO2 LEAS 241630Z 28011KT 250V310 9000 FEW040TCU BKN050 14/06 Q1016 TEMPO SHRA BKN020TCU KP28 241556Z AUTO 33021G37KT 17/06 A2982 RMK AO1 PK WND 33037/1549 SLP090 T01720061 KNCA 241556Z 02011KT 10SM CLR 17/M01 A3013 RMK AO2 SLP205 T01721011 $ KLUA 241635Z AUTO 13004KT 10SM SCT065 BKN120 13/M02 A3010 RMK AO2 KMKJ 241635Z AUTO 05006KT 10SM CLR 16/01 A3009 RMK AO2 T01580008 KMLB 241553Z 09008KT 10SM CLR 27/21 A3002 RMK AO2 SLP166 T02670211 EPOK 241630Z VRB03KT CAVOK 11/04 Q1023 RMK 109 063 1/1= KMKL 241553Z 16011KT 10SM CLR 23/06 A2990 RMK AO2 SLP123 T02330056 KMLC 241644Z AUTO 18010G20KT 10SM BKN020 BKN024 OVC036 22/16 A2976 RMK AO2 T02170161 LEBL 241630Z 18005KT 130V230 CAVOK 19/13 Q1012 NOSIG KLSV 241558Z AUTO 01002KT 10SM CLR 19/M09 A2999 RMK AO2 SLP141 T01941092 KLUD 241635Z AUTO 29013G23KT 10SM CLR 22/11 A2982 RMK AO2 T02220114 KMKN 241635Z AUTO 31016G29KT 10SM CLR 27/04 A2987 RMK AO2 T02660041 KMLE 241635Z AUTO 32013G20KT 10SM OVC016 12/09 A2972 RMK AO2 T01240087 KMLF 241652Z AUTO 19013KT 10SM CLR 14/M09 A3006 RMK AO2 SLP159 T01391089 KMKO 241629Z AUTO 17014G19KT 10SM BKN023 BKN036 21/17 A2973 RMK AO2 T02060172 KMJX 241635Z AUTO 31024G30KT 10SM FEW002 13/M08 A2995 RMK AO1 KLUF 241558Z 07004KT 10SM FEW250 22/M04 A2995 RMK AO2A SLP133 T02151043 KMLI 241652Z 17017G24KT 10SM VCTS FEW070 18/04 A2974 RMK AO2 PK WND 14027/1610 TSB51 SLP069 T01830039 KMKS 241735Z AUTO 12007KT 10SM CLR 24/12 A3007 RMK AO2 UWUU 241630Z 34011G14MPS 0700 R32R/P1500U +SNRA VV005 M00/M00 Q1000 82620346 TEMPO 0200 +SHSNRA VV001 RMK QFE739/0985 FBL ICE INC KMLJ 241635Z AUTO 09004KT 10SM CLR 26/00 A3004 RMK AO2 KLTS 241558Z 33024G29KT 10SM CLR 21/04 A2987 RMK AO2A PK WND 33039/07 SLP103 T02050043 $ VOMM 241610Z 18006KT 6000 NSC 29/25 Q1009 NOSIG KLUK 241553Z 12006KT 10SM CLR 13/M03 A3010 RMK AO2 SLP194 T01281033 KMKT 241635Z AUTO 11004KT 3SM BKN006 OVC013 06/04 A2972 RMK AO1 KNBT 241556Z AUTO 34006KT 10SM CLR 15/02 A3014 RMK AO2 SLP212 T01500017 PNO $ KLUM 241635Z AUTO 09009KT 10SM RA OVC015 05/05 A2979 RMK AO2 T00480046 LECO 241630Z 31015KT 270V350 9999 SCT032 14/06 Q1018 DXXX 241630Z 21011KT 9999 FEW014 29/25 Q1008 NOSIG KMLP 241553Z AUTO VRB03KT 1/4SM SN FZFG VV002 M01/M02 A2974 RMK AO2 SLP092 P0005 T10061017 TSNO KMKY 241635Z AUTO 26006KT 10SM FEW031 27/17 A3002 RMK AO1 EPPO 241630Z 06005KT 9999 TS BKN040CB 20/13 Q1019 LEBZ 241641Z 31017G28KT 280V340 4000 TS SHRA SCT034 SCT043CB 13/11 Q1020 KMMH 241635Z AUTO 11005KT 10SM CLR 12/M08 A3014 RMK AO1 KMMI 241635Z AUTO VRB03KT 10SM CLR 23/04 A3002 RMK EPPR 241630Z 04010KT CAVOK 15/05 Q1022 RMK 151 049 0/0= KLVJ 241604Z AUTO 15014G20KT 10SM BKN021 24/18 A2986 RMK AO2 T02440183 KMLS 241553Z AUTO 29016KT 10SM CLR 12/M05 A2982 RMK AO2 SLP100 T01171050 KLWA 241636Z AUTO 13014G23KT 10SM BKN120 13/M04 A3001 RMK AO2 T01281040 EPRA 241630Z 07010KT CAVOK 19/06 Q1019 RMK 188 044 7/7= KMMK 241553Z AUTO 32018G28KT 10SM CLR 11/M10 A2983 RMK AO2 PK WND 32034/1519 SLP100 T01111100 TSNO KMLT 241618Z AUTO 34015G25KT 10SM -RA FEW020 BKN026 OVC034 05/01 A2960 RMK AO2 P0000 T00500011 KLVK 241553Z 23006KT 10SM SCT017 16/09 A3010 RMK AO2 SLP192 T01560094 KLWB 241635Z AUTO 22003KT 10SM OVC100 12/M04 A3009 RMK AO2 T01161039 LEEC 241400Z 28009KT 250V310 CAVOK 21/05 Q1020 KLWC 241652Z AUTO 24012KT 2 1/2SM TSRA BR OVC010 17/15 A2964 RMK AO2 LTG DSNT S-NW RAB03E20B50 TSB49 CIG 009V014 PRESRR SLP033 P0006 T01720150 KMLU 241553Z 21008KT 10SM FEW023 23/17 A2992 RMK AO2 SLP131 T02330172 KMML 241635Z AUTO 34012KT BKN006 OVC015 07/04 A2971 RMK AO1 P0001 LECV 241600Z 25009KT 190V330 9999 VCSH BKN060TCU 15/02 Q1015 KLWD 241553Z AUTO 20010KT 10SM FEW006 OVC090 14/12 A2968 RMK AO2 RAE25 PRESRR SLP048 P0002 T01390122 KLVM 241553Z AUTO 22032G38KT 10SM OVC110 08/M06 A2980 RMK AO2 PK WND 21040/1532 SLP086 T00831056 KLVN 241616Z AUTO 10007KT 3SM -DZ OVC012 04/04 A2973 RMK AO2 KP53 241556Z AUTO 18008KT 06/M06 A3010 RMK AO2 SLP200 T00611061 PWINO TSNO KMNE 241630Z AUTO 18005KT 10SM OVC021 23/18 A2989 RMK AO2 T02300175 EPPW 241630Z 08010KT CAVOK 21/09 Q1019 RMK 206 046 5/5= KLUX 241635Z AUTO 05005KT 10SM CLR 21/01 A3009 RMK AO2 KMNH 241635Z AUTO 14004KT 10SM CLR 06/M01 A3003 RMK AO2 KMNI 241635Z AUTO 10005KT 10SM CLR 23/07 A3008 RMK AO2 KP58 241651Z AUTO 08006KT 05/M01 A3016 RMK AO2 SLP222 T00501006 PWINO TSNO KLVS 241553Z AUTO 19008KT 10SM CLR 08/M02 A3013 RMK AO2 SLP148 T00781022 KP59 241651Z AUTO 20008G17KT 05/M06 A3005 RMK AO2 SLP185 T00501056 PWINO TSNO KP60 241556Z AUTO 00000KT 00/M07 A2998 RMK AO1 SLP158 T00001067 KMOB 241556Z 14006KT 10SM FEW018 SCT027 SCT035 24/17 A3001 RMK AO2 SLP159 T02440172 KMMT 241558Z 08008KT 10SM CLR 21/05 A3010 RMK AO2A SLP195 T02090045 $ UWWW 241630Z 34007G10MPS 9999 BKN013CB OVC100 01/M03 Q1010 05150055 33//99// TEMPO 34013G20MPS RMK QFE745/0993 KMMU 241445Z 35013G23KT 20SM SKC 11/M10 A2996 KNEL 241600Z AUTO 32014G25KT CLR 13/M11 A2996 RMK AO2 PK WND 29031/1506 SLP143 T01281106 $ EPSC 241630Z 34003KT CAVOK 16/11 Q1020 KMMV 241553Z AUTO 21008KT 10SM FEW048 SCT060 11/09 A2984 RMK AO2 RAB11E34 SLP102 P0000 T01060089 KMOD 241553Z AUTO 33009KT 10SM 16/09 A3008 RMK AO2 SLP188 T01610089 $ KLWM 241554Z 32012G31KT 290V350 10SM CLR 11/M05 A2969 RMK AO2 PK WND 32037/1504 SLP056 T01061050 KMNM 241635Z AUTO 11005KT 5SM BKN026 OVC034 03/M01 A3005 RMK AO1 P0001 KMNN 241553Z AUTO 11008KT 10SM CLR 12/M07 A3013 RMK AO2 SLP209 T01171067 TSNO KNFE 241556Z AUTO 32006KT 10SM CLR 18/M04 A3010 RMK AO2 SLP196 T01781044 KNFG 241554Z 00000KT 7SM FEW200 17/09 A2999 RMK AO2 SLP153 T01670089 KNDZ 241556Z VRB04KT 10SM SCT025 27/18 A3000 RMK AO2 SLP145 T02670178 LEGA 241600Z 33014KT 9999 SCT080 17/09 Q1018 KP68 241653Z AUTO 26007KT 13/M07 A3007 RMK AO1 SLP148 T01281067 KLWS 241556Z 01004KT 10SM OVC070 09/06 A2982 RMK AO2 RAE21B39E52 SLP102 P0000 T00890061 KP69 241652Z AUTO 00000KT 06/05 A2991 RMK AO1 SLP139 P0006 T00610050 KLWT 241554Z AUTO 26015G22KT 10SM FEW055 09/M03 A2979 RMK AO2 SLP091 T00941028 TSNO KLXL 241638Z AUTO 12007KT 5SM UP BKN010 OVC014 03/02 A2976 RMK AO2 P0003 KNFL 241556Z 16005KT 10SM FEW100 FEW140 BKN260 14/M04 A3004 RMK AO2 SLP140 T01441039 KLWV 241553Z AUTO 12013KT 10SM CLR 18/02 A2996 RMK AO2 SLP143 T01780022 FGSL 241600Z 23006KT 9999 FEW010 BKN100 29/25 Q1007 NOSIG KNEW 241553Z 17008KT 10SM SCT030 25/17 A3000 RMK AO2 SLP150 T02500172 KLXN 241635Z AUTO 34021G28KT 10SM CLR 18/M05 A2985 RMK AO2 T01811050 LEGE 241630Z 20017KT 170V230 9999 FEW055 19/11 Q1012 EPSN 241630Z 30004KT 9999 FEW050CB BKN083 18/13 Q1020 RMK 181 070 5/2= KMOP 241635Z AUTO 13011G16KT 10SM OVC080 11/M07 A3010 RMK AO2 T01141071 KLYH 241554Z VRB04KT 10SM CLR 16/M09 A3013 RMK AO2 SLP201 T01561089 KMNZ 241635Z AUTO 28016G21KT 10SM CLR 28/14 A2987 RMK AO2 T02750144 KMOR 241635Z AUTO 35003KT 10SM CLR 20/03 A3003 RMK EPRZ 241630Z 08009KT 9999 SCT040CB 15/11 Q1018 LDOS 241630Z 02005KT 5000 BR SCT013 BKN030 17/16 Q1011 KLXT 241653Z AUTO 16011G20KT 10SM FEW028 BKN035 OVC049 15/13 A2962 RMK AO2 RAE11B38E49 SLP026 P0001 T01500128 KMOT 241554Z 28012KT 10SM CLR 11/01 A2969 RMK AO2 SLP061 T01060011 KMQB 241635Z AUTO 17013G20KT 10SM VCTS SCT050 OVC060 18/02 A2979 RMK AO2 P0009 LEHC 241600Z 30009KT 270V330 9999 SCT030 BKN045 13/10 Q1013 LDPL 241630Z VRB03KT 9999 FEW040 18/14 Q1012 NOSIG KLXV 241553Z AUTO 36006KT 10SM CLR M01/M16 A3013 RMK AO2 SLP151 T10111156 EPTM 241630Z 06014KT 9999 BKN200 19/05 Q1019 RMK 188 040 6/6= KNFW 241652Z 31021G25KT 10SM SCT040 27/12 A2985 RMK AO2 SLP092 T02670122 VISNO N $ KMQE 241554Z AUTO 31022G36KT 11/M05 A2966 RMK AO1 PK WND 32044/1502 SLP054 T01061050 KMOX 241631Z AUTO 06005KT 7SM -RA SCT030 06/05 A2973 RMK AO2 P0009 KMPO 241353Z AUTO 32017G27KT 10SM CLR 04/M09 A2994 RMK AO2 PK WND 32031/1318 SLP153 T00391089 KLXY 241635Z AUTO 20015G20KT 10SM OVC021 22/18 A2984 RMK AO2 T02240181 KNGP 241556Z 15016KT 10SM FEW011 BKN015 BKN020 BKN250 26/21 A2986 RMK AO2 SLP110 T02610211 LEGR 241630Z 29014KT 250V320 9999 FEW045 18/09 Q1018 KMQI 241635Z AUTO 34006KT 10SM CLR 13/03 A3012 RMK AO2 T01320025 KMQJ 241635Z AUTO 13015G19KT 10SM CLR 16/M01 A3001 RMK AO1 LEGT 241600Z 25018G29KT 210V290 9999 FEW040 16/05 Q1015 KMRB 241553Z 34009G16KT 10SM CLR 13/M08 A3012 RMK AO2 SLP201 T01281083 KNHK 241652Z 32011KT 10SM FEW180 15/M08 A3008 RMK AO2 SLP185 T01501078 LEIB 241630Z 21012KT 9999 SCT016 19/15 Q1014 NOSIG KMRC 241635Z AUTO 21007KT 10SM CLR 24/13 A2993 RMK KNGU 241559Z 26009KT 10SM FEW150 SCT300 15/M02 A3012 RMK AO2 SLP200 T01501017 KP92 241553Z AUTO VRB04KT 25/21 A2998 RMK AO1 SLP152 T02500206 $ KMPV 241651Z AUTO 32016G31KT 290V350 10SM FEW044 07/M05 A2987 RMK AO2 PK WND 30031/1646 SLP123 T00671050 KLYV 241635Z AUTO 35014G19KT 10SM SCT012 OVC080 10/07 A2971 RMK AO2 KNID 241556Z 02004KT 10SM CLR 16/M01 A3001 RMK AO2 SLP156 T01561011 $ KMRF 241635Z AUTO 32013G18KT 10SM CLR 23/M07 A3014 RMK AO1 KMPZ 241635Z AUTO 17012G20KT 10SM -RA BKN050 BKN065 OVC085 17/02 A2975 RMK AO2 T01650020 KMRH 241558Z AUTO 07008KT 030V090 10SM CLR 17/00 A3013 RMK AO2 SLP203 T01720000 TSNO LDRI 241630Z 05006KT 330V110 9999 FEW033 SCT043 BKN050 21/12 Q1012 KMQS 241635Z AUTO 32014G21KT 10SM CLR 12/M09 A3004 RMK AO2 KMRJ 241635Z AUTO 12015G21KT 10SM OVC050 11/03 A2977 RMK AO2 EPWA 241630Z 09011KT 050V120 CAVOK 19/04 Q1020 NOSIG KLZU 241645Z 12008KT 10SM CLR 22/04 A3005 RMK ATIS B RWY 7 BK KMRN 241635Z AUTO 00000KT 10SM CLR 18/00 A3014 RMK AO2 T01781003 KNIP 241653Z 17005KT 10SM SCT040 28/16 A3001 RMK AO2 SLP156 T02780156 KMQY 241556Z 16009KT 10SM CLR 22/07 A2998 RMK AO2 T02160072 SLP160 KLZZ 241635Z AUTO 22008KT 10SM CLR 26/19 A2986 RMK AO2 T02560191 KOAJ 241635Z AUTO 34004KT 10SM CLR 18/16 A3013 RMK AO1 LFBA 241630Z AUTO 25004KT 220V280 9999 -RA FEW008/// OVC068/// ///TCU 14/12 Q1013 KNJK 241556Z 31005KT 10SM FEW250 SCT300 24/05 A2991 RMK AO2 SLP143 T02440050 KMRT 241634Z AUTO 11007KT 090V160 10SM SCT100 12/M09 A3009 RMK AO2 T01231094 KOAK 241553Z 26011KT 10SM SCT010 BKN180 14/11 A3013 RMK AO2 SLP201 T01440106 KMSL 241553Z AUTO 15007KT 10SM CLR 24/08 A2997 RMK AO2 SLP144 T02390078 KMTC 241555Z 13008KT 10SM FEW110 BKN150 10/M07 A3017 RMK SLP227 T00981068 LFBC 241630Z AUTO 07006KT 9999 OVC017 14/12 Q1013 KNJM 241557Z AUTO VRB03KT 10SM CLR 18/M01 A3013 RMK AO2 SLP206 T01831006 LFBD 241630Z AUTO 09004KT 050V130 9999 SCT023 SCT068 OVC150 14/10 Q1013 KMSN 241553Z 11015G23KT 10SM OVC060 08/03 A2987 RMK AO2 RAB31E42 SLP119 P0000 T00780028 KOBE 241635Z AUTO 21008KT 10SM CLR 28/18 A3002 RMK AO2 LFBE 241630Z AUTO 00000KT 9999 -RA FEW037 OVC094 13/12 Q1012 KMSO 241553Z 00000KT 10SM FEW049 OVC070 05/03 A2983 RMK AO2 SLP114 T00500028 VOTR 241610Z 15006KT 6000 FEW016 FEW025CB 31/23 Q1010 NOSIG KMSP 241631Z 09009KT 5SM -RA BR BKN007 OVC014 05/04 A2975 RMK AO2 P0005 T00500044 KMRY 241642Z 26003KT 10SM FEW008 14/09 A3013 RMK AO2 LDSP 241630Z VRB01KT CAVOK 19/12 Q1009 NOSIG LFBG 241630Z AUTO 02006KT 9999 FEW015 BKN190 BKN210 13/09 Q1013 KMTH 241553Z AUTO 03008KT 10SM CLR 27/19 A3002 RMK AO2 SLP166 T02670194 LFBH 241630Z AUTO 01007KT 9999 -RA FEW036 OVC047 11/08 Q1014 LFAQ 241630Z AUTO 03009KT 4800 HZ NSC 16/12 Q1015 LEJR 241630Z 26015KT 230V300 9999 FEW025 19/11 Q1020 LFBI 241630Z AUTO 34004KT 9999 NSC 12/10 Q1013 KMTJ 241553Z AUTO 00000KT 10SM CLR 08/M13 A3019 RMK AO2 SLP189 T00831128 KMSS 241553Z AUTO 28015KT 10SM CLR 07/M05 A3003 RMK AO2 SLP173 T00721050 EPWR 241630Z 16007KT 130V190 9999 -TSRA FEW030 BKN030CB 16/13 Q1019 RESHRA VOTV 241610Z 03004KT 3000 TS FEW015 FEW025CB SCT090 27/23 Q1010 NOSIG LFAT 241630Z AUTO 05006KT 020V080 9999 FEW039 17/10 Q1016 LELC 241600Z 21017KT 180V260 9999 FEW030 22/12 Q1012 NOSIG KNLC 241556Z 33013KT 10SM CLR 15/08 A3009 RMK AO2 SLP189 RH/60 T01560078 $ LFBL 241630Z AUTO 33006KT 290V360 9999 FEW004/// BKN068/// OVC082/// ///TCU 12/11 Q1013 KMSV 241635Z AUTO 31014G30KT 10SM CLR 09/M09 A2993 RMK AO1 LFBM 241630Z AUTO 16005KT 130V210 9999 ///TCU 13/11 Q1013 KMTN 241645Z 31011G16KT 10SM FEW150 14/M04 A3008 KMTO 241553Z AUTO 15020G26KT 10SM CLR 16/03 A2990 RMK AO2 PK WND 14027/1531 SLP124 T01560028 KOCF 241650Z 16007KT 6SM HZ SCT030 27/17 A3002 LFBO 241630Z AUTO 30010KT 260V330 6000 +RA VCTS FEW009/// SCT046/// BKN058/// ///CB 15/13 Q1012 KMSY 241553Z 17008KT 10SM SCT030 25/18 A2999 RMK AO2 SLP158 T02500178 KMTP 241554Z AUTO A2978 RMK AO1 SLP086 $ LFBP 241630Z 13003KT 6000 -SHRA FEW013TCU BKN063 13/12 Q1013 RETS NOSIG KOCH 241635Z 22008G14KT 10SM FEW026 SCT035 BKN050 24/18 A2989 RMK AO1 LTG DSNT SW KMUI 241559Z AUTO 29016G22KT 260V320 10SM CLR 11/M10 A3007 RMK AO2 WSHFT 50 $ KNKT 241554Z 34003KT 10SM FEW250 17/02 A3014 RMK AO2 SLP204 T01720017 LFBT 241630Z AUTO 30009KT 9999 -RA BKN011 BKN021 OVC028 12/11 Q1013 LFCK 241630Z AUTO 12017KT 9999 ///CB 20/10 Q1010 LELL 241630Z 19005KT 130V250 9999 FEW040 20/09 Q1013 LFBU 241630Z AUTO 04009KT 9999 SCT009 BKN180 13/11 Q1012 KMTV 241635Z AUTO 00000KT 10SM SCT110 19/M01 A3012 RMK AO2 T01901006 LEMD 241630Z 23017KT 9999 SCT060 17/04 Q1014 NOSIG LELN 241600Z 26019KT 9999 FEW025 09/03 Q1014 KMVE 241633Z AUTO 01004KT 5SM DZ OVC005 06/06 A2974 RMK AO2 P0003 KMTW 241556Z AUTO 11012KT 10SM -RA BKN047 OVC055 04/03 A3002 RMK AO2 SLP193 P0006 T00390028 LELO 241600Z VRB01KT 9999 FEW030 16/12 Q1013 KNKX 241555Z 17004KT 10SM FEW040 SCT200 18/10 A2999 RMK AO2 SLP151 T01780100 $ KMUO 241628Z AUTO 08011KT 10SM SCT060 SCT075 OVC100 10/08 A2996 RMK AO2 LFBY 241600Z AUTO 15005KT 120V180 //// // ////// 14/12 Q1012 LEMG 241630Z 29015G27KT 260V320 9999 FEW060 22/05 Q1017 NOSIG EPZG 241630Z 00000KT 9999 VCTS FEW030CB 17/14 Q1019 KOCQ 241635Z AUTO 10005KT 10SM BKN036 OVC043 03/02 A3004 RMK AO1 P0002 T00320017 LFBZ 241630Z 11003KT 070V150 9999 FEW026TCU BKN083 BKN130 16/12 Q1012 NOSIG LEMH 241630Z 21009KT CAVOK 18/11 Q1015 LFCR 241630Z AUTO 32005KT 9999 ///TCU 15/09 Q1011 KMWA 241556Z 17010KT 20SM BKN250 21/05 A2989 KOEB 241635Z AUTO 13016G21KT 10SM CLR 12/M08 A3007 RMK AO2 T01191085 KMUT 241635Z AUTO 18017KT 10SM SCT047 OVC070 17/04 A2974 RMK AO2 KMWC 241135Z AUTO 09004KT 5SM DZ SCT038 BKN055 OVC070 02/00 A3006 RMK AO2 P0001 KMVL 241554Z AUTO 33014G23KT 300V360 10SM BKN042 OVC050 05/M06 A2988 RMK AO2 PK WND 31026/1458 SLP124 T00501056 KNMM 241556Z VRB03KT 10SM BKN065 25/16 A2997 RMK AO2 SLP158 T02500156 $ KMVN 241635Z AUTO 15009G17KT 10SM CLR A2989 RMK AO1 KOCW 241635Z AUTO 29005KT 10SM CLR 17/M14 A3013 RMK AO2 T01681137 LEMO 241600Z 28011KT 250V320 9999 FEW063 20/09 Q1019 NOSIG KODO 241620Z AUTO 3SM HZ OVC019 20/01 A3004 RMK AO2 T02000006 PNO $ KMWH 241652Z 21012KT 10SM SCT080 SCT095 BKN120 12/07 A2974 RMK AO2 SLP071 T01220067 KMWK 241635Z AUTO 18003KT 10SM CLR 17/00 A3009 RMK AO2 T01711003 KMWL 241629Z AUTO 29019G25KT 10SM BKN033 24/09 A2984 RMK AO2 PK WND 33026/1613 T02390089 KMWM 241633Z AUTO 00000KT 4SM -DZ OVC008 07/06 A2969 RMK AO2 KMWN 241547Z 35053G66KT 0SM FZFG VV000 M10/M10 RMK VRY LGT ICG KODX 241553Z AUTO 34023G32KT 10SM CLR 16/M01 A2979 RMK AO2 PK WND 34032/1546 SLP085 T01611011 KMWO 241635Z AUTO 10010KT 10SM CLR 14/M11 A3008 RMK AO2 T01431109 KOEO 241635Z AUTO 10009KT 5SM RA BKN008 OVC012 05/05 A2980 RMK AO2 P0005 T00470046 KMXF 241558Z AUTO 17006KT 10SM OVC075 25/11 A3000 RMK AO2 SLP161 T02460114 KOFF 241558Z AUTO 32013G21KT 10SM OVC016 13/13 A2968 RMK AO2 PK WND 31026/57 SLP054 T01320129 $ KMVY 241553Z 33020G28KT 10SM CLR 13/M06 A2968 RMK AO2 PK WND 33034/1506 SLP051 T01281061 $ KNOG 241652Z AUTO 22010KT 10SM OVC031 28/19 A2986 RMK AO2 KMWS 241645Z 26001G02KT 18/00 RMK SNOW DEPTH 3.00 PTKK 241650Z VRB05KT 15SM FEW014 SCT120 BKN280 27/25 A2968 RMK SLP054 T02720250 KNPA 241556Z 16007KT 10SM SCT025 23/18 A3000 RMK AO2 SLP162 T02330183 KOGA 241635Z AUTO 31016G20KT 10SM CLR 15/M07 A2993 RMK AO2 T01511075 LEPA 241630Z 22010KT 9999 FEW030 20/14 Q1015 NOSIG KMWT 241653Z AUTO 14004KT 8SM FEW027 BKN060 BKN100 19/18 A2980 RMK AO2 RAB1554E45 SLP083 P0001 T01940178 KOGB 241553Z AUTO 08009KT 10SM CLR 21/05 A3009 RMK AO2 SLP186 T02110050 KOFK 241556Z AUTO 33020G28KT 10SM CLR 13/06 A2973 RMK AO2 PK WND 33029/1513 SLP067 T01280061 KOGD 241553Z AUTO 16010KT 10SM SCT110 09/M05 A3005 RMK AO2 SLP160 T00941050 KMYF 241553Z 17004KT 10SM CLR 17/11 A3000 RMK AO2 SLP155 T01670106 KMXO 241635Z AUTO 16020KT 9SM BKN047 OVC070 15/05 A2975 RMK AO2 KOFP 241554Z AUTO 10SM CLR 16/M05 A3014 RMK AO2 SLP206 T01561050 PTKR 241653Z 00000KT 15SM FEW018TCU BKN320 27/23 A2979 RMK TCU N SLP087 T02720233 KNQA 241650Z VRB05KT 10SM SCT065 BKN250 24/11 A2989 LDZA 241630Z 04007KT 350V080 9999 FEW035 18/12 Q1012 NOSIG LFGJ 241630Z AUTO VRB03KT 9999 NSC 22/08 Q1012 KMYL 241651Z AUTO 16004KT 8SM -RA BKN007 OVC018 02/01 A2989 RMK AO2 UPB09E18RAB18SNE09 SLP134 P0002 T00220006 TSNO LDZD 241630Z 32007KT 290V010 9999 -RA FEW027 BKN075 19/14 Q1010 BECMG 32005KT LEPP 241630Z 12004KT 080V170 9999 FEW016 SCT030 14/11 Q1013 ESCF 241650Z AUTO 09009KT 9999NDV NCD 10/M01 Q1028 KMYP 241635Z AUTO 26028G36KT 10SM CLR M05/M15 A3026 RMK AO2 KMZG 241635Z AUTO 12007KT 9SM CLR 24/21 A2988 RMK A01 KMZH 241634Z AUTO 08006KT 4SM RA BKN006 OVC010 01/01 A2981 RMK AO2 P0001 KMYR 241545Z 08013KT 10SM CLR 19/04 A3012 KNQI 241556Z 16014G21KT 10SM SCT031 SCT170 BKN250 29/20 A2984 RMK AO2 SLP101 T02940200 GABS 241630Z 04008KT 360V080 CAVOK 41/M02 Q1009 NOSIG KNRB 241652Z 08008KT 7SM SCT035 BKN080 24/19 A3001 RMK AO2 SLP161 T02440189 $ KMYV 241553Z AUTO 13013KT 10SM CLR 14/09 A3005 RMK AO2 SLP179 T01440094 ESDF 241650Z 08012KT 050V110 CAVOK 11/M02 Q1026 FJDG 241655Z 15004KT 9999 FEW020 SCT250 27/25 A2986 RMK SLP108 T02690253 KMYZ 241635Z AUTO 28003KT 10SM -RA SCT038 BKN060 OVC070 12/09 A2977 RMK AO2 LERI 241600Z 15008KT 090V210 9999 FEW060 27/04 Q1011 NOSIG WIBB 241630Z 00000KT 7000 SCT020 25/25 Q1008 KOJA 241635Z AUTO 33018G28KT 10SM CLR 20/05 A2984 RMK AO2 LESA 241630Z 29014KT 250V310 9999 FEW025CB SCT035 12/03 Q1017 KOJC 241643Z 16009KT 2 1/2SM -RA BR FEW006 SCT024 OVC046 14/13 A2961 RMK AO2 LTG DSNT W P0003 T01440133 LGAD 241620Z 28007KT 9999 FEW018 BKN025 BKN080 17/13 Q1010 KPAE 241553Z 18011KT 10SM FEW016 10/07 A2968 RMK AO2 PK WND 18031/1534 SLP053 T01000067 KNSE 241556Z VRB04KT 10SM SCT025 25/17 A3000 RMK AO2 SLP145 FU NW-N T02500167 KNQX 241553Z 14006KT 10SM FEW025 BKN060 26/20 A3002 RMK AO2 SLP166 T02610200 $ KPAH 241553Z 15011KT 10SM CLR 23/06 A2988 RMK AO2 SLP115 T02280061 KMZZ 241635Z AUTO 14015G23KT 10SM CLR 14/M07 A3002 RMK AO2 T01441069 FIMP 241700Z 10005KT 9999 SCT017 25/23 Q1018 KNSI 241653Z 35006KT 7SM SCT250 17/13 A3000 RMK AO2 SLP157 T01670128 $ LERS 241630Z 15006KT 100V170 9999 BKN020 SCT030TCU 18/15 Q1013 FIMR 241600Z 11014KT 9999 FEW017 25/23 Q1017 KNRS 241556Z 24008KT 10SM FEW015 SCT250 17/13 A3000 RMK AO2 SLP158 T01720128 $ LERT 241600Z 26020KT 9999 FEW030 18/11 Q1021 NOSIG KOKB 241652Z AUTO VRB04KT 9SM CLR 20/11 A2998 RMK AO2 SLP151 T02000111 LFKB 241630Z 11005KT 9999 FEW033 20/13 Q1013 NOSIG LFKC 241630Z 22011KT 190V250 9999 FEW066 23/08 Q1013 NOSIG LGAL 241620Z 00000KT 9999 FEW030 20/15 Q1006 KOKC 241652Z 34023G34KT 10SM FEW047 21/08 A2978 RMK AO2 PK WND 31037/1625 SLP075 T02110078 LFJL 241630Z AUTO 07007KT 9999 NSC 22/07 Q1013 KNTD 241554Z 00000KT 7SM FEW250 19/10 A2999 RMK AO2 SLP156 T01890100 $ KPAM 241559Z VRB03KT 10SM FEW013 23/22 A3002 RMK AO2A SLP169 KPAN 241635Z AUTO VRB05KT 10SM CLR 19/M12 A3012 RMK AO2 LESO 241630Z 30005KT 250V050 9999 FEW015 SCT050 17/12 Q1012 KPAO 241547Z 30007KT 10SM FEW017 SCT150 17/10 A3012 KPBF 241553Z AUTO 18015G19KT 10SM CLR 24/14 A2987 RMK AO2 SLP113 T02390144 LFKF 241630Z AUTO 26013KT 9999 NCD 19/14 Q1015 KPBG 241553Z AUTO 31014G24KT 10SM CLR 09/M06 A2991 RMK AO2 SLP131 T00891056 KPBH 241635Z AUTO 10008KT 1 1/2SM -SN OVC009 00/00 A2988 RMK AO2 P0003 T00031001 KPBI 241553Z 09008KT 10SM FEW027 BKN031 BKN047 29/18 A3001 RMK AO2 SLP162 T02890178 LFJR 241630Z AUTO 27004KT 240V300 9999 FEW038/// SCT054/// BKN068/// ///TCU 15/10 Q1014 LFKJ 241630Z 22005KT 9999 FEW046 19/15 Q1015 NOSIG WIDD 241630Z AUTO 00000KT 4400NDV BR BKN028 BKN034 BKN042 26/25 Q1010 KOKK 241635Z AUTO 14018KT 10SM CLR 15/M02 A3000 RMK AO1 LFLB 241630Z AUTO VRB01KT 9999 NSC 22/11 Q1011 LEST 241630Z 29008G20KT 230V330 9000 -RA FEW008 SCT015CB BKN030 09/06 Q1018 TEMPO 4000 SHRA BKN015CB KNUC 241456Z 09005KT 10SM BKN240 17/13 A2999 RMK SLP152 T01720133 51014 LGBL 241620Z VRB03KT 9999 SCT030 BKN080 19/13 Q1006 NOSIG LFLC 241630Z 02006KT 330V050 9999 FEW046 SCT050TCU BKN100 20/11 Q1010 NOSIG LETL 241630Z AUTO 25013KT CAVOK 15/05 Q1015 LGAV 241620Z 23008KT 9999 FEW030 21/11 Q1008 KOKM 241635Z AUTO 19017G26KT 10SM BKN021 OVC027 21/17 A2970 RMK AO2 LTG DSNT W T02100169 PTPN 240250Z 10010KT 15SM SCT018 SCT130 BKN300 32/25 A2973 RMK LAST KOLE 241635Z AUTO 01006KT 10SM CLR 06/M08 A3009 RMK AO2 KOLF 241553Z AUTO 27013KT 10SM SCT055 12/00 A2977 RMK AO2 SLP089 T01170000 LETO 241600Z 23017KT 9999 FEW050 17/05 Q1014 NOSIG ESGG 241650Z 08007KT CAVOK 14/M01 Q1025 KNUI 241653Z AUTO 25013KT 10SM CLR 14/M02 A3007 RMK AO2 SLP183 T01441017 KOMA 241652Z 34016G23KT 7SM BKN016 OVC023 13/09 A2971 RMK AO2 SLP061 T01280094 LFKS 241630Z AUTO VRB02KT 9999 NSC 23/14 Q1013 ESGJ 241650Z 12007KT CAVOK 12/M03 Q1026 KNTU 241556Z 33011KT 310V010 10SM SCT250 14/M02 A3010 RMK AO2 SLP196 T01391022 KPDC 241635Z AUTO 11003KT 4SM RA BKN043 BKN055 OVC090 08/05 A2978 RMK AO2 P0006 T00780045 LFMC 241600Z 27009KT 230V300 9999 SCT060 BKN230 26/06 Q1011 LFLL 241630Z VRB02KT CAVOK 21/08 Q1012 NOSIG LEVC 241630Z 08005KT 040V120 9999 SCT035 20/14 Q1012 NOSIG LEVD 241630Z 27017KT 9999 SCT040 BKN048 12/03 Q1015 KOLM 241554Z 21007KT 10SM FEW037 SCT050 11/07 A2974 RMK AO2 SLP072 T01110072 $ KPCM 241635Z AUTO 24003KT 10SM SCT028 28/18 A3004 RMK AO2 KOKV 241635Z AUTO 29006KT 10SM CLR 13/M06 A3010 RMK AO2 LFMD 241630Z AUTO 15005KT 100V180 9999 NSC 19/13 Q1012 LFLN 241630Z AUTO 07005KT 020V100 9999 NSC 21/11 Q1012 LFLP 241630Z AUTO 29004KT 240V330 9999 NSC 21/08 Q1012 ESGP 241650Z 05008KT CAVOK 14/M00 Q1025 KOKZ 241635Z AUTO 11004KT 10SM CLR 25/09 A3005 RMK AO2 T02470088 KNUQ 241556Z VRB04KT 10SM FEW020 16/09 A3013 RMK AO2 SLP206 T01560094 KOMH 241635Z AUTO 00000KT 10SM CLR 13/M04 A3013 RMK AO2 LFMH 241630Z AUTO 20012KT 9999 -RA SCT054/// BKN078/// BKN092/// ///TCU 15/10 Q1012 LFMI 241630Z AUTO 23010KT 9999 NSC 24/07 Q1012 ESGR 241650Z AUTO 08009KT 050V120 9999 NCD 11/M02 Q1027 KONA 241635Z AUTO 13011KT 5SM BR SCT016 BKN021 OVC038 05/04 A2976 RMK AO2 P0002 KOLS 241554Z AUTO VRB03KT 10SM CLR 19/M08 A3006 RMK AO2 SLP128 T01891078 KPEA 241635Z AUTO 20007KT 170V230 7SM RA BKN007 BKN013 BKN025 10/09 A2970 RMK AO2 P0001 T00980089 LFLS 241630Z AUTO VRB01KT 9999 FEW050 21/12 Q1012 KOMK 241626Z AUTO 20004KT 10SM OVC028 10/08 A2968 RMK AO2 T01000078 KPDK 241553Z 00000KT 10SM CLR 19/03 A3007 RMK AO2 SLP178 T01890028 LFMK 241630Z AUTO 08015KT 9999 NSC 19/11 Q1009 ESGT 241650Z 01008KT CAVOK 09/02 Q1027 ESIB 241650Z AUTO 03007KT 9999NDV NCD 11/02 Q1027 KOLU 241635Z AUTO 34013G23KT 10SM SCT100 14/06 A2977 RMK AO1 LFML 241630Z 25006KT CAVOK 23/08 Q1013 NOSIG KOLV 241550Z 19010G16KT 10SM OVC250 21/09 A2991 KOMN 241550Z 11005KT 7SM SKC 25/17 A3003 PTRO 241556Z 04003KT 15SM FEW017 SCT300 26/24 A2980 LFLW 241630Z AUTO 16010G20KT 130V240 9999 TSRA FEW049/// ///CB 16/07 Q1012 KPCW 241633Z AUTO 12010KT 10SM FEW090 10/M04 A3014 RMK AO2 $ KNUW 241635Z 15008KT 8SM -RA FEW012 BKN033 BKN140 OVC240 12/08 A2969 RMK AO2 RAB29 P0000 T01170078 $ LFMN 241630Z VRB02KT 9999 FEW043 BKN260 18/12 Q1013 NOSIG LFMO 241630Z AUTO 18009KT 150V210 9999 NSC 24/10 Q1011 LFLX 241630Z AUTO 35005KT 310V040 9999 FEW038 BKN100 OVC130 18/12 Q1012 KOLY 241635Z AUTO 13013KT 10SM CLR 18/04 A2991 RMK AO2 LFMP 241630Z 16014KT 110V190 9999 FEW033 BKN260 24/10 Q1009 LFLY 241630Z AUTO 33002KT 9999 NSC 21/09 Q1012 KOLZ 241635Z AUTO 14017G22KT 5SM -RA BKN026 OVC030 A2970 RMK AO2 KPCZ 241618Z AUTO 09009KT 5SM RA SCT020 BKN026 OVC065 06/04 A2995 RMK AO2 P0001 LEVS 241630Z 24020G31KT 210V270 9999 SCT030TCU 16/05 Q1015 KOOA 241635Z AUTO 16011KT 10SM SCT032 BKN095 OVC110 12/08 A2970 RMK AO2 T01160079 LFOA 241630Z AUTO 10004KT 9999 NSC 19/10 Q1012 KPDT 241553Z 21011KT 10SM CLR 11/07 A2978 RMK AO2 RAE1458 SLP079 P0000 T01110072 LFMT 241630Z 17009KT CAVOK 19/11 Q1012 NOSIG LFOB 241630Z AUTO 02007KT 9999 FEW034 17/10 Q1015 LEVT 241630Z 21011KT 180V240 9999 FEW025TCU SCT070 16/07 Q1012 LGEL 241620Z 31006KT 9999 SCT025 22/10 Q1007 KONL 241635Z AUTO 34022G28KT 10SM CLR 18/M09 A2979 RMK AO2 T01801086 LFOC 241630Z AUTO 05009KT 9999 ///CB 18/10 Q1013 LFMU 241630Z AUTO 12011KT 9999 NSC 19/12 Q1011 KONM 241635Z AUTO 02005KT 10SM CLR 16/M11 A3016 RMK AO2 T01571113 LFMV 241630Z AUTO 22010KT 190V250 9999 NSC 24/06 Q1012 ETAD 241631Z AUTO 35008KT 9999 -RA SCT044 SCT065 15/12 A2999 RMK AO2 RAB1558 CIG 044 RWY23 $ LFOE 241630Z AUTO 04004KT 9999 NSC 18/09 Q1014 KPEO 241553Z AUTO 31013G23KT 10SM CLR 08/M08 A3010 RMK AO2 SLP200 T00781078 KONO 241553Z AUTO 14009KT 10SM -RA SCT080 OVC100 10/07 A2993 RMK AO2 RAB19 SLP140 P0000 T01000067 KPDX 241553Z 18008KT 10SM FEW012 FEW025 BKN065 12/09 A2982 RMK AO2 SLP096 CB DSNT N T01220094 KNXF 241556Z AUTO 19005KT 8SM CLR 18/11 A2999 RMK AO2 SLP240 T01780111 LEVX 241630Z 28010KT 230V360 9999 SCT025 BKN035 12/07 Q1019 TEMPO 3000 SHRA BKN010TCU KONP 241635Z AUTO 25006KT 7SM SCT020 SCT027 11/08 A2992 RMK AO2 RCKH 241600Z 08004KT 6000 FEW012 SCT035 BKN070 25/23 Q1012 BECMG 5000 BR RMK A2990 LFMY 241630Z AUTO 21009KT 9999 NSC 23/07 Q1013 KPEQ 241635Z AUTO 33019KT 10SM CLR 24/M06 A3004 RMK AO2 T02401057 LFOH 241630Z AUTO 04012KT 9999 NSC 14/08 Q1015 LEXJ 241637Z 29027G37KT 260V320 7000 -RA SCT022TCU SCT034 BKN060 12/08 Q1015 KPGA 241553Z AUTO 36004KT 10SM CLR 13/M11 A3012 RMK AO2 SLP163 T01331106 TSNO LFOJ 241630Z AUTO 06009KT 9999 ///CB 18/09 Q1013 KONT 241553Z 00000KT 10SM FEW250 18/04 A2998 RMK AO2 SLP145 T01780044 LFOK 241630Z AUTO 02006KT 9999 ///CB 20/10 Q1014 LFPB 241630Z AUTO 05008KT 010V070 9999 FEW041/// SCT064/// BKN096/// ///CB 18/11 Q1014 KNYC 241651Z AUTO 34010G25KT 300V020 10SM CLR 14/M11 A2992 RMK AO2 SLP122 T01441111 LFPC 241630Z AUTO 05007KT 9000 FEW034 BKN076 BKN092 17/10 Q1014 KPGD 241553Z 10SM CLR 26/18 A3005 RMK AO2 SLP175 T02610178 PTTP 241550Z 08003KT 15SM SCT018 BKN300 27/25 A2975 RMK SLP073 T02710252 WIHH 240900Z 24007KT 6000 SCT016 34/23 Q1006 NOSIG KOPF 241553Z 19004KT 10SM CLR 28/17 A3002 RMK AO2 SLP166 T02780172 KPEX 241632Z AUTO 00000KT 4SM -RA OVC008 05/04 A2974 RMK AO2 T00490040 KONX 241635Z AUTO 33008KT 10SM CLR 18/M06 A3010 RMK AO2 T01751063 VQPR 240450Z 14009KT 8000 SCT040 22/M01 Q1018 NOSIG KNYG 241556Z VRB03KT 10SM FEW180 SCT200 14/M08 A3013 RMK AO2 SLP204 T01391078 KNXP 241556Z 32008KT 10SM FEW250 18/M04 A3006 RMK AO2 SLP153 T01781044 $ LFPG 241630Z 05008KT 020V080 9999 FEW030CB FEW033TCU SCT068 18/10 Q1014 NOSIG LFOP 241630Z AUTO 04006KT 9999 FEW037/// ///TCU 17/09 Q1015 KONZ 241634Z AUTO 16009KT 10SM SCT120 09/M06 A3015 RMK AO2 KPEZ 241635Z AUTO 21005KT 10SM OVC019 24/18 A2989 RMK AO2 T02350181 ETAR 241558Z AUTO 07009KT 9999 FEW190 22/08 A2995 RMK AO2 SLP141 T02230077 $ LFQA 241630Z AUTO 36006KT 9999 ///TCU 21/10 Q1013 LFQB 241630Z AUTO VRB02KT 9999 ///CB 20/10 Q1013 LFOT 241630Z AUTO 27005KT 240V320 9999 NSC 16/11 Q1013 KOPL 241635Z AUTO 19011G16KT 10SM 26/19 A2993 RMK AO2 T02640189 KNYL 241557Z 00000KT 10SM SCT300 23/M04 A2992 RMK AO2 SLP130 T02281039 KPHD 241553Z AUTO 11006KT 10SM BKN095 BKN120 09/M08 A3017 RMK AO2 SLP220 T00941083 KOPM 241635Z AUTO 12008KT 5SM BR BKN015 BKN019 22/21 A2987 RMK A01 LFOV 241630Z AUTO 00000KT 9999 NSC 15/09 Q1014 LFPM 241630Z AUTO 02006KT 350V060 9999 ///CB 17/12 Q1014 KOPN 241635Z AUTO 00000KT 10SM CLR 25/01 A3004 RMK AO2 LFPN 241630Z AUTO 03006KT 9999 FEW042 SCT064 18/10 Q1014 KQA4 241555Z VRB05KT 9999 FEW070 23/08 A2987 RMK CB 80NW MOV NE SLP069 WND DATA ESTMD ALSTG/SLP ESTMD Q1011 ESKN 241650Z 11008KT CAVOK 08/M04 Q1030 KPHF 241554Z 33010KT 300V360 10SM CLR 17/M05 A3011 RMK AO2 SLP195 T01721050 LFPO 241630Z 04005KT 9999 FEW040CB SCT043 BKN100 18/09 Q1014 TEMPO SHRA SCT030CB LFQG 241630Z AUTO VRB02KT 9999 NSC 19/11 Q1012 WIII 241630Z 23008KT 8000 FEW018CB SCT020 28/24 Q1009 RMK CB TO E AND SE LEZG 241630Z 30007KT 270V350 9999 FEW015 SCT040 16/12 Q1013 LGHI 241550Z 15007KT 9999 FEW020 SCT080 BKN180 20/16 Q1007 KPIA 241554Z 16012G21KT 10SM CLR 17/03 A2985 RMK AO2 SLP107 T01670028 KORB 241634Z AUTO 12008KT 082V142 5SM BR OVC011 02/01 A2985 RMK AO2 KPIB 241635Z AUTO 18011G18KT 150V220 10SM FEW033 SCT041 BKN048 26/15 A2998 RMK AO1 LFRB 241630Z VRB04KT 9999 SCT023 BKN033 15/08 Q1015 NOSIG LFPT 241630Z AUTO 05010KT 9999 NSC 17/10 Q1014 LEZL 241630Z 27015KT 240V300 CAVOK 21/07 Q1019 NOSIG GAMB 241200Z 36012KT 320V030 CAVOK 40/00 Q1010 KPHL 241554Z 34015G27KT 10SM FEW070 13/M10 A3004 RMK AO2 PK WND 32029/1531 SLP173 T01281100 KORC 241635Z AUTO 34013G19KT 10SM OVC011 11/08 A2970 RMK AO2 LFRC 241630Z AUTO 05006KT 010V080 9999 BKN009 12/09 Q1016 KORD 241651Z 14022G28KT 10SM BKN130 BKN250 16/02 A2990 RMK AO2 PK WND 14028/1646 SLP127 T01560017 $ KPGV 241635Z AUTO 00000KT 10SM CLR 16/M02 A3013 RMK AO2 LFPV 241630Z AUTO 02007KT 350V070 9999 BKN040/// BKN048/// BKN100/// ///CB 18/09 Q1014 LFRD 241630Z AUTO 01007KT 9999 NSC 14/09 Q1015 KPIE 241553Z 03006KT 10SM CLR 24/17 A3003 RMK AO2 SLP169 T02440167 KORE 241652Z AUTO 32020G32KT 10SM CLR 11/M06 A2976 RMK AO2 PK WND 31036/1602 SLP080 T01111061 PNO $ KPHN 241637Z AUTO 13006KT 10SM CLR 11/M06 A3015 RMK AO2 KORF 241651Z AUTO 36008KT 10SM CLR 15/M01 A3009 RMK AO2 SLP187 T01501006 TSNO KPHP 241555Z AUTO 31018G23KT 10SM CLR 16/M05 A2984 RMK AO2 SLP099 T01561050 KORG 241635Z AUTO 17010KT 10SM SCT020 SCT025 24/19 A2994 RMK AO2 T02440187 LFRG 241630Z AUTO 03009KT 9999 FEW023/// BKN180/// BKN190/// ///TCU 15/11 Q1015 KPIH 241553Z 20015G25KT 180V240 10SM BKN075 OVC100 10/M04 A2999 RMK AO2 PK WND 17026/1503 SLP147 T01001044 KORH 241554Z 33016G35KT 10SM CLR 09/M07 A2972 RMK AO2 PK WND 34035/1548 SLP071 T00891072 LFQQ 241630Z 35007KT 320V020 9000 SCT030TCU SCT100 17/12 Q1016 NOSIG LFRH 241630Z AUTO 27007KT 240V300 9999 NSC 14/08 Q1015 LFRI 241630Z AUTO VRB01KT 9999 -RA FEW008/// BKN056/// OVC066/// ///TCU 11/10 Q1014 KOSA 241635Z AUTO 19013KT 10SM OVC044 23/17 A2982 RMK AO1 T02320168 LFRJ 241630Z AUTO 29005KT 260V320 9999 FEW018/// SCT042/// BKN054/// ///CB 13/09 Q1015 KOQT 241653Z AUTO VRB04KT 10SM CLR 21/01 A3001 RMK AO2 SLP158 T02110011 LFSB 241630Z VRB03KT 9999 FEW043 FEW050TCU SCT120 22/11 Q1012 NOSIG LFRK 241630Z AUTO 02009KT 9999 NSC 13/10 Q1015 KORL 241553Z 22003KT 10SM FEW036 27/18 A3002 RMK AO2 SLP170 T02720183 ESMK 241650Z 10012KT CAVOK 10/M01 Q1025 KOSC 241634Z AUTO 10006KT 10SM BKN120 08/M03 A3016 RMK AO2 T00821032 KOQU 241450Z 32020G30KT 15SM SKC 10/M08 A2973 ETEB 241558Z AUTO 10004KT 9999 CLR 21/05 A3000 RMK AO2 SLP163 T02050051 LFRL 241630Z AUTO 26008KT 230V290 9999 FEW032/// BKN050/// BKN100/// ///CB 14/08 Q1015 LFRM 241630Z AUTO 34005KT 310V020 9999 ///CB 14/10 Q1013 LFSD 241630Z AUTO 11004KT 9999 NSC 21/11 Q1012 LFRN 241630Z AUTO VRB02KT 9999 SCT046 BKN056 BKN160 16/07 Q1014 KPHX 241651Z 10005KT 10SM SCT250 24/M08 A2995 RMK AO2 SLP127 T02441078 LGIO 241620Z 00000KT 7000 SCT006 OVC020 14/14 Q1009 LFRO 241630Z AUTO 08009KT 030V120 9999 NSC 14/04 Q1015 KNZY 241552Z 18006KT 10SM FEW025 SCT250 20/13 A2999 RMK AO2 SLP154 T02000128 $ ESNG 241650Z 25010KT CAVOK 09/M07 Q1023 KOSH 241553Z 10008KT 10SM FEW050 OVC070 06/03 A2996 RMK AO2 RAB02E46 SLP153 P0002 T00610028 LFRQ 241630Z AUTO 15007KT 120V180 9999 FEW021/// SCT078/// BKN092/// ///TCU 13/08 Q1015 KPIR 241553Z AUTO 31018G22KT 10SM CLR 15/M02 A2979 RMK AO2 SLP088 T01501017 ESMQ 241650Z 06010KT CAVOK 10/M01 Q1027 LGIR 241620Z 08003KT 9999 FEW020 SCT080 BKN180 20/15 Q1010 NOSIG PTYA 241650Z 05007KT 12SM FEW016 SCT030 BKN300 26/22 A2979 RMK SLP090 T02610224 LFSI 241630Z AUTO 32005KT 290V350 9999 ///CB 21/12 Q1013 KORS 241635Z AUTO 20003KT 10SM CLR 12/06 A2964 RMK AO2 LFRS 241630Z 09005KT 9999 FEW040 SCT066 BKN086 14/07 Q1014 NOSIG LFRT 241630Z AUTO 04008KT 9999 NSC 12/09 Q1015 KPIT 241651Z VRB03KT 10SM FEW100 SCT140 SCT250 11/M08 A3012 RMK AO2 SLP214 T01111083 ESMS 241650Z 08016KT CAVOK 09/02 Q1023 KPKB 241553Z 13009G14KT 10SM CLR 12/M12 A3015 RMK AO2 SLP212 T01221117 LHBC 241445Z 04007KT 9999 FEW016 OVC083 17/14 Q1012 LGKC 241350Z /////KT 9999 FEW005 SCT012 18/14 Q1011 ESNK 241650Z 15007KT CAVOK 12/M03 Q1026 ESMT 241650Z 07007KT CAVOK 15/M04 Q1024 LFSL 241630Z AUTO 33010KT 9999 FEW007 BKN094 13/11 Q1012 ESNL 241650Z AUTO 27006KT 9999 NCD 14/M04 Q1025 KPKD 241607Z AUTO 14007KT 4SM -RA BR OVC007 03/03 A2978 RMK AO2 CIG 004V011 P0003 T00330033 TSNO LFRV 241630Z AUTO 25004KT 220V280 9999 NSC 14/08 Q1014 LFSN 241630Z AUTO VRB02KT 9999 ///TCU 21/09 Q1013 LGKF 241550Z 29009KT 9999 SCT012 BKN018 BKN070 17/15 Q1011 ESNN 241650Z 14005KT CAVOK 09/M00 Q1028 ESOE 241650Z 14008KT CAVOK 13/M07 Q1028 LFSO 241630Z AUTO 09006KT 040V120 9999 ///TCU 21/08 Q1013 KQBF 241555Z AUTO 00000KT 9999 CLR 41/03 A2977 RMK AO2 SLP057 T04050032 ESNO 241650Z 21006KT CAVOK 08/M02 Q1026 ESMX 241650Z 08008KT 050V110 CAVOK 11/M01 Q1026 KOTG 241635Z AUTO 34020KT 10SM OVC010 08/04 A2971 RMK AO1 KS25 241635Z AUTO 28016G23KT 10SM CLR 12/00 A2972 RMK AO2 KOTH 241635Z 24009G15KT 200V260 10SM BKN011 BKN048 OVC070 12/12 A2996 RMK AO1 LFRZ 241630Z AUTO 08004KT 2600 HZ NSC 14/09 Q1014 LFTH 241630Z AUTO 22010KT 9999 NSC 20/13 Q1012 ESNQ 241650Z 08004KT CAVOK 06/M06 Q1023 KQAR 241555Z AUTO 11009G15KT 8000 FEW150 24/03 A2980 RMK AO2 LTG DSNT N SLP048 T02360026 GANR 241200Z 08004KT CAVOK 41/M02 Q//// ESNS 241650Z 27008KT CAVOK 15/M04 Q1024 ESPA 241650Z 13003KT CAVOK 10/00 Q1024 LFST 241630Z AUTO 03008KT 9999 NSC 24/06 Q1012 KQCC 241555Z AUTO 07004KT 9999 -SHRA FEW049 BKN085 18/14 A3008 RMK AO2 LTG DSNT N SHRAB1357 SLP157 P0000 T01830135 $ ESOK 241650Z 09006KT CAVOK 13/M07 Q1028 KOSU 241553Z 10009KT 10SM BKN100 12/M08 A3011 RMK AO2 SLP200 T01221078 LGKL 241620Z 36008KT 9999 FEW020 SCT030 18/12 Q1010 NOSIG KQBL 241556Z AUTO 19004KT 9SM FEW230 24/19 A3003 RMK AO2 SLP176 T02350189 KOTM 241553Z AUTO 21006KT 10SM -RA OVC039 12/07 A2972 RMK AO2 RAB27 SLP066 P0000 T01170067 ESNU 241650Z 19009KT CAVOK 06/M02 Q1027 R14/09//70 KS32 241635Z AUTO 15005KT 4SM BR OVC004 05/05 A2972 RMK AO2 ESPE 241650Z AUTO 29008KT 9999NDV NCD 13/M07 Q1024 LGKO 241620Z 17006KT 9999 FEW020 SCT180 19/17 Q1009 NOSIG LFSX 241630Z AUTO 03005KT 360V070 9999 NSC 22/09 Q1012 LGKP 241620Z 30010KT 9999 FEW016 SCT180 19/15 Q1008 KQAY 241555Z AUTO 00000KT 8000 CLR 30/04 A2985 RMK AO2 SLP103 T02970044 $ ESNX 241650Z AUTO 30006KT 9999NDV NCD 10/M07 Q1025 LHBP 241630Z 11010KT CAVOK 18/11 Q1012 NOSIG ETGG 241620Z 07007KT 9999 BKN014 09/06 Q1022 GRN KQAZ 241645Z AUTO 14005KT 9999 CLR 41/00 A2970 RMK CDP03565 CLR ESNZ 241650Z 22006KT CAVOK 13/M05 Q1026 LGKR 241620Z 28003KT 9999 FEW018 SCT025 BKN080 18/14 Q1008 ETHA 241620Z 08010KT 9999 FEW060 18/05 Q1015 BLU+BLU+ VRMM 241600Z 27009KT 9999 FEW018 SCT270 29/26 Q1011 NOSIG WIMM 241630Z 18004KT 3000 BR FEW020 24/23 Q1010 LHDC 241615Z 11006KT 9999 FEW030 SCT040 OVC083 19/12 Q1012 ETHB 241620Z 06009KT 9999 FEW120 SCT300 18/12 Q1018 BLU+BLU+ LGKV 241620Z 12007KT CAVOK 20/14 Q1006 ETHC 241620Z 08007KT 9999 FEW025 18/12 Q1018 BLU+ KPMD 241553Z 03003KT 10SM CLR 15/M03 A3004 RMK AO2 SLP162 T01501028 LGLM 241620Z 19009KT CAVOK 18/15 Q1007 KPKV 241630Z AUTO 17014G18KT 10SM SCT024 26/20 A2988 RMK AO2 T02550196 KOVE 241553Z AUTO 12009KT 10SM CLR 16/07 A3006 RMK AO2 SLP180 T01610067 KPLN 241554Z AUTO 14008KT 10SM OVC110 08/M04 A3014 RMK AO2 SLP212 T00831044 KOUN 241635Z AUTO 32020G28KT 10SM SCT027 SCT035 SCT050 20/12 A2978 RMK AO2 LFTW 241630Z AUTO 20010KT 170V240 9999 NSC 22/05 Q1012 ETHE 241620Z AUTO 09010KT 3600 // ////// 17/14 Q1017 /// ESOW 241650Z 12007KT CAVOK 12/M08 Q1029 ETHF 241620Z 07009KT 9999 FEW050 SCT190 20/09 Q1016 BLU+ LGKZ 241550Z 19004KT 9999 SCT020 BKN070 15/13 Q1008 ETGQ 240420Z AUTO 30003KT //// // ////// 11/09 Q1019 /// LGLR 241550Z 31004KT 9999 FEW025 BKN080 20/13 Q1006 NOSIG RMK SCT180 BLU KQEA 241555Z AUTO 00000KT 9999 CLR 25/20 A2980 RMK AO2 SLP090 T02450202 KOWA 241634Z AUTO 12008KT 4SM -DZ OVC015 06/04 A2971 RMK AO2 KPNA 241635Z AUTO 00000KT 10SM OVC050 02/M06 A3006 RMK AO2 LGMK 241550Z 23008KT 9999 FEW020 SCT080 19/14 Q1009 KQEB 240655Z AUTO 06010G15KT 19/15 Q1024 RMK AO2 SLP190 T01920148 PWINO TSNO $ KOWB 241556Z 14009KT 10SM CLR 18/04 A2995 RMK AO2 T01830044 SLP141 KOVL 241633Z AUTO 08003KT 4SM -DZ SCT004 OVC011 06/05 A2971 RMK AO2 P0001 KPNC 241628Z AUTO 32019G27KT 10SM BKN026 OVC044 18/11 A2973 RMK AO2 PK WND 33030/1558 TSNO KPLU 241635Z AUTO 21006KT 10SM 10/09 A2977 RMK AO2 ETHL 241620Z 09011KT 9999 FEW060 20/05 Q1014 BLU+BLU+ KOWD 241553Z 33017G28KT 10SM 11/M05 A2969 RMK AO2 PK WND 33034/1538 RAE1457 SLP055 P0000 T01111050 $ ETIC 241558Z AUTO VRB04KT 9999 FEW065 BKN100 22/05 A3000 RMK AO2 SLP159 T02190051 $ KPNE 241554Z AUTO 33014G28KT 10SM CLR 13/M09 A3003 RMK AO2 PK WND 31028/1549 SLP168 T01281094 TSNO ETHN 241620Z 07006KT 9999 FEW070TCU 20/07 Q1015 BLU+ LFVP 241500Z 06026KT 9999 OVC036 04/M01 Q1001 NOSIG KPMP 241553Z 15007KT 10SM FEW044 28/19 A3002 RMK AO2 SLP167 T02780189 ETIH 241558Z AUTO VRB05KT 9999 CLR 20/07 A3001 RMK AO2 SLP162 KQEI 241630Z AUTO 13001KT 6SM BR CLR 10/02 A3034 RMK A02 KOVS 241553Z AUTO 06004KT 10SM -RA OVC050 08/04 A2980 RMK AO2 RAB00 SLP094 P0002 T00780044 PWAK 240355Z 09013KT 10SM CLR 29/23 A2990 RMK AO2A ETHS 241620Z 12005KT 9999 FEW030 18/12 Q1019 BLU+ KOXB 241553Z AUTO 31010G22KT 10SM CLR 14/M06 A3005 RMK AO2 SLP174 T01441061 TSNO ESSA 241650Z 15008KT 110V170 CAVOK 10/M09 Q1030 NOSIG LGMT 241620Z 20013G23KT 170V240 CAVOK 21/14 Q1009 KPOB 241558Z AUTO VRB04KT 10SM CLR 17/02 A3015 RMK AO2 SLP212 T01710018 KQFB 241640Z AUTO 14001KT 7SM CLR 10/03 A3034 RMK A02 ESSB 241650Z 12007KT 090V170 CAVOK 09/M05 Q1030 KPOC 241547Z 00000KT 10SM SKC 17/06 A3001 KOXC 241550Z 35019G29KT 10SM SKC 09/M10 A2986 ETIK 241558Z AUTO 06007KT 9999 FEW070 21/06 A2999 RMK AO2 SLP157 T02140059 WIOO 241500Z 00000KT 60016XWW013 26/25 Q1010 NOSIG KPNM 241633Z AUTO 08007KT 10SM -RA BKN011 OVC014 05/04 A2976 RMK AO2 P0002 KPMV 241635Z AUTO 32014KT 10SM BKN016 OVC022 14/10 A2971 RMK AO2 T01360102 ESSD 241650Z 08005KT CAVOK 13/M05 Q1028 KPOE 241555Z AUTO 20008KT 10SM FEW022 OVC055 23/18 A2991 RMK AO2 SLP129 T02330178 $ KQEN 241640Z AUTO 26010KT 7SM CLR 07/M01 A3067 RMK A02 KPOF 241553Z AUTO 18010KT 10SM BKN065 21/06 A2986 RMK AO2 SLP108 T02110061 KQEP 241640Z AUTO 00000KT 5SM BR CLR 11/02 A3036 RMK A02 KOWP 241635Z AUTO 18016G23KT 10SM VCTS SCT019 BKN024 BKN043 23/17 A2966 RMK AO2 LTG DSNT SW THRU N T02310168 KQFG 241555Z AUTO 08009G14KT 9999 OVC085 22/11 A2995 RMK AO2 LTG DSNT NE SLP120 T02220112 PWINO $ KQEQ 241640Z AUTO 11001KT 4SM -SHRA CLR 10/05 A3022 RMK A02 RCSS 241600Z VRB01KT 5000 BR FEW008 BKN018 BKN040 22/19 Q1013 NOSIG RMK A2992 KPNS 241553Z VRB05KT 10SM CLR 25/17 A3000 RMK AO2 SLP160 T02500167 LGPA 241620Z AUTO 14005KT //// // ////// 18/15 Q1009 RE// KPPA 241635Z AUTO 34019G25KT 10SM CLR 16/00 A3000 RMK AO2 T01550001 KQES 241630Z AUTO 00000KT 3SM BR CLR 12/07 A3027 RMK A02 ESTA 241650Z 10008KT CAVOK 15/04 Q1023 KPNT 241635Z AUTO 15020G24KT 7SM CLR 18/02 A2989 RMK AO2 ESSL 241650Z 10010KT CAVOK 09/M02 Q1028 KQEV 241630Z AUTO 27002KT 2SM BR CLR 10/05 A3020 RMK A02 WIPP 241530Z 00000KT 9999 FEW015 28/25 Q1009 FKKD 241600Z VRB07KT 9999 TS BKN013 SCT016CB 30/26 Q1008 TEMPO VRB15KT 3000 TSRA KQEW 241630Z AUTO 09002KT 7SM CLR 15/05 A3022 RMK A02 LGNX 241350Z 20014KT 9999 FEW018 BKN190 20/16 Q1008 KQEX 241420Z AUTO 17004KT 7SM CLR 19/M01 A3014 RMK A02 KPPF 241652Z AUTO 19016G29KT 10SM BKN022 OVC029 22/16 A2964 RMK AO2 PK WND 19029/1643 SLP029 T02170156 TSNO RCTP 241630Z 01005KT 7000 SCT006 BKN008 BKN020 22/20 Q1012 NOSIG RMK A2990 KQEY 241640Z AUTO 00000KT 5SM BR CLR 12/05 A2999 RMK A02 ESSP 241650Z 09010KT CAVOK 08/M01 Q1029 WIPT 241530Z 02005KT 7000 R33/M0050VP1500U SCT020 26/24 Q1010 KOXR 241651Z 00000KT 10SM CLR 19/07 A2999 RMK AO2 SLP155 T01940067 KOZA 241635Z AUTO 35012G23KT 10SM CLR 27/M05 A2999 RMK AO2 KQFT 241640Z AUTO 14001KT 7SM CLR 09/02 A3025 RMK A02 KPOU 241553Z 30017G22KT 10SM CLR 13/M10 A2988 RMK AO2 PK WND 33026/1538 SLP115 T01281100 KQFU 241630Z AUTO 00000KT 5SM BR CLR 11/03 A3030 RMK A02 FKKL 240800Z 09004KT CAVOK 28/19 Q1010 ESTL 241650Z AUTO 12011KT 9999NDV BKN084/// 12/04 Q1024 KPOV 241635Z AUTO 05009KT 10SM OVC100 11/M08 A3014 RMK AO2 T01061080 KOXV 241635Z AUTO 26006KT 9SM BKN011 OVC075 11/10 A2969 RMK AO2 KQFV 241640Z AUTO 17001KT 3SM BR CLR 07/02 A3041 RMK A02 ESUD 241650Z AUTO 27005KT 9999 NCD 13/M03 Q1025 ESSV 241650Z 10011KT CAVOK 08/M05 Q1029 FKKN 241600Z 34004KT 9999 -TSRA BKN013 SCT016CB BKN100 21/19 Q1013 KPPO 241635Z AUTO 13017G22KT 10SM BKN110 15/M03 A2998 RMK AO2 T01491032 KQFX 241640Z AUTO 14002KT 3SM BR CLR 08/03 A3022 RMK A02 KPPQ 241635Z AUTO 15011KT 10SM SCT075 20/03 A2978 RMK AO2 LTG DSNT N T01980030 KQGR 241600Z AUTO 34004KT 9999 CLR 45/03 A2983 RMK CDP03564 CLR KPQI 241635Z AUTO 36016G21KT 3SM SCT008 BKN017 OVC024 01/M01 A2963 RMK AO1 P0002 LFYR 241630Z AUTO 00000KT 9999 NSC 19/10 Q1012 FKKR 241600Z 00000KT CAVOK 31/22 Q1005 NOSIG KPRB 241553Z AUTO 32005KT 10SM CLR 13/05 A3010 RMK AO2 SLP190 T01280050 TSNO KPQL 241553Z VRB05KT 10SM SCT025 24/18 A3000 RMK AO2 SLP161 T02440183 KPRC 241553Z 00000KT 10SM CLR 14/M11 A3009 RMK AO2 SLP136 T01391111 KQGV 241555Z 32006KT 9999 CLR 32/M03 A2986 RMK SLP107 QNH1011MB PA +521 KPQN 241633Z AUTO 01011G18KT 10SM SCT011 OVC075 09/07 A2969 RMK AO2 KQGX 241558Z AUTO 34007KT 9999 CLR 34/08 A2980 RMK AO2 SLPNO T03400084 $ KPRG 241635Z AUTO 14017G23KT 10SM CLR 18/03 A2993 RMK AO2 T01750026 LGPZ 241620Z 25011KT 9000 FEW008 FEW018TCU SCT025 OVC080 17/14 Q1010 NOSIG KOZR 241558Z AUTO 11004KT 10SM CLR 26/15 A3000 RMK AO2 SLP159 T02570146 LGSA 241620Z 27012KT 9999 FEW020 BKN180 18/13 Q1010 VTBD 241630Z 21007KT 160V220 9999 FEW020 SCT300 31/25 Q1009 NOSIG ESUT 241650Z AUTO 33003KT 9999 NCD 08/M04 Q1026 KPSC 241553Z 20012G20KT 10SM SCT090 14/08 A2977 RMK AO2 SLP080 T01390078 KRAC 241553Z AUTO 13015G23KT 10SM SCT090 09/02 A2999 RMK AO2 SLP158 T00890022 ETND 241420Z 07008KT 9999 FEW033 BKN250 20/13 Q1018 BLU+ KOZW 241635Z AUTO 09012G16KT 10SM BKN110 11/M09 A3011 RMK AO2 T01091094 KPRN 241556Z AUTO 17005KT 10SM CLR 26/16 A2999 RMK AO2 SLP152 T02560156 ETMN 241620Z 09011KT 9000 BKN009 13/10 Q1020 GRN GRN KPSF 241554Z AUTO 31016G27KT 10SM CLR 08/M09 A2983 RMK AO2 PK WND 31030/1514 SLP099 T00781094 PWINO $ KPRO 241635Z AUTO 28010KT 10SM SCT014 SCT060 OVC080 13/09 A2967 RMK AO2 T01250087 KQL5 241555Z 17002KT 9999 BKN100 21/16 A2995 RMK SLP118 T02050162 LGRP 241620Z 15006KT 9999 FEW020 SCT080 BKN180 21/18 Q1009 RMK R25 12004G08KT R07 15006G09KT ETNG 241550Z 09005KT 9999 FEW045CB BKN130 BKN200 20/11 Q1016 TEMPO -TSRA ETNH 241633Z 06010KT 9999 OVC008 09/07 Q1021 GRN FCST CANCEL KQIR 241558Z AUTO 36012KT 9999 CLR 33/13 A2981 RMK AO2 SLP096 T03300133 $ LIBA 241555Z 29015KT 9999 FEW010 SCT020 BKN040 16/13 Q1011 RMK OVC VIS MIN 9999 WIND THR29 29015KT BLU VTCC 241630Z 20004KT 9999 FEW040 30/19 Q1010 A2982 NOSIG KPRS 241635Z AUTO 28016G22KT 10SM CLR 29/M06 A3003 RMK AO2 T02911062 LGSK 240750Z 23004KT CAVOK 20/15 Q1008 KT20 241635Z AUTO 21005KT 10SM OVC023 24/20 A2988 RMK AO2 T02440202 KPSK 241635Z AUTO 00000KT 10SM BKN100 14/00 A3010 RMK AO2 T01361001 KPTB 241635Z 28004KT 10SM CLR 22/M06 A3011 RMK AO2 PWINO LIBC 241550Z 11008KT CAVOK 18/12 Q1011 KRAL 241553Z VRB03KT 10SM CLR 17/05 A2999 RMK AO2 SLP142 T01670050 LGSM 241620Z 23006KT 9999 FEW015 BKN160 22/12 Q1009 VTBO 241100Z 23008KT 9999 SCT022 31/25 Q1007 ETNL 241645Z 08008KT 9999 BKN016 14/10 Q1021 WHT BLU TEMPO WHT LIBD 241620Z 29012KT 9999 FEW025 18/12 Q1010 KRBD 241616Z VRB06G15KT 10SM SCT026 BKN032 25/18 A2980 RMK AO2 KPSM 241558Z 29015G28KT 10SM FEW055 FEW180 12/M04 A2964 RMK AO2A PK WND 30030/56 SLP041 T01181044 LHKE 241645Z 06002MPS 9999 FEW040 BKN050 OVC100 17/14 Q1012 TEMPO -RA RMK BLU KPSN 241635Z AUTO 18010KT 10SM SCT022 SCT039 BKN048 22/16 A2988 RMK AO2 T02260163 LIBF 241550Z 30012KT 9999 SCT035 16/14 Q1012 ETNN 241620Z 09008KT 9999 BKN035CB BKN100 19/09 Q1016 RETS BLU VTCH 241200Z 17006KT 110V240 CAVOK 37/16 Q1003 A2963 KPSO 241635Z AUTO 00000KT 10SM CLR 07/M14 A3017 RMK AO2 T00721141 KPRX 241635Z 20014G19KT 10SM CLR 22/16 A2981 RMK AO1 LGRX 241620Z 00000KT 7000 SCT015 BKN020 17/14 Q1010 NOSIG LGSO 241620Z AUTO 12006KT 110V260 //// // ////// 19/15 Q1008 RE// LIBG 241550Z 32010KT 9999 FEW020 19/12 Q1009 KQKG 241555Z AUTO 28002KT 9999 FEW150 20/12 A2991 RMK AO2 SLP101 T02030118 $ KRAP 241652Z 36007G18KT 10SM CLR 13/M04 A2985 RMK AO2 SLP112 T01331044 KPSP 241553Z 00000KT 10SM CLR 24/M02 A2994 RMK AO2 SLP134 T02441017 KRBG 241553Z AUTO 00000KT 7SM -RA SCT015 BKN042 OVC049 11/09 A2993 RMK AO2 SLP135 P0013 T01110089 LGTG 241550Z 23016KT 9999 FEW025 22/10 Q1007 NOSIG RMK FEW080 BLU LIBH 241555Z 33012KT 9999 BKN030 21/15 Q1010 RMK BKN QUK / QUL / VIS MAR 20 KM VIS MIN 9999 VTBS 241630Z 18010KT 140V210 9999 FEW020 SCT300 30/24 Q1009 NOSIG LGSR 241550Z 26006G18KT 9999 SCT020 SCT080 BKN180 18/14 Q1009 NOSIG VTCL 241000Z VRB07KT 9999 FEW025 SCT300 36/23 Q1003 A2963 INFO VTBU 241630Z 22005KT 8000 FEW020 BKN300 30/26 Q1010 A2983 LICA 241550Z 27014KT 9999 FEW010 FEW020TCU SCT025 17/15 Q1013 KRAS 241635Z AUTO 14009KT 10SM CLR 25/21 A2988 RMK AO2 T02470211 KRCA 241558Z AUTO 01012KT 10SM CLR 12/M05 A2985 RMK AO2 SLP112 T01221052 $ LICB 241550Z 28011KT 9999 FEW030 20/14 Q1013 ETNS 241620Z 08014KT 9999 BKN012 09/07 Q1022 GRN GRN TEMPO WHT KPUB 241553Z VRB04KT 10SM CLR 11/M04 A3005 RMK AO2 SLP148 T01111039 KPTK 241553Z 15009KT 10SM SCT110 BKN160 BKN210 10/M10 A3015 RMK AO2 SLP215 T01001100 VTCN 241500Z 17005KT CAVOK 32/19 Q1007 A2976 RWY02/INFO G ETNT 241620Z 02011KT 8000 BKN010 14/11 Q1019 GRN GRN TEMPO BLU+ LICC 241620Z 29016KT 9999 FEW030 22/08 Q1012 KPUC 241653Z AUTO VRB03KT 10SM CLR 09/M12 A3014 RMK AO2 SLP211 T00941122 KRBL 241554Z AUTO 16009KT 10SM BKN100 15/08 A3004 RMK AO2 SLP172 T01500078 LICD 241550Z 34012KT CAVOK 18/14 Q1017 LIBN 241555Z 34006KT 9999 FEW015 17/12 Q1010 RMK BKN BKN070 VIS MIN 9999 WIND THR14 35004KT BLU VTCP 240600Z 23011KT 8000 SCT025 BKN300 37/20 Q1007 KPTN 241635Z AUTO 21010KT 10SM SCT025 BKN035 BKN043 26/19 A3001 RMK AO1 KRCE 241635Z AUTO 33022G33KT 10SM CLR 20/08 A2982 RMK AO2 ETNW 241620Z 09011KT 9999 FEW020 SCT250 18/12 Q1018 BLU+BLU+ LICF 241555Z 33011KT 9999 SCT015 18/13 Q1013 RMK SCT QUK 3 QUL 1 NW VIS MAR 16 KM MON CIME INC NC VIS MIN 9999 KPSX 241553Z AUTO 15012KT 10SM BKN017 26/20 A2989 RMK AO2 SLP120 T02560200 KRBO 241635Z AUTO 16013KT 10SM OVC030 29/20 A2986 RMK AO2 T02860197 LICG 241555Z 32010KT 9999 SCT006 16/14 Q1017 LGSY 241550Z 32002KT 9999 FEW030 21/14 Q1005 NOSIG RMK FEW080 BLU LIBP 241550Z 29004KT 9999 -DZ FEW020 SCT035 BKN080 16/13 Q1013 KT35 241635Z AUTO 23011G15KT 10SM OVC022 23/18 A2988 RMK AO2 T02300181 LIBQ 241555Z 27020KT 0000 FG VV/// 07/07 Q1012 RMK MON INVIS VAL INVIS VIS MIN 0000 VTCT 241400Z 24004KT CAVOK 29/20 Q1007 A2973 RMK/RWY03 INFO O LIBR 241615Z 33009KT 9999 SCT025 16/15 Q1011 NOSIG KPUJ 241630Z AUTO 13006KT 10SM CLR 22/03 A3003 RMK AO2 LICJ 241620Z 24005KT CAVOK 18/15 Q1016 LGTS 241620Z 26003KT 9999 FEW016CB FEW018TCU SCT025 BKN090 21/12 Q1006 NOSIG KPTS 241635Z AUTO 21019G25KT 7SM 20/16 A2965 RMK AO2 LTG DSNT NW THRU SE P0005 T01950162 KPVB 241635Z AUTO 13016G23KT 10SM OVC050 12/05 A2977 RMK AO1 T01220047 KPTT 241635Z AUTO 34027G33KT 10SM SCT065 OVC080 13/05 A2989 RMK AO2 LTG DSNT E LICL 241555Z 27009KT 9999 FEW030 19/15 Q1012 RMK FEW QUK 3 QUL 1 W VIS MAR 18 KM VIS MIN 9999 KPVC 241635Z AUTO 10SM CLR 09/01 A2966 RMK AO1 KQKV 241600Z AUTO 33003KT //// CLR 42/03 A2989 RMK CDP03576 CLR KRCM 241635Z AUTO 11005KT 10SM OVC037 A2967 RMK AO2 P0001 LTG DSNT NE THRU SE LIBV 241555Z 31015KT 9999 BKN020 16/11 Q1009 RMK BKN BKN070 VIS MIN 9999 WIND THR32 32016KT WIND THR14 /////KT WHT KPVD 241651Z 35021G30KT 10SM FEW020 FEW250 13/M06 A2971 RMK AO2 PK WND 31032/1624 SLP061 T01331061 KRDD 241553Z 19007KT 10SM OVC075 14/08 A3003 RMK AO2 SLP167 T01390083 KPTV 241635Z AUTO 20005KT 10SM CLR 16/06 A3010 RMK AO1 ETOU 241558Z AUTO VRB05KT 9999 FEW120 23/08 A2996 RMK AO2 SLP145 T02310082 GCGM 241600Z 24012KT 9999 FEW030 21/14 Q1022 RMK CAB09 23008KT 190V300 GCFV 241630Z 04019KT 9999 FEW025 21/16 Q1021 KPTW 241554Z AUTO 32012G22KT 10SM CLR 11/M07 A3005 RMK AO2 SLP173 T01111067 KPVE 241635Z AUTO 19013KT 10SM CLR 23/06 A2991 RMK KRBW 241635Z AUTO 12007KT 080V140 10SM CLR 25/13 A3006 RMK AO2 KPVF 241635Z AUTO 20003KT 10SM BKN120 13/04 A3010 RMK AO1 LIBY 241555Z 15005KT CAVOK 18/15 Q1009 RMK BKN SCT090 SCT200 QUK 3 QUL 1 NW VIS MAR 12 KM VIS MIN 9999 KPVG 241635Z 34007KT 10SM CLR 16/M03 A3012 RMK AO1 KRDG 241554Z 32013G23KT 10SM CLR 12/M07 A3005 RMK AO2 SLP181 T01221067 KQLP 241555Z AUTO 15005KT 9999 FEW060 SCT095 19/13 Q1022 RMK AO2 SLP168 T01890129 KQLQ 241555Z 04003KT 9999 FEW075 10/07 A3023 RMK AO2A SLP207 T00970068 LICR 241550Z 33013KT 9999 FEW030 19/13 Q1013 KRCR 241635Z AUTO 13013G20KT 10SM CLR 16/M03 A3001 RMK AO2 GCHI 241600Z 03014KT 350V060 9999 FEW020 21/16 Q1022 LIEA 241620Z 21012KT 9999 SCT018 18/14 Q1016 KPWA 241553Z 34016G28KT 10SM SCT028 OVC035 18/09 A2978 RMK AO2 PK WND 33031/1533 SLP074 T01830094 LICT 241555Z 29009KT 9999 SCT018 18/15 Q1016 LIEB 241555Z 20011KT CAVOK 18/08 Q1014 RMK SKC QUK 2 QUL 0 VIS MAR 30 KM MON LIB VIS MIN 9999 KQLT 241456Z AUTO 36001KT 9999 CLR 18/08 A3004 RMK AO2 SLP092 T01790079 55014 KRDK 241635Z AUTO 32012G18KT 10SM BKN014 OVC019 13/10 A2969 RMK AO2 LIEC 241555Z 22011KT 9999 FEW020 21/16 Q1014 RMK FEW QUK 3 QUL 0 VIS MAR 30 KM VIS MIN 9999 KPWC 241633Z AUTO 14007KT 7SM RA BKN008 OVC012 03/03 A2982 RMK AO2 P0001 LIED 241555Z 32013KT 9999 FEW018 22/12 Q1014 RMK FEW VIS MIN 9999 WIND THR35 33013KT WIND THR17 33012KT BLU KQND 241555Z AUTO VRB01KT 9999 CLR 41/10 A2962 RMK AO2 SLP004 T04120101 $ KRDM 241556Z 21014G26KT 10SM BKN060 BKN070 10/02 A2981 RMK AO2 PK WND 22026/1547 SLP093 T01000022 LIEE 241620Z 31012KT CAVOK 23/10 Q1015 KPUW 241614Z AUTO 18010KT 6SM -RA BR FEW019 BKN035 OVC047 08/06 A2982 RMK AO2 P0001 T00780056 FLHN 241200Z 17006KT CAVOK 28/10 Q1018 NOSIG KRCX 241635Z AUTO 11010G16KT 7SM -RA OVC013 04/03 A2986 RMK AO2 P0004 T00380026 KPWG 241635Z AUTO 20011G20KT 10SM FEW024 SCT033 26/17 A2986 RMK AO1 LICZ 241555Z 30016KT 9999 FEW025 SCT080 23/08 Q1013 RMK SCT VIS MIN 9999 WIND THR28 30016KT A2993 BLU KRCZ 241635Z AUTO 31003KT 10SM 19/02 A3011 RMK AO2 T01900020 KRDR 241629Z AUTO 15008KT 8SM OVC006 05/05 A2974 RMK AO2 ETSA 241620Z 06008KT 9999 FEW050 19/05 Q1015 BLU+FCST CANCEL KPWK 241652Z 13011G21KT 10SM CLR 15/03 A2991 RMK AO2 SLP131 T01500028 ETSB 241620Z 34005KT 9999 FEW020 SCT045TCU BKN090 16/09 Q1016 BLU BLU TEMPO WHT KRDU 241651Z VRB04KT 10SM SCT250 18/02 A3011 RMK AO2 SLP195 T01830017 KPVU 241648Z 08004KT 15SM BKN120 11/M06 A3010 KPWM 241651Z 33020G39KT 10SM FEW050 SCT100 11/M03 A2963 RMK AO2 PK WND 32039/1647 SLP032 T01111033 KRFD 241554Z 15018G28KT 10SM BKN065 OVC150 13/04 A2988 RMK AO2 PK WND 15030/1531 SLP121 T01330039 KPVW 241635Z AUTO 33017KT 10SM CLR 17/02 A3002 RMK AO2 T01730016 ETSE 241620Z AUTO 07005KT 8000 // ////// 20/08 Q1015 /// LIEO 241620Z 27011KT 9999 FEW030 24/08 Q1014 KREO 241652Z AUTO 23017G21KT 12/M01 A2994 RMK AO1 PK WND 22028/1624 SLP126 T01221006 KT65 241635Z AUTO 19015G20KT 10SM CLR 30/18 A2982 RMK AO2 T02990184 ETSH 241620Z 01004KT 9999 FEW026TCU 18/12 Q1018 BLU+ KRFI 241635Z AUTO 18012G20KT 10SM SCT026 BKN050 25/16 A2986 RMK AO2 T02450157 ETSI 241620Z 06006KT 9999 FEW070 21/05 Q1015 BLU+ LHPA 241645Z 20003MPS 6000 -TSRA SCT027CB BKN083 OVC200 14/12 Q1013 BECMG NSW RMK WHT KPWT 241635Z AUTO 19016G22KT 10SM BKN016 BKN023 OVC029 11/08 A2974 RMK AO1 ETSL 241620Z 05009KT 9999 FEW060 19/07 Q1015 BLU+FCST CANCEL KQPD 241555Z AUTO 02003KT 9999 CLR 22/09 A2998 RMK AO2 SLP108 T02150086 ETSN 241620Z AUTO 08006KT 5000 // ////// 21/05 Q1015 /// LGZA 241550Z 30005KT 9999 FEW018 SCT020 20/17 Q1011 GCLA 241630Z 02010KT 340V050 9999 SCT035 22/15 Q1023 KRGK 241635Z AUTO 12010G16KT 5SM -RA OVC013 06/04 A2974 RMK AO2 P0004 KPYM 241652Z AUTO 34018G31KT 10SM CLR 12/M04 A2967 RMK AO2 PK WND 31033/1641 SLP046 T01221044 KT82 241635Z AUTO 27005KT 10SM CLR 24/17 A2990 RMK AO2 T02400169 LHPP 241615Z 05009KT 9999 FEW013 OVC083 16/14 Q1012 FMCH 241600Z 11007KT 9999 FEW020 27/23 Q1013 NOSIG KRHI 241630Z AUTO 11012KT 1 1/2SM -SN BR OVC010 01/M01 A2995 RMK AO2 P0000 T00061006 LHPR 241615Z 02009KT 9999 VCSH SCT040 SCT043CB BKN200 21/11 Q1013 FLLI 241200Z 17006KT CAVOK 28/10 Q1018 NOSIG AGGH 241600Z 18002KT 9999 FEW014 SCT300 24/23 Q1006 KRIC 241554Z 30009KT 10SM SCT180 BKN250 15/M06 A3013 RMK AO2 SLP207 T01501061 KPYX 241635Z AUTO 34017G31KT 10SM CLR 16/02 A2997 RMK AO2 T01640024 KRHP 241635Z AUTO 23005KT 10SM CLR 22/02 A3003 RMK AO2 T02210021 KQRH 241555Z AUTO VRB05KT 9999 CLR 29/23 A2984 RMK AO2 SLP101 T02900234 $ KPZQ 241635Z AUTO 06005KT 10SM BKN120 07/01 A3015 RMK AO2 T00740011 GCLP 241630Z 01021KT 9999 FEW025 23/15 Q1021 NOSIG KSAA 241635Z AUTO 25015G25KT 10SM CLR 06/M09 A3008 RMK AO2 KQSA 241558Z 23005KT 9999 CLR 14/11 A3006 RMK AO2A SLP108 T01350111 $ KQSB 241555Z AUTO 13004KT 9000 CLR 21/11 A3000 RMK AO2 SLP106 T02070108 KRIL 241553Z AUTO 00000KT 10SM CLR 07/M09 A3016 RMK AO2 SLP195 T00671094 KSAC 241553Z 15003KT 10SM CLR 14/10 A3007 RMK AO2 SLP181 T01390100 KSAD 241651Z AUTO VRB04KT 10SM CLR 22/M12 A3004 RMK AO2 SLP134 T02221117 KRHV 241551Z 00000KT 10SM FEW014 SCT030 BKN160 14/11 A3015 FMEE 241630Z 12011KT 9999 FEW028 SCT076 25/19 Q1017 NOSIG KSAF 241553Z 33008KT 10SM CLR 12/M13 A3014 RMK AO2 SLP152 T01171128 KQQY 241555Z AUTO 24002KT 9999 -RA FEW026 SCT034 BKN040 BKN095 24/23 A3010 RMK AO2 SHRAB1430E1538 SLP178 P0000 T02390225 KU16 240058Z AUTO 24004KT CLR 12/M10 A3001 RMK AO2 SLP789 T01171100 $ FMCZ 241630Z AUTO 00000KT 9999 NCD 26/23 Q1013 KSBA 241553Z 16004KT 10SM CLR 17/10 A2999 RMK AO2 SLP154 T01720100 KQSJ 241555Z AUTO 00000KT 9999 CLR 13/07 A3007 RMK AO2 SLP148 T01250071 PWINO $ KQRU 241555Z AUTO 00000KT 9999 FEW060 11/08 A3017 RMK AO2 SLP183 T01140077 LHSM 241545Z 35009KT CAVOK 20/13 Q1012 NOSIG KRKD 241635Z AUTO 33009G20KT 310V020 10SM BKN044 OVC049 08/M01 A2955 RMK AO1 KRIV 241558Z AUTO VRB01KT 10SM CLR 17/07 A2999 RMK AO2 SLP149 T01650072 KSBD 241650Z 00000KT 10SM FEW200 19/01 A2999 ETWM 241620Z AUTO 07008KT 5000 // ////// 20/13 Q1017 /// KQSN 241555Z 08002KT 9999 CLR 13/04 A3021 RMK AO2A SLP189 WND DATA ESTMD ALSTG/SLP ESTMD T01260043 KRIW 241553Z AUTO 22006KT 10SM CLR 06/M08 A2996 RMK AO2 SLP139 T00611083 LHSN 241645Z 03002MPS 9999 SCT040TCU OVC060 17/16 Q1011 NOSIG RMK BLU KSAN 241651Z 18004KT 10SM FEW020 SCT250 18/12 A3001 RMK AO2 SLP160 T01780117 $ KQRY 241555Z AUTO 12003KT 9999 CLR 10/06 A3019 RMK AO2 SLP192 T01020057 KQSQ 241455Z 00000KT 9999 FEW120TCU 25/11 A2985 RMK SLP070 T02490108 53004 PA2957 DA4740 FMEP 241630Z AUTO 03005KT 9999 NCD 24/20 Q1017 KQTH 241555Z AUTO 17012KT 9999 CLR 29/14 A2996 RMK AO2 SLP120 T02850142 $ KSAR 241635Z AUTO 14016G19KT 10SM CLR 20/05 A2985 RMK AO2 KSAT 241651Z VRB03KT 10SM OVC015 23/18 A2990 RMK AO2 SLP109 T02280183 KSAV 241553Z VRB05KT 10SM FEW014 27/17 A3003 RMK AO2 SLP168 T02670167 KSBM 241553Z AUTO 11010KT 10SM -RA OVC075 05/02 A3000 RMK AO2 SLP164 P0000 T00500017 KSCD 241635Z AUTO 18005KT 10SM CLR 29/08 A3000 RMK AO2 T02860075 KQUD 241455Z AUTO 26003KT CLR 24/19 A3007 RMK AO2 SLP131 T02430185 56011 PWINO $ LHUD 241615Z 33006KT 8000 BKN046 OVC083 16/15 Q1012 KSAW 241650Z 14009G16KT 10SM OVC080 05/M06 A3004 KSBN 241554Z 14016G28KT 10SM CLR 13/M02 A3003 RMK AO2 PK WND 14029/1521 SLP171 T01331022 GBYD 241600Z 27009KT CAVOK 31/17 Q1009 LJCE 241630Z VRB02KT 9999 VCSH FEW04TCU SCT055 BKN090 17/14 Q1013 KSCF 241635Z AUTO 16013KT 9SM BKN015 BKN022 24/20 A2997 RMK A01 KSBO 241635Z AUTO 15005KT 10SM CLR 25/13 A3004 RMK AO2 KRKP 241625Z AUTO 17009G18KT 10SM BKN015 26/21 A2988 RMK AO2 T02560206 KSBP 241556Z 34010KT 10SM CLR 18/06 A3007 RMK AO2 SLP182 T01830061 KSAZ 241634Z AUTO 14003KT 10SM -RA SCT008 OVC013 03/03 A2977 RMK AO2 P0005 KSCH 240059Z 29012G18KT 10SM OVC050 06/00 A2978 KRKR 241635Z AUTO 10SM SCT037 BKN048 BKN060 20/16 A2977 RMK AO2 LTG DSNT NE AND S T02000161 LIMA 241550Z 24003KT 9999 FEW030 25/04 Q1011 KRKS 241554Z AUTO 26017KT 10SM CLR 06/M08 A3007 RMK AO2 SLP170 T00611083 KSBS 241635Z AUTO 22006KT 10SM CLR 05/M10 A3013 RMK AO1 T00521101 KSDA 241635Z AUTO 32010G16KT 5SM BR OVC016 13/11 A2971 RMK AO2 KSDB 241648Z AUTO 36011G18KT 10SM CLR 14/M02 A3009 RMK AO2 SLP157 T01391017 KSCK 241555Z 25010KT 10SM CLR 16/09 A3008 RMK AO2 SLP186 T01610094 LIMC 241620Z 20003KT 150V260 CAVOK 24/07 Q1012 NOSIG KRME 241553Z 32014G20KT 10SM CLR 09/M09 A3001 RMK AO2 SLP164 T00891094 LIME 241620Z 18005KT 140V210 9999 FEW100 23/09 Q1012 LIMF 241620Z 31010KT CAVOK 23/05 Q1012 KQVF 241555Z AUTO 16002KT 9999 FEW020 29/24 A2987 RMK AO2 SLP114 T02850236 KSDF 241556Z 13015G19KT 10SM FEW110 SCT160 BKN250 17/03 A3001 RMK AO2 SLP162 T01720033 LIMG 241550Z 08011KT CAVOK 20/14 Q1013 KRMG 241553Z AUTO 14007KT 10SM CLR 21/06 A3003 RMK AO2 SLP165 T02110056 KSBY 241554Z 31011G20KT 10SM CLR 15/M06 A3006 RMK AO2 SLP182 T01501061 LIMH 241555Z VRB02KT 9999 SCT003 M00/M07 Q1021 RMK BKN MON CLD SCT VAL FOSCHIA VIS MIN 9999 KQTZ 241555Z 23003KT 9999 BKN250 31/03 A2984 RMK SLP103 WND DATA ESTMD ALSTG/SLP ESTMD LIMJ 241620Z 13005KT CAVOK 18/15 Q1014 KSEA 241453Z 20010KT 10SM FEW010 SCT050 BKN200 10/08 A2971 RMK AO2 SLP068 60033 T01000078 53034 FKYS 241600Z 00000KT 9999 TS BKN010 SCT023CB 24/21 Q1011 NOSIG LIML 241620Z 16006KT 130V190 CAVOK 24/10 Q1012 NOSIG KSDL 241553Z 17005KT 10SM CLR 23/M03 A2997 RMK AO2 SLP130 T02281033 KRNC 241635Z AUTO 23007KT 10SM CLR 23/03 A2998 RMK KSDM 241653Z 29004KT 10SM CLR 19/11 A2998 RMK AO2 SLP150 T01940106 KRND 241558Z 21007KT 10SM OVC015 22/18 A2989 RMK AO2A SLP116 T02200176 LIMN 241555Z VRB02KT CAVOK 24/09 Q1011 RMK FEW FEW200 VIS MIN 9999 BLU KSEE 241635Z AUTO 00000KT 8SM CLR 19/09 A3000 RMK AO2 KRMN 241635Z AUTO 34008G14KT 10SM CLR 15/M03 A3015 RMK AO2 T01471026 LIMP 241550Z VRB02KT CAVOK 25/10 Q1013 KSEG 241553Z AUTO 35011G16KT 10SM CLR 12/M08 A3009 RMK AO2 SLP191 T01221078 TSNO KRNH 241635Z AUTO 11007KT 4SM RA OVC010 04/04 A2977 RMK AO2 P0006 T00410041 LIMS 241555Z 26013KT 220V300 9999 FEW050 22/02 Q1012 KROA 241554Z 00000KT 10SM OVC110 13/M05 A3014 RMK AO2 SLP205 T01331050 KSFB 241553Z 12004KT 10SM CLR 27/19 A3003 RMK AO2 SLP166 T02720189 LIMU 241555Z 22012KT CAVOK 16/16 Q1013 RMK SCT SCT200 QUK 3 QUL 1 S VIS MAR 40 KM VIS MIN 9999 KROC 241554Z 34012KT 10SM SCT250 08/M08 A3013 RMK AO2 SLP209 T00831078 KQWL 241555Z AUTO 04004KT 9999 CLR 22/09 A2992 RMK AO2 SLP093 T02230087 KRNM 241553Z 00000KT 10SM CLR 17/08 A2999 RMK AO2 SLP147 T01720083 $ KQWM 241555Z 33011KT 9999 BKN250 32/M04 A2986 RMK SLP103 QNH1011 KQZ2 241555Z AUTO 33005KT 10SM FEW230 31/19 A2994 RMK AO2 SLP126 T03090191 KSEM 241635Z AUTO 00000KT 10SM CLR 26/13 A2997 RMK AO2 LIMW 241620Z AUTO 09014KT CAVOK 23/06 Q1011 VTPH 241200Z 00000KT 9999 FEW028 SCT100 BKN300 30/22 Q1007 NOSIG KSFF 241619Z 22006KT 10SM BKN015 OVC021 09/07 A2977 RMK AO2 T00940067 KRNO 241555Z 32004KT 10SM FEW090 SCT120 BKN200 13/M01 A3004 RMK AO2 SLP146 ACSL DSNT N NE-SE-SW T01331011 KRMY 241634Z AUTO 14012G20KT 10SM OVC110 11/M06 A3007 RMK AO2 T01071056 KSDY 241635Z AUTO 29013G18KT 10SM SCT044 12/01 A2977 RMK AO1 KRNP 241635Z AUTO 13008KT 10SM BKN110 11/M09 A3012 RMK AO2 T01061093 KROG 241557Z 19010KT 10SM SCT110 17/13 A2976 RMK AO2 PK WND 14027/1508 WSHFT 1523 RAE20 SLP067 P0002 T01670133 KSEP 241635Z AUTO 31018G24KT 7SM CLR 26/06 A2988 RMK AO2 T02630064 LIMZ 241550Z 03007KT CAVOK 23/12 Q1011 LIPA 241555Z 23005KT 9999 FEW070 21/11 Q1012 RMK BKN BKN190 VIS MIN 9999 A2991 BLU GCRR 241630Z 02019KT 340V050 9999 FEW035 23/13 Q1021 LIPB 241550Z 17005KT 9999 FEW060 SCT100 28/06 Q1010 KRNT 241646Z 17008G16KT 10SM BKN030 12/07 A2975 RMK AO2 T01220072 KSET 241554Z AUTO 15013G18KT 10SM CLR 20/05 A2982 RMK AO2 SLP094 T02000050 LIPC 241555Z 08004KT 9999 FEW060 19/13 Q1014 FNBC 241400Z 18007KT 9999 FEW017CB SCT018 29/23 Q//// VTPO 241000Z 16003KT 8000 FEW025 SCT120 BKN300 36/22 Q1002 KSFM 241635Z AUTO 30022G29KT 10SM CLR 11/ A2964 RMK AO1 KRNV 241635Z AUTO 21008KT 10SM CLR 24/17 A2990 RMK AO2 T02360168 KRPD 241635Z AUTO 10008G14KT 10SM -RA OVC010 04/03 A2982 RMK AO2 P0004 T00440032 VTPP 241500Z 13007KT 9999 FEW025 FEW100 OVC300 30/23 Q1007 LIPE 241620Z 13017KT CAVOK 21/09 Q1013 LIPF 241555Z 13005KT CAVOK 23/11 Q1013 KSGF 241652Z 19015KT 10SM CLR 21/12 A2969 RMK AO2 SLP045 T02060122 KSFO 241556Z 29008KT 10SM FEW005 BKN012 14/11 A3013 RMK AO2 SLP202 T01440111 FNBG 241400Z 28012KT 9999 FEW020 FEW025CB 30/24 Q1009 LIPH 241615Z /////KT 9999 SCT080 21/11 Q1013 KSGH 241556Z AUTO 10017KT 7SM FEW100 13/M07 A3010 RMK AO2 T01271066 SLP195 KSFQ 241635Z AUTO 29009KT 10SM CLR 16/M04 A3010 RMK AO2 T01551039 KRPH 241635Z AUTO 32015G30KT 10SM CLR 22/08 A2988 RMK AO2 T02190082 KSEZ 241635Z AUTO 19005KT 10SM CLR 20/M08 A3009 RMK AO2 LIPI 241555Z 27009KT 9999 SCT090 22/12 Q1013 RMK BKN BKN200 VIS MIN 9999 WIND THR06 26008KT BLU KROS 241635Z AUTO 09004KT 10SM -RA SCT008 OVC015 04/03 A2978 RMK AO2 P0006 T00420032 KSGJ 241558Z 09006KT 10SM CLR 24/19 A3003 RMK AO2 SLP169 T02440189 $ KRPJ 241635Z AUTO 16025G30KT 10SM SCT065 SCT080 16/03 A2984 RMK AO2 LTG DSNT W T01590028 LIPK 241550Z 08009KT 9999 FEW070 20/10 Q1014 FNCA 241400Z 21006KT 9999 FEW020 BKN080 29/24 Q1008 KQXT 241555Z 10007G11KT 9999 FEW060 SCT100 27/11 A2985 RMK SLP059 T02700109 PA2504 DA4492 KRQB 241634Z AUTO 11012G16KT 10SM OVC070 10/M03 A3007 RMK AO2 T01001031 EVLA 241620Z AUTO 09009KT CAVOK 15/M08 Q1027 LIPL 241555Z 19004KT 9999 SCT040 25/07 Q1012 RMK BKN VIS MIN 9999 BLU LIQC 241555Z ///03KT CAVOK 22/19 Q1013 RMK SKC QUK 1 QUL 0 VIS MAR 15 KM VIS MIN 9999 KSHD 241635Z AUTO 00000KT 10SM OVC110 12/M06 A3013 RMK AO2 T01171058 KROW 241651Z 02012KT 3SM BLDU BKN018 19/M01 A3009 RMK AO2 SFC VIS 6 SLP136 T01891006 KRQE 241653Z AUTO VRB03KT 10SM CLR 12/M12 A3019 RMK AO2 SLP164 T01171122 TSNO LIPO 241550Z 18005KT 9999 FEW060 25/07 Q1012 KROX 241634Z AUTO 13008KT 5SM -RA OVC008 04/01 A2981 RMK AO2 P0004 KSFY 241635Z AUTO 15019G27KT 10SM BKN055 BKN065 OVC100 16/03 A2977 RMK AO2 LTG DSNT SW T01600028 LIPQ 241620Z VRB03KT 9999 SCT050 20/11 Q1013 KSFZ 241635Z AUTO 32018G30KT 10SM CLR 12/M04 A2972 RMK AO1 VTSB 241200Z 16008KT 7000 TS FEW016CB SCT020 BKN120 OVC300 26/24 Q1008 A2977 KSGR 241553Z VRB06KT 10SM FEW027 24/19 A2989 RMK AO2 SLP122 T02390189 LIPR 241615Z 36002KT 9999 FEW030 BKN070 16/11 Q1014 VTSC 240500Z 07008KT 9999 FEW022 BKN300 32/25 Q1010 A2982 RWY20 INFO D LIPS 241555Z 18008KT CAVOK 21/07 Q1013 RMK SCT SCT200 VIS MIN 9999 WIND THR26 17007KT WIND THR08 17006KT BLU LIRA 241615Z 33013KT 9999 FEW030 21/05 Q1012 KSGS 241632Z AUTO 08004KT 4SM -DZ BKN007 OVC012 06/05 A2975 RMK AO2 P0003 T00600053 KSGT 241635Z AUTO 19019KT 10SM CLR 26/14 A2986 RMK AO1 GCTS 241630Z 07027KT 9999 FEW030 24/14 Q1021 NOSIG LIPU 241550Z 16010KT 120V190 CAVOK 23/11 Q1012 KSGU 241635Z AUTO 35003KT 10SM CLR 16/M08 A3007 RMK AO1 KSHL 241635Z AUTO 33014KT 10SM BKN009 OVC013 08/07 A2969 RMK AO2 VTSF 241400Z 00000KT 9999 FEW017CB BKN300 27/25 Q1009 A2980 INFO O / RWY 19 KSHM 241556Z AUTO M 12SM CLR 07/M03 A3007 RMK AO2 SLP178 T00671029 $ LIQN 241550Z 32010KT 9999 SCT045 19/10 Q1012 LIRE 241555Z 29013KT 9999 FEW070 21/16 Q1012 RMK FEW VIS MIN 9999 WIND THR31 30011KT BLU VTSG 241400Z 00000KT 8000 FEW020 26/25 Q1009 A2981 INFO K RWY32 KSHN 241640Z AUTO 23010KT 3SM -RA BR FEW020 SCT029 OVC038 08/06 A2972 RMK AO2 RAB06 P0016 T00830061 TSNO VTSH 240900Z 06006KT 9999 FEW020 BKN300 31/24 Q1006 A2972 LIPX 241615Z 13006KT 9999 FEW040 SCT080 24/05 Q1012 LIRF 241620Z 31011KT 9999 FEW035 19/14 Q1012 NOSIG KRQO 241655Z AUTO 34025G34KT 10SM CLR 20/06 A2981 RMK AO2 KSIF 241635Z AUTO 15006KT 10SM SCT120 18/01 A3011 RMK AO2 T01750005 LIRG 241555Z 30013KT 9999 FEW035 22/09 Q1012 LIPY 241550Z 30008KT 9999 BKN035 15/13 Q1014 LIRH 241555Z 28010KT 9999 SCT040 20/07 Q1010 WMBA 241600Z 00000KT 9999 FEW034 SCT150 BKN280 25/25 Q1009 LIPZ 241620Z 21007KT CAVOK 19/11 Q1012 LIRI 241550Z 00000KT 9999 FEW030 BKN070 16/14 Q1012 KSHR 241553Z AUTO 14005KT 10SM CLR 09/M05 A2987 RMK AO2 SLP122 T00941050 FMMI 241630Z 08006KT 9999 FEW017CB 19/17 Q1024 NOSIG LIRK 241555Z ///12KT 0000 FG VV/// 04/03 Q1015 RMK MON NE INVIS NC VAL INVIS NC VIS MIN 0000 VTSM 241500Z 17008KT 8000 FEW020 BKN300 30/25 Q1010 A2984 LIRL 241555Z 31014KT 9999 FEW025 24/12 Q1010 KRRL 241635Z AUTO 12012G19KT 5SM -RA BKN010 OVC022 03/02 A2991 RMK AO2 P0003 T00270020 KSJC 241553Z 00000KT 10SM FEW013 BKN023 BKN130 14/09 A3013 RMK AO2 SLP201 T01390094 LIRM 241555Z 22005KT 9999 FEW020 BKN060 20/19 Q1011 KTAD 241554Z AUTO 17006KT 10SM CLR 09/M04 A3007 RMK AO2 SLP144 T00941039 KSHV 241603Z 20009KT 10SM FEW021 BKN060 23/17 A2987 RMK AO2 LIQW 241355Z 18006KT 9999 FEW025CB 19/16 Q1015 VTSP 241630Z 00000KT 9999 FEW025 SCT300 26/24 Q1010 A2984 NOSIG LIRN 241620Z 33003KT 290V360 9999 BKN070 20/13 Q1011 VTSR 241100Z 20002KT 6000SW TS FEW020CB BKN023 OVC120 25/23 Q1006 A2972 TS SW RWY02 INFO A LIRP 241615Z 28008KT 9999 FEW030 SCT050 18/15 Q1014 NOSIG VTSS 241630Z 00000KT 9999 FEW020 SCT120 BKN300 26/24 Q1009 A2981 NOSIG LIRQ 241620Z 23008KT 9999 FEW035TCU 22/12 Q1012 VTST 241100Z 23004KT 9999 SCT020 BKN300 30/23 Q1006 RWY08 INFO I LIRS 241555Z /////KT 9999 FEW025 23/08 Q1012 WMAU 241600Z 24004KT 8000 FEW000 SCT140 BKN270 24/24 Q//// QFF1009 KSKA 241613Z AUTO 20016G21KT 10SM -DZ OVC011 08/07 A2973 RMK AO2 RAB1559E1605DZE1612 VTUD 241300Z 19004KT 150V210 8000 FEW030 34/23 Q1006 A2973 INFO O RWY30 LIRT 240855Z 33006KT 0000 FG VV/// 08/05 Q1012 RMK MON INVIS VAL INVIS VIS MIN 0000 KRRT 241633Z AUTO 12007KT 7SM OVC010 03/01 A2982 RMK AO2 LIRU 241550Z 34011KT CAVOK 22/10 Q1011 FMMT 241600Z 00000KT 9999 FEW017TCU 26/24 Q1016 NOSIG KRSL 241553Z AUTO 32014KT 10SM OVC090 14/06 A2985 RMK AO2 SLP099 T01390056 TSNO LIRV 241555Z 04008KT 9999 FEW023 FEW025TCU SCT030 20/11 Q1013 FMNM 241600Z 28004KT 9999 FEW020CB 27/25 Q1012 NOSIG KTAN 241652Z AUTO 34011G23KT 10SM CLR 14/M04 A2968 RMK AO2 PK WND 32030/1624 SLP049 T01441044 KSJN 241554Z AUTO 07008KT 10SM CLR 13/M11 A3015 RMK AO2 SLP160 T01331111 TSNO KRSN 241635Z AUTO 19009KT 10SM SCT018 BKN055 23/19 A2993 RMK AO2 T02280185 LIRX 241555Z 33006KT 9999 FEW003 17/13 Q1013 RMK FEW VIS MIN 9999 VIS MAR 15 KM FMNN 241500Z 24006KT 9999 SCT020 SCT233 27/4 Q1012 KSKF 241618Z AUTO 25003KT 10SM OVC013 22/18 A2989 RMK AO2 $ VTUI 241400Z 24001KT 9000 NSC 29/24 Q1007 A2976 RWY05 INFO C KRSP 241454Z AUTO 34007G17KT 310V010 10SM CLR 07/M08 A3008 RMK AO2 SLP202 T00721083 51005 $ KSIY 241553Z AUTO 18013KT 10SM BKN055 13/03 A2995 RMK AO2 SLP145 T01280033 TSNO LIRZ 241550Z 05014KT 9999 SCT045 19/10 Q1013 VTUK 241600Z 00000KT 9999 NSC 30/24 Q1008 A2979 NOSIG VTUL 240700Z 14005KT 5000 SCT025 37/19 Q1003 A2962 KSJS 241635Z AUTO 15003KT 10SM SCT110 16/01 A3006 RMK AO2 T01620012 PWINO KSJT 241651Z 34017G24KT 10SM SCT036 28/M04 A2994 RMK AO2 SLP114 T02831044 KRST 241636Z 13018G24KT 6SM BR BKN011 BKN017 OVC021 05/03 A2970 RMK AO2 PK WND 13030/1618 T00500028 KSLB 241635Z AUTO 32013G18KT 9SM OVC012 09/08 A2968 RMK AO2 KSLC 241553Z 14014KT 10SM FEW120 SCT150 BKN200 10/M04 A3006 RMK AO2 SLP164 ACSL DSNT NW-N T01001044 KTCC 241553Z AUTO 02010KT 10SM CLR 16/M02 A3009 RMK AO2 SLP142 T01561022 VTUO 240800Z 18006KT 9000 BKN020 38/27 Q1005 A2969 INFO I RWY 22 KRSV 241635Z AUTO 14014G20KT 10SM CLR 19/06 A2994 RMK AO2 T01860056 KRSW 241553Z AUTO VRB03KT 10SM CLR 27/16 A3003 RMK AO2 SLP166 T02670161 KRTN 241553Z AUTO 20006KT 10SM CLR 09/M06 A3009 RMK AO2 SLP138 T00941061 $ KRUE 241644Z AUTO 11005KT 6SM -TSRA BR SCT080 OVC100 17/16 A2981 RMK AO2 LTG DSNT ALQDS TSB1554E24B38RAB1555 P0011 KSLE 241556Z 19009KT 10SM BKN038 BKN045 OVC049 11/08 A2984 RMK AO2 SLP106 T01110083 KTBN 241558Z AUTO 19013G23KT 10SM OVC140 22/09 A2976 RMK AO2 PK WND 18029/32 SLP073 T02170085 KSJX 241636Z AUTO 10008KT 10SM OVC100 08/M06 A3012 RMK AO2 T00761056 GCXO 241630Z 08007KT 040V140 9999 FEW008 BKN014 17/12 Q1024 NOSIG VVCR 241630Z 18006KT CAVOK 30/24 Q1010 NOSIG KSLG 241635Z AUTO 18016G22KT 10SM FEW033 SCT060 BKN090 18/13 A2975 RMK AO1 LTG DSNT SE TSB06E21 KRUG 241635Z AUTO 25008KT 10SM CLR 09/05 A2969 RMK AO2 KSLH 241635Z AUTO 02005KT 10SM OVC110 03/00 A3014 RMK AO2 T00411003 KTAZ 241635Z AUTO 15014G22KT 10SM CLR 19/03 A2985 RMK AO2 LTG DSNT NW VVCT 241100Z 23003KT 170V280 9999 SCT015 30/24 Q1006 NOSIG KSLI 241558Z VRB02KT 10SM BKN250 18/13 A2999 RMK AO2A SLP159 T01760126 KTBR 241635Z AUTO 09003KT 10SM CLR 25/11 A3003 RMK AO2 T02460107 VTUU 241500Z 21003KT 7000 FEW025 BKN300 31/22 Q1008 A2978 KRTS 241635Z AUTO 24013G18KT 10SM CLR 13/M03 A3004 RMK AO2 LJLJ 241630Z 12004KT 9999 FEW050 BKN070 15/12 Q1014 NOSIG VTUV 240500Z 21008KT 8000 FEW025 SCT035 SCT300 37/23 Q1009 A2979 INFO F RWY 18 KSLK 241651Z AUTO 33008G16KT 10SM CLR 04/M07 A2991 RMK AO2 SLP144 T00441067 LJMB 241630Z 36006KT 330V030 9999 FEW040 SCT060 BKN100 16/12 Q1013 VTUW 240900Z 25005KT 6000 FEW020CB SCT025 FEW300 36/22 Q1003 A2963 CB N E RWY15 INFO I VVDN 241630Z VRB01KT 8000 FEW015 SCT300 26/25 Q1009 NOSIG LIVC 240555Z 02025KT 0000 FG VV000 03/02 Q1018 RMK MON INVIS VAL INVIS VIS MIN 0000 KTCL 241553Z VRB05KT 10SM FEW070 23/09 A2999 RMK AO2 SLP153 T02330089 LIVD 241555Z 09002KT 9999 SCT030 16/01 Q1016 RMK BKN SCT200 VIS MIN 9999 KTCM 241643Z AUTO 20007KT 10SM SCT017 BKN023 BKN030 BKN070 11/08 A2976 RMK AO2 CIG 023V070 BKN023 V SCT LIVE 241555Z 35005KT CAVOK 16/00 Q1016 RMK SKC VIS MIN 9999 KSLN 241553Z 33016KT 10SM BKN070 14/09 A2978 RMK AO2 RAE13 SLP076 P0000 T01390089 KSME 241635Z AUTO 00000KT 10SM CLR 19/02 A3001 RMK AO2 LIVF 240955Z 33008G18KT 8000 SCT020 SCT025 13/11 Q1015 RMK BKN MON S W CIME INC VAL FOSCHIA VIS MIN 8000 KSMF 241553Z 12007KT 10SM SCT110 BKN200 BKN250 15/09 A3005 RMK AO2 SLP176 T01500089 KSKX 241635Z AUTO 23003KT 10SM CLR 08/M11 A3018 RMK AO1 KTBX 241635Z AUTO 16021G38KT 10SM CLR 04/M08 A2999 RMK AO2 KSLO 241635Z AUTO 14011G16KT 10SM CLR 20/06 A2987 RMK AO2 T02020061 KTDF 241635Z AUTO 19003KT 10SM CLR 16/M01 A3013 RMK AO2 KRUQ 241635Z AUTO 00000KT 10SM CLR 17/02 A3011 RMK AO2 T01720019 KSLR 241635Z AUTO 20017G22KT 10SM OVC026 23/17 A2983 RMK AO2 T02250167 KTCS 241653Z AUTO VRB04KT 10SM CLR 18/M11 A3015 RMK AO2 SLP147 T01781111 KSNA 241553Z 00000KT 10SM FEW300 18/11 A2999 RMK AO2 SLP154 T01830111 KTEB 241651Z 32017G31KT 9SM CLR 14/M09 A2989 RMK AO2 PK WND 31031/1644 SLP122 T01441094 EVRA 241620Z 34009KT CAVOK 10/M03 Q1028 NOSIG KRUT 241635Z 33010G25KT 10SM BKN050 07/M06 A2985 RMK AO1 KSNC 241635Z AUTO 33016G36KT 10SM CLR 11/M09 A2980 RMK AO2 LIVM 241355Z 11009KT 8000 SCT030 22/16 Q1014 RMK BKN SCT080 QUK 1 QUL 1 SE VIS MAR 8 KM VIS MIN 8000 LKCV 241600Z 34005KT 9999 -RA SCT040 OVC050 15/13 Q1017 RETS NOSIG RMK BLU BLU KSMN 241635Z AUTO 21011G18KT 10SM FEW031 BKN041 OVC050 08/00 A2987 RMK AO1 LIVO 241555Z 10001KT 9999 SCT035 17/07 Q1014 RMK BKN SCT200 VIS MIN 9999 KRWF 241641Z AUTO 08003KT 4SM -RA BR BKN006 OVC013 07/06 A2971 RMK AO2 CIG 004V008 P0001 T00670056 KSMO 241651Z VRB04KT 10SM CLR 22/07 A2999 RMK AO2 SLP155 T02220072 KSMQ 241553Z AUTO 30015G23KT 10SM CLR 12/M10 A2995 RMK AO2 SLP144 T01221100 KTDR 241537Z AUTO VRB03KT 10SM FEW012 22/20 A3001 RMK AO2 SLP161 LIVR 241555Z VRB02KT 9999 SCT030 06/M00 Q1017 RMK SCT MON CLD SCT VIS MIN 9999 KRWI 241553Z AUTO 00000KT 10SM CLR 16/M02 A3015 RMK AO2 SLP207 T01611022 KRVS 241614Z 19015G28KT 10SM FEW019 BKN045 BKN049 22/17 A2968 RMK AO2 PK WND 19028/1611 KSMS 241635Z AUTO 10005G10KT 10SM CLR 21/05 A3010 RMK AO2 KSOA 241635Z AUTO 35015G20KT 10SM CLR 29/M05 A2994 RMK AO2 LIVT 241555Z 15003KT 9999 FEW040 17/13 Q1013 RMK OVC SCT070 QUK 0 QUL 0 VIS MAR 20 KM VIS MIN 9999 KSNK 241635Z AUTO 33017G26KT 10SM CLR 21/01 A3001 RMK AO2 T02080014 KRWL 241553Z AUTO 25018G26KT 10SM CLR 06/M09 A3005 RMK AO2 PK WND 23029/1458 SLP158 T00561089 KSNL 241635Z AUTO 31017G22KT 10SM SCT040 SCT060 SCT070 20/16 A2977 RMK AO2 LTG DSNT NE FNHU 241400Z 16004KT 9999 VC RA SCT012 26/15 Q1017 FMSD 241600Z 06014KT 9999 FEW020 BKN250 26/24 Q1014 KRXE 241553Z AUTO 21009KT 10SM OVC065 07/M03 A2997 RMK AO2 SLP148 T00721033 KSMX 241651Z 36011KT 10SM CLR 23/04 A3004 RMK AO2 SLP172 T02330044 $ KTDZ 241553Z AUTO 12011KT 10SM FEW110 11/M07 A3015 RMK AO2 SLP213 T01061072 TSNO KSPA 241655Z AUTO 05005KT 10SM CLR 21/02 A3009 RMK AO2 KSNS 241632Z 27005KT 10SM SCT010 14/09 A3012 RMK AO2 KSNT 241651Z AUTO 14011G20KT 02/M01 A2992 RMK AO1 SLP108 T00171011 KSPB 241553Z AUTO 15007KT 10SM FEW034 SCT041 OVC070 12/09 A2979 RMK AO2 SLP088 T01220089 KSPD 241556Z AUTO 33019G23KT 12/M01 A3003 RMK AO1 PK WND 33027/1510 SLP128 T01171011 KRWV 241635Z AUTO 25007KT 10SM OVC026 23/18 A2991 RMK AO2 KTEW 241633Z AUTO 12012G16KT 10SM OVC070 12/M06 A3010 RMK AO2 T01151065 KTEX 241637Z AUTO 00000KT 10SM CLR 06/M24 A3018 RMK AO2 KSPF 241635Z AUTO 34013G21KT 10SM CLR 09/M04 A2989 RMK AO2 KSPG 241553Z 00000KT 10SM CLR 24/17 A3002 RMK AO2 SLP166 T02440167 KSNY 241553Z AUTO 30017KT 10SM CLR 13/M08 A2997 RMK AO2 SLP124 T01331078 KSOP 241635Z AUTO 00000KT 10SM CLR 18/00 A3012 RMK AO1 KTFP 241635Z AUTO 17012G22KT 130V190 10SM BKN017 OVC023 27/20 A2987 RMK AO2 T02700204 KSPI 241652Z 16016G22KT 10SM CLR 19/03 A2983 RMK AO2 PK WND 14027/1624 SLP099 T01940033 KTHA 241635Z AUTO VRB06KT 10SM CLR 22/03 A2998 RMK KSPL 241635Z AUTO 00000KT CLR 27/22 A2986 RMK AO2 KRYN 241645Z 08008KT 10SM CLR 25/M10 A3001 KSOW 241635Z AUTO 32004KT 10SM CLR 14/M13 A3018 RMK AO2 KSQI 241635Z 15013G23KT 10SM OVC065 17/04 A2980 RMK AO1 KSPR 241635Z AUTO 17009KT 10SM CLR 24/20 A2999 RMK A01 KSPS 241652Z 33022G28KT 10SM CLR 23/07 A2986 RMK AO2 PK WND 32033/1616 SLP100 T02280067 MBGT 241700Z 07008KT 9999 SCT015 29/21 Q1016 EVVA 241620Z AUTO 05009KT CAVOK 12/M04 Q1028 KSRB 241635Z AUTO 21007KT 170V230 10SM CLR 23/03 A2998 RMK KRYT 241553Z AUTO VRB03KT 10SM CLR 11/M09 A3008 RMK AO2 SLP190 T01061089 $ KSQL 241647Z 31005KT 10SM BKN024 BKN200 16/10 A3013 KSRC 241656Z AUTO 22009KT 10SM FEW045 24/15 A2988 RMK AO2 TSNO T02440150 SLP121 $ KRZL 241635Z AUTO 13017G24KT 10SM CLR 15/M01 A2995 RMK AO2 KRYV 241635Z AUTO 11012G17KT 10SM OVC075 09/03 A2988 RMK AO2 T00920027 KRZN 241630Z AUTO 10005KT 5SM RA SCT005 BKN014 OVC025 04/04 A2980 RMK AO2 P0006 T00400035 KSPW 241608Z AUTO 31008KT 9SM BKN011 OVC016 09/06 A2968 RMK AO2 T00890061 LIYW 241558Z AUTO 22007KT 9999 CLR 22/11 A2991 RMK AO2 SLP129 T02190106 KRYW 241635Z AUTO 22005KT 10SM OVC013 23/18 A2990 RMK AO2 T02320177 KTIF 241635Z AUTO 31018G21KT 10SM CLR 17/M08 A2987 RMK AO2 T01731079 KRYY 241647Z 10005KT 10SM SKC 22/06 A3005 WMKA 241600Z 06003KT 9999 FEW030 BKN280 27/25 Q1009 LJPZ 241630Z VRB02KT 9999 SCT080 BKN100 18/14 Q1013 KRZR 241635Z AUTO 21006KT 10SM CLR 21/03 A3002 RMK WMKB 241600Z 08005KT 060V120 7000 FEW026 BKN280 26/25 Q1009 NOSIG WMKC 241600Z 26002KT 9999 FEW020 BKN280 28/24 Q1009 WMKD 241600Z 00000KT 9000 FEW008 SCT160 BKN280 25/24 Q1009 NOSIG KTIK 241621Z AUTO 32021G26KT 10SM SCT022 BKN031 19/12 A2977 RMK AO2 WMKE 241000Z 13007KT 9999 FEW018 BKN270 31/25 Q1007 KSSC 241558Z AUTO 07007KT 10SM CLR 20/05 A3009 RMK AO2 SLP190 T02040048 $ GEML 241630Z 26018G28KT 220V300 9999 FEW025 19/12 Q1018 FNLU 241600Z 24008KT 9999 SCT020 SCT023 BKN230 29/25 Q1007 NOSIG KTHV 241553Z AUTO 32011G19KT 10SM CLR 12/M08 A3008 RMK AO2 SLP191 T01171078 KSSF 241648Z 25003KT 10SM OVC016 23/19 A2989 RMK AO2 FNMO 241400Z 26011KT CAVOK 28/22 Q1009 WMKI 241600Z 07003KT 8000 FEW030 SCT150 BKN280 25/24 Q1010 KTIP 241635Z AUTO 15015KT 10SM CLR 18/00 A2991 RMK AO2 T01760000 TSNO WMKJ 241600Z 00000KT 8000 FEW009 BKN280 24/24 Q1010 KSRQ 241553Z 26007KT 10SM CLR 25/18 A3002 RMK AO2 SLP166 T02500178 WMKK 241630Z 27003KT 9999 FEW030 SCT140 BKN280 25/24 Q1009 NOSIG KSSI 241553Z AUTO 07005KT 10SM FEW085 24/18 A3003 RMK AO2 SLP168 T02390183 PWINO $ KSRR 241635Z AUTO 33007G14KT 10SM CLR 14/M15 A3020 RMK AO2 WMKL 241600Z 11001KT 9999 FEW026 SCT140 BKN280 28/26 Q1009 WMKM 241600Z 00000KT 9999 FEW030 BKN270 26/25 Q1010 LKKB 241600Z 12007KT 090V160 9999 FEW050CB BKN080 17/09 Q1017 NOSIG WMKN 241600Z 23003KT 9999 FEW024 BKN280 29/26 Q1009 KSTC 241603Z 10005KT 10SM -RA BKN010 BKN015 OVC021 05/03 A2976 RMK AO2 P0001 KTKC 241632Z AUTO 33011G16KT 10SM -RA OVC006 07/06 A2971 RMK AO2 P0001 T00700061 KW22 241635Z AUTO 36007KT 10SM CLR 12/M07 A3011 RMK AO2 WMKP 241630Z 34002KT 8000 SCT025 SCT140 BKN270 27/26 Q1009 NOSIG KTIW 241553Z 20013G20KT 10SM CLR 10/07 A2974 RMK AO2 SLP071 T01000072 $ KUBE 241635Z AUTO 11009G15KT 7SM -RA OVC008 03/02 A2980 RMK AO2 P0005 KSTE 241635Z AUTO 09013G16KT 5SM -RA SCT009 SCT019 OVC065 03/02 A2990 RMK AO2 P0002 T00300022 KSTF 241635Z AUTO 20006KT 10SM CLR 25/12 A2995 RMK AO2 KTIX 241647Z 10012KT 7SM SCT030 28/19 A3001 KUAO 241553Z AUTO 21008KT 10SM BKN055 OVC070 11/09 A2985 RMK AO2 RAE07 SLP107 P0000 T01060094 LLBG 241650Z 03006KT CAVOK 29/11 Q1006 NOSIG RMK BKN100 KTKI 241553Z 21018G25KT 10SM BKN025 BKN029 24/17 A2977 RMK AO2 PK WND 19027/1518 SLP078 T02390172 KSUA 241647Z 10010KT 7SM SCT020 SCT060 27/20 A3002 KSTJ 241610Z 10004KT 9SM OVC014 15/13 A2965 RMK AO2 T01500128 KSTK 241630Z AUTO 33013G20KT 10SM CLR 16/M05 A2997 RMK AO2 KW29 241636Z AUTO 33007KT 10SM CLR 12/M05 A3008 RMK AO1 KSTL 241651Z 14015G21KT 10SM FEW075 BKN140 BKN200 21/04 A2981 RMK AO2 SLP088 T02110044 KSUE 241635Z AUTO 13005KT 10SM FEW037 OVC049 04/00 A3005 RMK AO1 P0001 KSTP 241615Z 08006KT 3SM -RA BR OVC013 05/04 A2977 RMK AO2 P0004 T00500039 KTLH 241553Z 06003KT 10SM SCT033 28/17 A3001 RMK AO2 SLP161 T02830167 VVNB 241630Z 06004KT 030V100 5000 FEW015 BKN130 26/24 Q1007 NOSIG KSTS 241553Z 27004KT 10SM CLR 14/10 A3009 RMK AO2 SLP184 T01440100 KTMA 241635Z AUTO 23005KT 10SM SCT042 BKN080 26/14 A3001 RMK AO2 T02630144 TSNO KTMB 241553Z 00000KT 10SM CLR 26/17 A3002 RMK AO2 SLP166 T02610167 LKKU 241631Z 31005KT 9999 VCTS FEW026 FEW046CB SCT090 18/12 Q1013 RMK REG QNH 1011 KSVC 241635Z AUTO 19006KT 10SM CLR 19/M12 A3016 RMK AO2 LKKV 241630Z 07010KT CAVOK 16/08 Q1017 KTKV 241635Z AUTO 11006KT 3SM -RA OVC008 01/00 A2992 RMK AO2 P0003 T00110001 LKLN 241600Z AUTO 04004KT 350V110 CAVOK 19/10 Q1017 KSUN 241650Z 18004KT 2SM -SN OVC005 01/01 A3001 KW43 241635Z AUTO 23004KT 10SM BKN090 08/M02 A2989 RMK AO2 KTME 241635Z AUTO 18007G15KT 10SM CLR 25/19 A2989 RMK AO2 KUDG 241635Z AUTO 04010KT 10SM CLR 21/03 A3012 RMK AO1 KUCP 241556Z AUTO 00000KT 10SM FEW032 08/M08 A3017 RMK AO2 TSNO T00831083 SLP239 KSVH 241635Z AUTO 00000KT 10SM CLR 16/01 A3010 RMK AO2 T01640014 KSUS 241554Z 17010KT 10SM BKN200 19/03 A2980 RMK AO2 SLP089 T01940033 LKNA 241600Z 04007KT 010V080 CAVOK 19/09 Q1015 NOSIG RMK BLU BLU KSUT 241635Z AUTO 08006KT 050V110 10SM CLR 18/05 A3012 RMK AO2 T01790051 KTMK 241635Z AUTO 23003KT 10SM SCT024 BKN046 OVC070 10/08 A2986 RMK AO2 KTNB 241635Z AUTO 15006KT 10SM CLR 15/M01 A3010 RMK AO2 T01531010 KSUU 241558Z AUTO 25007KT 10SM CLR 15/12 A3006 RMK AO2 SLP186 T01510124 $ KSUW 241635Z AUTO 06009G14KT 7SM -RA SCT006 OVC011 01/01 A2989 RMK AO2 P0001 T00110008 KSVN 241558Z AUTO 08007KT 040V110 10SM CLR 26/18 A3001 RMK AO2 SLP165 T02600179 KSUX 241652Z 33017KT 10SM FEW017 FEW023 BKN095 14/10 A2971 RMK AO2 SLP061 T01390100 KSWF 241645Z 32020G30KT 20SM SKC 13/M09 A2989 KUCY 241635Z AUTO 19010KT 10SM CLR 22/07 A2988 RMK VVPB 241630Z VRB02KT CAVOK 28/25 Q1008 NOSIG KTOA 241547Z VRB05KT 10SM SKC 20/13 A3000 KTOB 241634Z AUTO 13017KT 7SM -RA BKN012 OVC017 06/05 A2970 RMK AO2 P0001 LKMT 241630Z 04011KT CAVOK 19/09 Q1015 NOSIG KTOC 241635Z AUTO 09005KT 10SM CLR 21/02 A3008 RMK AO2 T02110024 KSWO 241620Z 32019G30KT 10SM SCT024 OVC031 18/11 A2973 RMK AO2 PK WND 31031/1602 KTOI 241553Z AUTO 13006KT 10SM CLR 26/09 A3001 RMK AO2 SLP159 T02610089 KTPA 241553Z 25008KT 10SM FEW022 24/19 A3003 RMK AO2 SLP170 T02390189 KUES 241645Z 17017G25KT 10SM OVC065 09/02 A2992 LLET 241650Z VRB01KT CAVOK 29/14 Q1006 RMK FEW140 KTOL 241652Z 12008G14KT 10SM BKN110 11/M08 A3011 RMK AO2 SLP200 T01111083 KTNU 241635Z AUTO 22010KT 9SM SCT008 BKN060 OVC070 10/09 A2971 RMK AO2 LKPD 241600Z 32005KT 280V360 CAVOK 15/12 Q1017 NOSIG RMK BLU BLU KSWW 241635Z AUTO 33014G20KT 10SM CLR 22/00 A3002 RMK AO2 T02150000 VVPQ 241300Z 25005KT 9999 FEW017 30/24 Q1008 NOSIG KSYF 241635Z AUTO 30015G24KT 10SM CLR 16/M14 A2996 RMK AO2 T01601141 KTPF 241635Z AUTO 21005KT 10SM CLR 27/18 A3003 RMK AO2 FNSO 241400Z 18008KT 9999 FEW016 FEW017CB BKN170 29/23 Q1018 KTOP 241652Z 28015G26KT 1/4SM +TSRA FG FEW007 BKN014 OVC041 15/13 A2971 RMK AO2 PK WND 27026/1644 WSHFT 1620 LTG DSNT ALQDS RAB32 TSB28 SLP055 OCNL LTGICCC OVHD MOVG E P0024 T01500133 KTPH 241556Z AUTO 14003KT 10SM CLR 12/M12 A3009 RMK AO2 SLP158 T01171117 KTOR 241553Z AUTO 27015G22KT 10SM CLR 11/M07 A2993 RMK AO2 SLP123 T01111067 KSYI 241635Z AUTO 19008KT 10SM CLR 23/06 A2997 RMK LLHA 241650Z 30004KT CAVOK 24/17 Q1007 RMK FEW080 KSXT 241653Z AUTO 21009G17KT 150V290 2 1/2SM BR SCT004 BKN013 BKN019 05/05 A2992 RMK AO2 VIS 3/4V5 P0001 FNUB 241400Z 04005KT 9999 SCT020 FEW020TCU 26/// Q1021 KTPL 241635Z AUTO 19013G19KT 10SM SCT021 24/17 A2989 RMK AO1 KSYM 241630Z AUTO VRB05KT 10SM CLR 14/00 A3009 RMK AO2 KUGN 241652Z 14011G19KT 10SM FEW120 11/02 A2992 RMK AO2 SLP138 T01060022 KSYN 241633Z AUTO 11005KT 4SM DZ OVC011 06/04 A2973 RMK AO2 P0001 T00580040 KTQE 241631Z AUTO 33016KT 9SM OVC015 13/10 A2972 RMK AO2 PK WND 33026/1622 T01330100 FNUE 241400Z 00000KT 9999 BKN030 28/// Q1016 WMSA 241600Z 31002KT 5000 HZ FEW026 SCT140 BKN280 24/23 Q1009 KTQH 241635Z AUTO 16010G19KT 10SM OVC029 17/15 A2974 RMK AO2 KSYR 241554Z 31011G22KT 10SM FEW260 08/M07 A3007 RMK AO2 SLP183 T00831067 LKPR 241630Z 09010KT 9999 FEW040TCU 16/08 Q1017 NOSIG LLIB 241450Z VRB03KT CAVOK 34/02 Q1009 RMK SCT080 KSZL 241641Z 13006KT 2SM TSRA SCT002 OVC034 14/09 A2969 RMK AO2A GFLL 241700Z 26006KT 9999 SCT014 30/21 Q1008 MBPV 241700Z 09005KT 9999 SCT015 32/21 Q1016 KTRI 241553Z 00000KT 10SM BKN250 18/M01 A3006 RMK AO2 SLP164 T01781011 MDAB 241700Z 09005KT 9999 FEW022 SCT300 31/26 Q1016 KTRK 241555Z 00000KT 10SM SCT070 08/00 A3008 RMK NOSPECI KW99 241635Z AUTO 00000KT 10SM SCT100 15/M01 A3011 RMK AO2 T01471014 KSZT 241635Z AUTO 00000KT 7SM RA SCT017 OVC028 04/04 A2980 RMK AO2 KTRL 241553Z AUTO 20018G25KT 10SM OVC022 22/18 A2981 RMK AO2 PK WND 20026/1455 SLP088 T02220183 KUIL 241639Z AUTO 21008KT 3SM -RA BR FEW013 BKN030 OVC050 09/08 A2968 RMK AO2 RAB01E12B29 P0001 T00890083 KTRM 241652Z AUTO 36005KT 10SM CLR 28/M03 A2989 RMK AO2 SLP122 T02831028 KVAD 241558Z 16007KT 10SM CLR 28/19 A3001 RMK AO2A WND DATA ESTMD ALSTG/SLP ESTMD RVRNO KUIN 241554Z AUTO 17012G20KT 10SM BKN060 OVC080 17/03 A2976 RMK AO2 SLP076 T01720033 KVAF 241635Z AUTO 16017KT 10SM OVC017 23/20 A2992 RMK A01 KTTA 241635Z AUTO 28005KT 10SM 17/00 A3013 RMK AO2 T01681003 LKTB 241630Z 05014KT 9999 FEW049 21/09 Q1014 NOSIG KTTD 241553Z 19010KT 10SM BKN060 OVC080 12/09 A2981 RMK AO2 RAB19E31 SLP095 P0000 T01170089 KTTF 241632Z AUTO 11012G16KT 10SM BKN100 10/M06 A3013 RMK AO2 KUKF 241635Z AUTO 21005KT 10SM CLR 17/02 A3015 RMK AO2 KVBG 241555Z 10SM FEW220 17/07 A3004 RMK AO2 SLP165 T01670067 $ KTSP 241635Z AUTO 31012KT 9SM CLR 12/M02 A3010 RMK AO2 MDBH 241700Z 11010KT 9999 FEW020 BKN300 30/23 Q1016 FOOG 241600Z 23006KT 9999 SCT011 FEW020CB BKN110 29/25 Q1007 VVTS 241630Z 16006KT 9999 FEW017 29/26 Q1010 NOSIG KUKI 241556Z AUTO 00000KT 10SM OVC042 13/08 A3010 RMK AO2 SLP188 T01280083 KVCB 241553Z AUTO 17006KT 10SM BKN110 16/08 A3007 RMK AO2 SLP181 T01560083 FOOK 240700Z ///// 8000 OVC011 21/21 Q//// REFG FOOL 240740Z 08006KT 9999 FEW010 FEW018CB 26/24 Q1012 NOSIG KTTN 241553Z 31018G27KT 10SM CLR 12/M09 A2999 RMK AO2 PK WND 32028/1536 SLP150 T01221094 FOON 241600Z 35006KT 9999 SCT026TCU FEW030CB 30/22 Q1006 KVAY 241554Z AUTO 31012G22KT 10SM CLR 12/M08 A3001 RMK AO2 PK WND 27027/1513 SLP163 T01171083 KVBS 241635Z AUTO VRB05G11KT 10SM CLR 23/20 A2993 RMK A01 KTTS 241558Z AUTO 15007KT 10SM SCT025 SCT030 28/21 A3003 RMK AO2 SLP172 T02760213 KVBT 241635Z AUTO 19011KT 10SM CLR 18/13 A2975 RMK AO1 KUKT 241635Z AUTO 28013G20KT 10SM CLR 12/M08 A3001 RMK AO1 KTVC 241553Z 14007G14KT 110V170 10SM FEW085 BKN110 OVC140 10/M08 A3009 RMK AO2 SLP194 T01001083 KTUL 241553Z 17020G25KT 10SM BKN018 OVC100 21/18 A2967 RMK AO2 PK WND 18032/1525 SLP040 T02060178 KULM 241632Z AUTO 00000KT 10SM 06/06 A2971 RMK AO2 P0001 KTVF 241635Z AUTO 13010KT 5SM FEW006 BKN012 OVC027 04/02 A2979 RMK AO1 P0003 KVDF 241635Z AUTO 18005KT 10SM CLR 28/16 A3003 RMK AO2 KTUP 241653Z 22012KT 190V260 10SM CLR 26/10 A2992 RMK AO2 SLP129 T02610100 KTVI 241630Z AUTO 11006KT 10SM BKN048 BKN055 BKN070 27/16 A3001 RMK AO2 KVDI 241635Z AUTO 03003KT 10SM CLR 25/13 A3003 RMK AO2 RJAA 241630Z 13003KT CAVOK 07/06 Q1024 NOSIG RMK A3026 KTUS 241553Z VRB04KT 8SM CLR 21/M10 A3003 RMK AO2 SLP134 T02111100 KVCT 241651Z 16013G19KT 10SM FEW030 27/19 A2987 RMK AO2 SLP114 T02720194 KTVK 241635Z AUTO 13010KT 10SM BKN001 BKN010 OVC080 11/11 A2970 RMK AO2 KTVL 241553Z AUTO 18012KT 10SM FEW080 10/M02 A3009 RMK AO2 SLP161 T01001022 KVCV 241635Z AUTO 26005KT 10SM CLR 16/M03 A3005 RMK AO2 RJAF 240700Z 30007KT 250V350 9999 FEW060 19/M08 Q1020 LKVO 241403Z 04009KT 9999 SCT004CB 18/10 Q1017 KTWF 241553Z 22006KT 10SM -RA BKN045 OVC055 10/02 A2999 RMK AO2 SLP139 P0000 T01000017 MDCY 241700Z 09010KT 9999 SCT022 SCT300 31/25 Q1015 RJAH 241600Z 35001KT 9999 NSC 07/05 Q1024 KTVR 241553Z AUTO 19012G17KT 10SM CLR 24/16 A2992 RMK AO2 SLP139 T02440161 TSNO KUNI 241635Z AUTO 06006KT 10SM CLR 13/M07 A3010 RMK AO2 T01331074 RJBB 241630Z 07004KT CAVOK 13/09 Q1024 NOSIG KVEL 241553Z AUTO VRB04KT 10SM CLR 06/M11 A3014 RMK AO2 SLP196 T00611106 RJBD 241000Z 11004KT 9999 FEW030 SCT/// 15/07 Q1023 KTWM 241633Z AUTO 07013G18KT 1SM -SN OVC005 01/M02 A2990 RMK AO2 P0006 SABE 241600Z 02003KT 9999 SCT020 SCT200 20/13 Q1023 RJBE 241200Z 28003KT 230V320 CAVOK 14/09 Q1024 KUNO 241553Z AUTO 20011KT 10SM FEW032 OVC046 19/06 A2986 RMK AO2 SLP102 T01940061 SAAR 241600Z 36006KT CAVOK 23/11 Q1022 KVER 241635Z AUTO 00000KT 10SM -VCTSRA SCT043 BKN075 OVC100 16/07 A2972 RMK AO2 LTG DSNT SW THRU NE T01590072 RJAT 240615Z 21006KT 9999 FEW015 BKN025 14/04 Q1024 RMK 1CU015 5CU025 A3024 KVES 241635Z AUTO 13014G19KT 10SM 13/M06 A3006 RMK AO2 RJCB 241100Z VRB02KT CAVOK 14/M01 Q1018 EYKA 241650Z 07005KT CAVOK 12/M06 Q1025 KTXK 241553Z 18012KT 10SM OVC070 22/17 A2984 RMK AO2 SLP101 T02220172 RJCC 241630Z 18001KT CAVOK 02/M01 Q1021 RMK A3016 KUNU 241635Z AUTO 09013KT 10SM OVC075 07/01 A2990 RMK AO2 T00710007 RJAW 241500Z 09019G33KT 9999 -SHRA FEW005 BKN010 21/17 Q1016 RMK 2ST005 7CU010 A3000 KUNV 241653Z 01010G15KT 10SM SKC 13/M12 A3007 RJCH 241100Z VRB02KT 9999 FEW008 08/05 Q1023 RJBT 240900Z 36006KT CAVOK 16/M05 Q1022 RJCK 241100Z 30003KT 270V350 CAVOK 17/M03 Q1016 RJDC 241200Z 05009KT 9999 FEW025 14/05 Q1023 RJCM 241100Z 20004KT CAVOK 10/04 Q1016 LLOV 241650Z 05005KT CAVOK 32/00 Q1009 RMK FEW090 SCT120 RJCN 240900Z 07003KT 9999 FEW040 08/01 Q1015 RJCO 232246Z 11006KT 5000 BR FEW003 05/03 Q1021 RMK 2ST003 A3015 SACO 241600Z 34010KT 9999 SCT030 BKN100 23/12 Q1023 SADF 241600Z 11003KT 9999 FEW030TCU 22/12 Q1023 KUOX 241635Z AUTO 19004G17KT 10SM FEW043 24/09 A2993 RMK AO2 KTYQ 241635Z AUTO 15013G19KT 10SM CLR 16/M02 A3000 RMK AO2 T01561017 FQCH 241500Z /////KT 9999 SCT015 FEW020CB 28/21 Q1015 RMK CB TO S KTYR 241553Z 19020G24KT 10SM BKN050 24/17 A2982 RMK AO2 SLP092 T02390167 FQBR 241600Z 09010KT 9999 FEW020 SCT030 BKN070 28/26 Q1010 RJCT 240333Z 30011G22KT 9999 NSC 23/M07 Q1016 RMK A3002 KTYS 241553Z 03005KT 10SM SCT250 18/03 A3004 RMK AO2 SLP167 T01830028 RJEB 240700Z 24018KT CAVOK 19/M02 Q1014 KVGT 241553Z 00000KT 10SM CLR 19/M11 A2999 RMK AO2 SLP159 T01891106 RJEC 241100Z 21003KT 180V260 CAVOK 09/02 Q1019 RJCW 240900Z 19017KT 9999 FEW004 BKN006 06/05 Q1016 SADP 241245Z 36001KT 6000 NSC 13/12 Q1025 KVIH 241553Z AUTO 18017G21KT 10SM FEW038 21/06 A2977 RMK AO2 SLP071 T02110061 KTZR 241550Z 09008KT 10SM SCT110 11/M08 A3012 RJDT 241100Z 25001KT CAVOK 15/06 Q1022 MDJB 241700Z 19008KT 9999 SCT020 31/23 Q1015 LLSD 241650Z 08008KT 040V110 CAVOK 27/13 Q1005 RMK BKN080 KUSE 241635Z AUTO 13015KT 10SM FEW120 12/M08 A3011 RMK AO2 RJFF 241630Z 14007KT CAVOK 15/03 Q1022 RMK A3018 RJFG 240900Z 09006KT 030V130 9999 FEW030 18/10 Q1020 KVJI 241635Z AUTO 24005KT 10SM CLR 20/M01 A3005 RMK AO2 T02011006 KVIS 241635Z AUTO 00000KT 10SM CLR 16/07 A3008 RMK AO1 KUTA 241635Z AUTO 19012KT 10SM CLR 23/10 A2991 RMK AO2 RJFK 241200Z 08006KT 9999 FEW030 BKN/// 15/06 Q1023 KY19 241635Z AUTO 28016G21KT 10SM CLR 14/M03 A2975 RMK AO2 KWAL 241554Z 31014G20KT 10SM CLR 15/M02 A3007 RMK AO2 SLP179 T01501017 RJFM 241200Z 06006KT 9999 FEW030 18/10 Q1023 KY23 241635Z AUTO 10010G18KT 040V110 10SM -RA OVC012 04/03 A2980 RMK AO2 P0002 T00420032 RJFO 241200Z 23004KT CAVOK 14/09 Q1023 RJGG 241630Z 06005KT 5000 BR FEW010 14/12 Q1024 TEMPO 3000 BR SAEZ 241600Z 14003KT CAVOK 22/12 Q1023 RJFR 241600Z 07007KT 020V180 9999 FEW030 15/10 Q1023 RJFS 241600Z VRB02KT CAVOK 11/05 Q1022 RJFT 241200Z 09008KT CAVOK 16/05 Q1022 RJFU 241200Z 12002KT CAVOK 16/11 Q1021 EYPA 241650Z 07009KT CAVOK 14/M05 Q1026 KVLD 241553Z VRB03KT 10SM FEW075 29/16 A3002 RMK AO2 SLP170 T02940161 KVKS 241635Z AUTO 17009G16KT 140V210 10SM FEW034 25/18 A2992 RMK A01 KUTS 241602Z AUTO 19011G16KT 10SM SCT055 BKN120 23/17 A2988 RMK AO2 LTG DSNT N AND NE T02330172 KUVA 241635Z AUTO 34004KT 10SM SCT018 SCT024 24/19 A2990 RMK AO2 T02410192 KVLL 241635Z AUTO 16007KT 120V190 10SM CLR 12/M11 A3015 RMK AO2 T01151107 GGOV 241600Z 26008KT 200V360 CAVOK 34/19 Q1008 NOSIG KWDG 241550Z 31028G38KT 10SM SCT150 18/08 A2975 KVKY 241635Z AUTO VRB03KT 10SM SCT016 SCT023 23/18 A3002 RMK A01 SBAA 241600Z 21006KT 9999 BKN025 ///// Q1012 MDLR 241700Z 16008KT 9999 BKN020 SCT300 30/23 Q1015 KY50 241556Z AUTO 08008KT 8SM -RA FEW020 SCT046 OVC070 06/04 A2993 RMK AO2 TSNO T00550038 P0003 PRESFR SLP138 KY49 241635Z AUTO 10003KT 2 1/2SM RA OVC003 03/03 A2978 RMK AO2 T00270025 KY51 241634Z AUTO 11014G22KT 4SM BKN041 OVC046 05/05 A2978 RMK AO1 P0001 T00500047 KUUU 241553Z AUTO 31019G26KT 10SM CLR 11/M05 A2971 RMK AO2 PK WND 32031/1518 SLP060 T01061050 LMML 241645Z 32014KT CAVOK 18/12 Q1015 NOSIG KVNC 241635Z AUTO 27009KT 10SM CLR 23/19 A3004 RMK AO2 SBAF 241600Z 22009KT 9999 SCT015 BKN040 BKN080 26/20 Q1014 RJKA 241000Z 09016KT 9999 FEW030 SCT040 20/12 Q1018 KWDR 241635Z AUTO 12003KT 10SM 21/M05 A3009 RMK AO1 KVOA 241635Z AUTO VRB03KT 10SM FEW016 25/18 A3001 RMK A01 EYSA 241650Z 07007KT CAVOK 12/M07 Q1027 SBAN 241600Z 00000KT 9999 BKN030 FEW037TCU 26/17 Q1019 SBBE 241700Z 14009KT 9999 BKN030 31/24 Q1009 KY63 241633Z AUTO 12003KT 5SM -RA SCT039 OVC045 04/04 A2976 RMK AO2 P0007 T00440040 SBBG 241615Z 13006KT CAVOK 21/07 Q1021 SBBH 241600Z 24003KT 8000 -RA BKN040 OVC090 21/19 Q1017 SBAQ 241600Z 18005KT 9999 SCT045 26/18 Q1018 SBBI 241600Z 35005KT 9999 BKN025 20/14 Q1021 SBAR 241600Z 12008KT 9999 SCT017 30/22 Q1011 SBCA 241600Z 14006KT 9999 BKN025 25/19 Q1019 SBAT 241600Z 11003KT 9999 SCT025 SCT100 34/24 Q1014 SBCB 241600Z 27021KT 9999 SCT025 BKN070 27/24 Q1012 SBCC 241600Z 15007KT 9999 VCSH BKN025 FEW030TCU 30/20 Q1015 SBAU 241300Z 11010KT 9999 SCT008 23/18 Q1019 KY70 241633Z AUTO 13014G18KT 10SM BKN065 BKN080 BKN100 11/M03 A3007 RMK AO2 T01121030 KVOK 241558Z 11017KT 4SM -RA BR BKN055 BKN070 05/05 A2984 RMK AO2A SLP115 MDPC 241700Z 14011KT 9999 FEW023 BKN300 30/24 Q1016 NOSIG KVPC 241553Z AUTO VRB06KT 10SM CLR 21/05 A3005 RMK AO2 SLP169 T02060050 KUXL 241635Z AUTO 19013G19KT 10SM OVC055 25/17 A2994 RMK AO2 T02540166 SBAX 241600Z 16007KT 9999 SCT003 BKN013 21/18 Q1020 SBCF 241600Z 22009KT 9999 FEW030 OVC070 23/18 Q1017 SBCG 241600Z 16002KT 9999 BKN030 26/17 Q1018 SBBQ 241600Z 28004KT 9999 BKN020 OVC070 21/17 Q1020 SBCH 241600Z 10004KT 9999 SCT004 SCT006 OVC010 18/16 Q1020 KVNY 241651Z 29003KT 10SM FEW200 20/02 A2999 RMK AO2 SLP147 T02000017 SBCI 241600Z 09003KT 9999 TS SCT020 FEW023CB 35/25 Q1011 SBBR 241700Z 02006KT 9999 VCSH BKN023 FEW035TCU BKN070 25/18 Q1 018 SBCJ 241600Z 20003KT 9999 SCT021 26/21 Q1015 KUZA 241554Z AUTO VRB05KT 10SM CLR 18/02 A3013 RMK AO2 SLP197 T01780017 SBBU 241600Z 16007KT 9999 SCT030 BKN070 25/20 Q1018 FPST 241600Z 15006KT 9999 FEW020CB SCT040 29/24 Q1008 TEMPO 5000 SHRA SBCM 241600Z 21005KT 9999 SCT020 BKN030 22/16 Q1019 SBBV 241620Z 30002KT 9000 SCT010 SCT030 FEW035TCU 27/24 Q1013 FQLC 241500Z 06006KT 9999 TS FEW012 BKN015 FEW020CB 18/18 Q1020 RMK CB TO ALL/D SBBW 241600Z 00000KT 9999 BKN020 30/22 Q1015 SAME 241600Z 18002KT 9999 FU SCT045 22/15 Q1020 SBCO 241600Z 20008KT 9999 BKN030 20/13 Q1020 SBCP 241600Z 00000KT 9999 FEW025 OVC100 28/22 Q1012 MDPP 241600Z 06010KT 9999 SCT020 30/25 Q1016 SBCR 241600Z 15004KT 9999 SCT023 30/21 Q1015 SBCT 241700Z 11008KT 9999 BKN025 19/15 Q1020 KVPS 241555Z 18005KT 6SM HZ FEW018 24/20 A3001 RMK AO2A SLP168 T02360200 $ FQMA 241600Z 04008KT 9999 BKN020 24/21 Q1010 NOSIG KVRB 241553Z AUTO 11009KT 10SM CLR 28/21 A3003 RMK AO2 SLP168 T02780206 SBDN 241600Z 09006KT 9999 BKN030 27/17 Q1017 SBCX 241600Z 19006KT 4000 BR SCT004 BKN006 13/13 Q1019 RJNG 241553Z 12003KT 9999 FEW025 BKN030 11/09 Q1025 RMK 1CU025 5CU030 A3028 SBEG 241700Z 24006KT 9999 SCT020 FEW025TCU 30/23 Q1012 SBCY 241600Z 17004KT 9999 BKN020 BKN100 27/21 Q1015 SBCZ 241600Z 03003KT 9999 -RA SCT010 OVC100 27/25 Q1015 KWHP 241647Z 00000KT 10SM SKC 20/02 A3002 KVQQ 241650Z 00000KT 10SM SCT060 28/18 A3000 KVPZ 241553Z AUTO 13015G25KT 10SM CLR 14/M02 A2998 RMK AO2 PK WND 14029/1455 SLP153 T01441017 TSNO RJOA 241200Z 29001KT CAVOK 15/M05 Q1024 SBEK 241600Z 09003KT 9999 FEW020 FEW025TCU 32/26 Q1012 RJNK 241600Z VRB01KT 9999 NSC 09/08 Q1024 RJOB 241200Z VRB02KT CAVOK 14/M03 Q1023 EYVI 241650Z 06005KT CAVOK 12/M04 Q1025 NOSIG KVQT 241635Z AUTO 16010KT 10SM 25/20 A2997 RMK A01 SAOC 241600Z 05009KT 9999 SCT025 SCT040 24/14 Q1020 RJOC 241100Z 10007KT CAVOK 15/01 Q1022 MDSD 241700Z 18008KT 9999 FEW022 BKN300 30/23 Q1015 NOSIG KVSF 241554Z AUTO 31011G20KT 10SM BKN050 08/M06 A2982 RMK AO2 SLP102 T00781056 KWJF 241556Z 30007KT 10SM CLR 17/M01 A3004 RMK AO2 SLP166 T01671011 RJOH 241600Z 19003KT 9999 NSC 09/05 Q1023 SBFI 241600Z 25003KT 9999 BKN020 25/19 Q1017 KVSH 241635Z AUTO 17007KT 10SM SCT038 28/16 A2999 RMK AO1 RJOI 241555Z 31007KT 9999 FEW030 12/03 A3022 RMK SLP234 T01220033 SBES 241600Z 26008KT 9999 -RA FEW005 SCT030 BKN090 26/20 Q1013 RJNS 241100Z 16003KT 9999 FEW020 15/12 Q1025 RJOK 241100Z 15006KT 9999 FEW030 SCT/// 16/11 Q1024 RJNT 241200Z 22003KT 9999 FEW035 11/05 Q1024 KVTA 241554Z AUTO 07010KT 10SM CLR 12/M09 A3013 RMK AO2 SLP204 T01171089 SANT 241600Z 00000KT 9999 FEW025 BKN100 23/17 Q1021 SBFL 241600Z 18007KT 9999 BKN040 22/15 Q1019 RJOM 241200Z 11006KT CAVOK 17/04 Q1023 SBFN 241600Z 11012KT 9999 SCT017 30/24 Q1011 RJNW 241000Z 00000KT CAVOK 11/03 Q1024 LOAN 241600Z 30003KT 20KM FEW040CU SCT100AC BKN300CI RMK BKN RJOO 241100Z 23008KT 200V280 CAVOK 17/01 Q1023 RJNY 240924Z 19007KT 9999 FEW020 SCT050 16/12 Q1024 RMK 1CU020 3SC050 A3024 FQNP 241600Z /////KT 9999 SCT020 26/22 Q1014 RJOR 241200Z 16005KT CAVOK 12/06 Q1023 SBFS 241600Z 24010KT CAVOK ///// Q1012 KVTI 241635Z AUTO 15011KT 7SM -RA BKN010 BKN014 OVC027 10/08 A2970 RMK AO2 P0010 T00970075 RJOT 241200Z 15007KT 120V180 CAVOK 12/M03 Q1023 VYMD 241130Z 00000KT 7000 HZ BKN200 FEW025CB SCT110 35/22 Q1002 MDST 24101500Z VRB03KT 4000 BR BKN015 BKN070 23/23 Q1014 BR/ALL QDS SBGL 241600Z 24013KT 9999 SCT020 SCT040 BKN080 27/19 Q1013 SBGM 241600Z 12003KT 9999 SCT016 FEW020TCU BKN090 29/25 Q1015 FQPB 241600Z 12006KT 9999 FEW020 27/24 Q1013 LOAV 241600Z 30010KT 25KM FEW040CU BKN100AC 20/10 Q1014 RMK BKN KWLD 241554Z AUTO 32019G24KT 10SM BKN015 OVC032 16/12 A2973 RMK AO2 SLP060 T01610117 TSNO RJOW 241000Z 24003KT 200V290 CAVOK 16/07 Q1022 KVTN 241652Z AUTO 33010G21KT 10SM CLR 16/M07 A2984 RMK AO2 SLP103 T01611067 SBGO 241600Z 34004KT 9999 SCT030 BKN100 28/17 Q1016 RJOY 241000Z 28007KT 9999 FEW030 18/M01 Q1022 KVTP 241632Z AUTO 23013G29KT 10SM CLR 00/M13 A3011 RMK AO2 KXBP 241635Z AUTO 31010G20KT 10SM CLR 22/11 A2986 RMK AO2 T02230106 SBFZ 241600Z 08018KT 9999 FEW030 30/20 Q1010 SBGR 241600Z 18006KT 9999 BKN019 20/15 Q1019 KVUJ 241635Z AUTO 15004KT 10SM CLR 18/02 A3016 RMK AO2 LTG DSNT E T01840017 SBIC 241600Z 13003KT 9999 SCT016 SCT100 29/25 Q1012 SARC 241600Z 18007KT CAVOK 23/11 Q1021 KWMC 241610Z AUTO 22019G25KT 10SM BKN100 14/M01 A3001 RMK AO2 WSHFT 1550 T01441006 TSNO SBGW 241612Z 23009KT 3000 -RA BKN018 FEW030TCU BKN067 20/18 Q1017 SARE 241600Z 14006KT CAVOK 23/14 Q1021 SARF 241600Z 14011KT 9999 FEW020 23/15 Q1020 KVUO 241553Z AUTO 13004KT 10SM FEW026 SCT065 BKN080 12/09 A2981 RMK AO2 SLP095 T01170094 SBIH 241600Z 09004KT 9999 SCT023 32/24 Q1011 KVVG 241635Z AUTO 16003KT 10SM 27/18 A3002 RMK AO2 SARI 241700Z 23005KT 9999 FEW020 23/19 Q1018 SASA 241600Z 05004KT 9999 SCT015 BKN100 20/13 Q1025 RJSA 241200Z 20006KT CAVOK 04/M00 Q1024 SBHT 241600Z 17002KT 9999 BKN020 BKN100 30/26 Q1011 RKJB 241600Z AUTO 12004KT 3000 NCD 11/09 Q1022 SBIL 241600Z 06006KT 9999 FEW025 30/23 Q1012 SARL 241600Z 14003KT 9999 FEW020 22/11 Q1021 RJSC 241000Z 03009KT CAVOK 14/01 Q1023 FQQL 241600Z 10011KT 060V140 9999 FEW020 27/24 Q1011 SBJF 241600Z 21006KT 9999 FEW012 BKN090 22/18 Q1017 RJSF 241000Z 13007KT CAVOK 12/M00 Q1023 SBIP 241600Z 21003KT 9999 SCT035 BKN090 27/20 Q1013 SARP 241600Z 14007KT CAVOK 22/12 Q1021 RJSH 240555Z 35010KT 300V030 9999 FEW030 21/01 Q1020 RMK 1CU030 A3013 RJSI 241000Z VRB03KT CAVOK 14/02 Q1023 SCBA 241600Z VRB04KT 9999 SCT030 SCT200 10/07 Q1021 SASJ 241600Z 09004KT 9999 FEW025 BKN045 21/16 Q1023 RKJK 241621Z AUTO 12004KT 1 3/4SM R36/3000FT BR CLR 12/11 A3021 RMK AO2 RJSK 241200Z VRB01KT CAVOK 08/03 Q1025 HAAB 241700Z 09014KT 9999 SCT024 20/14 Q1026 RJTE 240410Z 12008KT 090V170 9999 -SHRA FEW015 BKN035 BKN050 15/12 Q1023 RMK 1CU015 5CU035 6SC050 A3023 KVVV 241634Z AUTO 05008KT 7SM -DZ BKN005 BKN100 06/04 A2971 RMK AO2 P0001 RJSN 241200Z 01002KT CAVOK 11/07 Q1025 RJSO 240854Z 26012G22KT 230V300 9999 FEW230 13/04 Q1020 RMK A3015 RJTF 240800Z 19009KT 160V230 9999 FEW040 18/07 Q1022 SBKG 241600Z 14008G21KT 090V150 CAVOK 32/15 Q1013 SCAP 241600Z VRB02KT CAVOK 09/06 Q1027 SBJP 241600Z 10010KT 9999 BKN035 31/20 Q1011 SBIZ 241600Z 15005KT 9999 SCT020 32/25 Q1010 SBJR 241620Z 16011G22KT 4000 -RA BR BKN010 SCT040 BKN080 26/24 Q1013 SCAR 241600Z 21009KT CAVOK 22/14 Q1014 RJSR 241000Z VRB02KT CAVOK 10/02 Q1024 RJTI 240700Z 15017KT 9999 FEW030 18/11 Q1022 SCAS 241600Z 00000KT 9999 BKN010 12/08 Q1022 RJSS 241200Z 32004KT 310V010 9999 FEW040 11/04 Q1024 SBLB 241600Z 23019KT 9999 SCT010 BKN040 OVC070 28/21 Q1012 W///S3 SCAT 241600Z 19005KT 140V250 CAVOK 19/11 Q1017 RJTL 240752Z 16013KT 9999 FEW030 19/06 Q1022 RMK 1CU030 A3020 SBJU 241600Z 13005KT 9999 SCT020 32/24 Q1014 SBJV 241600Z 17004KT 9999 -RA SCT012 OVC032 21/19 Q1019 KVWU 241629Z AUTO 10006KT 2SM -DZ OVC008 03/03 A2982 RMK AO2 KXFL 241547Z 11007KT 4SM HZ CLR 27/19 A3003 SBLE 241600Z 17003KT 9999 SCT040 32/19 Q1015 SCCF 241600Z 27005KT CAVOK 23/M10 Q1026 RJTO 240700Z 29006KT 240V340 9999 FEW030 18/11 Q1023 RKJY 240028Z 07002KT CAVOK 17/07 Q1022 TEST TEST TEST SBKP 241600Z 17006KT 9999 BKN026 23/16 Q1019 RJSY 241200Z 07005KT 9999 FEW040 07/03 Q1025 SCCH 241600Z 20002KT 5000 BR BKN020 14/12 Q1015 RJTR 232215Z 02008KT 7SM FEW040 14/00 A3022 RMK FIRST SCCI 241600Z 15009KT 9999 FEW030 SCT090 BKN200 07/04 Q1014 NOSIG SCDA 241600Z 21012KT CAVOK 22/13 Q1015 SBMA 241600Z 02002KT 9999 SCT025 31/24 Q1011 RJTT 241630Z 22008KT CAVOK 15/11 Q1024 NOSIG RMK A3025 SAVC 241600Z 11003KT 9999 FEW012 12/10 Q1021 SBMD 241600Z 13003KT 9999 SCT020 32/25 Q1013 SAVE 241600Z 09004KT CAVOK 13/04 Q1021 SBME 241600Z 22004KT 9999 BKN025 OVC080 28/23 Q1012 SBLO 241600Z 12006KT 9999 BKN018 SCT080 24/18 Q1018 SBLP 241600Z 27003KT 9999 SCT030 SCT100 35/15 Q1013 SBMG 241600Z 28002KT 9999 VCSH SCT025 FEW030TCU SCT100 24/// Q1017 RJTY 241558Z AUTO 00000KT 10SM CLR 11/07 A3031 RMK AO2 SLP267 T01110073 SBLS 241600Z 27006KT 9999 SCT018 OVC100 24/18 Q1017 SBMK 241600Z VRB04KT 9999 SCT040 32/14 Q1015 KVYS 241635Z AUTO 15019G27KT 10SM SCT065 SCT120 17/02 A2986 RMK AO2 LTG DSNT W T01660018 SBML 241400Z 09010KT CAVOK 27/19 Q1020 KWRB 241558Z AUTO VRB02KT 10SM CLR 25/11 A3003 RMK AO2 SLP170 T02480106 SAWE 241600Z 34011KT 8000 FEW008 SCT012 09/08 Q1015 SBMN 241600Z 21004KT 9999 SCT020 FEW025TCU 29/23 Q1013 SBNF 241600Z 16006KT 9999 FEW035 BKN060 24/18 Q1018 SBMO 241600Z 12010KT 9999 SCT030 31/23 Q1011 SCCY 241600Z 00000KT 9999 FEW010 SCT200 12/08 Q1021 SAWG 241600Z 00000KT CAVOK 10/M02 Q1016 SBMQ 241600Z 09008KT 9999 FEW023 34/25 Q1011 SAWH 241600Z 36007KT 9999 SCT048 SCT090 BKN200 12/01 Q1012 LOIH 241600Z 00000KT 35KM SCT040CU 22/10 Q1013 RMK SCT KXIH 241635Z AUTO 20010G16KT 9SM FEW016 25/20 A2992 RMK A01 SBMS 241600Z 14006KT 9999 FEW025 34/23 Q1010 SCFA 241600Z 22007KT 9999 FEW020 20/12 Q1015 NOSIG KWRI 241558Z AUTO 32019G29KT 10SM CLR 13/M08 A2996 RMK AO2 PK WND 27034/57 SLP149 T01271078 SBMT 241600Z 21008KT 9999 BKN018 21/15 Q1019 SCEL 241600Z 22004KT 120V250 6000 NSC 19/07 Q1015 NOSIG KWRL 241553Z AUTO 04003KT 10SM CLR 09/M06 A2989 RMK AO2 SLP124 T00941056 FQVL 241500Z 12006KT 9999 FEW020 SCT080 25/24 Q1012 SBMY 241600Z 33005KT 9999 BKN018 BKN090 30/25 Q1014 SBOI 241600Z 07006KT 9999 BKN019 28/25 Q1012 SBPA 241600Z 16008KT 9999 BKN035 21/13 Q1020 SBNT 241600Z 11015KT 9999 SCT033 31/20 Q1011 SBPB 241600Z 09009KT 9999 FEW017 34/26 Q1009 SBPC 241600Z 28008KT 9999 BKN020 23/18 Q1021 RKPC 241600Z 18004KT CAVOK 14/03 Q1022 NOSIG SCGE 241600Z 17008KT CAVOK 17/10 Q1016 SBPF 241600Z 13005KT 9999 BKN010 18/13 Q1020 RKNY 241600Z AUTO 24009KT 3000 NCD 18/01 Q1020 SAZA 241340Z 11010KT 2000 BR OVC004 11/11 Q1025 LPAR 241600Z 30011KT 9999 SCT028 17/09 Q1021 SBPJ 241600Z 19005KT 9999 SCT025 FEW027TCU 31/22 Q1012 SAZB 241230Z 07012KT 4000 BR BKN009 BKN016 11/11 Q1024 LPBJ 241600Z 29017KT 9999 SCT030 18/08 Q1021 SCFT 241600Z VRB02KT 9999 FEW010 BKN090 09/07 Q1022 SBPK 241600Z 20007KT 9999 SCT025 20/12 Q1021 RKPK 241600Z 04002KT 9999 SKC 12/05 A3022 MGCB 241600Z 00000KT CAVOK 26/13 QFE 870.4 KWST 241553Z AUTO 32014G30KT 10SM CLR 12/M09 A2976 RMK AO2 PK WND 34033/1531 SLP076 T01171089 SBPL 241600Z 15006KT 9999 BKN033 31/21 Q1012 SBPN 241600Z 23005KT 9999 FEW025 33/24 Q1011 SBPP 241600Z 16005KT 9999 SCT020 24/17 Q1019 SBPR 241600Z 01004KT 9999 -DZ FEW012 SCT018 OVC080 21/19 Q1018 LPAZ 241630Z 26010KT 9999 FEW022 18/11 Q1027 SBPS 241600Z 08014KT 9999 SCT030 SCT050 ///// Q1011 SBRB 241628Z 10007KT 5000 BR BKN013 BKN100 24/22 Q1015 RERA SCIC 241600Z 22003KT 1500 BR OVC004 11/10 Q1016 SBPV 241600Z 07004KT 9999 SCT009 BKN012 OVC070 24/23 Q1015 KXLL 241635Z AUTO 32016G24KT 10SM CLR 12/M09 A3002 RMK AO2 SAZM 241600Z 14005KT 9999 SCT025 15/05 Q1024 SCIE 241600Z 23007KT 8000 NSC 16/11 Q1016 SAZN 241600Z 07008KT 9999 SCT015 BKN030 17/12 Q1021 SBRF 241600Z 10009KT 9999 FEW025 SCT070 30/24 Q1011 KWVI 241553Z AUTO 00000KT 10SM CLR 14/08 A3013 RMK AO2 SLP203 T01390083 SBRJ 241600Z 23008KT 9999 FEW010 BKN035 BKN070 27/21 Q1013 SAZS 241700Z 02004KT 9999 SCT035 FEW040 FEW100 16/09 Q1020 SAZT 241330Z 09003KT 6000 BR OVC004 11/10 Q1025 KXNA 241553Z 20010KT 10SM -RA FEW023 BKN100 BKN120 17/14 A2975 RMK AO2 PK WND 15034/1455 WSHFT 1440 LTG DSNT SW TSB36E51RAB41 SLP065 P0000 T01720139 SBSC 241600Z 23012KT 9999 FEW015 BKN090 26/21 Q1014 FSIA 241600Z 08002KT 9999 FEW020 29/25 Q1011 NOSIG SBQV 241600Z 14004KT 9999 FEW025 29/15 Q1017 KWVL 241635Z AUTO 32018G32KT 10SM BKN038 BKN044 OVC050 07/M03 A2958 RMK AO1 KWWD 241635Z AUTO 28020G26KT 10SM CLR 12/M05 A3003 RMK AO1 RKSG 241555Z 00000KT 2SM BR CLR 12/11 A3021 RMK AO2A SLP230 $ SCIP 241600Z 00000KT 9999 FEW020 23/17 Q1020 NOSIG SBRP 241600Z 13004KT 9999 BKN033 26/17 Q1016 SCIR 241600Z 14013KT 9999 SCT020 19/13 Q1021 RKSI 241630Z 07004KT 4000 BR NSC 10/08 Q1022 NOSIG SBTA 241600Z 18002KT 9000 SCT008 SCT015 BKN070 22/17 Q1018 KXMR 241558Z AUTO 15009KT 10SM CLR 27/20 A3003 RMK AO2 SLP172 T02710199 SBSJ 241600Z 18012KT 9999 BKN019 25/17 Q1018 SBTC 241600Z 03004KT 9999 FEW020 32/24 Q1011 SBSL 241700Z 06004KT 9999 BKN020 32/22 Q1009 RKSM 241600Z 22001KT 9999 SKC 13/04 A3020 SBSM 241600Z 11008KT 9999 BKN035 21/11 Q1021 SBTE 241600Z 00000KT 9999 BKN030 33/25 Q1010 SBSN 241600Z 08008KT 9999 SCT017 SCT100 31/23 Q1012 SCJO 241600Z 19004KT 9999 OVC006 10/09 Q1020 SBTF 241600Z 08002KT 9999 SCT016 BKN100 31/24 Q1014 RKSO 241618Z AUTO 09003KT 5SM HZ CLR 10/06 A3020 RMK AO2 SBSP 241600Z 19010KT 150V240 9999 BKN013 OVC020 20/15 Q1020 SBSR 241600Z 18006KT 9999 -RA BKN025 BKN080 25/19 Q1017 SBUA 241600Z 13005KT 9999 SCT020 32/24 Q1013 KWWR 241635Z AUTO 34024G29KT 10SM BKN070 BKN080 18/03 A2994 RMK AO2 RKSS 241600Z 32002KT 6000 NSC 11/05 Q1022 NOSIG SBTK 241600Z 14004KT 9999 BKN018 BKN100 28/24 Q1015 SBST 241600Z 26007KT 5000 -DZ BR BKN013 OVC020 22/20 Q1017 MGES 241600Z 09004KT 8000 BKN020 27/18 QFE 911.5 LPFL 241630Z 19018G30KT 160V240 9999 FEW019 18/14 Q1020 SBSV 241700Z 11009KT 9999 SCT017 30/25 Q1011 RKTN 241600Z 11002KT 9999 SKC 13/02 A3019 SBUF 241600Z 13007KT 9999 FEW022 35/19 Q1012 SBUG 241600Z 13005KT CAVOK 22/10 Q1021 LPFR 241630Z 26018KT 9999 FEW025 SCT040 18/13 Q1021 SBTT 241600Z 16003KT 9999 BKN015 28/24 Q1015 SBTU 241600Z 05007KT 9999 BKN020 FEW023TCU 31/26 Q1013 SBUL 241600Z 16007KT 9999 4000SW -RA SCT006 20/19 Q1019 RKTU 241600Z 17002KT 8000 NSC 10/05 Q1023 NOSIG VYYY 241630Z 21008KT 7000 R21/2000N SCT020 29/24 Q1009 NOSIG SBVH 241600Z 08004KT 9999 BKN018 SCT020 27/21 Q1018 SBUR 241600Z 14007KT 9999 SCT009 SCT035 OVC080 21/17 Q1018 SCMK 241600Z 21008KT 9999 BKN007 14/// Q1019 MGGT 241600Z 18006KT 9999 FEW018 25/14 Q1026 A3030 SBUY 241600Z 00000KT 9999 SCT012 SCT020 OVC100 28/24 Q1013 KXPY 241635Z AUTO 15006KT 9SM BKN014 BKN019 24/20 A3002 RMK A01 YABA 241630Z AUTO 21005KT 9999 // NCD 15/14 Q1009 LPHR 241630Z 23011KT 9999 FEW014 17/14 Q1024 SBVT 241600Z 16012KT 9999 FEW020 BKN090 28/20 Q1012 KXSA 241635Z AUTO 30006KT 10SM CLR 15/M14 A3011 RMK AO2 T01481138 MGHT 241600Z 00000KT 9999 FEW018 20/15 QFE 818.0 WSAP 241500Z 01002KT 8000 FEW017 BKN300 26/24 Q1009 KYIP 241553Z AUTO 15009KT 10SM CLR 12/M06 A3016 RMK AO2 SLP215 T01221061 TSNO SBYA 241600Z 15002KT 9999 SCT020 BKN100 29/25 Q1013 SCNT 241600Z VRB03KT 9999 -RA BKN030 09/04 Q1015 SCON 241600Z 00000KT 2000 BR OVC004 10/// Q1020 MHAM 241600Z 04004KT 9999 FEW028 BKN080 BKN250 32/25 LPLA 241700Z 28014G25KT 9999 FEW023 20/12 Q1023 MHCA 241600Z 07007KT 9999 SCT028 30/21 FU LQBK 241700Z 04004KT 5000 RA BR FEW010 FEW027TCU BKN030 15/14 Q1012 NOSIG KYKM 241553Z 20020G25KT 10SM -RA BKN055 BKN080 11/07 A2973 RMK AO2 PK WND 19028/1524 RAB27 SLP069 P0000 T01060067 KYKN 241635Z AUTO 33013G20KT 10SM CLR 13/07 A2976 RMK AO1 SCPQ 241600Z 14005KT 110V180 CAVOK 13/10 Q1019 MHCH 241600Z 26002KT 8000 SCT034TCU SCT250 34/21 TCU E SE S 8 KM N NE E FU D/C UNL SBYS 241600Z 15008KT 9999 SCT030 25/18 Q1018 LPMA 241630Z 02010KT 9999 FEW018 19/10 Q1025 RS35008G18KT 0502010KT 2336009KT SCRD 241600Z 35007KT 0800 FG VV000 11/10 Q1017 SCRG 241500Z 18003KT 4000 HZ NSC 16/11 Q1015 KXVG 241636Z AUTO 10005KT 1 3/4SM DZ OVC006 03/03 A2979 RMK AO2 SCSE 241600Z 31002KT 9999 SCT016 15/11 Q1017 LOWG 241650Z 27003KT 200V350 9999 -SHRA SCT050 FEW050TCU BKN090 18/12 Q1014 NOSIG KYNG 241651Z 00000KT 10SM FEW100 SCT140 SCT250 10/M09 A3013 RMK AO2 SLP209 T01001089 LPMR 241600Z 31012KT 270V340 9999 SCT023 FEW025TCU 16/09 Q1021 LOWI 241650Z 07010KT 040V110 9999 FEW080 20/05 Q1014 NOSIG SCTB 241600Z 18002KT 5000 HZ SKC 20/09 Q1016 LPMT 241600Z 31011KT 9999 FEW022 17/11 Q1022 MGMT 241600Z 00000KT CAVOK 33/24 QFE 1007.7 BKN070 LOWK 241650Z VRB01KT 9999 FEW050 BKN100 15/11 Q1014 NOSIG SCTC 241600Z VRB02KT 5000 BR SCT004 OVC005 10/10 Q1018 LOWL 241650Z 29003KT 260V320 9999 FEW042 FEW050CB BKN300 16/12 Q1016 NOSIG SCSN 241600Z 36004KT 2000 BR OVC006 12/10 Q1018 SCTE 241600Z 16003KT 6000 VCFG OVC004 10/10 Q1020 NOSIG LOWS 241650Z 03004KT 350V070 9999 FEW050 BKN100 20/08 Q1015 NOSIG MGPB 241600Z 30008KT 9999 FEW018 OVC200 29/24 Q1014 A2994 LPPD 241630Z 24014KT 9999 FEW020 17/12 Q1026 LOWW 241650Z 32008KT 9999 FEW055 FEW060CB SCT110 BKN300 20/12 Q1013 TEMPO FM1730 04015G30KT 4000 SHRA TS LOWZ 241600Z 10006KT 40KM SCT060CU BKN100AC 19/08 Q1015 RMK BKN LOXT 241550Z 25009KT 25KM SCT050CU SCT110AC BKN300CI 20/12 Q1014 RMK BKN SCVD 241600Z VRB03KT 9999 OVC008 11/11 Q1018 LPOV 241600Z 31008KT 9999 FEW016 FEW020CB 15/09 Q1020 LOXZ 241650Z 02003KT 25KM FEW050CU FEW050TCU BKN060CU 16/07 Q1015 NOSIG RMK TCU SE/BKN LPPR 241630Z 29010KT 260V330 9999 SCT020 FEW025CB SCT042 15/08 Q1020 LPPS 241630Z 36009KT 320V050 9999 FEW015 19/12 Q1026 LPPT 241630Z 32012KT 300V360 9999 SCT030 15/09 Q1022 SCVM 241600Z 33007KT 4000 BR OVC005 12/10 Q1017 YBAF 241630Z AUTO 19004KT 9999 // NCD 16/15 Q1015 MGQZ 241600Z 05004KT 8000 SCT022 20/14 QFE 768.2 HZ YBAS 241630Z AUTO 29003KT 9999 // NCD 13/09 Q1016 MGSJ 241600Z 00000KT 8000 SCT090 OVC200 32/23 Q1014 A2994 HZ MGRT 241600Z 22006KT 9000 FEW016 SCT200 31/24 Q1015 A2997 HZ VOL. STA. MARIA Y SANTIAGUITO EN ACTIVIDAD BGAA 241550Z 30005KT 270V330 9999 VCSH BKN033 M07/M12 Q1024 LRBC 241630Z 11004KT 9999 SCT050 19/13 Q1016 YBBN 241630Z 20002KT 9999 FEW025 SCT270 17/16 Q1015 YBCG 241630Z AUTO 00000KT 1100 // NCD 17/16 Q1015 YBCK 241630Z AUTO 00000KT //// // ////// 16/07 Q1014 LRAR 241630Z 11008KT 080V150 9999 FEW020 FEW030CB SCT040 18/16 Q1011 YAMB 241600Z AUTO 00000KT 8000 // NCD 14/13 Q1015 LPST 241600Z 31015KT 9999 SCT025 15/09 Q1022 MHLC 241600Z 29005KT 9999 FEW026 30/25 Q1013 A2991 NOSIG LRBM 241600Z 22002KT 9999 FEW060 18/15 Q1014 YBDG 241630Z AUTO 16008KT 9999 // NCD 07/05 Q1019 MHLE 241600Z 21008KT 5000 FU BKN024 23/15 Q1026 5 KM ALL FU YBCS 241630Z 17010KT 9999 VCSH FEW022 SCT050 BKN120 25/22 Q1010 LRBS 241630Z 05010KT 010V090 9999 SCT009 BKN012 15/13 Q1014 R07/19//95 NOSIG SEGU 241600Z 06003KT 9999 FEW030 SCT100 BKN260 29/22 Q1011 RMK A2987 NOSIG LRCK 241630Z 07010KT 7000 -RA OVC049 12/11 Q1015 3629//95 NOSIG YBCV 241630Z AUTO 03005KT 9999 // NCD 19/07 Q1014 MGTU 241600Z 00000KT 8000 FEW200 33/22 HZ LRCL 241630Z 16012KT 9999 -RA FEW013 SCT030 OVC076 15/12 Q1014 0729//95 MHLM 241600Z 22004KT 9999 FEW030 31/21 Q1013 A2991 NOSIG YBDV 241630Z AUTO 21007KT //// // ////// 17/M02 Q1014 LRCV 241630Z AUTO 07019G29KT 9999 FEW010 SCT019 BKN085 14/12 Q1011 LQMO 241600Z 30005KT 9999 -RA FEW020 BKN055 17/15 Q1008 RETS BGBW 241650Z 27003KT 9999 FEW070 BKN100 06/01 Q1015 RMK 2AC 7AC ROAH 241630Z 08007KT 050V120 6000 RA FEW010 SCT050 BKN090 19/17 Q1016 RMK 1CU010 4SC050 7AS090 A3000 BGCO 241550Z 02014KT 9999 FEW011 BKN100 M04/M06 Q1022 RMK LAST OBS SFAL 241300Z 35008KT 9999 BKN006 XX/XX Q1027 GMAD 241600Z 23010KT 160V270 CAVOK 27/10 Q1017 MHNO 241600Z 00000KT 9999 FEW040 29/19 FU GMAG 241600Z 26016KT 9999 FEW016 29/12 Q1015 FTTA 241600Z 00000KT 9999 FEW040 BKN250 38/17 Q1006 FTTC 241500Z 00000KT 9999 FEW040 SCT250 41/03 Q1006 FTTD 241500Z 16006KT CAVOK 36/20 Q1006 HDAM 241000Z 03012KT 9999 FEW023 32/26 Q1011 YBHI 241630Z AUTO 13010KT 9999 // NCD 14/09 Q1017 MGZA 241600Z 01004KT 9999 FEW017 30/22 QFE 988.1 FTTJ 241600Z 00000KT 9999 FEW050 SCT250 41/21 Q1003 NOSIG YBHM 241630Z AUTO 13010KT 9999 // SCT018 SCT094 24/21 Q1013 GMAT 241600Z 02022KT 8000 FEW016 21/12 Q1018 MHPL 241200Z 00000KT 9999 FEW028TCU 23/23 TCU NW YARG 241600Z AUTO 31002KT 9999 // NCD 24/09 Q1010 BGGH 241650Z 02012KT 9999 BKN019 M04/M08 Q1022 SELT 241600Z 18007KT 6000 -RA BKN020 OVC10 12/12 Q1033 LRIA 241630Z 11006KT CAVOK 18/11 Q1016 YARM 241630Z AUTO 05004KT 9999 // NCD 10/05 Q1020 FVBU 241600Z 19004KT 9999 TS FEW040CB BKN100 18/16 Q1020 NOSIG RODN 241647Z AUTO 08012KT 7SM R05/5500FT -RA FEW014 BKN030 18/17 A3001 RMK AO2 FTTY 241500Z 00000KT CAVOK 45/05 Q//// YCBA 241630Z AUTO 00000KT //// // ////// 12/06 Q1016 YCBB 241630Z AUTO 36006KT //// // ////// 17/09 Q1018 LQSA 241630Z 29007KT 260V320 8000 FEW015 SCT035 BKN050 14/13 Q1011 NOSIG SEMT 241600Z 33007KT 9999 FEW023 SCT100 29/25 Q1012 WSSL 241500Z VRB02KT CAVOK 26/24 Q1009 RMK 1430Z Q1009 YBKE 241630Z AUTO 15007KT //// // ////// 18/08 Q1014 MHSC 241558Z AUTO VRB05KT 9999 FEW150 SCT180 SCT200 29/19 A3001 RMK AO2 SLP118 T02920194 $ MHRO 241600Z 08011KT CAVOK 31/23 Q1013 A2992 NOSIG YCAR 241630Z AUTO 15009KT 9999 // BKN110 22/18 Q1009 YCAS 241630Z AUTO 31003KT //// // ////// 13/12 Q1015 WSSS 241630Z VRB01KT 4000 BR FEW018 BKN300 26/25 Q1010 NOSIG FVCZ 241500Z 07006KT CAVOK 29/21 Q1015 FVFA 241200Z 17005KT CAVOK 28/15 Q1015 NOSIG MHTE 241500Z 17004KT 9999 SCT024 SCT250 27/24 Q1012 HZ YCBP 241630Z AUTO 09008KT //// // NCD 15/07 Q1016 MHTG 241600Z 00000KT 5000 2000SW FU SCT028 SCT200 26/15 Q1020 A3012 NOSIG GMFF 241500Z 30006KT 9999 SCT033 21/12 Q1021 NOSIG YBMA 241630Z AUTO 12006KT 9999 // NCD 26/13 Q1012 YBKT 241630Z AUTO 25004KT //// // ////// 24/24 Q1009 MHSR 241600Z 14002KT 3000 FU SCT025 25/19 3 KM ALL FU YBLN 241630Z AUTO 19007KT //// // ////// 17/14 Q1010 GMFK 241600Z 26010KT 9999 SCT026 28/M09 Q1019 GMFM 241600Z 30010KT 9999 SCT020 21/09 Q1021 BGJN 241550Z 28005KT 250V320 2000 -SN BKN009 OVC016 M06/M10 Q1023 GMFO 241400Z 35015KT CAVOK 24/10 Q1018 NOSIG YBNA 241600Z AUTO 29003KT 1700 // NCD 15/14 Q1016 YBLT 241630Z AUTO 13008KT 9999 // NCD 03/02 Q1020 YBMK 241630Z AUTO 15005KT 9999 // ////// 21/20 Q1013 MHTR 241600Z 34003KT 9999 FEW028 30/23 HZ FVHA 241600Z 03004KT 9999 TS FEW035CB BKN090 18/15 Q1021 NOSIG RMK QFE 853.7 YCEE 241630Z AUTO 03006KT //// // ////// 11/10 Q1017 SEQM 241630Z 21004KT 160V320 9999 VCSH FEW005 BKN030 OVC080 16/13 Q1029 NOSIG RMK A3038 YCDO 241630Z AUTO 00000KT //// // ////// 09/05 Q1017 BGKK 241650Z 06006KT 350V110 9999 FEW200 07/M00 Q1015 RMK 1CS YCCY 241630Z AUTO 10004KT //// // ////// 25/15 Q1011 ROIG 241100Z 05005KT 9999 FEW004 SCT060 BKN090 24/23 Q1012 LQTZ 241600Z 16003KT 130V200 3500 -RA BR BKN015 OVC025 15/15 Q1011 YCDU 241630Z AUTO 07007KT 9999 // NCD 11/10 Q1015 YCEM 241630Z AUTO 00000KT //// // ////// 01/01 Q1021 GLRB 241630Z 24009KT 9999 FEW020 31/24 Q1008 NOSIG YBNS 241630Z AUTO 31007KT 9999 // NCD 05/03 Q1021 YBOK 241630Z AUTO 12004KT 9999 // NCD 14/12 Q1016 YCFL 241630Z AUTO 16009KT //// // ////// 26/24 Q1009 YAYE 241630Z AUTO 000//KT //// // ////// ///// Q1015 LROD 241630Z 07008KT CAVOK 17/15 Q1012 YCFS 241630Z AUTO 02005KT 9999 // NCD 17/15 Q1015 SGAS 241100Z 00000KT CAVOK 15/14 Q1019 BGMQ 241550Z 34009KT 9999 SCT021 BKN023 M04/M10 Q1022 HEBA 241600Z 36015KT CAVOK 23/16 Q1008 NOSIG FVKB 241200Z 36003KT 9999 FEW030CB BKN100 32/18 Q1011 YBPN 241630Z AUTO 00000KT 9999 // NCD 20/19 Q1013 LSGC 241650Z AUTO 11003KT 060V150 9999 FEW047 16/05 Q1014 LSGG 241650Z 04004KT 9999 FEW050 BKN320 21/06 Q1012 NOSIG LROP 241630Z 07014KT 9999 SCT008 BKN011 OVC023 14/14 Q1014 8819//95 NOSIG YCHK 241630Z AUTO 35007KT 9999 // NCD 26/06 Q1012 HEAR 241600Z 02003KT CAVOK 22/20 Q1006 NOSIG HECA 241630Z 36010KT CAVOK 32/12 Q1006 NOSIG HEAT 241600Z 28006KT CAVOK 38/10 Q1007 NOSIG HEAX 241600Z 01009KT CAVOK 23/17 Q1007 NOSIG YBRK 241630Z AUTO 13004KT 6000 // OVC115 21/20 Q1014 MHYR 241600Z 36004KT 9999 SCT025TCU 28/19 TCU ALL FU YBRL 241630Z AUTO 12007KT //// // ////// 24/21 Q1007 LSGS 241650Z 25013KT 9999 SCT100 SCT250 21/08 Q1010 YBRM 241630Z AUTO 00000KT 9999 // NCD 22/21 Q1009 GMMB 241600Z 34012KT 6000 BKN015 18/15 Q1024 NOSIG YCIN 241600Z AUTO 25005KT //// // NCD 21/15 Q1009 FWCL 241500Z 10014KT 9999 FEW040 28/16 Q1016 NOSIG GMMC 241600Z 36012KT 9999 BKN016 18/14 Q1022 YBSG 241630Z AUTO 06002KT //// // BKN018 OVC079 25/23 Q1009 GMME 241630Z 36010KT 330V030 9999 SCT013 BKN020 18/11 Q1022 NOSIG GMMH 241600Z 35028KT 6000 NSC 22/14 Q1016 GMMI 241600Z 02018KT 8000 NSC 23/14 Q1020 LTAB 241313Z 17005KT 9999 -SHRA FEW025CB BKN035 26/04 Q1011 TEMPO -TSRA RMK RWY06 16007KT LRSB 241630Z 10008KT 9999 -RA FEW010 BKN064 OVC070 14/12 Q1013 R27/29//95 LTAC 241620Z 03012KT 9999 FEW030CB SCT040 17/11 Q1012 BECMG VRB02KT TEMPO TL1700 21012KT -TSRA LTAD 241402Z 31008KT 280V360 9999 FEW030CB BKN035 23/11 Q1012 RETSRA TEMPO -TSRA RMK RWY29 33009KT SGEN 241130Z 00000KT 3000 BR 13/13 Q1018 GMML 241600Z 05021KT 5000 NSC 25/12 Q1018 KZZV 241553Z AUTO 10009KT 10SM OVC090 11/M07 A3014 RMK AO2 SLP207 T01111067 TSNO BGPT 241550Z 33019KT 9999 FEW040 BKN200 M03/M06 Q1019 YBRY 241630Z AUTO 33010KT 9999 // NCD 28/05 Q1013 LTAE 241419Z 34012KT 9999 FEW030CB SCT040 21/10 Q1012 RETSRA TEMPO 26015G25KT -TSRA RMK RWY21 35013KT YBTH 241630Z AUTO 23004KT 9999 // SCT099 07/06 Q1019 LTAF 241620Z 25004KT 210V270 CAVOK 27/09 Q1009 NOSIG GMMN 241630Z 34015KT 9999 BKN016 19/14 Q1023 NOSIG ROMY 241100Z 08016KT 9999 -RA SCT005 BKN011 OVC035 21/20 Q1013 LTAG 241620Z 24004KT CAVOK 27/09 Q1009 NOSIG SGES 241100Z 19004KT CAVOK 16/14 Q1018 LTAI 241620Z VRB03KT 9999 FEW030 BKN200 22/16 Q1010 NOSIG YBTL 241630Z AUTO 17008KT 9999 -SHRA SCT019 SCT032 OVC056 23/22 Q1012 BGQQ 241550Z 20002KT 9999 FEW160 M06/M17 Q1025 RMK 2AS LTBA 241620Z 10006KT 060V140 9999 SCT040 19/14 Q1008 NOSIG LTAJ 241620Z 19004KT CAVOK 23/05 Q1013 NOSIG YBUD 241630Z AUTO 19006KT 9999 // NCD 19/17 Q1014 YCKN 241630Z AUTO 14005KT 9999 // SCT022 SCT030 BKN038 25/23 Q1009 LRTC 241630Z 14004KT 9999 -RA SCT048 14/11 Q1016 LTBD 240340Z 08008KT 9999 SCT035 BKN100 18/13 Q1010 LRSM 241630Z 19010KT 9999 FEW055CB 18/14 Q1013 FVMV 241500Z 18012KT CAVOK 25/17 Q1017 LTAN 241550Z 23012KT 9999 SCT040 BKN100 26/M02 Q1012 NOSIG LTBF 241550Z 24005KT 9999 FEW035 24/11 Q1007 NOSIG GMMW 241600Z 33017KT 310V020 9999 FEW023 21/10 Q1017 LTBG 240411Z 29018KT 7000 -SHRA SCT035 BKN100 16/14 Q1012 BECMG TL0500 04008KT RMK RWY18 29017G32KT 260V320 LTAP 241620Z 36014KT 9999 SCT040 BKN100 19/09 Q1011 TEMPO FM1800 -TSRA GMMX 241600Z 32005KT 270V010 9999 FEW033 26/11 Q1020 NOSIG LTBH 240318Z 09011KT 9999 SCT035 BKN100 17/14 Q1010 RESHRA BGSF 241650Z AUTO VRB03KT 9999NDV NCD M04/M11 Q1023 LTBI 240905Z 04007KT 9999 SCT035 BKN100 23/06 Q1015 RESHRA NOSIG RMK RWY09 36008KT 320V040 LTAR 241550Z 32006KT CAVOK 17/01 Q1017 GMMZ 241600Z 34005KT 290V030 9999 FEW040 30/M08 Q1018 LTAS 241328Z 01011KT 9999 FEW025TCU SCT032 BKN100 16/13 Q1012 RESHRA RMK RWY18 34014KT LTBJ 241620Z 19005KT CAVOK 21/12 Q1009 NOSIG LTCA 241550Z 15004KT CAVOK 22/06 Q1013 NOSIG LTAT 241620Z 34006KT 9999 SCT040 BKN200 21/09 Q1013 NOSIG LTBL 240617Z 18008KT 110V220 9999 -SHRA SCT035 BKN100 20/15 Q1009 RETSRA NOSIG RMK RWY17 23011KT 180V260 LTAU 241620Z 02002KT 9999 FEW040 BKN200 23/03 Q1014 NOSIG LTCC 241620Z 00000KT CAVOK 20/10 Q1013 NOSIG LTAV 241230Z 15022G32KT 120V190 9999 -TSRA FEW020CB BKN030 24/03 Q1012 RMK RWY11 19019KT LTCD 241550Z 27005KT 9999 SCT040 20/02 Q1015 NOSIG LRTM 241630Z 08008KT CAVOK 15/13 Q1014 R07/29//95 LRSV 241630Z 06006KT 360V080 CAVOK 15/13 Q1017 YDBY 241600Z AUTO 16003KT //// // ////// 22/17 Q1009 LTCE 241620Z 28005KT 230V040 CAVOK 12/M01 Q1017 NOSIG BIBD 241543Z 07002KT CAVOK 12/// Q1014 LTCF 241550Z 35008KT 9999 FEW035 SCT080 13/M03 Q1018 LTAY 240915Z 20016KT 9999 FEW035 SCT100 27/00 Q1013 RMK RWY06 21014KT LTBP 241233Z 36004KT 310V050 8000 BKN035 BKN090 19/13 Q1011 RESHRA RMK RWY26 36004KT LTCG 241620Z 09007KT 9999 SCT100 14/11 Q1016 NOSIG LTBQ 241514Z 06005KT 030V120 7000 -SHRA FEW026CB SCT035 BKN090 17/17 Q1011 RETSRA NOSIG RMK RWY09 05009KT LTAZ 241620Z 14005KT 9999 FEW040 BKN200 24/02 Q1012 LTBR 241637Z VRB02KT 9999 SCT030 BKN100 19/13 Q1010 RESHRA NOSIG RMK RWY07 VRB02KT LTCI 241550Z 00000KT 9999 FEW040 12/02 Q1017 NOSIG LRTR 241630Z 07005KT 9999 FEW025 17/16 Q1011 LSMA 241650Z AUTO VRB02KT 9999NDV FEW076 19/11 Q1013 RMK BLU LTBS 241620Z 17003KT 9999 FEW030 BKN200 20/14 Q1010 NOSIG LTCJ 241620Z 13001KT CAVOK 21/07 Q1013 YCMM 241630Z AUTO 03003KT //// // ////// 11/10 Q1017 LTBT 240505Z 15006KT 090V190 9999 SCT040 BKN100 17/16 Q1010 RESHRA RMK RWY14 14008KT LTCK 241450Z 14004KT 9999 FEW040 20/03 Q1015 BIAR 241600Z 18006KT CAVOK 14/04 Q1015 LTBU 241620Z 06009KT CAVOK 17/13 Q1008 BGSS 241550Z 29005KT 250V310 9999 -SHSN BKN023 M06/M12 Q1023 LTCM 240717Z 12011KT 6000 SCT007 BKN100 13/10 Q1017 LSMD 241650Z AUTO 10006KT 060V140 9999NDV NCD 21/07 Q1013 RMK BLU LSME 241650Z AUTO 04003KT 340V120 9999NDV NCD 21/10 Q1013 RMK BLU BGTL 241558Z AUTO 00000KT 9999 CLR M12/M17 A3024 RMK AO2 SLP229 T11211167 LTBX 241240Z 08006KT 8000 -SHRA BKN025 BKN090 15/14 Q1012 HEGN 241600Z 15005KT CAVOK 29/17 Q1006 NOSIG LTBY 241348Z 07005KT 030V110 9999 TS FEW026CB SCT030 BKN200 26/06 Q1011 RMK RWY27 14006KT 090V170 YCMT 241630Z AUTO 26002KT //// // ////// 15/11 Q1015 YCNK 241630Z AUTO 15010KT //// // ////// 20/16 Q1017 LTCT 240525Z 25010KT CAVOK 16/07 Q1015 YCNM 241630Z AUTO 11007KT //// // ////// 14/11 Q1015 YCOE 241630Z AUTO 00000KT //// // ////// 24/22 Q1010 BGUK 241550Z 21005KT 180V240 8000 -SN BKN009 M10/M12 Q1023 RMK 7SC LSMM 241450Z VRB11KT 9999 FEW110 20/08 Q1013 RMK BLU YBWP 241630Z AUTO 05003KT 9999 // OVC085 25/23 Q1008 LSMP 241650Z AUTO 03003KT 350V070 9999NDV NCD 21/09 Q1012 RMK BLU RORS 241000Z 08021KT 4500 -SHRA SCT006 BKN030 22/20 Q1012 BGUQ 241550Z 13005KT 9999 -SN FEW010 SCT015 BKN025 M09/M13 Q1023 LSMS 241650Z 25013KT 9999 SCT100 SCT250 21/08 Q1010 YCOM 241630Z AUTO 00000KT 9999 // OVC014 06/06 Q1021 LTFC 241620Z 12008KT 090V150 9999 SCT035 BKN100 22/06 Q1012 LTFD 240407Z 21010KT 7000 -TSRA FEW025CB SCT030 BKN090 18/14 Q1011 RESHRA RMK RWY23 20008KT YBWX 241630Z AUTO 28007KT //// // ////// 24/19 Q1010 YCNY 241630Z AUTO 08001KT //// // ////// 26/19 Q1010 LTFE 241620Z 21007KT 180V250 9999 FEW035 SCT160 23/12 Q1009 NOSIG LTFH 241550Z 08004KT 040V110 CAVOK 16/09 Q1014 NOSIG BIEG 241600Z 17015KT 9999 FEW042 SCT055 11/05 Q1017 LTFJ 241620Z 05006KT 010V080 9999 SCT035 BKN110 20/10 Q1008 NOSIG RPLB 241600Z 04006KT 9999 FEW020 BKN300 28/24 Q1009 NOSIG RPLC 241600Z 32001KT 9000 TS FEW020CB SCT036 BKN100 27/25 Q1011 A2986 RMK CB S W/ OCNL LGTNG GMTA 241600Z 32014KT 9999 FEW020 21/14 Q1020 ROTM 241458Z 10014G24KT 8000 DZ BR SCT010 BKN020 OVC090 18/17 A3003 RMK SLP155 6//// T01780171 402060175 58010 RPLI 241000Z 36004KT 9999 FEW019CB 30/25 Q1008 NOSIG RMK A2978 CB SE FWKI 241400Z 09010KT 9999 FEW035CB SCT040 27/17 Q1017 NOSIG RPLL 241600Z 12004KT 080V210 9999 FEW025 29/24 Q1010 NOSIG RMK A2983 RPMD 241200Z CALM 9999 FEW016 SCT090 BKN290 28/27 Q1010 A2985 FVTL 240900Z 34007KT 9999 FEW040 BKN090 24/13 Q1021 GMTN 241600Z 27017KT 9999 BKN033 18/06 Q1021 HEMA 241600Z 14008KT CAVOK 29/12 Q1007 NOSIG GMTT 241630Z 31014KT 9999 SCT016 18/11 Q1022 NOSIG HEMM 241600Z 34016KT 7000 SCT020 OVC200 19/14 Q1010 NOSIG BIHN 241600Z 14007KT 9999 VCSH FEW008 BKN015 OVC025 10/// Q1017 HELX 241600Z 00000KT CAVOK 39/13 Q1004 NOSIG RPMZ 241500Z 00000KT 9999 FEW018 26/23 Q1009 RMK A2982 NCAI 241600Z AUTO 06006KT //// //// 23/22 Q1011 FVWN 241200Z 22003KT CAVOK 27/15 Q1017 MKJP 241600Z 16018KT 9999 FEW024 ///// Q1014 MKJS 241600Z 06010KT 9999 FEW022 29/25 Q1015 YCUN 241600Z AUTO 33009KT //// // ////// 16/14 Q1011 BIIS 241550Z VRB03KT 9999 BKN060 10/03 Q1014 LUBL 241630Z AUTO 12004KT 9999 ///081 16/12 Q1016 YDLQ 241630Z AUTO 16006KT //// // ////// 07/02 Q1019 YCWA 241630Z AUTO 00000KT 9999 // NCD 24/04 Q1013 GOGG 241600Z 28010KT CAVOK 35/20 Q1010 BIKF 241630Z 12019KT 9999 FEW018 SCT049 10/06 Q1013 GOGK 241600Z 28004KT CAVOK 41/19 Q1007 HEPS 241600Z 36010KT CAVOK 22/19 Q1007 NOSIG GOGS 241600Z 30006KT CAVOK 27/22 Q1010 YCWR 241630Z AUTO 13006KT //// // ////// 10/07 Q1018 HESC 241600Z 27012KT CAVOK 28/M03 Q1018 NOSIG HESH 241600Z 19003KT 9999 FEW022 BKN200 31/14 Q1006 NOSIG YDPO 241630Z AUTO 17007KT 9999 // NCD 03/01 Q1020 HESN 241600Z 10001KT CAVOK 41/02 Q1005 NOSIG LSZA 241650Z 21004KT 9999 VCSH FEW060CB FEW065TCU SCT080 19/13 Q1012 NOSIG LSZB 241650Z 07005KT 010V100 9999 FEW050 20/10 Q1012 NOSIG LSZC 241650Z AUTO VRB03KT CAVOK 20/09 Q1013 LSZG 241650Z 09004KT 050V120 CAVOK 21/09 Q1012 NOSIG LSZH 241650Z 04006KT 9999 FEW060 21/06 Q1013 NOSIG LSZL 241650Z AUTO 07011KT 050V110 9999NDV FEW085 21/08 Q1012 RMK BLU RPVM 241600Z 04008KT 9999 BKN020 BKN300 28/25 Q1010 A2983 LOW CLDS OVHD LSZR 241650Z 04006KT 010V070 9999 FEW060 20/07 Q1012 NOSIG RMK M LSZS 241650Z 24006KT 9999 FEW060 13/M04 Q1015 MMAA 241549Z 22004KT 5SM SCT300 30/21 A2991 RMK 8/001 HZY YELD 241630Z AUTO 15005KT //// // ////// 25/25 Q1005 CAHR 241600Z AUTO 05018G25KT 01/00 RMK AO1 2PAST HR 3006 PK WND 04025/1527 SLP972 P0012 T00050000 50110 BIRK 241600Z 14017KT 110V170 9999 FEW034 SCT042 BKN120 11/03 Q1014 GOOD 241500Z 18002KT CAVOK 40/18 Q1008 MMAN 241540Z 34010KT 15SM BKN200 31/12 A2986 RMK 8/002 ISOL AC YFBS 241630Z AUTO 19004KT //// // ////// 09/07 Q1017 GOOG 241600Z 00000KT CAVOK 42/12 Q//// MMAS 241546Z 22005KT 12SM SCT210 22/M02 A3027 RMK 8/002 MMCB 241600Z 20005KT 10SM BKN200 26/07 A3015 RMK 8/001 LUKK 241630Z 17006KT CAVOK 17/06 Q1016 R08/CLRD65 NOSIG FYGB 241400Z AUTO 30003KT //// // ////// 27/04 Q1021 GOOK 241600Z 22010KT CAVOK 37/15 Q1011 YFDF 241630Z AUTO 36001KT 9999 // NCD 25/06 Q1012 CBBC 241600Z AUTO 00000KT 9SM OVC065 07/05 A2949 RMK SLP988 MMCE 241644Z 12012KT 6SM SKC 30/20 A2986 RMK HZY FYGF 241400Z AUTO 06004KT //// // ////// 25/11 Q1020 YEML 241630Z AUTO 12006KT 9999 // NCD 17/15 Q1015 MMBT 241540Z 27007KT 6SM SKC 31/24 A2995 RMK HZY MMCL 241542Z 00000KT 10SM BKN230 27/11 A2997 RMK 8/004 HZY MMCM 241640Z 09010KT 7SM SCT020 29/24 A2993 RMK 8/100 RTS MMCN 241544Z 11006KT 10SM SKC 26/05 A2992 RMK FULYR 3-4QUAD FYGO 231900Z AUTO 35001KT //// // ////// 22/09 Q1015 MMCP 241649Z 09010KT 7SM SKC 33/18 A2987 GOOY 241630Z 32008KT 280V340 CAVOK 24/19 Q1009 NOSIG NCMH 241600Z AUTO 08005KT //// //// 28/25 Q1008 MMCS 241540Z 06008KT 10SM SKC 21/03 A3006 RMK HZY MMCT 241641Z 09005KT 8SM SKC 33/16 A2994 RMK MSGTX MMMD MMCU 241540Z 07004KT 10SM SKC 22/M03 A3015 MMCV 241541Z 17004KT 7SM SCT200 28/19 A2983 RMK 8/004 HZY MMDO 241540Z 21015KT 14SM SCT080 OVC220 20/M02 A3026 RMK 8/057 BINOVC HZY MMCZ 241640Z 14007KT 8SM FEW015 28/20 A2997 RMK 8/100 BIVM 241600Z 11018KT 9999 SCT012 BKN030 09/06 Q1014 MMEP 241557Z RTD 00000KT 12SM BKN250 25/15 A3016 RMK 8/008 GOSM 241600Z 08004KT CAVOK 43/14 Q1008 GOSP 241500Z 08004KT CAVOK 44/09 Q1008 GOSS 241600Z 36012KT CAVOK 29/16 Q1008 GOTK 241500Z 32006KT CAVOK 38/24 Q1012 MMGL 241550Z 00000KT 10SM BKN300 25/00 A3020 RMK 8/004 AC MMGM 241541Z 00000KT 10SM SKC 28/07 A2989 RMK HZY FYKM 241400Z 12004KT CAVOK 27/16 Q1016 MMIA 241640Z 21005KT 8SM BKN250 26/12 A3005 RMK 8/001 RTS YERN 241630Z AUTO 09004KT //// // ////// 16/06 Q1017 FYKT 241400Z AUTO 36005KT //// // ////// 23/01 Q1018 GOTT 241600Z 36006KT CAVOK 41/13 Q1007 MMHO 241544Z 06004KT 10SM SKC 24/00 A2996 RMK HZY NCRG 241600Z 06011KT 9999 SCT018 25/22 Q1009 NCPY 241600Z AUTO 00000KT //// //// 28/25 Q1008 FYML 241500Z AUTO 21001KT //// // ////// 26/01 Q1019 YESP 241630Z AUTO 03009KT 9999 // BKN098 BKN120 21/11 Q1007 MMIO 241640Z 23010KT 10SM BKN200 30/05 A3013 RMK 8/008 YGBI 241630Z AUTO 17002KT //// // ////// 26/24 Q1006 YEST 241630Z AUTO 09003KT 9999 // BKN100 19/12 Q1007 FYLZ 241400Z AUTO 19016KT //// // ////// 19/04 Q1012 FYOA 241400Z AUTO 31004KT //// // ////// 30/13 Q1013 YGAY 241630Z AUTO 00000KT //// // ////// 15/14 Q1015 YFLI 241630Z AUTO 24013KT 9999 // SCT040 BKN047 12/05 Q1020 MNBL 241600Z 07006KT 9999 BKN017 SCT070 30/24 Q1014 YGDH 241630Z AUTO 25019KT //// // ////// 17/13 Q1017 FYOO 241600Z AUTO 03003KT //// // ////// 28/13 Q1014 MNCH 241600Z 26004KT 2000 +FU FEW025 33/19 Q1012 MMMA 241540Z 15010KT 7SM SCT008 SCT070 BKN200 26/22 A2984 RMK 8/131 HZY MMLM 241543Z 11003KT 10SM FEW250 24/16 A2999 RMK 8/004 HZY MMMD 241652Z 14008KT 7SM SKC 34/15 A2989 RMK RTS FYOW 241400Z AUTO 31005KT //// // ////// 28/21 Q1017 MMLO 241541Z 00000KT 10SM BKN220 26/01 A3027 RMK 8/008 MMLP 241545Z 18010KT 10SM SCT120 BKN200 21/13 A3000 RMK 8/038 ISOL SC HZY YGEL 241630Z AUTO 13005KT 9999 // OVC021 18/18 Q1010 MMLT 241547Z 00000KT 8SM FEW200 25/19 A2996 RMK 8/002 HZY MMML 241546Z 00000KT 10SM SKC 21/06 A2992 MMMM 241548Z 11006KT 7SM BKN230 21/10 A3028 RMK 8/002 HZY MMMT 241646Z 11006KT 5SM SKC 32/25 A2983 RMK HZY YGFN 241630Z AUTO 19003KT 9000 // NCD 15/15 Q1015 MMNL 241544Z 00000KT 10SM SCT013 OVC016 25/20 A2984 RMK 8/5// MMMV 241540Z 04008KT 10SM BKN200 30/16 A2985 RMK 8/002 HZY FYRN 241400Z 05010KT 9999 FEW035CB BKN100 26/15 Q1016 MMMX 241545Z 08003KT 8SM FEW020 BKN200 21/07 A3036 NOSIG RMK 8/102 HZY SKBG 241600Z 17008KT 9999 FEW010 BKN100 24/19 A3004 MMMY 241550Z 32006KT 8SM BKN200 31/16 A2983 RMK 8/002 MMMZ 241545Z 26006KT 10SM FEW120 BKN230 26/16 A2993 RMK 8/052 HZY FULYR 3QUAD SKAR 241600Z 00000KT 4000 -DZ BCFG BKN010 SCT090 20/19 A3017 RMK AD OPER IMC MMPA 241549Z 35006KT 5SM BKN012 OVC025 25/22 A2988 RMK 8/8// HZY BINOVC SKCC 241600Z 22004KT 9999 SCT020 SCT090 29/22 A2995 MMPB 241548Z 14003KT 7SM SCT200 20/08 A3037 RMK 8/002 HZY ISOL SC SKBO 241625Z 25004KT 8000 4000SE VCSH SCT017 BKN070 16/12 A3040 REDZ RMK VCSH/SE SKCG 241600Z 28004KT 9000 SCT013 SCT070 29/25 A2987 RMK HZ MMPG 241540Z 35006KT 10SM SCT200 24/17 A2988 RMK 8/006 SKBQ 241600Z 14010KT 9999 SCT012 BKN070 31/26 A2989 SKCL 241600Z 22005KT 6000 VCSH BKN010 BKN090 22/21 A3010 RMK/VCSH/E AD OPER IMC MMPN 241547Z 15006KT 4SM SCT110 BKN300 22/12 A3024 RMK 8/071 HZY FU MMOX 241545Z 00000KT 7SM SKC 22/13 A3024 RMK HZY CU FRMG MMPQ 241651Z 00000KT 4SM SKC 30/23 A2986 RMK HZY MSGTX MMMD MMPR 241542Z 00000KT 15SM BKN250 27/18 A2993 RMK 8/002 MMPS 241545Z 21006KT 15SM SKC 31/22 A3004 RMK HZY K01M 241635Z AUTO 20008G17KT 10SM CLR 25/09 A2993 RMK AO2 T02500087 YHBA 241630Z AUTO 24001KT 9999 // SCT110 18/17 Q1014 SKEJ 241600Z 26006KT 9999 SCT010 SCT070 26/23 A2988 YFRT 241630Z AUTO 06010KT //// // ////// 19/06 Q1012 BKPR 241630Z 35007KT 9999 FEW030CB SCT050 BKN090 15/11 Q1009 NOSIG MMQT 241545Z 32006KT 7SM BKN200 23/06 A3030 RMK 8/003 FYWB 241400Z 32007KT CAVOK 21/10 Q1012 MMSD 241640Z 00000KT 15SM BKN160 OVC220 26/07 A2997 RMK 8/077 BINOVC FYWE 241400Z 29006KT CAVOK 24/M00 Q1020 MNJG 241600Z 36004KT 9999 FEW020 25/16 Q1015 YGLA 241630Z AUTO 21005KT 9999 // NCD 20/19 Q1014 FYWH 241400Z 32008KT 9999 FEW050 24/01 Q1019 TAPA 241600Z 11009KT 9999 FEW019 BKN270 29/22 Q1016 NOSIG MMTC 241543Z 34005KT 10SM BKN200 25/M01 A3008 RMK 8/002 MMSL 241545Z 35016KT 12SM BKN030 BKN050 OVC080 28/06 A2999 RMK 8/82/ PCPN 3 AND 4QUAD YHAY 241630Z AUTO 13005KT //// // ////// 08/05 Q1019 MMRX 241543Z 13003KT 10SM FEW025 FEW130 26/18 A2982 RMK 8/130 HZY FU GQNN 241630Z 32010KT 8000 NSC 35/08 Q1008 NOSIG YGLI 241630Z AUTO 11005KT //// // ////// 05/03 Q1020 MMSP 241549Z 00000KT 15SM SKC 23/02 A3024 RMK CI MMTG 241650Z 12006KT 4SM SCT020 32/19 A2995 RMK 8/100 FU HZ ARND MMTJ 241445Z 18003KT 7SM SKC 15/08 A3001 RMK SLP169 52009 923 HZY MNJU 241600Z 07004KT 9999 FEW020 32/22 Q1013 MMTM 241541Z 15010KT 7SM FEW030 SCT070 27/20 A2984 RMK 8/530 HZY/CI YFTZ 241600Z AUTO 02003KT //// // ////// 22/07 Q1010 FYWW 241400Z 30006KT CAVOK 25/03 Q1019 MMTO 241546Z 32005KT 7SM BKN200 17/03 A3044 RMK 8/002 HZY CU MMTP 241643Z 00000KT 5SM BKN040TCU 30/26 A2992 RMK 8/200 HZY YGLS 241630Z AUTO 11005KT //// // ////// 22/06 Q1015 MMVA 241640Z 04006KT 7SM FEW020 31/25 A2988 RMK 8/100 HZY SKIB 241600Z VRB03KT 9000 VCFG BKN013 OVC080 24/21 A3022 RMK/AD OPR IMC MMUN 241642Z 11008KT 8SM SCT015 29/21 A2998 RMK 8/500 K04V 241635Z AUTO 29007G18KT 10SM CLR 08/M16 A3014 RMK AO2 K06D 241635Z AUTO 18006KT 3/4SM BR OVC002 04/04 A2970 RMK AO2 K04W 241646Z AUTO 09008KT 5SM RA OVC006 03/03 A2980 RMK AO2 P0008 MNMG 241600Z 10012KT 9999 SCT023 SCT300 321/20 Q1013 A2991 NOSIG GQPP 241600Z 31016KT 6000 VCBLDU NSC 25/15 Q1012 NOSIG SKIP 241600Z 00000KT 9999 BKN018 14/10 A3053 MMVR 241545Z 20008KT 7SM FEW010 30/21 A2986 RMK 8/100 HZY K08D 241635Z AUTO 27018G22KT 10SM CLR 11/00 A2969 RMK AO2 LWOH 241400Z 15004KT 9999 FEW025 SCT040 BKN050 15/11 Q1009 SLCA 241600Z 00000KT 9999 OVC027 22/17 Q1023 SLCB 241600Z 12003KT 9999 FEW027 SCT200 22/09 Q1028 SKLC 241600Z 20003KT 9000 SCT015 BKN200 28/28 A2987 RMK HZ LXGB 241550Z 27017KT 9999 FEW035 19/09 Q1020 NOSIG MNPC 241600Z 09004KT 8000 BKN016 31/25 Q1013 HZ NFFN 241600Z 11008KT 9999 FEW030 SCT050 BKN300 25/19 Q1010 NOSIG YHID 241630Z AUTO 17008KT 9999 // NCD 25/23 Q1008 SKMD 241600Z 00000KT 9999 FEW025 OVC080 21/16 A3016 MMZC 241549Z 29009KT 10SM SCT200 22/00 A3031 RMK 8/005 SLCO 241600Z 12006KT 9999 SCT012 BKN015 BKN080 28/24 Q1015 SLCP 241600Z 12006KT 9999 BKN017 27/21 Q1020 MMZH 241545Z 23007KT 8SM SCT250 30/23 A2993 RMK 8/002 HZY SKLT 241600Z 18003KT 9999 BKN012 BKN080 28/25 A2996 MMZO 241545Z 00000KT 7SM SCT020 BKN100 OVC250 28/25 A2993 RMK 8/136 HZY SKMR 241600Z 00000KT 9999 FEW015 OVC100 29/25 A2984 K11R 241635Z AUTO 19011G16KT 10SM SCT026 SCT045 25/18 A2988 RMK AO2 T02500182 YGTE 241630Z AUTO 08003KT //// // ////// 25/25 Q1005 YGTH 241630Z AUTO 13009KT 9999 // NCD 10/08 Q1018 K12N 241554Z AUTO 32010G24KT 280V020 11/M10 A2996 RMK AO1 SLP148 T01061100 YHLC 241630Z AUTO 10002KT //// // ////// 21/06 Q1012 MNRS 241600Z 08008KT 9999 SCT018 29/23 Q1013 SLET 241600Z 16015KT 9999 FEW017 BKN070 27/17 Q1018 TBPB 241600Z 08013KT 9999 SCT018 BKN300 30/24 Q1016 NOSIG SKPC 241600Z 00000KT 9999 TS SCT017CB SCT070 28/25 A2988 REDZ RMK CB/NW LWSK 241630Z 13005KT 9999 -RA FEW036 SCT050 BKN090 16/13 Q1008 NOSIG YGTN 241630Z AUTO 13003KT //// // ////// 24/19 Q1012 SKNV 241600Z 05003KT 3000 +DZ BKN010 SCT090 22/21 A3008 SKPE 241600Z VRB02KT 3500 BCFG SCT009 SCT080 22/18 A3017 LYBE 241630Z 04007KT 9999 BKN033 16/15 Q1010 NOSIG MPBO 241600Z 20006KT 360V060 9000 FEW018 SCT100 Q1017 SKPS 241600Z 00000KT 8000 VCFG SCT020 BKN080 19/16 A3026 YHML 241630Z AUTO 09008KT 9999 // NCD 05/03 Q1020 MPDA 241600Z 00000KT 9999 FEW018 SCT140 32/23 Q1011 LYBT 241630Z 04006KT CAVOK 16/16 Q1010 NOSIG SKPV 241600Z 08004KT 9999 FEW018 BKN200 29/24 SKRG 241600Z 00000KT 9999 FEW012 OVC200 17/14 A3035 SKRH 241600Z 09016KT 9999 FEW020 SCT080 32/22 A2989 K14Y 241645Z AUTO 00000KT 5SM BKN008 OVC014 04/03 A2975 RMK AO2 NFNA 241600Z 12005KT 9999 FEW020 SCT048 BKN110 26/20 Q1012 K0A9 241635Z AUTO 00000KT 10SM CLR 21/01 A3003 RMK SLJE 241500Z 12005KT 9999 BKN015 28/23 Q1020 SKSM 241600Z 27006KT 9999 FEW015 SCT200 30/25 A2986 YHOO 241630Z AUTO 00000KT //// // ////// 18/09 Q1011 SLJO 241600Z 14006KT 9999 SCT017 BKN080 28/23 Q1015 SKSP 241600Z 08006KT 9999 FEW018 29/25 AXXXX YHOT 241630Z AUTO 32003KT 9999 // ////// 01/01 Q1020 SKUC 241600Z 29004KT 8000 VCSH SCT006 SCT030 24/23 A2997 RETSRA RMK VCSH/W-NW K19A 241635Z AUTO 11007KT 10SM CLR 21/M07 A3007 RMK AO2 TDCF 241200Z 00000KT 9999 SCT020 27/25 Q1016 SKUI 241600Z 00000KT 9999 BKN016 BKN200 28/24 A2989 NGFU 241600Z 00000KT 9999 FEW020 29/25 Q1007 K0E0 241635Z AUTO 36003KT 10SM CLR 13/M15 A3016 RMK AO2 T01301146 K21D 241631Z AUTO 07006KT 5SM -RA BKN007 OVC011 05/04 A2976 RMK AO2 P0004 SLMG 241600Z 12006KT 9999 SCT017 BKN080 29/23 Q1017 SLLP 241600Z 23004KT 140V300 9999 FEW006 SCT016 BKN200 11/02 Q1040 YJAB 241630Z AUTO 13001KT //// // ////// 27/24 Q1006 K20V 241635Z AUTO 22009KT 194V274 10SM CLR 05/M13 A3014 RMK AO2 K0F2 241635Z AUTO 29019G26KT 10SM CLR 22/13 A2983 RMK AO2 T02200134 SKVP 241600Z 26003KT 8000 SCT012 BKN090 29/24 A2996 RMK HZ K0CO 241635Z AUTO 31032G40KT 10SM CLR M08/M14 A3008 RMK AO2 YHSM 241630Z AUTO 10011KT //// // NCD 05/03 Q1020 SKVV 241600Z 00000KT 6000 -DZ BKN015 SCT080 24/22 A3006 HKEL 241600Z 08007KT 9999 FEW019CB BKN260 20/10 Q1021 HKEM 241400Z 11008KT 9999 FEW020CB BKN021 24/16 YHUG 241630Z AUTO 10005KT //// // ////// 22/17 Q1013 NFTF 241600Z 14007KT 9999 FEW017 23/18 Q1014 SLOR 241600Z 34005KT 9999 FEW017 SCT200 15/04 Q1038 HKGA 241400Z 14005KT 9999 FEW031CB SCT032 35/22 Q1008 K24J 241655Z AUTO 00000KT 10SM FEW070 29/18 A3001 RMK AO1 NFTL 241200Z 10011KT 9999 FEW020 25/18 Q1013 SLPO 241500Z 00000KT 9999 NSC 13/01 Q1040 SLPS 241600Z 00000KT 9999 BKN017 31/23 Q1014 SLRB 241600Z 00000KT 9999 BKN020 28/23 Q1019 NFTV 241600Z 14010KT 9999 CAVOK 25/19 Q1012 LYKV 241630Z VRB02KT 2000 +TSRA SCT027CB SCT030 13/13 Q1010 NOSIG MPMG 241600Z 19003KT 9999 SCT016TCU 32/25 Q1012 NOSIG K0J4 241558Z AUTO VRB05KT 10SM SCT029 26/18 A3002 RMK AO2 SLP161 T02560178 $ SLRI 241600Z 00000KT 0800 +RA BKN004 OVC070 24/24 Q1016 K1A5 241635Z AUTO 15007KT 10SM CLR 20/M01 A3008 RMK AO2 T01981013 SLSA 241600Z 13010KT 9999 SCT017 BKN080 28/22 Q1015 K1A6 241635Z AUTO 18008KT 10SM CLR 21/00 A3002 RMK AO2 T02130000 SLSB 231800Z 12006KT 9999 BKN017 27/22 Q1013 A2992 HR75 RWY NML K1A9 241635Z AUTO 13005KT 10SM SCT070 24/11 A2999 RMK AO2 T02360106 SLRQ 241600Z 15015KT 9999 BKN017 SCT070 29/23 Q1017 SLSI 241600Z 00000KT 9999 SCT017 27/22 Q1017 LYNI 241630Z 34004KT 9999 -RA FEW020 BKN033 16/16 Q1009 NOSIG K1B7 241610Z 19006KT 10SM FEW015 SCT021 24/19 A3000 SLRY 241600Z 18008KT 9999 BKN015 28/22 Q1018 SMJP 241600Z 08010KT 9999 VCSH BKN025 29/24 Q1012 NOSIG SLTJ 241600Z 00000KT 9999 SCT027 22/14 Q1024 MPPA 241600Z 19006KT 9000 FEW015 SCT020 BKN090 Q1012 SLSU 241600Z 04006KT 9999 BKN020 16/10 Q1033 K28J 241635Z AUTO 19004KT 10SM CLR 28/18 A3001 RMK AO2 HKJK 241630Z 05009KT 9999 FEW023 SCT090 20/15 Q1020 NOSIG LYPG 241630Z 09004KT 030V140 9999 -RA FEW020 BKN040 16/15 Q1008 RETSRA NOSIG SLTR 241600Z 15011KT 9999 FEW015 SCT080 30/21 Q1017 HKKG 241300Z 27008KT 9999 FEW023CB BKN280 27/19 HKKI 241600Z 30013KT 9999 FEW024CB SCT090 SCT290 26/19 Q1013 ZBAA 241630Z 12002MPS 7000 NSC 17/09 Q1016 NOSIG HKKS 241600Z 00000KT 9999 FEW020CB SCT021 BKN260 22/18 LZIB 241630Z 12008KT 9999 VCTS FEW045CB BKN070 18/10 Q1013 TEMPO -SHRA FEW040TCU BKN055 SLVM 241600Z 00000KT 9999 SCT017 BKN070 24/20 Q1020 HKMB 240100Z 17022KT CAVOK 19/17 HKKT 241600Z 00000KT 9999 FEW020CB BKN090 21/14 K1F0 241635Z AUTO 29010G19KT 10SM 23/15 A2976 RMK AO2 SLUY 231800Z 34010KT 9999 FEW026 FEW030CB 09/M01 Q1034 A3054 658.4 HR51 CB/NE/E CI HKME 241300Z 00000KT 9999 FEW024 BKN230 24/16 HKLO 241300Z 09016KT 9999 FEW033 BKN330 35/17 SLVR 241600Z 17015KT 9999 FEW012 BKN070 BKN200 26/18 Q1018 HKLU 241400Z 16005KT 9999 FEW026CB 32/25 HKML 241600Z 18006KT 9999 SCT024 28/24 Q1011 HKNC 241600Z 08007KT 9999 SCT020 20/15 Q1021 HKMO 241600Z 16005KT 9999 FEW025CB 28/24 Q1011 NOSIG GUCY 241600Z 30016KT 9999 SCT110 31/23 Q1008 NOSIG SLYA 241600Z 00000KT 9999 BKN020 OVC070 23/17 Q1022 YJLC 241630Z AUTO 08007KT //// // ////// 27/17 Q1011 HKNI 241300Z 23003KT 9/9 FEW022TCU BKN080 21/16 HKNK 241500Z 36005KT 9999 FEW024CB SCT025 SCT300 23/11 TDPD 241600Z 10011KT 9999 SCT022 29/23 Q1017 HKMU 241300Z 09006KT 9999 FEW028CB SCT029 29/19 K1H2 241635Z AUTO 15016G21KT 10SM CLR 19/01 A2990 RMK AO2 T01880013 CERM 241600Z AUTO 31004KT 01/M00 RMK AO1 8PAST HR SOG 04 2021 SLP052 P0007 T00101003 50047 HKNO 241300Z 09008KT 9999 FEW025 BKN300 26/10 HKMY 241600Z 10003KT 9999 FEW022 SCT280 26/16 K33V 241636Z AUTO 24009G15KT 10SM CLR 03/M11 A3009 RMK AO2 HKNW 241300Z 06010KT 9999 BKN025 24/16 Q1018 MPTO 241600Z 00000KT 9000 SCT018TCU SCT080 ///// Q1011 NOSIG NGTT 241100Z 04004KT 9999 -SHRA BKN010CB OVC100 25/24 Q1010 -RE SH RMK RR 2.0 MM YIVO 241630Z AUTO 15007KT //// // ////// 11/08 Q1017 LYTV 241630Z 18003KT 120V240 9999 FEW030 SCT040 18/15 Q1008 NOSIG LZKZ 241630Z 02006KT CAVOK 21/10 Q1013 LYUZ 241630Z VRB06KT 1000 BR BKN002 BKN015 11/11 Q1011 LYVR 241630Z 34003KT 9999 FEW023 18/16 Q1010 NOSIG K1II 241635Z AUTO 13010G20KT 10SM CLR 16/02 A3001 RMK AO2 K36U 241635Z AUTO 00000KT 10SM SCT095 06/M06 A3010 RMK AO2 GVAC 241600Z 05016KT 9999 FEW013 25/18 Q1014 NOSIG SOCA 241630Z AUTO 08014KT 9999 BKN027 BKN032 30/22 Q1012 GVBA 241600Z 05017KT 9999 FEW015 26/18 Q1014 NOSIG K2C8 241635Z AUTO 15010KT 3SM BR OVC003 04/04 A2975 RMK AO2 K40B 241616Z AUTO VRB04KT 02/02 A2967 RMK AO1 SLP064 T00220016 52023 P0004 ZBHH 241600Z 02004G10MPS 330V050 9999 SCT040 FEW040TCU 08/M00 Q1020 NOSIG K1M4 241556Z AUTO 19010KT 150V220 10SM CLR 23/07 A3000 RMK AO2 T02270072 SLP171 $ K2D5 241635Z AUTO 27006KT 10SM FEW010 09/08 A2973 RMK AO2 K40J 241635Z AUTO 13003KT 10SM CLR 26/17 A3001 RMK AO2 YKII 241630Z AUTO 10004KT 9999 // OVC047 09/07 Q1020 LZPP 241630Z 17002KT 9999 FEW045 SCT080 19/11 Q1013 HLLM 241550Z 33005KT 8000 NSC 20/14 Q1019 YLBD 241630Z AUTO 21003KT 9999 // NCD 23/23 Q1008 K42J 241635Z AUTO 22005KT 10SM FEW040 FEW110 28/17 A3002 RMK AO1 MSAC 241550Z 26005KT 9999 BKN040 31/25 Q1011 A2988 HLLT 241650Z 36005KT CAVOK 21/09 Q1018 K1P1 241655Z AUTO 30016G23KT 10SM 08/M03 A2976 RMK AO2 T00811031 TFFF 241630Z AUTO 08016KT 9999 BKN027 BKN046 BKN056 29/22 Q1016 HKVO 241600Z 27016KT 9999 FEW020CB OVC021 23/21 RETSSHRA K2G4 241635Z AUTO 32004KT 10SM OVC120 07/M15 A3008 RMK AO1 K2DP 241556Z AUTO 33007G13KT 280V350 12SM CLR 15/M02 A3013 RMK AO2 SLPNO T01531020 HKWJ 241500Z 12010KT 9999 FEW028CB BKN320 29/22 Q1008 LZSL 241630Z 14004KT 080V180 9999 FEW040TCU SCT050 21/10 Q1013 TFFR 241630Z 13014KT 9999 SCT028 BKN260 30/20 Q1016 NOSIG MRLB 241700Z 11007KT CAVOK 34/18 A2987 K2I0 241635Z AUTO 19005KT 10SM CLR 22/05 A2993 RMK AO2 T02190052 YLEC 241630Z AUTO 11003KT //// // ////// 14/05 Q1016 K1R7 241655Z AUTO 18009G15KT 9SM CLR 26/16 A2996 RMK AO2 LZTT 241646Z 04015KT 010V090 9999 4000E -TSRA SCT036CB SCT050 15/11 Q1015 MRLM 241600Z 11008KT CAVOK 30/23 A2993 YKMP 241630Z AUTO 25002KT //// // ////// 12/11 Q1015 SMZO 241600Z 06010KT 9999 SCT030 31/22 Q1013 NOSIG K46D 241635Z AUTO 31009KT 10SM CLR 10/05 A2971 RMK AO2 K2J9 241235Z AUTO 00000KT 4SM SCT070 18/18 A3001 RMK AO1 YLEO 241600Z AUTO 25009KT 9999 // SCT093 BKN120 21/13 Q1012 YKNT 241630Z AUTO 11012KT //// // ////// 25/04 Q1014 MROC 241600Z 11008KT 9999 FEW030 SCT120 BKN200 29/14 A3005 NOSIG AYMO 240600Z 31005KT 9999 SCT018 OVC140 27/23 Q1006= YKOW 241630Z AUTO 12005KT //// // ////// 24/23 Q1009 YLHI 241630Z AUTO 00000KT 9999 // NCD 19/18 Q1017 K1V4 241554Z AUTO 06/M05 A2980 RMK AO1 SLP094 T00611050 K1V6 241220Z AUTO 28004KT 10SM CLR 01/00 A3003 RMK AO2 SPCL 241606Z 00000KT 7000 -DZ BKN010 OVC070 24/214 Q1016 YLHR 241630Z AUTO 33003KT //// // ////// 24/24 Q1009 LZZI 241630Z 05012KT CAVOK 20/09 Q1014 YKSC 241630Z AUTO 25004KT 9999 // NCD 03/03 Q1018 MRPV 241600Z 09007KT 9999 FEW045 BKN250 27/15 A3007 NOSIG YMBA 241630Z AUTO 13005KT //// // ////// 22/20 Q1012 YLIS 241600Z AUTO 36006KT 8000 // NCD 14/14 Q1015 ZBSJ 241600Z 15002MPS CAVOK 16/13 Q1016 NOSIG OAHR 241640Z 31007KT 6000 TS FEW015CB SCT100 19/08 Q1012 RMK SCT VIS MIN 6000 WHT YMBD 241630Z AUTO 25001KT //// // ////// 06/04 Q1019 YKRY 241630Z AUTO 00000KT //// // ////// 11/10 Q1017 ZBTJ 241630Z 18002MPS 8000 NSC 16/11 Q1016 NOSIG AYPY 241600Z 00000KT 9999 SCT040 OVC140 25/24 Q1007 OAKB 241650Z 30003KT 9999 BKN060 12/08 Q1020 NOSIG RMK BLU BLU YMAV 241630Z AUTO 28006KT 9999 // NCD 06/04 Q1021 YLLE 241600Z AUTO 16008KT //// // ////// 19/04 Q1013 YMAY 241630Z AUTO 35003KT 9999 // NCD 07/06 Q1019 GVNP 241600Z 02016KT 9999 FEW015 28/15 Q1013 NOSIG OBBI 241600Z 31009KT CAVOK 28/20 Q1010 NOSIG K54J 241635Z AUTO 19004KT 10SM CLR 25/17 A3001 RMK AO2 T02530171 SPGM 241600Z /////KT 9999 FEW025 BKN100 24/21 Q1019 RMK BIRD HAZARD RWY 19 PP000 YMCO 241630Z AUTO 30007KT //// // ////// 11/05 Q1021 NIUE 240300Z 17011KT 9999 SCT020 BKN300 27/22 Q1009 RMKS OAKN 241602Z COR 04007KT 9999 SKC 21/11 Q1013 RMK A2991 DA5042 BLU K3I2 241635Z AUTO 08007KT 10SM CLR 17/M07 A3011 RMK AO2 YMDG 241630Z AUTO 18008KT //// // SCT095 BKN110 15/08 Q1018 SPHI 241600Z 19013KT CAVOK 28/19 Q1013 RMK PP000 SPHO 241600Z 03004KT 9999 FEW046 BKN100 19/12 Q1028 RMK PP000 MSLP 241550Z VRB03KT 9999 SCT033 32/25 Q1013 A2991 K4A6 241635Z AUTO 20006KT 10SM CLR 22/05 A3000 RMK AO2 YMEK 241630Z AUTO 18011KT 9999 // SCT110 23/09 Q1013 K3J7 241635Z AUTO 00000KT 10SM CLR 23/07 A3002 RMK AO2 MSLU 241550Z 12009KT 9999 FEW037 29/22 Q1012 A2988 K1YT 241616Z AUTO 21009G24KT 12SM BKN050 10/06 A2972 RMK AO2 SPIM 241600Z 17013KT CAVOK 23/17 Q1014 NOSIG RMK SCT170 BIRD HAZARD RWY 15 PP000 K4A9 241635Z AUTO 00000KT 10SM CLR 22/00 A3000 RMK AO2 YMEN 241630Z AUTO 03005KT 9999 // NCD 08/05 Q1020 SPHY 241600Z 01006KT 8000 SCT012 OVC040 10/07 Q1037 RMK BIRD HAZARD RWY03/21 PP000 YMER 241630Z AUTO 27005KT 9999 // NCD 07/05 Q1022 YMES 241630Z AUTO 22003KT 9999 // NCD 03/03 Q1022 SPJI 241600Z 00000KT 9999 BKN030 26/24 Q1024 RMK PP000 YMGB 241630Z AUTO 16005KT //// // ////// 25/24 Q1006 OAMS 241650Z 12005KT 9999 FEW080 BKN120 22/12 Q1011 BLU BLU YMGD 241630Z AUTO 00000KT 9999 // NCD 25/25 Q1005 SPJL 241600Z VRB03KT CAVOK 15/01 Q1040 RMK PP000 SPJR 241630Z 19006KT 9999 SCT025 BKN040 20/12 Q1029 YMHB 241630Z 35008KT CAVOK 07/01 Q1017 ZBYN 241630Z 09004MPS 3000 DU FEW040 16/10 Q1016 NOSIG AYWK 240600Z 32008KT 9999 FEW018CB FEW018 BKN300 31/25 Q1005 RMK K2V5 241655Z AUTO 31013G22KT 10SM CLR 16/M09 A2998 RMK AO2 T01621093 YMIA 241630Z AUTO 13004KT 9999 // NCD 10/04 Q1018 YLRE 241630Z AUTO 04004KT 9999 // NCD 18/07 Q1013 SPME 241600Z 35006KT CAVOK 23/22 Q1011 RMK BIRD HAZARD RWY 32/14 PP000 SPLO 241600Z 17007KT 9999 SCT030 22/17 Q1012 RMK PP000 K4BM 241635Z AUTO 21007G16KT 10SM CLR 01/M16 A3014 RMK AO2 GVSV 241600Z 06027KT 9999 FEW022 26/16 Q1014 NOSIG K3LF 241635Z AUTO 15016G20KT 10SM CLR 18/05 A2984 RMK AO2 LTG DSNT NW T01800049 K2W6 241636Z AUTO 27007KT 10SM CLR 13/M08 A3009 RMK AO1 YMHU 241630Z AUTO 11006KT 9999 // NCD 25/22 Q1008 K3N8 241635Z AUTO 18008KT 7SM RA SCT008 OVC013 04/02 A2978 RMK AO2 T00360022 YMIN 241630Z AUTO 09012KT //// // ////// 10/08 Q1017 SPMS 241600Z 17003KT 9999 SCT020 BKN120 28/22 Q1017 RMK PP000 MSSA 241550Z 06007KT 9999 SCT037 Q1019 A3012 YNAR 241630Z AUTO 00000KT //// // ////// 08/06 Q1019 YLST 241600Z AUTO 19009KT 9999 // BKN120 22/12 Q1012 MSSM 241550Z 26004KT 8000 SCT035 30/23 Q1011 A2988 DAAD 241600Z 12006KT 9999 FEW033 29/09 Q1016 K3MW 241636Z AUTO 25008KT 10SM CLR M03/M11 A3016 RMK AO2 PWINO DAAE 241600Z 09006KT 9999 FEW020 BKN233 21/14 Q1016 YNBR 241630Z AUTO 17009KT //// // ////// 19/12 Q1017 YMMB 241630Z AUTO 00000KT 9999 // NCD 07/05 Q1020 DAAG 241630Z 02006KT CAVOK 23/11 Q1016 MSSS 241550Z 00000KT 3000 BR SCT040 26/24 Q1017 A3003 YLTV 241630Z AUTO 00000KT 9999 // NCD 02/02 Q1021 DAAJ 241600Z 14005KT 4500 HZ NSC 34/M02 Q1015 DABB 241630Z 08010KT CAVOK 19/15 Q1016 DABC 241630Z 00000KT 9999 FEW030 BKN233 22/08 Q1018 MUCF 241550Z 22009KT 180V250 9999 FEW025 30/19 Q1016 K4I3 241635Z AUTO 10008KT 10SM CLR 12/M06 A3011 RMK AO2 K2WX 241556Z AUTO 28020KT 11/M03 A2977 RMK AO1 PK WND 28037/1546 SLP087 T01111033 DAAP 241600Z 08010KT 4000 HZ NSC 32/05 Q1013 YMLT 241630Z AUTO 33005KT 9999 // NCD 00/M02 Q1019 K4I7 241635Z AUTO 14014G20KT 10SM SCT120 16/03 A2997 RMK AO2 K3R7 241635Z AUTO 20007G16KT 10SM BKN030 BKN034 26/19 A2994 RMK AO2 T02550186 YMML 241630Z 35004KT 9999 FEW037 06/04 Q1021 RMK HZ NOSIG YMNE 241630Z AUTO 21012KT 9999 // BKN120 23/10 Q1013 DAAS 241600Z 26011KT CAVOK 23/01 Q1019 MUCL 241551Z 10008KT 070V140 9999 FEW025 29/19 Q1016 DAAT 241630Z 25013KT 200V280 CAVOK 33/M03 Q1016 MUCM 241550Z 06005KT 360V130 9000 SCT020 30/18 Q1017 YMNG 241630Z AUTO 22006KT 9999 // NCD 06/03 Q1019 DAAV 241600Z 36006KT CAVOK 22/13 Q1016 TGPY 241600Z 13020G30KT 9999 FEW021TCU SCT040 29/25 Q1014 NOSIG TCU-NE DAAY 241600Z 24012KT 9999 SCT030 27/03 Q1021 SPQT 241610Z 13003KT 9999 -DZ SCT009 SCT020 BKN100 27/24 Q1014 K65S 241635Z AUTO 00000KT 4SM -RA BKN004 BKN010 03/02 A2979 RMK AO2 P0002 SPQU 241600Z 24007KT 200V280 CAVOK 22/M09 Q1027 NOSIG RMK PP000 YNEN 241630Z AUTO 21005KT 9999 // NCD 29/22 Q1009 DABS 241630Z 30008KT CAVOK 25/M03 Q1018 MUCU 241550Z 17008KT 9999 FEW020TCU 29/21 Q1016 DABT 241600Z 26014KT 9999 FEW026 SCT200 25/M01 Q1018 YMOG 241600Z AUTO 32006KT //// // ////// 18/14 Q1013 K3T5 241635Z AUTO 22006KT 10SM BKN026 BKN033 BKN041 25/20 A2988 RMK AO2 T02520201 SPRU 241600Z 19006KT CAVOK 23/17 Q1013 RMK PP000 K5C1 241630Z AUTO 00000KT 10SM OVC011 21/17 A2992 RMK AO1 SPSO 241600Z 29005KT 240V310 7000 SCT100 23/18 Q1014 RMK BIRD HAZARD RWY 22/04 PP000 YMOR 241630Z AUTO 16006KT 9999 // SCT110 20/09 Q1016 DAEF 241600Z 08012KT 8000 NSC 31/07 Q1014 SPST 241600Z 00000KT 9000 3000N/E SCT010 SCT015 OVC050 27/22 Q1016 RMK RA/N/E BIRD HAZARD RWY 17/35 PP000 SPTN 241600Z 18003KT CAVOK 22/14 Q1013 RMK PP000 DAEN 241600Z 09006KT CAVOK 30/02 Q1015 YMRB 241630Z AUTO 14006KT 9999 // BKN091 19/18 Q1014 YNHL 241630Z AUTO 09011KT //// // ////// 07/03 Q1019 DAFH 241600Z /////KT CAVOK 27/05 Q1019 MUHA 241555Z 10005KT 040V140 9000 SCT040 29/17 Q1016 SPTU 241600Z 10005KT 9999 SCT009 32/24 Q1015 RMK BIRD HAZARD RWY 01/19 PP000 K4M9 241635Z AUTO 19019KT 10SM 24/07 A2986 RMK AO2 MUGM 241556Z 15008KT 9999 FEW030 SCT250 31/23 A3001 RMK SLP160 T03130227 MTPP 231800Z 07006KT 9999 SCT027 33/// Q1012/9 A2991 MUHG 241550Z VRB03KT 9999 SCT020 30/20 Q1016 K4O4 241641Z AUTO 20008KT 10SM SCT021 BKN028 BKN033 21/17 A2981 RMK AO2 YMRY 241630Z AUTO 19010KT 9999 // SCT038 BKN066 15/06 Q1021 YMTG 241630Z AUTO 03003KT 9999 // NCD 05/04 Q1020 YMTI 241630Z AUTO 08008KT //// // ////// 23/21 Q1008 K4MR 241556Z AUTO 36011KT 12SM CLR 14/M02 A3013 RMK AO2 SLP161 T01371023 K5H4 241635Z AUTO 29009KT 10SM 11/03 A2970 RMK AO2 SPZA 241530Z 28005KT CAVOK 28/17 Q1015 SPYL 241600Z 16014KT CAVOK 30/21 Q1012 RMK BIRD HAZARD RWY 17/35 PP000 DBBB 241600Z 25006KT 210V290 9999 SCT013 30/27 Q1007 NOSIG K6A2 241635Z AUTO 00000KT 10SM CLR 23/ A3004 RMK AO2 SPZO 241630Z 05004KT 360V110 9999 BKN043 BKN100 16/03 Q1034 UAAA 241630Z 14002MPS 2100 FU FEW200 09/02 Q1006 88CLRD65 NOSIG K6B0 241635Z AUTO 30017G25KT 10SM BKN050 09/M05 A2988 RMK AO2 T00901047 TSNO UACC 241630Z 15004MPS CAVOK 08/M02 Q1003 R22/0/0070 NOSIG RMK QFE721/0962 DAOB 241600Z 30012KT 9999 FEW026 SCT216 25/06 Q1018 TJBQ 241550Z 03008KT 10SM SCT040 30/22 A3004 RMK RWY 08 ATIS M DAOF 241600Z 00000KT 9000 NSC 34/M03 Q1016 YNRC 241630Z AUTO 13003KT //// // ////// 04/03 Q1020 UACK 241130Z 22011MPS CAVOK 16/M12 Q1004 R20/010070 NOSIG RMK QFE730/0973 DAOI 241600Z 30013KT 9999 FEW030 SCT100 BKN233 26/11 Q1015 K79J 241556Z AUTO VRB03KT 10SM SCT065 28/18 A3000 RMK AO2 SLP155 T02830178 UADD 241630Z 27010MPS 9999 NSC 21/08 Q1005 R31/0///65 NOSIG RMK QFE696/0929 K5M9 241635Z AUTO 16005KT 10SM CLR 20/06 A2991 RMK AO2 T02030060 DAOL 241100Z 31006KT CAVOK 24/07 Q1019 UACP 241130Z 21009MPS 9999 FEW040 OVC100 16/M07 Q1003 R23/0/0060 NOSIG RMK QFE739/0986 DAON 241630Z 02010KT 9999 FEW026 SCT233 21/11 Q1018 DAOO 241630Z 24014KT 9999 FEW023 BKN100 23/09 Q1017 YPAD 241630Z 00000KT CAVOK 09/06 Q1018 NOSIG DAOR 241600Z 23010KT CAVOK 29/M07 Q1019 YPAG 241630Z AUTO 14007KT //// // NCD 15/11 Q1016 DAOV 241600Z 35012KT 9999 FEW030 SCT233 24/09 Q1017 YNSM 241600Z AUTO 01008KT //// // ////// 21/10 Q1008 OEAB 241600Z 21008KT 9999 FEW020 22/10 Q1023 NOSIG OEAH 241600Z 04010KT CAVOK 31/11 Q1010 NOSIG YPCC 241630Z AUTO 20008KT 9999 // BKN038 28/22 Q1009 OEBA 241600Z 09010KT 9999 FEW030 29/02 Q1018 NOSIG YOLD 241630Z AUTO 00000KT 9999 // NCD 10/07 Q1016 YNTN 241630Z AUTO 04006KT //// // ////// 24/24 Q1010 YPBO 241630Z AUTO 29007KT 9999 // NCD 27/06 Q1012 K82V 241635Z AUTO 30020G28KT 10SM CLR 11/M09 A2998 RMK AO2 OEAO 241600Z 25010KT CAVOK 36/01 Q1011 OEBH 241600Z 05008KT 9999 FEW029 31/M01 Q1014 NOSIG MWCB 241600Z 10008KT 9999 FEW018 31/24 Q1016 YPEA 241600Z AUTO 35004KT 9999 // SCT023 OVC100 18/15 Q1010 YPED 241630Z AUTO 02002KT 9999 // SCT064 09/05 Q1018 K5R8 241635Z AUTO 19010KT 10SM BKN027 BKN055 25/18 A2992 RMK AO2 T02460175 YOLW 241630Z AUTO 26007KT //// // ////// 24/21 Q1010 YPDN 241630Z 22006KT CAVOK 27/25 Q1007 DAUA 241600Z 02016KT 9000 DRSA NSC 33/// Q1013 DAUB 241600Z 00000KT CAVOK 29/07 Q1015 TJIG 241648Z 09015KT 8SM SCT025 BKN100 29/23 A3002 RMK RY09 IN USE ATIS G DATM 241200Z 34005KT 7000 NSC 35/M03 Q1012 OEDF 241600Z 01006KT CAVOK 30/09 Q1010 NOSIG DAUE 241600Z /////KT CAVOK 28/M00 Q1017 UAII 241630Z 21004G09MPS 9999 -SHRA BKN043CB OVC100 17/13 Q1008 R28/1///60 TEMPO 23017G22MPS 3000 -SHRA BR OVC030CB RMK QFE719/0959 MWCR 241600Z 13007KT 090V180 9999 SCT018 30/24 Q1015 NOSIG DAUG 241600Z 09005KT 170V280 CAVOK 28/M03 Q1018 DAUH 241630Z 08006KT CAVOK 30/10 Q1016 YOOD 241630Z AUTO 07003KT //// // ////// 15/05 Q1015 DAUI 241600Z 06015KT 7000 NSC 33/03 Q1012 YNWN 241630Z AUTO 05004KT 9999 // NCD 25/03 Q1012 OEDM 241600Z 30007KT 8000 SCT040 34/M02 Q1012 DAUK 241600Z 00000KT CAVOK 30/07 Q1017 DAUL 241600Z 23010KT 9999 FEW033 27/M03 Q1018 DAUO 241600Z /////KT CAVOK 30/10 Q1015 OEDR 241600Z 36011KT CAVOK 29/10 Q1009 NOSIG MUVR 241550Z 09009KT 060V130 9000 SCT020 30/18 Q1017 UBBB 241630Z 30004KT CAVOK 14/09 Q1015 88CLRD70 NOSIG YOOM 241630Z AUTO 18006KT //// // ////// 17/08 Q1014 UAKD 241200Z 12011MPS 7000 OVC100 20/M07 Q1002 R040///65 NOSIG RMK QFE719/0959 DAUT 241600Z 05015KT 9000 NSC 30/05 Q1015 ZGGG 241630Z 07001MPS 4000 BR SCT020 OVC033 24/21 Q1011 NOSIG DAUU 241600Z 00000KT CAVOK 30/01 Q1016 UBBG 241630Z 27012KT 9999 VCTS SCT050CB BKN083 20/02 Q1013 R30/CLRD70 NOSIG ZGHA 241600Z 33003MPS 2200 -DZ BR SCT003 BKN004 OVC050 17/16 Q1012 NOSIG UAKK 241630Z 08003MPS CAVOK 05/M05 Q1005 R05/0///70 NOSIG RMK QFE707/0943 DAUZ 241600Z 08010KT 7000 NSC 29/02 Q1015 TIST 241453Z 14009KT 10SM FEW015 28/24 A3003 RMK AO2 SLP169 T02830244 50004 UBBL 241600Z 14010KT 9999 SCT200 15/12 Q1016 R33/CLRD70 NOSIG RMK MT OP UBBN 241630Z 10005KT 9999 FEW100 16/01 Q1012 R14R/CLRD60 NOSIG RMK MT OP QFE685 TISX 241453Z 14009KT 10SM SCT025 30/23 A3004 RMK AO2 SLP172 T03000228 53003 $ K5SM 241638Z AUTO 00000KT 10SM CLR 00/M11 A3020 RMK AO2 UBBQ 241600Z 15010KT 9999 BKN100 18/06 Q1014 R16/CLRD70 NOSIG RMK MT OBSC YPGV 241630Z AUTO 23002KT 9999 // BKN036 24/24 Q1006 YORG 241630Z AUTO 09006KT 9999 // BKN091 07/06 Q1020 OEGN 241600Z 18003KT 9999 FEW035 31/25 Q1008 NOSIG K7BM 241635Z AUTO 25005KT 10SM CLR 07/M21 A3012 RMK AO2 UBBY 241600Z 14005KT 9999 BKN100 18/09 Q1015 R33/////// NOSIG RMK MT OP OEGS 241600Z 06010KT 8000 FEW100 35/12 Q1011 OEGT 241600Z 08006KT CAVOK 31/M02 Q1009 NOSIG K5W8 241635Z AUTO 10005KT 10SM CLR 17/02 A3011 RMK AO2 T01660022 OEHL 241634Z 09008KT 9999 TS FEW035CB FEW045 30/07 Q1014 UBEE 241400Z 16008KT 9999 SCT040 BKN100 26/07 Q1011 R30/CLRD70 NOSIG YPKA 241630Z AUTO 23006KT 9999 // NCD 25/20 Q1009 YPKG 241630Z AUTO 30012KT 9999 -DZ OVC095 22/10 Q1010 TJMZ 241550Z 09005KT 10SM BKN040 31/21 A3000 TJNR 241606Z AUTO VRB06KT 10SM FEW024 SCT029 OVC038 29/23 A3004 RMK AO2 T02940228 $ YPJT 241630Z AUTO 00000KT //// // ////// 18/17 Q1010 YPLC 241630Z AUTO 31006KT 9999 // NCD 09/08 Q1017 ZHCC 241600Z 12002MPS 6000 NSC 16/11 Q1016 NOSIG ZGKL 241600Z 06002MPS 010V130 1000 R01/P2000 -RA BR FEW003 SCT010 OVC026 18/17 Q1011 NOSIG UAOO 241600Z 09002MPS 030V130 9999 OVC033CB 18/M01 Q0999 NOSIG RMK QFE738/0984 OEJN 241600Z 30004KT CAVOK 31/18 Q1007 NOSIG YPKS 241630Z AUTO 00000KT //// // ////// 10/07 Q1017 YPKT 241630Z AUTO 22005KT //// // ////// 23/21 Q1007 YPKU 241630Z AUTO 00000KT 9999 // NCD 22/20 Q1008 OEKJ 241600Z 00000KT CAVOK 37/M02 Q1012 OEKK 241600Z 03007KT CAVOK 34/12 Q1012 NOSIG YPLM 241630Z AUTO 00000KT 9999 // NCD 24/20 Q1009 OEKM 241600Z 21006KT 9999 FEW022 23/07 Q1023 NOSIG K6R3 241635Z AUTO 17013G18KT 7SM CLR 25/19 A2988 RMK AO2 T02530190 TJPS 241450Z 17010KT 10SM FEW030 SCT050 29/23 A3000 K6R6 241653Z AUTO 36015G21KT 31/M06 A2998 RMK AO1 SLP112 T03111056 OEMA 241600Z 27012KT 9999 SCT045 BKN200 38/M01 Q1011 NOSIG K8A0 241635Z AUTO 17007KT 10SM CLR 22/10 A2999 RMK AO2 K96D 241635Z AUTO 15009KT 2SM BR 04/04 A2975 RMK AO2 YPMQ 241630Z AUTO 00000KT 9999 // NCD 14/11 Q1015 SUAA 241600Z 21007KT 9999 SCT023 20/13 Q1023 YPOD 241630Z AUTO 36006KT 9999 // NCD 05/04 Q1020 OEMK 241600Z 27002KT CAVOK 34/18 Q1008 ZGNN 241600Z 13002MPS 090V180 9999 OVC040 27/24 Q1008 NOSIG SUAG 241000Z 13004KT CAVOK 08/07 Q1021 OENG 241600Z 09004KT CAVOK 30/00 Q1016 NOSIG UARR 241600Z 33008MPS 9999 SCT050CB BKN100 03/M01 Q1008 R04/210265 NOSIG RMK QFE752/1003 TJSJ 241556Z 05010KT 10SM SCT050 SCT130 32/22 A3000 RMK AO2 SLP158 T03170222 UASK 241600Z 14004MPS 9999 FEW230 07/M07 Q1016 R12/010060 NOSIG RMK QFE736/0982 YPPD 241630Z AUTO 23003KT 9999 // NCD 22/20 Q1009 YPPF 241630Z AUTO 29004KT 9999 // NCD 09/05 Q1018 UATE 241630Z 29008MPS CAVOK 12/09 Q1010 R30/0///70 NOSIG RMK QFE756/1008 K7L2 241635Z AUTO 30015G18KT 10SM CLR 14/M02 A2975 RMK AO2 PWINO PNO YPPH 241630Z 03004KT 9999 FEW030 OVC100 17/15 Q1010 RMK DIST SHRA UASP 241600Z 14007MPS CAVOK 08/M08 Q1009 R21/0///70 NOSIG RMK QFE746/0994 UATG 241630Z 35013MPS 5000 BR BKN020CB BKN100 06/02 Q1008 R32/19//68 TEMPO VRB22MPS TSRA SQ RMK QFE758/1011 SUCA 241600Z 13005KT 9999 FEW030 XX/XX QXXXX OEPA 241600Z 36008KT CAVOK 34/15 Q1011 NOSIG ZGOW 241600Z 09003MPS 5000 BR SCT013 OVC033 21/19 Q1013 NOSIG ZHHH 241600Z 03002MPS 360V060 2000 BR SCT026 18/17 Q1013 NOSIG K8D3 241556Z AUTO 00000KT 04/04 A2972 RMK AO1 SLP075 P0002 T00440044 UATT 241630Z 22005MPS 7000 SCT047 OVC100 11/M01 Q0995 R13/CLRD70 TEMPO 20014MPS 3000 DU RMK QFE727/0970 CMGB 241645Z AUTO 33007G15KT 09/M02 RMK AO1 SLP118 T00901018 51003 CMFM 241600Z AUTO 33009G17KT 01/M02 RMK AO1 SOG 48 3018 PK WND 35020/1517 SLP087 T00061018 UAUU 241630Z 18003MPS CAVOK 10/M06 Q0996 R15/CLRD70 NOSIG RMK QFE731/0974 OERF 241600Z 01004KT CAVOK 31/02 Q1011 SUDU 241600Z 14004KT 9999 FEW023 20/09 Q1022 OERK 241600Z 08015KT 7000 NSC 34/06 Q1012 NOSIG OESH 241600Z 06005KT 9999 SCT040 34/09 Q1012 NOSIG OERR 241600Z 10003KT 9999 FEW050 SCT100 31/10 Q1012 NOSIG OETB 241600Z 21010KT CAVOK 34/M03 Q1010 NOSIG OESK 241600Z 08007KT CAVOK 32/00 Q1012 NOSIG YPTN 241630Z AUTO 13004KT 9999 // NCD 24/19 Q1008 UCFM 241630Z 07004MPS CAVOK 16/M02 Q1004 NOSIG UCFO 241630Z 18003MPS 8000 SCT130 19/06 Q1006 NOSIG OETF 241600Z 27013KT CAVOK 27/14 Q1018 NOSIG ZGSZ 241600Z 11003MPS 5000 BR FEW016 BKN033 24/21 Q1012 NOSIG OERY 241600Z 07015KT 6000 FEW100 35/08 Q1012 TKPK 241600Z 11012KT 9999 FEW019 30/23 Q1016 TKPN 241600Z 12009KT 9999 SCT018 BKN270 30/22 Q1016 K7R3 241644Z 17005KT 10SM SCT023 SCT030 BKN038 27/19 A2998 OETR 241600Z 17006KT 9999 SCT030 BKN100 29/02 Q1012 NOSIG SVAC 241600Z 070//KT 9999 BKN017 ///// Q1016 YREN 241630Z AUTO 00000KT //// // ////// 05/02 Q1019 OEWD 241600Z 15008KT CAVOK 35/12 Q1010 NOSIG YPWR 241630Z AUTO 14006KT 9999 // NCD 14/11 Q1016 OEWJ 241600Z 00000KT CAVOK 29/21 Q1007 NOSIG YPXM 241600Z AUTO 29004KT //// // SCT065 SCT077 25/24 Q1011 SVBC 241700Z 36010KT 9999 FEW010 35/22 Q1013 SVBI 241600Z 07005KT 9999 SCT017CB SCT080 31/26 Q1014 SVCB 241600Z 00000KT 9999 BKN013 33/// Q1011 SVBM 241600Z 09006KT 999 FEW016 BKN080 24/22 Q1017 MYGF 241600Z 16005KT 9999 BKN020 28/20 A3000 SVBS 241600Z 14008KT 9999 SCT016 33/26 Q1016 HTAR 241400Z 09010KT 9999 FEW030CB BKN030 26/167 Q1017 K9D7 241635Z AUTO 18005KT 6SM BR OVC005 05/04 A2971 RMK AO2 SVCL 241600Z 07003KT 9999 BKN013 ///// Q1013 SVCN 241600Z 02010KT 9999 OVC030 ///// Q1016 OEYN 241600Z 26008KT CAVOK 32/17 Q1006 NOSIG SVCR 241600Z 07020KT 9999 BKN020 XX/XX Q1013 SULS 241600Z 18010KT 9999 BKN023 18/13 Q1022 SVCU 241600Z 07012KT 9999 SCT013 32/21 Q1011 HTDA 241600Z 00000KT 9999 BKN018 FEW025CB 27/26 Q1012 NOSIG HTBU 241600Z 00000KT 9999 FEW019 FEW021CB BKN240 23/20 Q1014 K9F2 241004Z 19003KT 7SM BKN015 21/19 A2990 SVCZ 241600Z /////KT 9999 SCT020 30/25 Q1009 SUMU 241600Z 14004KT 9999 FEW023 20/09 Q1022 HTDO 241500Z 07015KT 9999 FEW025 FEW026CB 27/15 Q1015 NOSIG YSBK 241630Z AUTO 15007KT 9999 // SCT027 BKN042 OVC053 19/15 Q1019 YSCB 241630Z AUTO 13005KT 9999 // OVC018 10/07 Q1020 TLPC 241600Z 10013KT 9999 BKN024 BKN300 30/22 Q1016 NOSIG SVFM 241300Z /////KT 9999 SCT050 00/00 Q1017 SVGD 241600Z 23002KT 9000 -TSDZ OVC013CB 25/24 Q//// SVGI 241600Z /////KT 9999 FEW010 SCT070 32/29 Q1012 YRMD 241630Z AUTO 08004KT //// // ////// 24/18 Q1011 TLPL 241600Z 10019KT 9999 FEW027 BKN300 30/24 Q1016 NOSIG YSCN 241630Z AUTO 19006KT 9999 // SCT023 BKN029 OVC047 17/14 Q1020 YSCO 241630Z AUTO 30004KT //// // ////// 11/10 Q1017 YSCR 241600Z AUTO 30013KT //// // ////// 19/11 Q1011 SVGU 241600Z 36004KT 9999 BKN017 29/24 Q1013 MZBZ 241600Z 13006KT 090V180 9999 SCT026 30/22 A2994 Q1014 NOSIG YSDU 241630Z AUTO 15012KT 9999 // SCT115 13/10 Q1016 SVJC 241600Z 08023KT 9999 BKN030 31/22 Q1012 YROM 241630Z AUTO 00000KT 9999 // NCD 12/09 Q1015 YSGE 241630Z AUTO 01004KT //// // ////// 18/09 Q1014 SVJM 241600Z /////KT 9999 BKN020 30/16 Q1016 MYNN 241600Z 01006KT 9999 FEW020 27/21 A3003 K9L2 241555Z AUTO 00000KT 10SM CLR 12/M03 A3003 RMK AO2 SLP167 T01171028 $ SUSO 241500Z 11009KT CAVOK 20/10 Q1023 TNCA 241600Z 08022KT 9999 SCT023 30/24 Q1013 A2992 NOSIG HTIR 241600Z 00000KT 9999 SCT021 21/16 Q1016 TNCB 241500Z 08020KT 050V120 9999 SCT018 28/24 Q1014 NOSIG HTKA 241600Z 00000KT 9999 FEW022 FEW023CB BKN260 26/22 Q1015 SVLC 240900Z /////KT 9999 FEW010 27/26 Q//// TNCC 241600Z 10013KT 9000 SCT019 30/24 Q1015 NOSIG YSHG 241630Z AUTO 23005KT 9999 // NCD 24/16 Q1010 SVLF 241600Z 00000KT 9999 OVC030 XX/XX Q1013 DFFD 241600Z VRB03KT CAVOK 41/10 Q1007 NOSIG YSHK 241600Z AUTO 09005KT //// // ////// 21/18 Q1009 ZJHK 241600Z 14003MPS 100V180 CAVOK 25/23 Q1008 NOSIG SVMC 241600Z /////KT 9999 OVC013 29/25 Q1014 HTKJ 241600Z 00000KT 9999 FEW026CB SCT090 24/19 Q1014 NOSIG HSSS 241630Z 33003KT CAVOK Q1003 SVMD 241600Z 20005KT 9999 FEW023 BKN100 25/22 Q1021 TNCM 241600Z 13012KT 9999 SCT017 28/23 Q1016 A3002 NOSIG SVMG 241600Z /////KT 9999 FEW010 SCT080 30/24 Q1013 NOSIG SVMI 241600Z 34005KT 9999 SCT020 30/22 Q1013 NOSIG YSHT 241630Z AUTO 00000KT //// // ////// 05/03 Q1019 YSHW 241630Z AUTO 15007KT 9999 // SCT027 BKN033 OVC038 18/15 Q1019 HTMB 241500Z 13008KT 9999 -RA SCT022 FEW023CB BKN080 19/17 SVMN 241600Z 18003KT 9999 SCT013 31/// Q1013 UEEE 241630Z 21003MPS CAVOK M00/M05 Q1012 NOSIG RMK QFE750 2309//60 HTMG 241600Z 00000KT 9999 SCT023 23/21 Q1014 SVMT 240300Z 05004KT CAVOK 26/26 Q1010 OIAA 241630Z 31004KT CAVOK 29/12 Q1009 K9MN 241632Z AUTO 12011G16KT 10SM OVC010 05/04 A2972 RMK AO1 T00450035 YTAR 241630Z AUTO 07004KT //// // ////// 13/08 Q1016 YRTI 241630Z AUTO 19011KT //// // ////// 20/15 Q1010 OIAG 241600Z 33006KT CAVOK 30/M02 Q1009 SVPA 241500Z /////KT 9999 BKN013 28/22 Q//// OIBA 241500Z 27006KT 5000 HZ SKC 29/25 Q1006 SVPC 232000Z 06010KT 9999 SCT040 29/XX Q1008 OIBB 241630Z 33006KT CAVOK 27/16 Q1008 A2978 HTMT 241500Z 11010KT 9999 FEW021 FEW0222CB 28/23 Q1012 DGAA 241556Z 22010KT 190V250 9999 BKN026 29/25 Q1008 NOSIG HTMU 241500Z 33007KT 9999 FEW022 FEW024CB SCT090 26/18 Q1014 OIAM 241600Z 30010KT CAVOK 31/05 Q1008 HTMW 241600Z 30005KT 9999 FEW024 FEW025CB BKN110 25/20 Q1013 NOSIG HUEN 241400Z 18006KT 9999 FEW021 FEW023CB 26/19 Q1014 OIBJ 241500Z 30008KT CAVOK 30/06 Q1012 OIBK 241600Z 29008KT 7000 SKC 28/21 Q1007 SVPM 241600Z 00000KT 9999 BKN027 XX/XX Q1016 OICC 241600Z 29010KT 9999 FEW040 19/01 Q1017 A3005 OIBL 241600Z 00000KT CAVOK 29/18 Q1007 OIAW 241630Z 34004KT CAVOK 32/05 Q1008 YSMH 241630Z AUTO 00000KT 9999 // OVC115 20/19 Q1013 YSMI 241630Z AUTO 16005KT //// // ////// 05/05 Q1020 OIBP 241500Z 33004KT 7000 SKC 29/18 Q1009 A2979 SVPR 241600Z 09010KT 9999 SCT020 ///// Q1015 OIBQ 241500Z 33006KT CAVOK 27/17 Q1008 OICI 241600Z 31008KT CAVOK 18/01 Q1018 A3006 OIBS 241500Z 25010KT CAVOK 31/21 Q1007 OICK 241150Z 26008KT 9999 FEW040 24/01 Q1016 YTEE 241630Z AUTO 07003KT //// // ////// 22/11 Q1013 KMG 241630Z AUTO 15013KT 9999 // NCD 06/03 Q1020 OIBV 241400Z 23008KT 6000 SKC 30/21 Q1006 YTEF 241600Z AUTO 22001KT //// // ////// 25/04 Q1011 YSNF 241630Z AUTO 12001KT 9999 // SCT020 BKN028 OVC053 18/16 Q1019 SVSA 241600Z /////KT 9999 BKN020 28/19 Q1014 OICS 241300Z 23012KT 9999 FEW040 22/M03 Q1015 YTEM 241630Z AUTO 12003KT //// // ////// 06/05 Q1018 SVSE 241600Z 00000KT 9999 OVC050 ///// Q//// CPBT 241500Z AUTO 27011KT 07/M04 RMK AO1 PK WND 27017/1432 T00721036 UDSG 241630Z 02004MPS 9999 SCT050 BKN100 13/M04 Q1016 R02/CLRD70 NOSIG YSNW 241630Z AUTO 18005KT 9999 // OVC029 16/11 Q1020 SVSO 241600Z 00000KT 9999 OVC017 24/22 Q1016 SVSP 241600Z 00000KT 5000 +HZ BKN035 XX/XX Q1015 SVSR 241600Z /////KT 9999 BKN016 33/// Q1013 SVST 241500Z 08010KT 999 BKN040 ///// Q1016 HUJI 241200Z 18005KT 9999 SCT022 FEW025CB BKN140 28/18 CPEH 241500Z AUTO 26005KT 06/01 RMK AO1 T00620005 YTGM 241630Z AUTO 14006KT //// // ////// 20/05 Q1014 HUKA 241200Z 10005KT 9999 BKN022 FEW024CB BKN120 26/21 HTTB 241500Z 00000KT 9999 SCT023 FEW024CB 27/17 Q1014 OIFM 241630Z 35010KT CAVOK 20/M03 Q1014 A2997 SVSZ 241600Z 35005KT 9999 BKN010 XX/XX Q1011 OIGG 241530Z 07006KT 9999 FEW025CB BKN080 17/14 Q1014 HTSO 241500Z 12010KT 9999 SCT024 FEW026CB 25/18 Q1017 YTIB 241630Z AUTO 15008KT //// // ////// 18/05 Q1015 SVVA 241600Z 25005KT 9999 BKN016 32/20 Q1015 OIFS 241600Z 27006KT CAVOK 13/00 Q1019 CPFI 241600Z AUTO 26013KT 09/M05 RMK AO1 PK WND 25018/1540 T00931048 K9V9 241652Z AUTO 33017G27KT 18/M03 A2978 RMK AO1 PK WND 34028/1638 SLP080 T01781033 HTSU 241500Z 05007KT 9999 FEW022 FEW023CB BKN230 22/14 Q1020 SVVG 241600Z 29003KT 9999 SCT020 BKN100 29/24 Q1008 REDZ YSRI 241630Z AUTO 22006KT 9999 // SCT022 BKN028 OVC038 17/17 Q1019 DFOO 241600Z 22006KT CAVOK 36/15 Q1009 OIHH 241557Z 25008KT CAVOK 17/M01 Q1018 HULI 241200Z 18005KT 9999 BKN020 FEW024CB SCT280 23/XX SVVL 241500Z 07003KT 7000 SCT017 26/21 Q1017 YSRN 241630Z AUTO 02007KT 7000 // SCT036 BKN042 OVC063 07/07 Q1019 OIIE 241630Z 33006KT 9999 FEW040 20/M01 Q1011 A2987 OIII 241630Z 25004KT 9999 FEW035 SCT200 20/M03 Q1012 A2991 NOSIG OIIK 241600Z 00000KT CAVOK 16/03 Q1013 PAAD 241635Z AUTO 00000KT 1/2SM FZFG OVC003 M09/M10 A2988 RMK AO2 YSTH 241630Z AUTO 32007KT //// // ////// 03/01 Q1019 OIIP 241600Z 33006KT 9999 FEW040 18/M01 Q1012 A2989 OJAI 241600Z 10004KT 8000 NSC 30/00 Q1012 NOSIG PABA 241621Z AUTO 27005KT 2 1/2SM BR M07/M07 A2990 RMK AO2 VIS 1 1/2V5 FZRANO OIKB 241630Z 17008KT 5000 HZ NSC 29/22 Q1006 A2972 PAAK 241636Z 06020G27KT 7SM FEW019 SCT027 OVC041 03/M01 A2895 RMK AO1 OJAM 241600Z 15004KT 5000 HZ NSC 30/M03 Q1012 NOSIG YSSY 241630Z 14016KT 9999 FEW027 20/14 Q1019 FM1730 13016KT 9999 -SHRA SCT020 BKN030 INTER 1830/1930 5000 SHRA BKN015 ZJSY 241600Z 09003MPS 9999 SCT020 28/25 Q1010 NOSIG PABE 241553Z 03003KT 8SM BCFG FEW001 SCT100 M03/M03 A2959 RMK AO2 SLP020 VIS LWR N T10331033 OJAQ 241600Z 15006KT 9999 FEW030 SCT100 SCT200 34/08 Q1006 NOSIG PAAQ 241553Z 08003KT 10SM OVC050 03/M01 A2966 RMK AO2 SLP046 T00281006 PABI 241553Z 00000KT 10SM SCT080 BKN180 M01/M05 A2962 RMK AO2 SLP046 CIG THN T10061050 CPIR 241500Z AUTO 25012KT 07/M03 RMK AO1 T00651026 OIKK 241600Z 20012KT 9999 SCT040 23/M07 Q1016 A3001 YSTW 241630Z AUTO 16004KT 9999 // SCT120 16/08 Q1017 PACD 241615Z 13008KT 10SM BKN026 03/M01 A2955 RMK AO2 T00281006 PABN 241646Z 00000KT 0SM SN FZFG VV000 M01/M05 A2956 RMK MIN -4.0 4/006 NOSPECI OIKQ 241600Z 22020KT 4000 HZ FEW030 28/22 Q1005 PABR 241553Z 06010KT 10SM OVC004 M08/M09 A2990 RMK AO2 SLP127 I1001 T10831094 HTZA 241600Z 00000KT 9999 FEW018 27/25 Q1011 NOSIG OIMB 241600Z 27004KT 9999 SCT035 22/00 Q1013 PABT 241553Z 01006KT 10SM FEW120 M03/M11 A2976 RMK AO2 SLP089 T10281106 PNO OIMC 241600Z 16004KT 8000 SCT025 OVC100 17/16 Q1013 YTMO 241630Z AUTO 13004KT //// // ////// 23/// Q1013 OIMD 241600Z 35020KT 6000 FEW030CB SCT035 25/03 Q1008 RETS PABV 241636Z AUTO 00000KT 10SM SCT040 OVC050 03/01 A2968 RMK AO1 PACM 241556Z AUTO 00000KT 10SM FEW080 OVC100 01/00 A2960 RMK AO2 TSNO T00110000 OVC V BKN SLP332 $ YTNG 241630Z AUTO 10001KT 9999 // NCD 14/13 Q1015 YSWG 241630Z AUTO 09007KT 9999 // NCD 08/07 Q1018 PADE 241648Z AUTO 27008KT 3SM BR BKN005 OVC010 M03/M04 A2966 RMK AO2 SLP044 T10281039 TSNO YSWH 241630Z AUTO 14006KT //// // ////// 07/03 Q1019 PADG 241515Z 07008KT 15SM FEW050 M02/M04 A2968 UDYZ 241630Z VRB02MPS 9999 FEW100 BKN200 19/M05 Q1012 R09/010070 NOSIG YTNK 241630Z AUTO 11007KT 9999 // NCD 24/06 Q1011 PADK 241636Z AUTO 03015KT 10SM FEW010 SCT024 BKN034 02/M01 A2900 RMK AO1 PAEC 241447Z 00000KT 30SM FEW045 M01/M02 A2960 RMK NOSPECI PADL 241650Z 35008KT 15SM FEW070 00/M01 A2963 OIMM 241630Z 18006KT 9999 VCTS SCT025 FEW030CB BKN100 15/07 Q1014 A2995 PACV 241553Z 00000KT 10SM BKN030 OVC042 01/01 A2966 RMK AO2 SLP044 T00110006 PADM 241556Z AUTO 00000KT 10SM BKN065 01/M02 A2961 RMK AO2 PWINO TSNO T00111022 SLP015 $ PAED 241558Z AUTO 00000KT 10SM FEW037 BKN050 02/M01 A2967 RMK AO2 SLP044 T00231005 OINE 241600Z 22004KT 8000 FEW025CB SCT030 BKN090 15/13 Q1015 OIMN 241600Z 27010KT 9999 FEW035CB BKN040 11/08 Q1016 A3002 OING 241600Z 00000KT 9999 FEW025 SCT035 BKN080 16/13 Q1017 PAEG 241613Z AUTO 00000KT 10SM FEW027 BKN034 OVC041 03/00 A2965 RMK AO2 UPE13 P0000 T00280000 TSNO $ OIMQ 241600Z 01021KT 9999 SCT035 16/07 Q1011 RETS PADQ 241553Z 04005KT 10SM FEW014 SCT020 OVC027 04/03 A2961 RMK AO2 SLP027 T00440033 PACZ 241557Z VRB01KT 10SM FEW070 BKN095 03/M02 A2955 RMK AO2A SLP012 RWY DRY PAEH 241555Z 13012KT 10SM BKN070 05/00 A2959 RMK AO2A SLP023 BWC LOW PAEI 241558Z AUTO 00000KT 10SM CLR 00/M03 A2962 RMK AO2 SLP037 T00021030 $ OIMS 241630Z 11010KT 9999 FEW035 13/11 Q1016 NSFA 241600Z 14003KT 9999 FEW035 23/22 Q1009 PAFA 241553Z 00000KT 10SM FEW080 SCT200 04/M03 A2963 RMK AO2 SLP040 T00441033 PNO $ PAFB 241555Z 00000KT 85SM FEW080 FEW120 SCT200 04/M03 A2963 RMK SLP036 PAEL 231845Z 00000KT 9SM -RA OVC015 04/02 A2976 RMK SEA 0 SWELL 3 SW NOSPECI PADU 241556Z 13016G20KT 10SM BKN026 OVC032 04/00 A2942 RMK AO2 RAB08E41 SLP969 CS P0000 T00390000 PAEM 241636Z AUTO 00000KT 10SM CLR M02/M03 A2954 RMK AO1 OINN 241600Z 09008KT 9999 FEW027CB SCT030 BKN090 17/15 Q1014 PAEN 241553Z 15003KT 10SM CLR 01/M02 A2968 RMK AO2 SLP051 T00061022 OINR 241600Z VRB02KT 9999 FEW033 SCT100 17/14 Q1014 PAGA 241558Z AUTO 00000KT 10SM FEW019 BKN065 OVC085 M01/M04 A2963 RMK AO2 SNB28E40 SLP041 T10061039 FZRANO PNO $ PAGB 232040Z 28005KT 30SM FEW100 M02/ A2978 RMK LAST PAFM 241636Z AUTO 02006KT 10SM CLR M01/M07 A2972 RMK AO1 HUSO 241200Z 18004KT 9999 SCT020 FEW023CB BKN300 30/17 Q1012 OINZ 241400Z 04006KT 9999 FEW035 BKN090 19/15 Q1015 PAGH 241557Z AUTO 09018KT 10SM CLR 01/M08 A2972 RMK AO2 SLP093 T00111078 FZRANO SYCJ 241600Z 07014KT 9999 -SHRA BKN017 SCT038 30/24 Q1013 NOSIG PAFS 241622Z AUTO 00000KT 10SM BKN026 05/02 A2963 RMK AO2 TSNO $ PAGK 241553Z AUTO 00000KT 10SM CLR M03/M06 A2957 RMK AO2 SLP030 T10281056 TSNO $ YTRE 241630Z AUTO 29005KT //// // NCD 15/11 Q1015 PAGL 241636Z 36005KT 10SM CLR 03/M04 A2961 RMK AO1 PAHC 241556Z AUTO 00000KT 10SM -RA FEW049 BKN065 OVC080 02/M01 A2959 RMK AO2 TSNO T00221011 P0000 SLP024 $ PAGM 241636Z 03020KT 10SM OVC005 M04/M06 A2967 RMK AO1 PAGN 241633Z AUTO 00000KT 2SM BR OVC004 16/16 A2968 RMK AO2 TSNO $ PAGS 241636Z AUTO 25003KT 10SM SCT013 OVC040 07/02 A2969 RMK AO1 PNO PAHL 241636Z AUTO 07010KT 10SM SCT110 00/M07 A2965 RMK AO1 PAHN 241606Z AUTO 10005KT 10SM OVC014 05/03 A2968 RMK AO2 T00500033 TSNO PAHO 241553Z 05003KT 10SM UP CLR 02/M03 A2969 RMK AO2 UPB51 SLP053 P0000 T00171028 PAGY 241553Z AUTO 00000KT 10SM FEW005 FEW030 OVC070 04/02 A2970 RMK AO2 SLP057 T00440022 TSNO PAHP 241636Z AUTO 00000KT 10SM BKN095 09/M01 A2957 RMK AO1 PAIG 241556Z AUTO 00000KT 10SM CLR M02/M02 A2964 RMK AO2 TSNO T10221022 SLP040 $ PAII 241636Z AUTO 10005KT 10SM OVC080 03/00 A2963 RMK AO1 NTAA 241630Z 10005KT 060V140 9999 FEW016 SCT260 26/20 Q1011 NOSIG PAIK 241601Z AUTO 00000KT 10SM CLR M01/M04 A2972 RMK AO2 SLP104 T10111039 FZRANO PAIL 241553Z 36006KT 10SM FEW034 01/M03 A2967 RMK AO2 SLP050 T00061028 PAJC 241636Z AUTO 00000KT 10SM BKN027 02/M01 A2962 RMK AO1 PAIM 241555Z AUTO VRB04KT 10SM OVC060 M01/M08 A2967 RMK AO2 SLP067 T10081077 PAIN 241636Z AUTO 00000KT 10SM CLR M01/M04 A2961 RMK AO1 PNO PAHX 241556Z AUTO 32003KT 10SM BKN060 OVC120 00/M02 A2959 RMK AO2 SLP022 T00001022 FZRANO YTTI 241600Z AUTO 34003KT //// // ////// 28/24 Q1009 PAHY 241636Z AUTO 33006KT 10SM CLR 06/M22 A2961 RMK AO1 YTST 241630Z AUTO 00000KT 9999 // NCD 25/24 Q1008 OISL 241600Z 24012KT CAVOK 31/04 Q1010 PAJN 241553Z 00000KT 10SM FEW010 FEW028 SCT050 06/03 A2969 RMK AO2 SLP053 T00560028 PAIW 241637Z AUTO 05011KT 3SM -SN OVC004 M04/ A2971 RMK AO2 SNB00 P0000 FZRANO $ DIAD 241600Z ///// 9999 SCT013 OVC260 30/25 Q1008 NOSIG PAKF 241613Z AUTO 15008KT 9SM UP BKN020 BKN026 03/01 A2955 RMK AO2 RAB1508E1528UPB1550 P0000 $ CPRO 241600Z AUTO 33004KT 08/02 RMK AO1 T00770017 PAKH 241556Z AUTO 20003KT 03/03 RMK AO2 PWINO TSNO T00330027 SLPNO $ OISR 240500Z 00000KT CAVOK 28/16 Q1013 PAKI 241556Z AUTO 02008KT 10SM BKN075 01/M02 A2958 RMK AO2 TSNO T00051016 SLP017 $ ZLLL 241600Z 00000MPS 3500 BR OVC043 M03/M04 Q1026 NOSIG OISS 241630Z 27006KT CAVOK 21/00 Q1016 A3003 OITK 241000Z 05008KT 9999 FEW035 SCT200 20/M03 Q1014 PAKK 241636Z AUTO 02008G14KT 10SM CLR 01/M04 A2956 RMK AO1 OKBK 241600Z 13003KT CAVOK 31/05 Q1010 NOSIG OITL 241400Z 08016KT 9999 FEW035TCU FEW040 12/05 Q1015 OITM 241600Z 03004KT 9999 FEW040 18/00 Q1014 SYGO 241600Z 06012KT 9999 BKN016 BKN080 30/24 Q1013 PAKN 241554Z 00000KT 10SM SCT050 M02/M04 A2959 RMK AO2 SLP021 T10221039 OISY 241600Z 10004KT CAVOK 18/01 Q1020 PAKP 241636Z AUTO 19009KT 1/2SM OVC002 M08/M11 A2969 RMK AO1 PALG 241556Z AUTO 00000KT 10SM CLR 02/M02 A2959 RMK AO2 TSNO T00221016 SLP025 $ PAJZ 241656Z AUTO 00000KT 10SM CLR M01/M02 A2968 RMK AO2 PWINO TSNO T10051022 SLP040 PALH 241553Z 00000KT 10SM OVC044 03/01 A2968 RMK AO2 SLP050 T00330006 YTWB 241630Z AUTO 10009KT 9999 // NCD 15/13 Q1018 CPRY 241600Z AUTO 25013KT 09/M06 RMK AO1 PK WND 26021/1500 T00921059 OITR 241630Z 33004KT 9999 FEW040 16/03 Q1014 DIAP 241630Z 23013KT 9999 SCT012 BKN100 30/26 Q1008 NOSIG PALJ 241457Z 00000KT 30SM BKN100 M05/M08 A2967 RMK FIRST EST PASS OPEN NOSPECI OITT 241500Z 33006KT CAVOK 19/M03 Q1015 A2999 PAKT 241553Z 34012KT 10SM CLR 07/02 A2959 RMK AO2 SLP021 T00670022 PAKU 241545Z VRB03KT 1/4SM R24/2200FT -SN FZFG VV002 M14/M15 A2987 PAMC 241553Z 12007KT 10SM BKN065 BKN080 03/M01 A2962 RMK AO2 SLP035 T00281006 CPST 241600Z AUTO 04001KT 07/02 RMK AO1 T00670021 50005 PAKV 241553Z AUTO 00000KT 10SM OVC110 M02/M05 A2964 RMK AO2 SLP040 T10221050 PWINO FZRANO TSNO $ PAMD 241636Z 22005KT 10SM CLR 04/M02 A2966 RMK AO1 PAKW 241553Z AUTO 00000KT 10SM CLR 03/02 A2962 RMK AO2 SLP029 T00280017 TSNO CPSV 241600Z AUTO 20006KT 08/M00 RMK AO1 T00761001 PALP 241546Z VRB03KT 1/2SM -SN FZFG BKN002 OVC009 M13/M15 A2988 OITZ 241500Z 30012KT 9999 FEW035 18/M03 Q1015 PAMH 241636Z AUTO 00000KT 10SM CLR 00/M06 A2964 RMK AO1 PANA 241556Z AUTO 06003KT 10SM CLR M01/M02 A2958 RMK AO2 SLP016 T10111017 FZRANO PAMK 241556Z AUTO 04007KT 10SM FEW055 SCT070 M01/M03 A2956 RMK AO2 TSNO T10111027 SLP015 $ PANC 241553Z 14003KT 10SM BKN043 BKN060 04/00 A2966 RMK AO2 SLP047 T00390000 PALU 241630Z AUTO 07013KT 10SM OVC003 M03/M03 A2980 RMK AO2 SLP092 PAMM 241636Z AUTO 33007KT 10SM CLR 07/02 A2959 RMK AO1 DIBU 241600Z 24004KT 9999 BKN015 SCT260 32/24 Q1007 NOSIG PAMO 241556Z AUTO 00000KT 10SM FEW100 04/M04 A2957 RMK AO2 PWINO TSNO T00381038 SLP901 $ PAMR 241553Z 00000KT 8SM FEW045 03/M01 A2967 RMK AO2 SLP048 T00281011 PANI 241636Z 12006KT 10SM SCT060 BKN080 03/M02 A2962 RMK AO1 UHBB 241600Z 18003MPS 150V210 7000 NSC 15/04 Q1008 NOSIG RMK QFE739/0985 36090060 DIDK 241600Z ///// 9999 SCT015 BKN016 35/27 Q//// NOSIG DIDL 241600Z ///// 9999 SCT015 BKN260 32/24 Q1009 NOSIG PANN 241553Z AUTO 00000KT 10SM CLR 02/M04 A2962 RMK AO2 SLP038 T00221044 TSNO PAMX 241650Z 00000KT 25SM BKN070 OVC090 00/M04 A2961 RMK NOSPECI PAMY 241636Z AUTO 00000KT 10SM OVC075 M02/M06 A2958 RMK AO1 PAOH 241556Z AUTO 00000KT 10SM FEW008 SCT013 OVC035 04/04 A2970 RMK AO2 TSNO T00440044 OVC V BKN SLP059 $ PANT 241553Z 33007KT 10SM FEW250 06/02 A2957 RMK AO2 SLP016 T00610022 PAPB 241629Z AUTO 12011KT 10SM BKN025 02/00 A2941 RMK AO2 SNB1541E16 P0000 T00170000 TSNO $ PAOM 241553Z 33004KT 10SM SCT065 BKN100 BKN180 03/M01 A2962 RMK SLP030 T00281011 VIA AUTODIAL PANV 241636Z 09006KT FEW048 BKN055 OVC065 03/M05 A2956 RMK AO1 UGKO 241630Z 11003KT CAVOK 15/12 Q1015 R07/09//70 NOSIG PANW 241556Z AUTO 00000KT CLR M01/M02 RMK AO2 PWINO TSNO T10111016 SLPNO $ PAOO 241556Z AUTO 32007KT 10SM CLR 01/M02 A2959 RMK AO2 TSNO T00051022 SLP021 $ PAPG 241655Z 03006KT 2SM BR OVC003 03/02 A2965 RMK (JNC) PAPH 241636Z AUTO 00000KT 10SM OVC024 03/M01 A2960 RMK AO1 PAOR 241636Z 00000KT 4SM -RASN FEW006 BKN015 OVC025 02/01 A2957 RMK AO2 SNB12 T00170006 OIZB 241600Z 11006KT CAVOK 28/12 Q1005 PAOT 241553Z 14007KT 10SM BKN048 00/M02 A2967 RMK AO2 SLP048 T00001017 $ DIGA 241600Z 26002KT 9999 BKN015 FEW023CB BKN260 33/25 Q1008 NOSIG PAOU 241556Z AUTO 00000KT 10SM 01/01 A2960 RMK AO2 PNO TSNO T00050005 SLP027 $ PAPM 241556Z AUTO 05011KT 10SM OVC080 02/M01 A2960 RMK AO2 TSNO T00161011 SLP024 $ CPXL 241600Z AUTO 24004KT 09/M03 RMK AO1 T00881031 PAPN 241556Z AUTO 00000KT 10SM OVC049 02/00 A2962 RMK AO2 PWINO TSNO T00160000 SLP033 $ PAPO 241536Z AUTO 03012KT 10SM CLR M04/M29 A2974 RMK AO1 OIZH 241630Z 21008KT 8000 FEW040 BKN200 26/M01 Q1013 A2992 PAQH 241556Z AUTO 06006KT 10SM CLR M01/M02 A2960 RMK AO2 SLP024 T10111022 FZRANO OIZI 241600Z 30006KT 8000 NSC 34/06 Q1009 OIZJ 241600Z 27012KT 5000 BR NSC 28/27 Q1007 PAPT 241445Z 00000KT 25SM BKN080 M02/M02 A2959 RMK NOSPECI PARC 241636Z AUTO 08004KT 10SM CLR M09/M23 A2977 RMK AO1 OIYY 241630Z 34004KT CAVOK 25/M04 Q1013 PASA 241636Z 06009KT 3/4SM OVC003 M04/M05 A2969 RMK AO1 PAQT 241553Z AUTO 00000KT M1/4SM UP FZFG VV003 M14/M14 A2989 RMK AO2 SLP122 P0000 T11391139 TSNO PASC 241641Z 27003KT 1/4SM R05/2400V3000FT FZFG VV003 M14/M15 A2986 RMK AO2 T11391150 $ PASD 241636Z 00000KT 10SM BKN028 BKN040 02/02 A2962 RMK AO1 WEA YWCA 241630Z AUTO 16007KT //// // ////// 13/06 Q1016 PASH 241636Z AUTO 00000KT 2 1/2SM OVC015 M04/M05 A2973 RMK AO1 PASI 241634Z 28003KT 10SM OVC014 04/01 A2969 RMK AO2 BINOVC MTN TPS OBSCD T00440011 YWBL 241630Z AUTO 01007KT //// // ////// 03/02 Q1020 OLBA 241600Z 05004KT 7000 SCT080 SCT180 27/16 Q1009 PATA 241652Z 09006KT 10SM BKN080 03/M06 A2968 RMK AO2 SLP055 T00281056 PNO PARS 241556Z AUTO 00000KT 10SM FEW065 01/M02 A2958 RMK AO2 TSNO T00051022 SLP023 $ PASK 241636Z AUTO 07008KT 10SM CLR M04/M06 A2969 RMK AO1 PASL 241636Z AUTO 00000KT 10SM BKN039 OVC050 02/M02 A2969 RMK AO1 PATC 241555Z AUTO M1/4SM -FZRA VV002 M05/M05 A2964 RMK AO2 SNB1459E1517 SLP043 P0000 T10471048 PASM 241636Z AUTO 20009KT 10SM OVC085 03/M02 A2956 RMK AO1 PASN 241621Z 10009KT 10SM FEW014 SCT028 BKN036 BKN170 02/02 A2943 RMK AO2 RAE15 P0000 T00220017 $ PATE 241617Z AUTO 08006KT 5SM -SN BR FEW014 SCT025 OVC080 M01/M01 A2964 RMK AO2 P0000 FZRANO PASO 241553Z AUTO 00000KT 10SM OVC065 M01/M02 A2968 RMK AO2 SLP049 T10111017 TSNO YWBR 241630Z AUTO 01007KT //// // ////// 23/05 Q1013 PATG 240156Z AUTO 21008KT 10SM CLR 09/01 A2961 RMK AO1 PARY 241556Z AUTO 08008KT 10SM BKN110 01/M06 A2963 RMK AO2 TSNO T00051061 SLP041 $ PATK 241553Z 00000KT 10SM CLR M01/M02 A2967 RMK AO2 SLP050 T10061022 PATL 241555Z AUTO 23005KT 10SM CLR 02/00 A2963 RMK AO2 SLP043 T00200003 $ PASV 241615Z AUTO 17001KT 10SM CLR 00/M04 A2961 RMK AO2 SLP050 MUI 241630Z AUTO 15014KT 9999 // SCT072 SCT082 16/07 Q1019 PASW 241648Z 00000KT 30SM FEW060 02/M01 A2967 RMK MNM M02 4/016 NOSPECI PATO 241553Z AUTO 00000KT 10SM CLR M04/M04 A2968 RMK AO2 SLP051 T10391039 TSNO PASX 241636Z AUTO 07003KT 10SM CLR M01/M04 A2966 RMK AO1 UHHH 241630Z 24005MPS CAVOK 11/04 Q1013 NOSIG RMK QFE753/1005 23090060 PASY 241651Z AUTO 35011KT 10SM BKN008 BKN019 OVC075 02/01 A2924 RMK AO2 CIG 006V011 FZRANO TSNO $ PATQ 241625Z AUTO 06008KT 1/4SM -SN FZFG OVC005 M13/M14 A2988 RMK AO2 TSNO P0000 $ PAVA 241557Z AUTO 27006KT OVC100 00/M01 A2962 RMK AO2 SLP031 T00001006 FZRANO PNO $ NSTU 241650Z 13010KT 11SM FEW023 SCT080 28/24 A2981 RMK SLP095 T02760236 PAVC 241556Z AUTO 00000KT 10SM BKN019 OVC026 02/00 A2959 RMK AO2 TSNO T00220000 BKN V OVC RAE24 P0000 SLP022 $ PAVD 241636Z 00000KT 10SM FEW020 BKN045 03/M02 A2965 RMK AO1 1547Z WEA PAUN 241636Z AUTO 07008KT 10SM SCT095 02/M06 A2957 RMK AO1 UIAA 241600Z 02007MPS 9999 OVC100 09/M05 Q1004 TEMPO 04009G15MPS RMK QFE695 29CLRD70 UGSB 241630Z 05004KT CAVOK 14/12 Q1017 R13/CLRD70 NOSIG PAUT 241635Z AUTO 13017G20KT 7SM SCT018 BKN028 OVC035 03/01 A2945 RMK AO2 T00310013 PAVL 241553Z AUTO 06008KT 10SM CLR M03/M05 A2968 RMK AO2 SLP051 T10281050 TSNO PAWD 241553Z AUTO 01008KT 10SM CLR 01/M03 A2967 RMK AO2 SLP048 T00111028 TSNO PAWG 241636Z 00000KT 10SM FEW000 FEW009 03/00 A2966 RMK AO1 WEA PAWI 241603Z AUTO 05007KT 1 1/4SM BR OVC003 M07/M08 A2987 RMK AO2 TSNO UIBB 241630Z 25004MPS P5000 FEW100 01/M09 Q1015 NOSIG RMK QFE718/0958 30CLRD60 UGTB 241630Z 31028KT CAVOK 17/03 Q1015 R31L/CLRD80 NOSIG PAWM 241558Z AUTO 35010KT 10SM CLR 00/M03 A2960 RMK AO2 SLP034 T00001028 FZRANO PAWN 241636Z AUTO 01006KT 10SM OVC043 M01/M04 A2969 RMK AO1 YWHA 241630Z AUTO 21003KT 9999 // NCD 11/10 Q1016 PAYA 241553Z 12004KT 5SM -RA BR FEW003 OVC016 04/03 A2967 RMK AO2 SLP048 P0003 T00390033 PAWS 241636Z AUTO 00000KT 10SM BKN039 OVC046 03/M01 A2965 RMK AO1 ZLXY 241600Z 07004MPS 4000 -RA HZ SCT060 19/14 Q1013 BECMG TL1640 2800 SHRA UHMA 241600Z 34005MPS 0300 R01/0600 FZFG SCT080 M08/M08 Q1008 RMK QFE752/1003 YWGT 241630Z AUTO 24003KT //// // ////// 04/03 Q1019 YVRD 241630Z AUTO 00000KT //// // ////// 21/15 Q1008 UHMD 240400Z 35006MPS 9999 DRSN FEW040 02/M02 Q1009 NOSIG RMK QFE756/1008 PAZK 241636Z AUTO 26010KT 10SM OVC060 M03/M04 A2954 RMK AO1 PNO UHMM 241600Z 00000MPS 9999 SKC M10/M11 Q1009 RMK QFE742 YWIS 241600Z AUTO 19004KT //// // ////// 21/21 Q1014 OMAA 241600Z 32007KT CAVOK 33/14 Q1008 A2977 NOSIG OMAD 241600Z 34005KT CAVOK 33/15 Q1008 A2977 NOSIG ZMUB 241630Z 23006MPS 8000NW -SN FEW033 BKN080 M05/M08 Q1012 NOSIG RMK QFE652.0 84 NT OMAL 241600Z 31008KT CAVOK 35/05 Q1010 A2985 NOSIG YWLG 241630Z AUTO 08005KT 9999 // NCD 17/09 Q1015 TQPF 241600Z 13012KT 9999 SCT020 29/24 Q1017 YWLM 241630Z AUTO 13017KT 9999 // SCT019 BKN023 BKN082 21/18 Q1017 RESHRA DITB 241600Z ///// 9999 FEW015 SCT100 30/25 Q1008 NOSIG UHPP 241600Z 04001MPS 9999 -SHSN BKN030CB BKN100 M02/M04 Q1006 NOSIG RMK QFE751/1001 SC 05 055 055 EBBE 241625Z AUTO 34008KT 9999 NCD 18/12 Q1016 BLU DISP 241600Z 20008KT 9999 FEW015 BKN300 30/25 Q1009 NOSIG OMDB 241600Z 25006KT CAVOK 34/13 Q1008 NOSIG DISS 241600Z ///// 9999 FEW015 SCT100 31/26 Q1007 NOSIG EBBL 241625Z VRB02KT 9999 FEW045 SCT220 22/07 Q1015 BLU EBAW 241650Z 34008KT 310V010 9999 FEW030 18/11 Q1016 NOSIG UIII 241630Z 28003MPS 4000 -SHSN BKN012CB OVC100 M03/M06 Q1017 NOSIG RMK QFE718/0958 30590335 EBCI 241650Z 02007KT 9000 FEW032 18/12 Q1015 NOSIG EBBR 241650Z 36007KT 9999 FEW028 17/11 Q1016 NOSIG VAAH 241510Z 00000KT 4000 FU NSC 34/13 Q1006 NOSIG YWOL 241630Z AUTO 19006KT 9999 // SCT035 BKN055 OVC064 17/14 Q1020 VABB 241610Z 31005KT 4000 HZ NSC 30/24 Q1008 NOSIG OMDW 241600Z 29007KT CAVOK 32/14 Q1009 NOSIG EBCV 241625Z AUTO 03007KT 9999 FEW050/// BKN120/// 17/11 Q1016 BLU UHSS 241600Z 15002MPS 8000 NSC 06/00 Q1014 RMK QFE759/1012 OMFJ 241600Z 18003KT 7000 NSC 30/25 Q1008 A2977 EBDT 241643Z 36012KT 9999 FEW040CB BKN200 21/10 Q1015 BLU FCST CANCEL EBFN 241625Z 02008KT 8000 FEW025 SCT050 BKN240 13/11 Q1017 BLU EBFS 241625Z 35006KT 5000 HZ FEW025TCU SCT110 BKN220 17/12 Q1015 WHT DIYO 241600Z 28006KT 9999 SCT013 SCT260 33/24 Q1009 YWUD 241630Z AUTO 07005KT //// // ////// 13/11 Q1016 YWTN 241630Z AUTO 12004KT //// // ////// 19/08 Q1013 UHWW 241630Z VRB02MPS 9999 BKN100 08/06 Q1019 NOSIG RMK QFE763/1017 25CLRD70 TRPG 241500Z 12018KT 9999 HZ FEW025 SCT250 27/21 Q1017 EBLB 241625Z AUTO 08003KT 9999 FEW060/// SCT075/// BKN110/// 15/08 Q1016 BLU EBLG 241650Z 09007KT 060V130 9999 -TSRA SCT030CB 15/09 Q1016 TEMPO 4000 TSRA BKN030CB YWWL 241630Z AUTO 23004KT //// // ////// 08/05 Q1018 YXNR 241300Z 20101KT //// 24/19 Q1011 UKBB 241630Z 06006MPS CAVOK 14/03 Q1022 88CLRD95 NOSIG YWYM 241600Z AUTO 29003KT //// // ////// 24/12 Q1008 UKCC 241600Z 04005MPS CAVOK 14/M01 Q1020 08090070 NOSIG CTNK 241600Z AUTO 35004KT 05/M11 RMK AO1 SLP199 T00541111 58004 UKCM 241630Z 03005MPS 9999 SCT040 BKN100 16/14 Q1018 01190062 NOSIG UKDD 241630Z 06006MPS CAVOK 15/06 Q1020 08090070 NOSIG UKDE 241630Z 05005MPS 030V090 CAVOK 16/08 Q1019 02290552 NOSIG YWYY 241630Z AUTO 27005KT 9999 // NCD 02/02 Q1020 TTCP 241600Z 09017KT 9999 SCT018 SCT280 30/23 Q1015 NOSIG UIUU 241630Z 31006G11MPS 9999 -SHSN OVC023CB M00/M05 Q1009 NOSIG RMK QFE713/0951 26250160 EBOS 241650Z 01009KT 8000 FEW025 12/10 Q1017 NOSIG UKCW 241630Z 03004MPS CAVOK 12/M03 Q1021 0909//70 NOSIG UKDR 241630Z 07003MPS 040V120 9999 FEW030CB BKN100 16/12 Q1019 3619//60 NOSIG OMRK 241600Z 13002KT CAVOK 31/13 Q1008 A2979 CTRA 241600Z AUTO 12006KT 03/02 RMK AO1 SOG 00 6009 SLP126 T00300018 UKFF 241630Z 11004MPS 080V150 CAVOK 17/10 Q1016 01010065 NOSIG VANP 241610Z 14003KT 4000 HZ FEW020 SCT100 33/14 Q1008 NOSIG OMSJ 241600Z VRB02KT CAVOK 32/18 Q1008 EDAC 241620Z 05009KT 020V090 9999 SCT030CB SCT100 18/11 Q1018 EDAH 241620Z 36004KT 320V040 CAVOK 10/07 Q1021 EDBC 241620Z 02004KT 350V060 7000 NSC 15/13 Q1019 UKHH 241630Z 04005MPS CAVOK 12/M10 Q1023 070///65 NOSIG PFCL 241556Z AUTO 06005KT 10SM CLR M02/M02 A2963 RMK AO2 SLP036 T10171022 FZRANO YYNG 241630Z AUTO 18005KT //// // ////// 04/04 Q1018 ULAA 241630Z 32005G08MPS 290V350 9999 -SHSNRA OVC010CB 01/M01 Q1013 NOSIG RMK QFE758/1011 SC060 EDDB 241650Z 04006KT 9999 FEW030CB BKN040 17/13 Q1019 NOSIG EDDC 241650Z 04006KT 9999 FEW015 SCT030CB BKN100 15/13 Q1017 NOSIG EDDE 241650Z 07008KT 9999 FEW020 16/12 Q1018 NOSIG EDDF 241650Z 07004KT 030V130 CAVOK 24/04 Q1014 NOSIG EDDG 241650Z 01004KT 9999 TS FEW020 BKN050CB 15/13 Q1016 RESHRA NOSIG EDDH 241650Z 05006KT 9999 BKN010 12/10 Q1020 BECMG SCT012 KAAA 241635Z AUTO 15017G23KT 10SM CLR 19/02 A2984 RMK AO2 LTG DSNT W T01880020 PFEL 241558Z AUTO 35010KT 10SM CLR 03/M03 A2961 RMK AO2 SLP031 T00281033 KC09 241635Z AUTO 16021G26KT 10SM CLR 17/00 A2990 RMK AO2 T01701001 UKKE 241300Z 07006MPS 9999 FEW032CB BKN034 19/10 Q1019 EDDK 241650Z 17001KT 9999 -SHRA FEW040CB BKN070 15/13 Q1015 NOSIG EDDL 241650Z 10007KT 9999 -SHRA FEW055 FEW070CB SCT130 BKN230 19/08 Q1015 NOSIG EDDM 241650Z 08005KT CAVOK 20/05 Q1015 NOSIG EDDN 241650Z 08006KT 010V110 CAVOK 21/05 Q1015 NOSIG KAAF 241553Z AUTO 16006KT 10SM CLR 24/19 A3002 RMK AO2 SLP165 T02390189 $ VCBI 241640Z 12004KT 9999 TS SCT016 FEW020CB 25/23 Q1011 NOSIG EDDP 241650Z 03009KT 9999 SCT023 SCT230 17/13 Q1019 NOSIG UKKK 241630Z 06007MPS CAVOK 14/04 Q1022 08CLRD70 NOSIG EDDR 241650Z 08006KT CAVOK 20/07 Q1014 NOSIG UKKM 241600Z AUTO 07005G10MPS 040V110 9999 ///044 14/02 Q1022 EDDS 241650Z 08008KT CAVOK 22/04 Q1014 NOSIG EDDT 241650Z 02004KT 9999 FEW026CB 19/12 Q1019 TEMPO SHRA ZPPP 241600Z 22006MPS CAVOK 19/04 Q1018 NOSIG EDDV 241650Z 09009KT 060V120 CAVOK 17/12 Q1018 NOSIG KABE 241651Z 30017G24KT 10SM CLR 13/M09 A2999 RMK AO2 PK WND 32027/1609 SLP157 T01331089 EDFE 241620Z 05006KT CAVOK 23/04 Q1014 EDDW 241650Z 06011KT CAVOK 16/13 Q1018 NOSIG KAAO 241609Z AUTO 31019KT 10SM OVC016 13/12 A2976 RMK AO2 T01330122 UKLI 241630Z VRB01MPS 9999 BKN040 16/12 Q1017 28090070 NOSIG EDFH 241620Z 27005KT 9999 FEW040 SCT090 BKN260 17/11 Q1015 KABI 241652Z 36020G27KT 10SM BLDU CLR 23/03 A2995 RMK AO2 PK WND 35029/1602 SLP118 T02280028 UKLL 241630Z 02003MPS 9999 SCT033CB BKN100 15/12 Q1018 31290060 TEMPO -TSRAGR KACB 241634Z AUTO 15007KT 10SM BKN090 11/M08 A3010 RMK AO2 T01111082 KAAT 241555Z AUTO 18011KT 10SM FEW031 BKN090 OVC120 10/02 A3001 RMK AO2 SLP146 T01000017 KC29 241635Z AUTO 12012KT 10SM OVC055 10/03 A2983 RMK AO1 T01000029 UKLN 241500Z VRB02MPS 9999 SCT033CB BKN100 16/12 Q1017 1509//70 NOSIG EDFM 241620Z 08009KT CAVOK 24/04 Q1014 UKLR 241630Z 09006MPS 9999 FEW030 BKN100 18/06 Q1019 NOSIG KC35 241635Z AUTO 09008KT 10SM RA OVC060 06/03 A2982 RMK AO2 P0001 T00550033 KABQ 241652Z VRB03KT 10SM BKN260 14/M12 A3017 RMK AO2 SLP168 T01391122 KABR 241553Z AUTO 33006KT 10SM CLR 12/05 A2973 RMK AO2 SLP072 T01170050 UKLU 241630Z 06005MPS 9999 SCT043 BKN100 22/11 Q1012 10090070 NOSIG KACJ 241630Z AUTO 18004KT 10SM CLR 25/10 A3004 RMK AO2 KACK 241553Z 30022G31KT 10SM CLR 11/M07 A2966 RMK AO2 PK WND 32032/1531 SLP044 T01111067 KADC 241635Z AUTO 13005KT 10SM -RA OVC014 04/02 A2976 RMK AO2 P0007 KADF 241556Z AUTO 18013KT 10SM -RA FEW032 25/17 A2984 RMK AO2 T02500166 RAB40 P0000 SLP118 KADG 241553Z AUTO 14010KT 10SM OVC090 09/M07 A3014 RMK AO2 SLP213 T00941067 TSNO KABY 241553Z 14004KT 10SM SCT070 25/12 A3003 RMK AO2 SLP169 T02500122 KACP 241635Z AUTO 19009G15KT 160V220 10SM SCT025 BKN030 25/19 A2992 RMK AO2 T02490188 KACQ 241636Z AUTO 11006KT 1 3/4SM -RA BKN012 OVC018 05/02 A2972 RMK AO2 KADH 241635Z AUTO 20010KT 10SM SCT030 BKN042 OVC060 22/18 A2974 RMK AO2 EDHI 241620Z 08007KT 040V130 9999 SCT014 14/11 Q1020 EDGS 241620Z 05006KT 010V080 9999 FEW046TCU 18/07 Q1016 KACT 241651Z 20010G19KT 10SM BKN029 BKN035 26/18 A2983 RMK AO2 SLP095 T02560183 EDHK 241450Z 07010KT 9999 OVC008 09/07 Q1022 EDHL 241620Z 04007KT 9999 FEW008 BKN021 11/08 Q1021 KACV 241650Z AUTO 16006KT 1 3/4SM R32/4000VP6000FT RA BR OVC019 12/11 A3003 RMK AO2 P0005 KADM 241555Z 20011G18KT 10SM BKN028OVC033 22/18 A2973 KAEG 241553Z 32009KT 10SM SKC 11/M12 A3017 KACY 241554Z 33019G32KT 10SM CLR 13/M08 A2999 RMK AO2 PK WND 31032/1546 SLP153 T01331083 KADS 241553Z 20012G29KT 15SM BKN027 23/17 A2979 KAEJ 241635Z AUTO 12003KT 10SM CLR 08/M15 A3008 RMK AO2 T00751153 EDJA 241620Z 07012KT CAVOK 19/04 Q1014 DNAA 241600Z 11005KT 080V160 9999 BKN012 FEW020CB 33/19 Q1008 TEMPO TS UKON 241600Z 06008MPS 040V100 9999 VCTS SCT026CB OVC100 18/10 Q1017 NOSIG KAEL 241629Z AUTO 14008KT 7SM -DZ BKN013 BKN028 06/06 A2967 RMK AO2 KADU 241635Z AUTO 31009G15KT 10SM SCT016 SCT034 13/08 A2969 RMK AO2 UKOO 241630Z 00000MPS CAVOK 15/07 Q1017 16090060 NOSIG KADW 241558Z AUTO 31008KT 260V350 10SM CLR 12/M08 A3010 RMK AO2 SLP200 T01241075 $ CWAE 241600Z 00000KT 15SM FEW025 BKN050 03/03 A2958 RMK SC2ST5 SLP024 KAFF 241558Z AUTO 19005KT 10SM CLR 07/M01 A3004 RMK AO2 SLP162 T00661015 CWAF 241600Z AUTO 04014G19KT 02/01 RMK AO1 2PAST HR M PK WND 05020/1518 P0001 T00170012 50008 KAFJ 241635Z AUTO 00000KT 10SM BKN120 10/M07 A3016 RMK AO1 CWBA 242300Z AUTO 33011G18KT 06/M10 RMK AO1 PK WND 34018/2259 T00591102 CWAJ 241600Z AUTO 10005KT 05/M03 RMK AO1 SLP227 T00451030 50001 KAFK 241635Z AUTO 34015KT 10SM SCT018 BKN026 OVC080 14/12 A2972 RMK AO2 T01400117 DNAK 240700Z 05002KT 6000 BKN009 23/22 Q1012 KAGC 241553Z VRB05KT 10SM CLR 11/M10 A3014 RMK AO2 SLP216 T01111100 TTPP 241600Z 10015KT 9999 BKN020 32/22 Q1014 NOSIG KAFN 241552Z AUTO 36011G24KT 310V030 10SM CLR 08/M07 A2974 RMK AO2 PK WND 34029/1527 SLP082 T00781067 DNBE 241100Z 26005KT 9999 BKN010 29/26 Q1012 CWBE 241600Z AUTO 21009KT 02/M05 RMK AO1 SLP234 T00181052 53003 KAEX 241553Z 18011KT 10SM FEW055 24/18 A2990 RMK AO2 SLP127 T02390178 KAFO 241635Z AUTO 15009KT 10SM SCT060 05/M06 A3003 RMK AO2 KAFP 241635Z AUTO 15003KT 7SM CLR 19/01 A3012 RMK AO2 T01920011 KC75 241635Z AUTO 16018KT 10SM CLR 17/03 A2983 RMK AO2 LTG DSNT SW T01660027 CWAQ 241600Z AUTO 29017KT 09/01 RMK AO1 PK WND 28023/1545 SLP070 T00900005 51009 CWAR 241600Z AUTO 06024G33KT 04/00 RMK AO1 PK WND 07036/1536 SLP025 T00420000 58005 PFKT 241558Z AUTO 04009G15KT 10SM FEW045 BKN060 OVC070 00/M02 A2967 RMK AO2 UPB48E51SNE48 SLP047 P0000 T00001017 FZRANO DNCA 240500Z 00000KT 9999 BKN010 25/25 Q1011 CWCA 241600Z 03012KT 15SM SCT015 OVC020 00/M02 A3015 RMK ST4SC4 SLP210 CWBK 241600Z AUTO 07025G30KT 02/01 RMK AO1 1004 PK WND 07030/1552 SLP951 T00210011 50046 PFKW 241556Z AUTO 14004KT 1/4SM FZFG OVC002 M03/M03 A2958 RMK AO2 SLP017 T10281028 FZRANO CWAV 241600Z AUTO 36003KT 06/M08 RMK AO1 SLP064 T00621080 58005 KAFW 241553Z 21011G19KT 10SM SCT025 BKN040 23/17 A2978 RMK AO2 SLP074 SCT V BKN T02280172 CWCF 241600Z AUTO 08009KT 06/M03 RMK AO1 SLP122 T00601026 58011 CWBO 241600Z AUTO 04003KT 09/02 RMK AO1 SOG 02 8005 SLP069 T00890015 KAIA 241553Z AUTO 29016KT 10SM CLR 13/M06 A2991 RMK AO2 SLP112 T01281056 KAGS 241553Z 10008KT 10SM CLR 23/04 A3006 RMK AO2 SLP177 T02330044 EDMA 241620Z 11008KT 080V150 CAVOK 20/04 Q1015 CWDA 241600Z AUTO 05011G19KT 01/M02 RMK AO1 PK WND 04022/1504 SLP146 T00071023 58004 CWCJ 241600Z AUTO 22003KT 05/M02 RMK AO1 SOG 43 5006 SLP210 T00471020 CWBS 241600Z AUTO 34018KT 08/M02 RMK AO1 PK WND 33023/1533 T00771015 KAIB 241635Z AUTO 00000KT 10SM 10/M11 A3019 RMK AO2 CWBT 241600Z AUTO 07006KT 02/01 RMK AO1 8PAST HR 1007 SLP117 P0007 T00170006 50044 KAID 241547Z 14015G25KT 10SM CLR 13/M06 A3006 CWDC 241600Z AUTO 08010G17KT M00/M10 RMK AO1 SOG 36 8004 PK WND 07017/1552 SLP221 T10031098 CWBU 241600Z AUTO 06021G28KT M01/M02 RMK AO1 2PAST HR SOG 02 3005 PK WND 07028/1551 SLP084 P0001 T10101023 50006 CWCL 241652Z AUTO 14003KT 8SM 01/M03 A2957 CWBV 241600Z AUTO 06035G46KT 02/ RMK AO1 PK WND 06047/1546 SLP912 T0017 50001 KAHN 241651Z VRB06KT 9SM CLR 22/04 A3006 RMK AO2 SLP175 T02220044 EDLN 241620Z 12011KT 9999 VCSH SCT058TCU 20/09 Q1015 CWCO 241600Z AUTO 33008KT 06/M01 RMK AO1 SLP224 T00611006 55000 KAIG 241635Z AUTO 11013KT 3SM UP OVC006 01/00 A2995 RMK AO2 P0001 T00050000 EDLP 241620Z 28006KT 240V340 CAVOK 18/08 Q1017 CWBY 241600Z AUTO 07018G28KT M00/M02 RMK AO1 2PAST HR SOG 28 1010 PK WND 07032/1533 SLP095 P0001 T10041015 50002 KAHQ 241635Z AUTO 35017G21KT 10SM SCT020 OVC095 14/09 A2973 RMK AO2 T01370092 UMBB 241630Z 07005G08MPS 9000 NSC 18/03 Q1021 R11/CLRD// NOSIG CWBZ 241600Z AUTO 30013G19KT 07/M05 RMK AO1 PK WND 27020/1540 SLP156 T00711047 51002 KD07 241556Z AUTO 30022G29KT 12/M01 A2982 RMK AO1 PK WND 30033/1545 SLP107 T01221011 OOMS 241550Z 09003KT 070V140 8000 NSC 32/20 Q1008 NOSIG CWDJ 241600Z AUTO 29011KT 05/01 RMK AO1 PK WND 29018/1502 SLP061 T00490012 53009 KAIK 241655Z AUTO 00000KT 10SM CLR 22/07 A3009 RMK AO2 PNO KBAB 241558Z AUTO 14011KT 10SM BKN140 15/09 A3005 RMK AO2 SLP252 T01510085 $ CWEB 241600Z AUTO 14025KT 08/ RMK AO1 PK WND 14029/1554 SLP995 T0075 53019 CWCT 241600Z AUTO 30016G22KT 04/M02 RMK AO1 SOG 04 1006 PK WND 31024/1530 SLP067 T00351015 CWDK 241600Z AUTO 26008KT 08/M08 RMK AO1 SOG 00 8002 SLP078 T00771075 KBAC 241635Z AUTO 19004KT 6SM BR OVC005 05/05 A2972 RMK AO2 KBAD 241608Z 18011KT 10SM SCT021 SCT060 24/17 A2988 RMK AO2A $ EDLV 241620Z 10007KT 030V130 CAVOK 21/08 Q1016 CWDM 241600Z AUTO 05022G30KT M00/M03 RMK AO1 SOG 56 0003 PK WND 06032/1513 SLP132 T10021032 PFNO 241558Z AUTO 06011KT 10SM CLR M01/M02 A2969 RMK AO2 SLP058 T10061022 FZRANO EDLW 241620Z 12005KT CAVOK 18/11 Q1016 CWEE 241600Z AUTO 04/M04 RMK AO1 SLP137 T00431037 52015 KBAF 241553Z 34020G31KT 10SM CLR 12/M08 A2980 RMK AO2 PK WND 33037/1455 SLP093 T01171078 KAIO 241635Z AUTO 32013KT 9SM BKN014 BKN021 OVC028 12/10 A2968 RMK AO2 EDMO 241620Z 06008KT 030V090 CAVOK 19/04 Q1015 CWEF 241600Z AUTO 08021G26KT 01/M02 RMK AO1 PK WND 08027/1530 SLP006 T00121023 50006 CWDO 241600Z AUTO 06017G27KT 00/M03 RMK AO1 SOG 41 8002 PK WND 09028/1504 SLP121 T00001028 KAJG 241635Z AUTO 13014G18KT 10SM CLR 20/02 A2992 RMK AO2 CWEH 241600Z AUTO 26012KT 06/01 RMK AO1 PK WND 26018/1529 SLP076 T00600008 50000 CWDQ 241600Z AUTO 34012G18KT 06/M03 RMK AO1 PK WND 31020/1505 SLP128 T00581029 53013 EEEI 241350Z 35011KT CAVOK 09/M09 Q1032 NOSIG KAIT 241633Z AUTO 10007KT 10SM DZ OVC010 04/02 A2978 RMK AO2 KBBB 241633Z AUTO 04004KT 4SM -RA SCT004 OVC008 06/05 A2974 RMK AO2 KBAK 241652Z 14012KTS 10SM FEW100 16/02 A3000 KAJL 241240Z AUTO 25018G24KT 10SM -SN SCT009 OVC019 M09/M09 A2994 RMK AO2 T10861086 CWEK 241600Z AUTO 03016KT 07/02 RMK AO1 PK WND 02021/1545 SLP000 T00690024 56009 CWDT 241600Z AUTO 36010KT 06/M00 RMK AO1 18 1017 SLP108 T00551003 CWEL 241600Z AUTO 15015KT 10/07 RMK AO1 3018 SLP015 T00980071 50002 KBBD 241635Z AUTO 32016G27KT 10SM CLR 30/07 A2988 RMK NWWW 241630Z AUTO VRB02KT 9999 SCT049 SCT064 OVC180 22/18 Q1013 CWDV 241600Z AUTO 12004KT 06/M03 RMK AO1 SOG 15 8009 SLP169 T00571031 CWFD 241600Z AUTO 21008KT 9SM FEW071 M12/ A2993 RMK SLP215 KBAN 241652Z AUTO 19009KT 10SM SCT065 12/M07 A3008 RMK AO2 SLP144 T01221067 $ DNEN 241600Z 29008KT 9999 BKN012 FEW020CB 32/24 Q1006 NOSIG KAJO 241556Z AUTO 00000KT CLR 17/08 RMK AO2 PWINO T01660077 SLPNO $ KBBF 241635Z AUTO 16012KT 2 1/2SM HZ CLR 23/21 A2988 RMK A01 ULLI 241630Z 30004MPS 260V330 CAVOK 07/M04 Q1028 28////// 78090070 NOSIG CWFF 241600Z AUTO 08015G23KT 01/01 RMK AO1 3007 PK WND 09024/1525 SLP067 T00120005 50010 KBBG 241650Z 17007G17KT 10SM SCT095 OVC150 19/12 A2972 KD25 241635Z AUTO 11007KT 2SM -SN OVC010 01/00 A2993 RMK AO2 T00050000 CWEP 241600Z AUTO 06015KT 01/M00 RMK AO1 0PAST HR SOG 00 1002 PK WND 07024/1513 SLP980 P0008 T00081001 50085 KAKH 241554Z AUTO 14005KT 10SM CLR 18/02 A3013 RMK AO2 SLP199 T01780017 KAIZ 241635Z AUTO 19010G14KT 10SM BKN110 20/07 A2974 RMK AO1 CWEQ 241600Z AUTO 06011G17KT 02/01 RMK AO1 SOG 02 3001 PK WND 05019/1515 SLP086 T00200013 50009 CWDZ 241600Z AUTO 32006KT 07/M01 RMK AO1 SLP069 T00731008 58003 CWER 241600Z AUTO 36011G17KT RMK AO1 PK WND 34017/1557 CWFJ 241600Z AUTO 28002KT 07/M04 RMK AO1 T00741042 KALB 241651Z 32020G27KT 10SM FEW250 12/M10 A2989 RMK AO2 PK WND 31031/1636 SLP123 T01221100 KBCB 241635Z AUTO 10003KT 10SM BKN100 14/00 A3012 RMK AO2 CWGB 241600Z AUTO 12020KT 09/07 RMK AO1 3017 PK WND 12027/1539 SLP011 T00900074 50002 CWEU 241600Z CCA 13002KT 15SM SKC M24/M29 A3047 RMK SLP320 CWGD 241600Z AUTO 26005KT 05/M02 RMK AO1 SLP226 T00481018 51003 KBCE 241553Z AUTO 13009KT 10SM CLR 07/M11 A3016 RMK AO2 SLP162 T00671111 CWEW 241600Z AUTO 32012G19KT 10/M02 RMK AO1 PK WND 31021/1537 SLP137 T00961016 53005 KAKO 241553Z AUTO 31019KT 10SM CLR 11/M08 A2999 RMK AO2 PK WND 32029/1506 SLP143 T01111078 KBAX 241637Z AUTO 10006KT 10SM BKN120 11/M08 A3016 RMK AO2 T01051080 KBBP 241635Z AUTO 09008KT 10SM CLR 20/M01 A3012 RMK AO2 EDOP 241620Z 04004KT 020V080 9999 BKN020 15/15 Q1020 KBAZ 241651Z 24009KT 10SM OVC017 23/18 A2988 RMK AO2 SLP113 T02330183 KAKQ 241554Z AUTO VRB04KT 10SM CLR 16/M04 A3013 RMK AO2 SLP202 T01561039 TSNO KAJZ 241635Z AUTO 00000KT 10SM CLR 11/M11 A3017 RMK AO2 T01081109 EDNY 241620Z 04011KT CAVOK 21/05 Q1013 CWFQ 242300Z AUTO 32006KT 07/01 RMK AO1 PK WND 35021/2201 T00650011 50010 CWEZ 241600Z AUTO 28005KT 10/06 RMK AO1 3025 SLP030 T01040063 50020 KALI 241553Z AUTO 18009KT 10SM OVC030 27/19 A2985 RMK AO2 SLP104 T02720194 KAKR 241554Z AUTO 08006KT 10SM OVC100 10/M08 A3015 RMK AO2 SLP217 T01001078 KAMA 241553Z 33019G27KT 10SM CLR 15/00 A3002 RMK AO2 PK WND 33027/1536 SLP129 T01500000 ULMM 241630Z 31003MPS 7000 -SHRASN BKN017CB 01/M00 Q1016 NOSIG RMK QFE754 31290155 KD39 241632Z AUTO 12006KT 7SM RA OVC006 05/04 A2975 RMK AO2 P0001 T00450037 KBCK 241635Z AUTO 11008KT 4SM RA OVC050 06/05 A2981 RMK AO2 P0008 T00550051 KALK 241556Z AUTO 08007KT 10SM CLR 19/M12 A3011 RMK AO2 SLP123 T01891117 TSNO $ CWGL 241600Z AUTO 32015KT 06/M14 RMK AO1 PK WND 32020/1545 SLP208 T00561136 55003 KALM 241635Z AUTO 35013G17KT 10SM CLR 21/M13 A3010 RMK AO2 CWGM 241600Z AUTO 23013G18KT 06/M03 RMK AO1 PK WND 22018/1554 T00581028 KBDE 241553Z AUTO 13009KT 6SM -RA BR OVC009 04/03 A2983 RMK AO2 SLP114 P0002 T00390028 TSNO KBBW 241553Z AUTO 34021G27KT 10SM CLR 17/M05 A2983 RMK AO2 PK WND 34032/1520 SLP090 T01671050 KALN 241645Z 16015KT 10SM SCT200 21/06 A2983 KALO 241647Z AUTO 17009KT 5SM -RA BR BKN013 BKN023 OVC085 08/07 A2969 RMK AO2 P0008 T00830067 TSNO DNGO 241600Z 30005KT 9999 NSC 35/15 Q1006 KAMG 241553Z AUTO VRB03KT 10SM CLR 27/12 A3002 RMK AO2 SLP165 T02720117 KBDH 241635Z AUTO 10006KT 5SM DZ OVC008 06/05 A2974 RMK AO2 OOSA 2402550Z 34004KT CAVOK 26/21 Q1012 NOSIG NZAA 241630Z AUTO 34005KT 9999 NCD 15/14 Q1020 NOSIG CWGR 241600Z AUTO 06019G25KT 02/M01 RMK AO1 PK WND 06027/1544 SLP018 T00191012 52002 CWHI 241500Z AUTO 27007KT 04/01 RMK AO1 T00370007 ZSAM 241600Z 13003MPS 6000 BKN021 OVC050 20/18 Q1014 NOSIG KALS 241652Z AUTO 00000KT 10SM CLR 08/M11 A3014 RMK AO2 SLP168 T00831111 KBEA 241635Z AUTO 18011G16KT 10SM SCT027 SCT033 28/19 A2986 RMK AO2 T02790191 KD50 241635Z AUTO 30012G16KT 10SM BKN027 BKN048 10/05 A2972 RMK AO2 KBCT 241647Z 14008KT 10SM FEW040CU M/M A3000 KANB 241553Z AUTO 03007KT 10SM FEW070 24/07 A3002 RMK AO2 SLP162 T02390072 DNIB 241600Z 16011KT 9999 BKN014 31/24 Q1009 CWGT 241600Z AUTO 12024G29KT 09/07 RMK AO1 PK WND 12030/1538 SLP002 T00900073 53019 KBDL 241651Z 35014G28KT 10SM FEW060 FEW250 12/M09 A2979 RMK AO2 PK WND 31032/1620 SLP088 T01221089 CWHL 241600Z AUTO 00000KT 06/02 RMK AO1 SLP995 T00580024 56008 KAND 241556Z AUTO VRB06KT 10SM CLR 19/02 A3010 RMK AO2 SLP187 T01940022 KBED 241556Z 32028G38KT 10SM CLR 11/M05 A2969 RMK AO2 PK WND 32038/1539 SLP069 T01061050 CWID 241600Z AUTO 08006KT M00/M07 RMK AO1 SLP183 T10041071 53001 CWHM 241600Z AUTO 32017G23KT 09/M03 RMK AO1 PK WND 31025/1548 T00931030 EDQM 241620Z 04012KT 9999 SCT040 16/08 Q1018 KBDN 241635Z AUTO 21017G23KT 10SM CLR 09/02 A2985 RMK AO2 KALW 241553Z 18009KT 7SM -RA OVC070 12/06 A2979 RMK AO2 SLP090 P0001 T01220061 KAMN 241633Z AUTO 11008G15KT 10SM BKN080 OVC100 11/M08 A3011 RMK AO2 T01111084 KANE 241645Z 08007KT 5SM -RA BR BKN008 OVC015 06/05 A2975 CWGW 241600Z AUTO 19008G15KT 05/M03 RMK AO1 SLP093 T00501028 58008 CWHN 241624Z AUTO 07009KT 030V090 1 1/4SM -UP OVC001 OVC078 M00/M01 A2973 RMK ICG PAST HR KALX 241635Z AUTO 15003KT 10SM CLR 27/07 A3001 RMK AO2 T02690066 CWHO 241600Z AUTO 05013KT M01/M04 RMK AO1 PK WND 07017/1540 SLP240 T10051035 51001 CWGX 241600Z AUTO 07010G19KT M04/M11 RMK AO1 SOG 10 5010 PK WND 05020/1537 SLP273 T10431106 KD55 241635Z AUTO 17010KT 2SM BR OVC002 04/04 A2972 RMK AO2 PFSH 241558Z AUTO 01010KT 10SM CLR M01/M02 A2961 RMK AO2 SLP040 T10111022 FZRANO CWHP 241500Z AUTO 05028G33KT RMK AO1 SOG 06 1011 PK WND 05034/1440 CWIG 241600Z AUTO 09005KT RMK AO1 CWGY 241600Z AUTO 28017G22KT 06/M02 RMK AO1 PK WND 27023/1523 SLP066 T00591016 51007 KBEH 241553Z AUTO 12019G26KT 10SM BKN120 13/M01 A3000 RMK AO2 PK WND 13026/1458 SLP162 T01281006 CWHQ 242300Z AUTO 32014G21KT 06/M00 RMK AO1 PK WND 32021/2237 T00611002 50013 CWGZ 241600Z 15003KT 15SM FEW160 M10/M17 A3032 RMK AC2 SLP273 KBDR 241652Z 32022G31KT 10SM CLR 14/M13 A2982 RMK AO2 PK WND 32037/1615 SLP096 T01391128 KD57 241635Z AUTO 29016G22KT 10SM CLR 13/M05 A2974 RMK AO2 CWII 241600Z AUTO 12011KT 04/02 RMK AO1 T00360019 KANJ 241555Z AUTO 12007KT 10SM CLR 08/M05 A3014 RMK AO2 SLP211 T00831050 CWIJ 241600Z AUTO 09003KT M16/M18 RMK AO1 SOG 45 5000 SLP333 T11561184 KANK 241635Z AUTO 19014G31KT 170V240 10SM CLR 10/M16 A3014 RMK AO1 T00991158 KD60 241635Z AUTO 31009G15KT 10SM BKN023 09/03 A2975 RMK AO2 OPKC 241625Z 27010KT 7000 SCT020 28/22 Q1009 NOSIG EDSB 241620Z 06010KT CAVOK 24/03 Q1012 CWIK 241600Z AUTO 22006KT 07/05 RMK AO1 3006 SLP056 T00700054 50006 CWJB 241600Z AUTO 34009G17KT 07/M02 RMK AO1 PK WND 01017/1559 T00711018 CWHT 241600Z AUTO 09002KT 01/M00 RMK AO1 SLP034 T00081004 55000 KBDU 241636Z AUTO 08007KT 10SM CLR 12/M06 A2998 RMK AO2 DNIL 240700Z 18008KT CAVOK 23/21 Q1010 CWJC 241600Z AUTO M14/M18 RMK AO1 SLP326 T11391176 53003 ULOO 241630Z 34004MPS P6000 SKC 11/M06 Q1028 01090070 NOSIG RMK QFE767 CWIL 241600Z AUTO 34013KT M15/ A3047 RMK SLP328 KBFD 241553Z AUTO 10SM CLR 07/M10 A3010 RMK AO2 SLP207 T00671100 DNIM 241100Z 00000KT 9999 BKN013 32/24 Q1010 CWJD 241600Z AUTO 04010G16KT M00/M04 RMK AO1 SOG 15 8007 PK WND 07018/1508 SLP141 T10021038 CWHV 241600Z AUTO 31007KT 05/M01 RMK AO1 PK WND 34019/1520 SLP070 T00511014 51014 UMGG 241630Z 06005MPS CAVOK 14/M04 Q1025 R10/CLRD// NOSIG KAMW 241639Z AUTO 19007KT 7SM SCT007 BKN070 OVC100 12/11 A2965 RMK AO2 T01170106 NZAP 241600Z 34003KT 30KM SKC 13/11 Q1019 RMK ALT VATSIM USE ONLY KBFF 241553Z AUTO 29014G21KT 10SM CLR 13/M06 A2995 RMK AO2 SLP124 T01281061 CXAF 241600Z AUTO 07004KT 01/01 RMK AO1 T00120009 CXAG 241600Z AUTO 06004KT 02/02 RMK AO1 T00200015 CWIP 240900Z AUTO 07011G22KT 01/ RMK AO1 PK WND 08027/0812 T0007 KANQ 241655Z AUTO 12014KT 10SM FEW110 12/M04 A3006 RMK KAOH 241553Z AUTO 12012G19KT 10SM FEW120 13/M06 A3010 RMK AO2 SLP193 T01281061 TUPJ 241700Z 18006KT 9999 FEW020 SCT220 30/23 Q1016 RMK A3002 CWJH 241600Z AUTO 06008KT M03/M07 RMK AO1 SOG 21 7005 SLP202 T10261066 KBFI 241553Z 19012G19KT 10SM SCT020 SCT050 BKN200 12/07 A2973 RMK AO2 SLP066 P0001 T01220072 OPLA 241625Z 00000KT 5000 HZ FEW040 SCT100 31/16 Q1007 CWJI 241600Z AUTO 28020G28KT 08/01 RMK AO1 PK WND 28028/1558 SLP070 T00770012 51008 KAPA 241553Z 14009KT 10SM FEW150 SCT220 07/M06 A3002 RMK AO2 SLP165 T00671056 PHBK 241556Z AUTO 09003KT 10SM CLR A3009 RMK AO2 SLP193 FZRANO TSNO $ EEKA 241550Z 02008KT CAVOK 07/M02 Q1031 CXBA 241600Z AUTO 29015KT 04/M00 RMK AO1 PK WND 28023/1530 T00361001 CXAJ 241600Z AUTO 06006KT 02/02 RMK AO1 7PAST HR M P0003 T00190018 50016 CWIS 241600Z AUTO 35008G19KT 01/M02 RMK AO1 SOG 52 1021 PK WND 35019/1555 SLP069 T00141018 CXAK 241600Z AUTO 30012KT 04/01 RMK AO1 PK WND 30017/1503 T00440005 KAPC 241554Z 27010KT 10SM FEW015 SCT100 13/11 A3009 RMK AO2 SLP182 T01330111 KBFL 241554Z 17005KT 10SM CLR 14/02 A3009 RMK AO2 SLP185 T01440022 KBFM 241553Z 12007KT 10SM SCT014 BKN020 24/19 A3002 RMK AO2 SLP163 T02440189 KBGD 241651Z AUTO 34015G21KT 10SM CLR 17/M01 A3002 RMK AO2 PK WND 32026/1627 SLP134 T01721011 EDTD 241620Z 08007KT 050V110 CAVOK 19/06 Q1015 CWKD 241600Z AUTO 01008KT 04/M02 RMK AO1 SLP107 T00411023 51016 KANW 241635Z AUTO 33019G27KT 10SM CLR 17/M08 A2983 RMK AO2 T01661077 KBGE 241635Z AUTO 00000KT 10SM SCT055 29/17 A3000 RMK AO2 CWIW 241600Z AUTO 25008KT 04/03 RMK AO1 SLP041 T00410032 51009 KAPF 241553Z VRB06KT 10SM CLR 26/18 A3003 RMK AO2 SLP168 T02610178 KAOO 241553Z AUTO 10SM CLR 11/M07 A3010 RMK AO2 SLP201 T01061072 EEKE 241650Z AUTO 09005KT 060V120 9999NDV NCD 11/M08 Q1030 KBGF 241635Z AUTO 17010KT 10SM CLR 23/03 A2998 RMK DNJO 241100Z 00000KT 9999 FEW008 26/21 Q1017 CWIX 241600Z AUTO 30014KT 06/M00 RMK AO1 21 T00601003 CWJO 241600Z AUTO 31012G21KT 06/01 RMK AO1 PK WND 31021/1558 SLP107 T00620014 51014 NZCH 241630Z AUTO 06009KT 9999 OVC004/// 12/11 Q1008 NOSIG KAPG 241552Z 32012KT 7SM SKC 13/M06 A3007 NZCI 241600Z 33004KT 40KM BKN065 14/11 Q1016 RMK ALT NZNR VATSIM USE ONLY CWIY 241600Z AUTO 35007KT 01/01 RMK AO1 SLP037 T00080006 51020 CWKG 241600Z AUTO 36005KT 06/06 RMK AO1 7PAST HR SOG 00 1012 SLP916 P0003 T00620056 50040 EDRZ 241620Z 12005KT 080V160 CAVOK 22/08 Q1014 CWKH 241600Z AUTO 08/05 RMK AO1 3025 SLP021 T00800051 50004 CWIZ 241600Z AUTO 27013G21KT 08/M04 RMK AO1 PK WND 27021/1550 T00801039 CWJR 241600Z AUTO 13001KT 04/03 RMK AO1 3PAST HR 8002 SLP104 P0001 T00430029 50010 CXBI 241600Z AUTO 31011KT 08/M09 RMK AO1 SLP216 T00791088 55001 CXCA 241600Z AUTO 17010G15KT 07/M07 RMK AO1 SOG 11 5007 SLP199 T00661067 KBHB 241635Z AUTO 33017G22KT 10SM OVC015 06/04 A2951 RMK AO1 CWKK 241600Z AUTO 19004KT 06/M04 RMK AO1 SOG 15 6007 SLP189 T00571041 CXAT 241600Z AUTO 00000KT M17/M22 RMK AO1 SOG 02 3006 SLP233 T11661222 CWJT 241600Z AUTO 33005G15KT 07/M06 RMK AO1 SLP155 T00671058 51004 CXBK 241600Z AUTO 29016KT 05/02 RMK AO1 PK WND 29021/1510 SLP051 T00520018 52009 CWLB 241600Z AUTO 08004KT 02/01 RMK AO1 5PAST HR 1012 SLP080 P0002 T00150010 50020 KBHC 241635Z AUTO 07004KT 10SM SCT080 27/11 A3001 RMK AO2 EDTL 241220Z 03009KT 350V050 9999 FEW036 22/13 Q1015 CWJU 241600Z AUTO 01011KT 06/05 RMK AO1 SLP015 T00620054 56001 CWLC 241600Z AUTO 34025KT 07/ RMK AO1 T0067 KBGM 241553Z 34014G23KT 10SM CLR 07/M08 A3001 RMK AO2 PK WND 31027/1530 SLP173 T00671083 CXCD 241600Z AUTO 32010KT M01/M02 RMK AO1 T10051016 CWJV 241500Z AUTO 10001KT 04/03 RMK AO1 SLP059 T00370031 55000 CWKM 241600Z AUTO 28009KT M12/ A2991 RMK SLP133 KAPN 241554Z AUTO 14008KT 10SM SCT120 11/M06 A3016 RMK AO2 SLP218 T01111056 KBFW 241634Z AUTO 06008KT 4SM -RA SCT007 01/01 A2993 RMK AO2 P0003 DNKN 241600Z 13006KT 9999 FEW020 39/15 Q1007 NOSIG CWLE 241600Z AUTO 28020G28KT 04/M00 RMK AO1 PK WND 27028/1555 SLP051 T00391003 51007 CWJW 241600Z AUTO 18001KT 04/M06 RMK AO1 SLP069 T00381055 58013 UMII 241600Z 04003G06MPS CAVOK 12/M06 Q1027 R05/CLRD// NOSIG VCRI 241610Z 22003KT 9999 VCTS FEW016 FEW018CB SCT080 26/24 Q1011 NOSIG RMK W CWJX 241600Z AUTO 29020G26KT 07/M01 RMK AO1 PK WND 29027/1521 SLP063 T00651009 51005 CXBO 241600Z AUTO 33012G20KT RMK AO1 PK WND 34020/1558 CWKO 241400Z AUTO 28011KT 03/01 RMK AO1 SLP081 T00300008 53012 UNAA 241630Z 16002MPS 9000 SCT100 02/M06 Q1019 NOSIG RMK QFE742 20190050 CWKP 241600Z AUTO 14006KT M03/ A3023 RMK SLP271 CXCH 241600Z AUTO 02/M02 RMK AO1 T00201017 KBGR 241553Z 30018G26KT 8SM -RA BKN013 OVC025 04/04 A2956 RMK AO2 SLP011 T00440044 PNO CXBR 241600Z AUTO 26012KT 08/M05 RMK AO1 PK WND 27019/1548 T00831052 CWLI 241600Z AUTO 11017KT M10/ A3006 RMK SLP195 KARA 241553Z 18012KT 10SM FEW022 SCT033 26/18 A2996 RMK AO2 RAB19E28 SLP144 P0000 T02610183 KARB 241553Z AUTO 15008G16KT 10SM SCT075 OVC110 10/M06 A3015 RMK AO2 SLP213 T01001061 KBHK 241651Z AUTO 28020G28KT 10SM CLR 11/M06 A2981 RMK AO2 PK WND 30030/1604 SLP097 T01111061 DNKT 241600Z 12005KT 9999 SCT018 30/14 Q1008 NOSIG CXDB 241600Z AUTO 20005KT 08/M06 RMK AO1 T00761059 CXCK 242200Z AUTO 16007KT 08/M04 RMK AO1 SOG 13 8004 SLP092 T00771040 NZDN 241600Z 05006KT 40KM BKN100 11/08 Q1005 RMK ALT VATSIM USE ONLY KBHM 241553Z 12007KT 10SM FEW070 24/05 A3001 RMK AO2 SLP158 T02390050 KBID 241635Z 32012G20KT 10SM CLR 11/M04 A2975 RMK AO1 CWLM 241600Z AUTO 30010G16KT 10/06 RMK AO1 PK WND 27027/1508 T01040055 50016 KBIE 241635Z AUTO 34011KT 10SM SCT080 OVC085 14/09 A2976 RMK AO2 T01400086 EDVE 241620Z 08007KT 040V120 9999 FEW021 18/14 Q1019 CXBW 241400Z AUTO 24008KT 03/M03 RMK AO1 T00261026 CWME 241600Z AUTO 05012KT 08/04 RMK AO1 SLP974 T00820042 53007 CXDE 241600Z AUTO 10012G18KT M04/M09 RMK AO1 PK WND 09019/1543 SLP230 T10401093 56007 KAQO 241635Z AUTO 27007KT 10SM CLR 26/18 A2990 RMK AO2 KBIF 241556Z AUTO 35008KT 11SM CLR 20/M10 A3013 RMK AO2 SLP146 T02001100 CWKX 241600Z AUTO 05006KT M01/M05 RMK AO1 SLP087 T10081054 50002 KD95 241633Z AUTO 13005KT 10SM SCT110 11/M10 A3015 RMK AO2 T01061099 KAQP 241634Z AUTO 04006KT 5SM -RA BKN003 OVC045 07/06 A2973 RMK AO2 P0002 KARG 241635Z AUTO 20013G20KT 10SM CLR 23/07 A2986 RMK AO1 OPNH 241600Z 18005KT 8000M NSC 33/13 Q1004 KAPY 241635Z AUTO 00000KT 10SM BKN025 27/18 A2983 RMK AO2 T02700190 EDTY 241620Z 08007KT CAVOK 20/07 Q1015 CXCP 241600Z AUTO 26005KT 08/M06 RMK AO1 T00791060 CWLP 241600Z AUTO 12014KT 08/05 RMK AO1 2008 SLP969 T00810054 50004 KBIH 241556Z AUTO VRB03KT 10SM CLR 15/M07 A3006 RMK AO2 SLP145 T01501072 UNBB 241630Z 18005MPS CAVOK 07/M09 Q1015 NOSIG RMK QFE739/0985 24CLRD66 KAQR 241635Z AUTO 17010G15KT 10SM SCT026 BKN034 BKN042 22/18 A2976 RMK AO2 OPMT 241455Z 00000KTS 4000 TS FEW030CB SCT040 BKN120 34/15 Q1005 TEMPO 36030KT 0500 DS/TS FEW030CB CXDI 241600Z AUTO 03003KT 09/M09 RMK AO1 SLP217 T00911089 57005 KBIJ 241635Z AUTO 11004KT 10SM CLR 26/14 A3000 RMK AO2 CXCS 241600Z AUTO 30020KT 04/01 RMK AO1 PK WND 31028/1512 T00420005 CWLS 241600Z AUTO 02008KT 08/M08 RMK AO1 SLP220 T00821076 CWMJ 241600Z AUTO 35006KT 07/M10 RMK AO1 SLP181 T00651100 50001 CXEA 241600Z AUTO 10007KT 05/M01 RMK AO1 SOG 19 6006 SLP155 T00531008 EDVK 241620Z 08008KT CAVOK 19/10 Q1017 CWNB 241600Z AUTO 05/ RMK AO1 SLP217 T0052 CXDK 241600Z AUTO 08005KT M01/M02 RMK AO1 SLP154 T10071024 51001 KBIL 241553Z 00000KT 10SM SCT090 SCT200 09/M05 A2984 RMK AO2 SLP107 T00941050 KBJC 241547Z 13009KT 70SM FEW150 SCT250 09/M03 A3001 KE11 241635Z AUTO 01016G22KT 10SM OVC021 19/01 A3006 RMK AO2 T01850009 CXEC 241600Z AUTO 03/02 RMK AO1 T00270019 CWNC 241600Z AUTO 35009G15KT 09/M09 RMK AO1 SLP193 T00911090 57004 KASD 241553Z AUTO 18009KT 10SM FEW029 25/17 A2999 RMK AO2 SLP154 T02500167 KCAD 241635Z AUTO 12010KT 10SM OVC070 08/M06 A3008 RMK AO2 T00831062 KAQV 241507Z AUTO 19010G19KT 10SM SCT017 23/17 A2989 RMK AO2 T02280172 KARM 241635Z AUTO 17014G18KT 10SM CLR 25/19 A2989 RMK AO2 T02540189 DNMM 241600Z 25006KT 190V310 9999 SCT013 31/26 Q1008 NOSIG CWND 241600Z AUTO 11018KT M08/M10 RMK AO1 PK WND 11021/1558 SLP112 T10771104 57007 CWMM 241600Z AUTO 09004KT 07/06 RMK AO1 3025 SLP043 T00740055 50042 KASE 241553Z 00000KT 10SM CLR 04/M13 A3015 RMK AO2 SLP156 T00391128 KAQW 241652Z AUTO 30007G23KT 250V320 10SM CLR 10/M06 A2985 RMK AO2 PK WND 32026/1641 SLP110 T01001061 KCAE 241556Z 10008KT 060V120 10SM CLR 21/04 A3009 RMK AO2 SLP187 T02110039 DNMN 241200Z 14007KT 9999 BKN011 33/24 Q1009 NOSIG CWNE 241600Z AUTO 05028G34KT M00/M01 RMK AO1 1PAST HR 1009 PK WND 05035/1512 SLP008 P0008 T10011007 50111 CWLX 241600Z AUTO 18014KT M14/ A3006 RMK SLP202 KCAG 241553Z AUTO 03005KT 10SM CLR 05/M07 A3013 RMK AO2 SLP209 T00501067 KASG 241548Z 22013KT 10SM SCT090 OVC130 16/14 A2979 CXDP 241600Z AUTO 32005KT 02/01 RMK AO1 T00180014 50006 CXEG 241600Z AUTO 03/02 RMK AO1 T00320020 CWLY 241641Z AUTO 15005KT 120V190 9SM -RA BKN020 OVC028 05/03 A2966 RMK SLP048 KASH 241651Z 33035G44KT 10SM CLR 12/M06 A2971 RMK AO2 T01221055 PK WND 33044/1651 SLP308 KE16 241635Z AUTO 33005KT 10SM OVC023 14/10 A3014 RMK AO2 UMKK 241630Z 09005MPS 050V110 CAVOK 15/M03 Q1024 R06/CLRD70 NOSIG RMK QFE767/1022 CWMQ 241600Z AUTO 27009KT 09/01 RMK AO1 SOG 00 8002 SLP080 T00860013 CWNH 241600Z AUTO 02010G17KT 01/01 RMK AO1 6PAST HR 1025 PK WND 04018/1542 SLP083 P0002 T00080007 50022 ZSHC 241630Z 11002MPS 4000 -RA BR SCT010 BKN020 17/15 Q1016 NOSIG KBJI 241631Z AUTO 12006KT 1 1/2SM BR OVC004 03/02 A2979 RMK AO2 T00260023 KARR 241652Z 15020G31KT 9SM FEW070 SCT120 16/03 A2989 RMK AO2 PK WND 14032/1601 SLP121 T01610033 PFWS 241556Z AUTO 05005KT 10SM CLR 00/M03 A2963 RMK AO2 SLP040 T00001033 FZRANO KBIS 241652Z 30010G20KT 10SM CLR 16/M04 A2974 RMK AO2 SLP078 T01561039 VECC 241650Z 18010KT 3500 HZ NSC 31/21 Q1005 NOSIG KBJJ 241556Z AUTO 10006KT 10SM OVC090 09/M06 A3016 RMK AO2 RAB26E52 SLP221 P0000 T00891061 TSNO KASJ 241635Z AUTO 34004KT 10SM CLR 16/M02 A3011 RMK AO2 T01641023 KBKB 241554Z AUTO 10SM SCT024 BKN050 26/18 A2989 RMK AO2 SLP147 T02560183 KCAK 241651Z 08006KT 10SM BKN140 BKN250 11/M08 A3013 RMK AO2 SLP208 T01111078 PNO KART 241556Z AUTO 35014G18KT 10SM CLR 09/M08 A3006 RMK AO2 SLP182 T00891083 $ CWNK 241600Z AUTO 15012KT 03/03 RMK AO1 T00330029 50002 CWMT 241600Z AUTO 09009KT M05/M12 RMK AO1 SLP228 T10461119 58003 CWOB 241600Z AUTO 00000KT M12/ A3020 RMK SLP281 KASL 241635Z AUTO 18013KT 10SM SCT025 BKN050 BKN060 24/18 A2986 RMK AO1 T02420178 CWNL 241600Z AUTO 14008KT 05/M06 RMK AO1 SLP219 T00541062 51003 CWOC 241600Z AUTO 06009G20KT 01/00 RMK AO1 2PAST HR 1022 PK WND 01024/1503 SLP050 P0005 T00080000 50043 KBIV 241553Z AUTO 13013G23KT 10SM SCT120 13/02 A3004 RMK AO2 SLP176 T01280017 KBKD 241635Z AUTO 33016G23KT 10SM CLR 24/05 A2991 RMK AO2 T02380050 KARV 241635Z AUTO 12012G16KT 2SM -SN OVC009 03/01 A2993 RMK AO2 T00250007 CWOD 241600Z AUTO 32012G17KT 05/M02 RMK AO1 SOG 12 3021 PK WND 33021/1525 SLP115 T00461019 CWNM 241600Z AUTO 10005KT 06/04 RMK AO1 SLP086 T00550035 58002 ZSFZ 241600Z 30001MPS 1700 -SHRA BR FEW006 SCT015 BKN030 17/16 Q1014 RETSRA BECMG TL1700 3100 -SHRA BR KBKE 241553Z AUTO 24004KT 10SM BKN060 OVC075 07/04 A2988 RMK AO2 SLP120 T00720039 TSNO KCBE 241636Z AUTO 00000KT 10SM CLR 13/M08 A3014 RMK AO1 KBJN 241556Z AUTO 17006KT 10SM CLR 12/M14 A3008 RMK AO2 SLP265 T01221139 $ KARW 241635Z AUTO 07013G17KT 5SM HZ CLR 22/15 A3005 RMK AO2 CXDW 241600Z AUTO 15009KT 04/04 RMK AO1 T00390039 CWOE 241600Z AUTO 27012G18KT 08/M06 RMK AO1 SOG 01 8005 PK WND 26018/1557 SLP084 T00791062 KCAO 241555Z AUTO 01012KT 10SM CLR 13/M07 A3007 RMK AO2 SLP138 T01281072 KBIX 241603Z AUTO 17005KT 2SM HZ FEW018 25/19 A3000 RMK AO2 VIS 2V2 1/2 KCBF 241635Z AUTO 32016G22KT 7SM BKN009 OVC013 12/12 A2969 RMK AO2 KBKF 241555Z COR 17008KT 70SM FEW110 FEW220 08/M05 A3003 RMK SLP147 COR 1559 KCBG 241635Z AUTO 08004KT 10SM -RA BKN010 OVC015 06/02 A2975 RMK AO2 P0003 VEBS 241030Z 19014KT 5000 HZ FEW020 SCT100 39/23 Q1004 NOSIG CWNP 241600Z AUTO 26001KT 03/03 RMK AO1 6PAST HR 0000 SLP084 P0002 T00310027 50006 CWMZ 241600Z AUTO 26008KT M00/M03 RMK AO1 SLP225 T10041030 53004 CWNQ 241500Z AUTO 34009G16KT 08/M02 RMK AO1 SLP110 T00791016 51013 KCAR 241612Z AUTO 36015KT 1 1/4SM -SN BR SCT008 OVC014 01/00 A2960 RMK AO2 P0000 T00110000 KCCA 241635Z AUTO 25008G14KT 10SM CLR 22/14 A2989 RMK AO2 LTG DSNT SW KAST 241555Z AUTO 22013G19KT 10SM -RA FEW028 BKN050 OVC080 11/08 A2977 RMK AO2 RAB04 SLP082 P0001 T01060078 KCBK 241630Z AUTO 33021G26KT 10SM CLR 16/M01 A2995 RMK AO2 CXET 241600Z AUTO 32010G19KT 07/M10 RMK AO1 PK WND 33019/1552 SLP212 T00741104 55002 KBKL 241553Z 01007KT 10SM OVC100 08/M01 A3016 RMK AO2 SLP218 T00831011 KATL 241652Z 11006KT 10SM SCT250 23/06 A3003 RMK AO2 SLP164 T02280061 EFET 241620Z AUTO VRB01KT CAVOK 04/M05 Q1022 VECO 240600Z 27004KT 5500 NSC 35/16 Q1005(.) CWPC 241600Z AUTO 24011KT RMK AO1 50001 KCAV 241635Z AUTO 18011KT 10SM FEW049 SCT065 BKN085 10/09 A2965 RMK AO2 KCBM 241558Z AUTO 17007KT 120V190 10SM CLR 25/08 A2995 RMK AO2 SLP144 T02500078 UMMG 241400Z 08006G09MPS CAVOK 17/M03 Q1023 NOSIG CXFM 241600Z AUTO 25013KT 09/M07 RMK AO1 PK WND 24019/1551 T00941066 CWPD 241600Z AUTO 02009G17KT M02/M03 RMK AO1 SLP084 T10151027 53017 KASW 241635Z AUTO 14013G20KT 10SM CLR 13/M05 A3002 RMK AO2 CWPE 241600Z AUTO 02010G20KT RMK AO1 20 3018 KASX 241641Z AUTO 07008KT 6SM UP BR BKN022 OVC030 03/02 A2994 RMK AO2 RAE11UPB1556 P0004 T00280017 KBLF 241652Z AUTO VRB03KT 10SM CLR 17/M03 A3006 RMK AO2 SLP163 T01721033 KAUG 241553Z AUTO 33022G35KT 10SM SCT044 OVC090 08/M03 A2961 RMK AO2 PK WND 35037/1537 SLP028 T00831033 CWPF 241645Z AUTO 24011G16KT 11/06 RMK AO1 PK WND 24019/1616 T01110056 KATP 241635Z AUTO 13010KT 10SM CLR 23/20 A3000 RMK A01 KBLH 241652Z AUTO 12004KT 10SM CLR 25/M08 A2994 RMK AO2 SLP133 T02501078 PHHI 241558Z AUTO 00000KT 10SM BKN023 OVC029 19/18 A3010 RMK AO2 RAB1525E1534DZE1536 SLP185 P0001 T01920179 $ KAUH 241635Z AUTO 35017G25KT 10SM CLR 16/07 A2979 RMK AO2 T01570074 NZGS 241600Z 32008KT 40KM SCT085 15/11 Q1017 RMK ALT VATSIM USE ONLY CXGH 241600Z AUTO 02/01 RMK AO1 T00170011 CWNZ 241600Z AUTO 12004KT 07/M12 RMK AO1 SOG 55 6011 SLP220 T00681119 KBLI 241553Z 00000KT 10SM BKN048 BKN055 OVC110 11/08 A2964 RMK AO2 RAE41 SLP043 P0000 T01060078 OPPS 241600Z NW-12KT 4000 TSRA FEW030CB SCT053 OVC084 22/15 Q1011.7 NZHK 241600Z 03011KT 7000 SHRA BKN017 15/15 Q1013 RMK ALT VATSIM USE ONLY ULWC 241630Z 30003G06MPS CAVOK 07/M12 Q1022 NOSIG RMK QFE756/1008 SC060 CXFR 241600Z AUTO 26006KT M01/M01 RMK AO1 T10071007 KBKS 241635Z AUTO 19008G14KT 10SM BKN033 29/19 A2984 RMK AO1 T02850189 KE38 241635Z AUTO 04010KT 10SM CLR 22/M07 A3016 RMK AO2 T02241068 KATS 241635Z AUTO 04013G21KT 5SM HZ CLR 18/00 A3010 RMK AO2 KCDA 241635Z AUTO 30012G22KT 10SM OVC039 06/M05 A2981 RMK AO2 T00561052 UMMM 241630Z 09005MPS CAVOK 13/M07 Q1025 R12/CLRD60 NOSIG RMK QFE748 PFYU 241636Z 04006KT 10SM CLR M02/M07 A2975 RMK AO1 CXHA 241600Z AUTO 13006KT 09/M07 RMK AO1 SLP219 T00861072 58007 EFHA 241650Z AUTO 28010KT CAVOK 11/M09 Q1027 KATT 241651Z AUTO VRB06KT 9SM OVC018 23/18 A2989 RMK AO2 SLP111 T02330183 UNEE 241630Z 16003MPS CAVOK 06/M13 Q1015 NOSIG RMK QFE738 23CLRD60 CWPK 241600Z AUTO 31008G15KT 02/M06 RMK AO1 SOG 18 1012 PK WND 32017/1501 SLP166 T00241056 KCDC 241553Z AUTO 00000KT 10SM CLR 11/M10 A3009 RMK AO2 SLP163 T01061100 KAVC 241635Z AUTO 36003KT 10SM CLR 17/M03 A3016 RMK AO2 NZHN 241600Z 11001KT 25KM SCT100 13/12 Q1020 RMK ALT NZTG VATSIM USE ONLY KBKV 241553Z VRB05KT 10SM CLR 26/18 A3004 RMK AO2 SLP170 T02560178 KCDD 241631Z AUTO 12004KT 5SM DZ BKN017 OVC023 03/03 A2991 RMK AO2 KBLM 241635Z AUTO 30018G31KT 10SM CLR 13/M08 A2994 RMK AO1 KAUM 241634Z AUTO 14008G16KT 7SM DZ BKN014 OVC022 06/04 A2968 RMK AO2 LTG DSNT SE CXHD 241600Z AUTO 31014KT 02/01 RMK AO1 PK WND 31018/1530 T00150009 KBKW 241651Z AUTO VRB03KT 10SM CLR 14/M09 A3006 RMK AO2 SLP176 T01441094 TSNO KATW 241645Z 09006KT 7SM BKN060 OVC080 06/04 A2996 KAUN 241635Z AUTO 13009KT 10SM SCT100 14/07 A3007 RMK AO1 EDXW 241620Z 09014KT 9999 OVC013 10/07 Q1022 KAUO 241635Z AUTO 13006KT 10SM CLR 24/09 A3004 RMK AO1 KCCO 241635Z AUTO 00000KT 10SM SCT060 24/11 A3003 RMK AO2 T02380106 DNPO 241100Z 32002KT 9999 BKN013 31/25 Q1010 NOSIG CXHF 241600Z AUTO 05/M08 RMK AO1 T00481082 CWPO 241600Z AUTO 16009KT 05/04 RMK AO1 SLP079 T00470044 56004 KATY 241646Z AUTO 35005KT 7SM FEW007 SCT120 07/06 A2971 RMK AO2 T00720056 EFHF 241650Z 21006KT 180V260 CAVOK 10/M07 Q1028 KBMG 241553Z 12012KT 10SM CLR 16/02 A2999 RMK AO2 SLP153 T01610017 CWOY 241600Z AUTO 24003KT 04/02 RMK AO1 2PAST HR 2009 SLP047 P0001 T00430022 50002 UMMS 241630Z 07003MPS 040V100 CAVOK 12/M05 Q1026 R13/CLRD// NOSIG KCDH 241635Z AUTO 10SM FEW050 BKN065 23/15 A2986 RMK AO2 NZHS 241600Z 33004KT 40KM BKN065 14/11 Q1016 RMK ALT NZNR VATSIM USE ONLY CWQH 241600Z AUTO 32014G22KT 07/M02 RMK AO1 PK WND 33026/1518 T00731020 KCCR 241553Z 25008KT 10SM FEW030 BKN150 16/09 A3010 RMK AO2 SLP178 T01560094 KBMI 241556Z 16019G27KT 10SM CLR 17/02 A2988 RMK AO2 T01660022 PK WND 16035/1538 SLP120 NZHT 241600Z 03013KT 10KM SHRA SCT002 16/15 Q1009 RMK ALT VATSIM USE ONLY CWPR 241600Z AUTO 25001KT 04/02 RMK AO1 0000 SLP036 T00420019 50003 KAUS 241553Z 22009KT 10SM OVC016 22/18 A2988 RMK AO2 SLP111 T02220183 KCDJ 241652Z AUTO 13009KT 12/09 A2969 RMK AO1 SLP051 P0008 T01220094 $ KBNA 241553Z 17012KT 10SM BKN200 OVC250 22/03 A2997 RMK AO2 SLP143 T02220033 CWPS 241600Z AUTO 17008KT 03/M02 RMK AO1 SLP220 T00311019 50001 CWRA 241400Z AUTO 04031G39KT M00/ RMK AO1 7PAST HR 5003 PK WND 05041/1305 SLP011 P0007 T1001 50037 KAVK 241635Z AUTO 34026G36KT 10SM SCT100 18/05 A2985 RMK AO2 CWQK 241600Z AUTO 27021KT 10/06 RMK AO1 PK WND 29032/1501 SLP994 T01000056 51021 CXIB 241600Z AUTO 05004KT 01/M02 RMK AO1 SOG 13 8005 SLP021 T00121022 KBML 241652Z AUTO 32012G25KT 10SM OVC039 06/M03 A2973 RMK AO2 PK WND 34027/1637 SLP077 T00611033 KBLU 241652Z AUTO 16009KT 10SM FEW070 09/M01 A3012 RMK AO2 SLP171 T00891011 TSNO KCEC 241625Z AUTO 16013KT 10SM BKN007 OVC011 11/11 A3001 RMK AO2 RAE05 P0000 T01060106 EFHK 241650Z 22010KT CAVOK 11/M07 Q1028 NOSIG KAVL 241554Z 16008KT 10SM CLR 16/00 A3012 RMK AO2 SLP186 T01560000 KCCU 241636Z AUTO 25011G18KT 10SM CLR M03/M18 A3018 RMK AO2 EEPU 241250Z VRB03KT CAVOK 13/M08 Q1031 OPRN 241600Z 31010KT 6000 FEW035TCU SCT040 BKN100 27/13 Q1010.8/29.84 KBLV 241558Z AUTO 16014G19KT 10SM SCT170 20/06 A2984 RMK AO2 SLP107 T01950057 CXHM 241600Z AUTO 10005KT 11/M08 RMK AO1 SLP207 T01061075 58008 PGRO 241050Z 06008KT 7SM FEW025 BKN080 26/23 A2989 RMK LAST KCDN 241635Z AUTO 07008KT 10SM CLR 20/04 A3010 RMK AO2 TSNO KAUW 241622Z AUTO 11014KT 5SM UP BR FEW008 BKN048 OVC060 03/02 A2991 RMK AO2 P0004 T00280017 KCEF 241642Z AUTO 35016G26KT 10SM CLR 13/M06 A2978 RMK AO2 WSHFT 40 CWQO 241600Z AUTO 01012KT 01/01 RMK AO1 PK WND 03017/1517 T00080008 CWRF 241600Z AUTO ///// M21/ A3016 RMK SLP264 CWPX 241600Z AUTO 05006KT M12/ A3048 RMK SLP349 PHJH 241602Z 04010KT 12SM VCSH FEW015 SCT030 BKN050 20/18 A3007 RMK VCSH NW KAVP 241554Z AUTO 32020G31KT 10SM CLR 09/M10 A3003 RMK AO2 PK WND 30031/1552 SLP171 T00941100 TSNO KCCY 241635Z AUTO 13015G26KT 4SM BR SCT010 OVC014 07/06 A2968 RMK AO2 KAWG 241635Z AUTO 20007KT 3SM HZ FEW036 OVC044 12/09 A2975 RMK AO2 CXHP 241600Z AUTO 25003KT 01/01 RMK AO1 T00130005 CWQP 241600Z AUTO 34012G18KT 10/M09 RMK AO1 PK WND 33018/1551 SLP194 T00971093 58002 KBMQ 241619Z AUTO 22008KT 10SM SCT022 24/17 A2989 RMK AO2 T02440167 CWPZ 241600Z AUTO 10002KT 06/M03 RMK AO1 SLP019 T00561030 58002 CWRH 241600Z AUTO 36005KT M07/ A3027 RMK SLP293 KCDR 241553Z AUTO 30017G22KT 10SM CLR 13/M03 A2990 RMK AO2 PK WND 30027/1515 SLP127 T01281033 CXHR 241600Z AUTO 31007KT 05/M00 RMK AO1 T00501001 CWQR 241600Z AUTO 06012KT 01/ RMK AO1 PK WND 07018/1500 T0010 KCDS 241553Z AUTO 35023KT 10SM CLR 19/03 A2994 RMK AO2 PK WND 35031/1516 SLP121 T01890028 KAXA 241635Z AUTO 20005KT 10SM OVC022 09/07 A2967 RMK AO2 OPSK 241700Z 18002KTS 5000 HZ FEW200 31/18 QNH.1003 RH.43 PC CWQS 241600Z AUTO 00000KT 07/01 RMK AO1 SLP014 T00740005 55000 CWRJ 241600Z AUTO 27016G24KT 04/02 RMK AO1 PK WND 26024/1551 SLP041 T00440015 51010 CWSA 241640Z AUTO 08030G36KT 2 1/4SM OVC005 OVC053 OVC090 04/02 A2917 EGAA 241650Z 13009KT 100V170 9999 FEW038 14/06 Q1018 KBMT 241635Z AUTO 17011G18KT 10SM SCT024 26/19 A2991 RMK AO2 T02590192 CYAB 241600Z 00000KT 10SM FEW050 SCT130 BKN210 M18/M23 A3021 RMK SC2AC2CC3 SLP232 CWRK 241600Z AUTO 35010G18KT 07/M10 RMK AO1 PK WND 24018/1555 SLP199 T00671095 55001 KBNL 241635Z AUTO 11006KT 10SM CLR 23/07 A3007 RMK AO2 EGAC 241650Z 10011KT 9999 FEW017 SCT029 14/07 Q1018 UMOO 241600Z 05004G07MPS CAVOK 12/M05 Q1026 R13/CLRD// NOSIG KAWM 241553Z AUTO 20014G22KT 10SM CLR 22/09 A2988 RMK AO2 SLP115 T02170094 PGSN 241554Z 06012KT 10SM CLR 27/22 A2983 RMK AO2 SLP122 T02670222 KCFD 241635Z AUTO 19008G15KT 10SM BKN025 BKN034 OVC042 25/19 A2987 RMK AO2 T02460186 CYAD 241600Z 28008KT 15SM FEW070 FEW200 M03/M09 A3008 RMK AC1CI1 SLP205 CWRM 242200Z AUTO 33013G21KT 09/M02 RMK AO1 PK WND 32025/2131 SLP995 T00921019 51008 CWSD 241600Z AUTO 06026G32KT 01/M00 RMK AO1 6PAST HR 3012 PK WND 06034/1536 SLP982 P0010 T00101002 50125 CWQV 241600Z AUTO 28011G16KT 05/ RMK AO1 PK WND 28019/1503 T0045 KCDW 241553Z 32015G26KT 10SM CLR 12/M11 A2993 RMK AO2 PK WND 32032/1503 SLP142 T01221111 KCFE 241635Z AUTO 07006KT 10SM DZ BKN008 OVC012 05/03 A2975 RMK AO2 T00470033 EGAE 241650Z 06008KT 030V100 9999 SCT049TCU 15/06 Q1017 CWRN 241600Z AUTO 06023G30KT 01/ RMK AO1 PK WND 07034/1542 T0008 KAVX 241651Z AUTO 26005KT 10SM CLR 18/08 A3002 RMK AO2 SLP148 T01830083 TSNO KBNO 241553Z AUTO 19006KT 10SM BKN110 08/04 A2991 RMK AO2 SLP126 T00830039 KAWO 241635Z AUTO 16016G20KT 10SM BKN023 OVC029 12/08 A2972 RMK AO1 CWRO 241600Z AUTO 34015KT 07/05 RMK AO1 1PAST HR 6004 PK WND 35020/1524 SLP010 P0000 T00720048 50001 CWSF 241600Z AUTO 08012G19KT M00/ RMK AO1 3PAST HR 1019 PK WND 08020/1525 SLP095 P0001 T1004 50005 NZKI 241600Z 36007KT 45KM SCT002 11/10 Q1011 RMK ALT VATSIM USE ONLY CWSG 242300Z AUTO 07004KT 01/01 RMK AO1 3009 SLP999 T00120011 50020 PHJR 241153Z AUTO 07005KT 10SM CLR 23/17 A3009 RMK AO2 SLP196 60000 T02280167 10244 20228 58010 TSNO KAXH 241635Z AUTO 23003KT 10SM BKN025 25/19 A2990 RMK AO2 T02470186 ORBI 241630Z VRB02KT CAVOK 30/07 Q1010 CYAH 241600Z AUTO 31005KT 260V350 9SM OVC080 M01/M07 A2999 RMK SLP175 KBOI 241553Z 12014KT 10SM -RA BKN065 OVC085 08/05 A2994 RMK AO2 SLP135 P0002 T00830050 PGUA 241643Z AUTO 05014KT 10SM BKN020 26/22 A2982 RMK AO2 BKN V SCT TSNO $ NZKK 241507Z 29006KT 30KM SCT045 14/14 Q1020 RMK NZAA VATSIM USE ONLY OPST 241600Z 27002KT 4000 HZ FEW040 SCT100 27/15 Q1008 NOSIG RH47 CXKA 241600Z AUTO 18002KT 05/M10 RMK AO1 SOG 47 8006 SLP227 T00531100 EFKA 241650Z AUTO 26009KT CAVOK 09/M08 Q1028 KBOK 241556Z AUTO 17010G14KT 120V200 M1/4SM FG OVC001 11/11 A2999 RMK AO2 T01050105 RAE29 P0001 SLP158 CYBB 241600Z 24004KT 15SM FEW014 M17/M20 A3033 RMK SC0 SLP274 ORBM 241700Z 00000KT CAVOK 25/11 Q1011 NOSIG CWSK 241600Z AUTO 31002KT 06/06 RMK AO1 4PAST HR 3012 SLP030 P0002 T00550058 50027 CWRT 241600Z AUTO 28005KT 05/M04 RMK AO1 T00471036 EGBB 241650Z 11004KT 080V180 9999 FEW024 15/06 Q1017 KCEU 241554Z AUTO 03008KT 10SM CLR 20/01 A3011 RMK AO2 SLP190 T02000006 KCGC 241635Z AUTO 27004KT 10SM SCT038 27/16 A3001 RMK AO2 KBPC 241635Z AUTO 33018G21KT 10SM CLR 17/01 A3000 RMK AO2 CWRU 241600Z AUTO 12023G29KT 08/ RMK AO1 PK WND 13030/1503 SLP942 T0077 53020 CWSL 241600Z AUTO 22002KT 06/05 RMK AO1 7PAST HR 4000 SLP067 P0003 T00590049 50020 CYBC 241600Z AUTO 05009G16KT 3/4SM R10/3500FT/N -SN SCT006 OVC014 01/M00 A2980 RMK PCPN 1.0MM PAST HR SLP093 VDPP 241630Z 21005KT 9000 FEW017 29/23 Q1008 CYBD 241600Z 00000KT 15SM OVC085 07/03 A2949 RMK AS8 SLP987 CYAM 241600Z 11005KT 15SM BKN130 BKN170 BKN220 09/M04 A3015 RMK AC5AC1CC1 SLP217 KAXN 241632Z AUTO 17005KT 5SM -RA BR SCT008 BKN016 OVC024 04/03 A2975 RMK AO2 P0006 PHKO 241553Z 10006KT 10SM CLR 23/19 A3000 RMK AO2 SLP159 T02280189 EFIV 241620Z AUTO 30010KT 270V340 9999 BKN032 06/M01 Q1019 KCEW 241553Z AUTO 00000KT 10SM CLR 25/17 A3002 RMK AO2 SLP163 T02500172 KCGE 241634Z AUTO 30013G17KT 10SM CLR 13/M05 A3007 RMK AO1 KBNW 241635Z AUTO 23008KT 10SM SCT046 SCT055 OVC100 12/10 A2964 RMK AO2 KAXO 241630Z 15009KT 7SM BKN015 25/20 A3000 EGBE 241620Z VRB03KT 9999 FEW028 15/06 Q1017 KCGF 241645Z 35008KT 10SM SCT100 11/M03 A3015 EFKE 241620Z AUTO 21007KT CAVOK 04/00 Q1023 DNSO 241200Z 20016KT 9999 FEW016 39/22 Q1009 EFJO 241620Z 27008KT 230V320 CAVOK 09/M07 Q1024 CWRX 241600Z AUTO 26013KT M17/ A3008 KBPG 241635Z AUTO 32014G20KT 7SM OVC005 22/01 A3004 RMK AO2 T02220010 KCEY 241635Z AUTO 19006KT 150V220 10SM CLR 22/05 A2990 RMK AO1 CWSP 241600Z AUTO 31006KT 09/07 RMK AO1 SLP035 T00930067 51022 CWRY 241600Z AUTO 26008KT 08/M06 RMK AO1 SOG 03 8001 SLP083 T00791057 ZSNB 241600Z 02002MPS 4000 -RA BR BKN026 17/16 Q1017 NOSIG CYBG 241627Z 29017KT 20SM -SHRA OVC024 RMK SC8 KCEZ 241553Z AUTO VRB03KT 10SM CLR 09/M12 A3016 RMK AO2 SLP185 T00891117 PHLI 241600Z AUTO 05017KT 10SM FEW016 SCT023 BKN046 23/20 A3012 RMK AO2 TSNO $ CWRZ 241500Z AUTO 06027KT M00/M00 RMK AO1 0PAST HR 1015 PK WND 06033/1418 SLP063 P0004 T10011001 50020 KBPI 241553Z AUTO 22004KT 10SM FEW055 03/M07 A3005 RMK AO2 SLP172 T00331067 KCGI 241653Z 17016KT 10SM SCT065 24/06 A2985 RMK AO2 SLP108 T02390061 CXKI 241600Z AUTO 04/M12 RMK AO1 SOG 08 5002 SLP228 T00401119 CWSR 241600Z AUTO 08012G17KT 01/M00 RMK AO1 5PAST HR 1012 PK WND 08017/1557 SLP047 P0002 T00101003 50007 EFKI 241620Z 27011KT CAVOK 07/M05 Q1023 KCHA 241553Z VRB04KT 10SM SCT250 20/03 A3004 RMK AO2 SLP167 T02000033 KBOS 241554Z 33020G34KT 10SM CLR 11/M06 A2968 RMK AO2 PK WND 31038/1459 SLP051 T01111056 KCFS 241634Z AUTO 13006G15KT 10SM SCT100 12/M07 A3015 RMK AO2 T01201072 KAXS 241635Z AUTO 35024G31KT 10SM CLR 22/03 A2991 RMK AO2 T02210025 NZMC 241600Z 03013KT 10KM SHRA SCT002 16/15 Q1009 RMK ALT NZHT VATSIM USE ONLY CYAS 241600Z 03015KT 15SM -SN BKN015 M08/M10 A3029 RMK ST5 SLP273 EGBJ 241650Z 08002KT 9999 FEW042 16/04 Q1017 CWSS 241600Z AUTO 34008G17KT 05/04 RMK AO1 1014 PK WND 31018/1527 SLP974 T00500036 50010 KBPK 241553Z AUTO 20009G16KT 9SM CLR 21/09 A2982 RMK AO2 SLP092 T02110094 KE80 241635Z AUTO 07006KT 10SM CLR 14/M11 A3017 RMK AO2 T01411106 CXLB 241600Z AUTO 07013G18KT 05/ RMK AO1 PK WND 07026/1501 SLP921 T0049 51014 CWST 241600Z AUTO 02008KT 05/03 RMK AO1 2PAST HR 3022 SLP072 P0001 T00470031 50002 CYCB 241600Z 04006KT 12SM -SN BKN006 OVC036 M14/M16 A3053 RMK SC6SC1 SLP342 CYBK 241600Z 32014KT 20SM FEW080 M14/M18 A3047 RMK AC1 SLP320 PGUM 241654Z 06009KT 10SM CLR 26/23 A2981 RMK AO2 SLP086 T02610228 EFKK 241650Z 24010KT CAVOK 07/M08 Q1027 KAZC 241635Z AUTO 13006KT 10SM CLR 18/M10 A3012 RMK AO2 T01761096 CXLC 241600Z AUTO 07010KT M07/M15 RMK AO1 SOG 25 5002 SLP258 T10711152 CYBL 241600Z 14011G17KT 10SM FEW008 BKN011 09/07 A2951 RMK SF2SF5 SLP996 KCFV 241652Z AUTO 19023G31KT 10SM SCT021 OVC027 22/16 A2964 RMK AO2 PK WND 18031/1650 LTG DSNT SW-N SLP031 T02170161 EGCC 241650Z 06004KT 9999 FEW058TCU 15/07 Q1018 KCHD 241547Z 00000KT 40SM FEW250 21/M06 A2996 KAXV 241632Z AUTO 11011G16KT 10SM SCT055 SCT070 13/M11 A3008 RMK AO2 NZMF 241600Z 00000KT 40KM BKN080 09/08 Q1006 RMK ALT NZQN VATSIM USE ONLY CXKM 241600Z AUTO 32014KT 03/M00 RMK AO1 PK WND 31021/1523 T00301002 CYCD 241600Z 18008KT 15SM -SHRA FEW005 FEW015 BKN030TCU BKN210 11/08 A2960 RMK SF1SC1TCU3CI1 SLP022 KBOW 241550Z 25003KT 10SM FEW050 25/18 A3004 KAZE 241635Z AUTO 00000KT 10SM SCT060 SCT070 OVC080 26/14 A3001 RMK AO2 T02620137 CWTN 241600Z AUTO 34004KT 09/M00 RMK AO1 SLP078 T00881002 51016 CYBN 241600Z AUTO 31009G15KT 270V340 9SM CLR 08/M11 A3016 RMK SLP221 CWSW 241600Z 18006KT 20SM FEW035 SCT060 BKN090 05/M02 A2974 RMK SC1SC3AS2 SLP098 EETN 241650Z 31005KT 280V340 CAVOK 09/M11 Q1030 NOSIG CYAW 241600Z 07011G22KT 3SM RA BR OVC005 03/03 A2930 RMK SF8 DA-462FT VIS LWR SE-SW SLP922 KAXX 241635Z AUTO 26018G21KT 10SM CLR 08/M13 A3015 RMK AO2 T00781130 ZSNJ 241600Z 11007MPS 8000 BKN020 19/16 Q1015 NOSIG CYAY 241631Z AUTO 03021G27KT 9SM SCT014 OVC026 M00/M03 A2999 RMK MAX WND 03022KT AT 1622Z SLP157 CYCG 241600Z 18004KT 4SM -RA BR SCT005 OVC013 04/03 A2978 RMK SF3SC5 SLP094 EFJY 241650Z AUTO 29009KT CAVOK 11/M11 Q1026 CYAZ 241600Z 20008KT 7SM FEW008 FEW013 BKN022 OVC120 09/06 A2957 RMK SF1SC2SC4AS2 OCNL GUSTS INTMT RA SLP014 CYBQ 241628Z AUTO 09008KT 9SM CLR M09/M12 A3035 RMK SLP304 CYBR 241634Z 13003KT 3SM BR OVC006 05/05 A2972 RMK ST8 SLP082 KCGS 241635Z AUTO 35009KT 320V020 10SM CLR 14/M06 A3009 RMK AO1 PHMK 241643Z 05010G16KT 6SM -RA BR FEW017 BKN036 OVC065 22/21 A3011 RMK AO2 RAB10 P0000 CYDA 241600Z 11002KT 5SM -SNRA BKN004 OVC020 01/01 A2965 RMK ST7SC1 VIS E 1 1/2 /R01 SINCE 1500Z SLP059 KBQK 241635Z AUTO 00000KT 10SM CLR 28/13 A3001 RMK AO1 KBPT 241624Z 19013G21KT 10SM BKN023 26/18 A2992 RMK AO2 T02560183 EFMA 241650Z 20005KT CAVOK 07/M05 Q1031 EFKS 241620Z AUTO 31012KT CAVOK 07/M11 Q1019 KCHK 241635Z AUTO 34022G27KT 10SM CLR 20/11 A2981 RMK AO2 CXKT 241600Z AUTO 02009KT 04/04 RMK AO1 7PAST HR 1015 PK WND 02017/1507 SLP933 P0011 T00390035 50075 ZSOF 241600Z 08003MPS 5000 BR NSC 18/15 Q1014 NOSIG CWTT 241600Z AUTO 05016G25KT 05/M04 RMK AO1 PK WND 06025/1557 T00541040 CYCK 241600Z AUTO 18012KT 130V190 9SM FEW120 BKN160 08/M04 A3018 RMK SLP227 CYDB 241600Z 11007KT 3/4SM -SN BR OVC004 M00/M01 A2952 RMK SN4ST4 SLP031 EFKT 241620Z AUTO 30011KT CAVOK 06/M08 Q1021 KCIC 241649Z 16008KT 40SM BKN080 OVC200 16/05 A3006 CXLL 241600Z AUTO 01003KT M01/M02 RMK AO1 SOG 27 0001 SLP157 T10081022 50019 CWTU 241600Z AUTO ///// M06/ A3004 RMK SLP216 CYBU 241641Z AUTO 03024G29KT 9SM -SN BKN011 BKN020 OVC042 M01/M02 A2975 RMK MAX WND 03026KT AT 1629Z SLP091 KCID 241652Z 15014G23KT 10SM BKN037 OVC090 12/06 A2969 RMK AO2 LTG DSNT SE RAB1557E46 PRESFR SLP057 P0009 T01170061 EETU 241650Z 09005KT CAVOK 10/M12 Q1029 KBRD 241553Z AUTO 13009G14KT 4SM -RA BKN006 OVC010 06/03 A2978 RMK AO2 RAB33 SLP095 P0000 T00610028 CYDC 241600Z 00000KT 10SM FEW005 SCT015 BKN025 BKN150 04/02 A2963 RMK ST2SF2CF2AS1 SLP044 EFKU 241650Z AUTO 27009KT CAVOK 10/M07 Q1024 CYBV 241600Z 09010KT 15SM FEW055 BKN080 BKN200 06/M02 A2987 RMK SC1AS5CS2 SLP125 CXMD 241600Z AUTO 16008KT 04/04 RMK AO1 SOG 00 6008 SLP078 T00420038 EGCN 241650Z 08005KT 040V120 9999 FEW042 16/07 Q1018 CYBW 241600Z AUTO 30004KT 240V040 9SM CLR 07/M09 A2966 RMK SLP078 DENSITY ALT 4100FT KCHO 241553Z 20004KT 10SM CLR 13/M06 A3013 RMK AO2 SLP201 T01281061 KAZO 241553Z 14012G21KT 10SM SCT110 12/M04 A3007 RMK AO2 SLP185 T01221039 PHNG 241557Z 06007KT 7SM FEW027 22/17 A3010 RMK AO2 SLP188 T02200172 PNO $ CWVF 241600Z AUTO 13017KT 08/08 RMK AO1 PK WND 11019/1524 T00750076 CYBX 241600Z 07019G29KT 15SM OVC030 00/M03 A3000 RMK SC8 SLP163 CYCO 241634Z 00000KT 12SM FEW002 FEW030 FEW140 RMK SF1SC1AS0 TR SF/SC CYDF 241600Z 06020G32KT 15SM OVC024 02/M03 A2982 RMK SC8 SLP099 KF05 241635Z AUTO 33018G26KT 10SM CLR 22/03 A2991 RMK AO1 T02170032 KBQP 241635Z AUTO 19008KT 10SM CLR 25/17 A2991 RMK AO2 T02500167 CXMG 241600Z AUTO 06008KT 03/02 RMK AO1 T00260015 50012 CWTY 241600Z AUTO 32010G16KT 08/M03 RMK AO1 PK WND 33021/1517 SLP111 T00781026 51008 CYCP 241600Z 00000KT 15SM BKN075 02/M01 A2968 RMK AC7 SLP077 CWUP 241600Z AUTO 22003KT M15/ A3010 RMK SLP241 EFLP 241620Z AUTO 27009KT 240V320 CAVOK 11/M09 Q1026 KCGZ 241635Z AUTO 00000KT 10SM CLR 23/M04 A2997 RMK AO1 CYCQ 241600Z 16004KT 15SM SCT020 SCT120 BKN220 02/M05 A2975 RMK SC3AC1CI1 SLP101 CWVH 241600Z AUTO ///// M09/ A2992 RMK SLP157 CXMI 241600Z AUTO 07010G19KT 03/02 RMK AO1 PK WND 07024/1516 SLP923 T00310019 51017 CWVI 241600Z AUTO 28009KT 02/02 RMK AO1 SLP065 T00150022 51011 ZSPD 241630Z 11006MPS CAVOK 17/14 Q1018 NOSIG EFMI 241620Z AUTO 28009KT 250V310 CAVOK 11/M09 Q1027 KCHS 241556Z 10010KT 10SM SCT030 SCT250 25/09 A3008 RMK AO2 SLP184 T02500094 KDAA 241558Z AUTO 36006KT 10SM CLR 13/M08 A3012 RMK AO2 SLP203 T01341078 CYCS 241600Z 29015KT 15SM FEW100 M16/M19 A3042 RMK AC2 SLP302 CWWA 241600Z AUTO 08004KT 09/06 RMK AO1 3021 SLP038 T00870063 50018 CWUS 241600Z AUTO 05002KT 05/04 RMK AO1 3004 SLP059 T00530037 50018 PHNL 241553Z 07009G16KT 10SM FEW026 SCT036 SCT048 23/17 A3008 RMK AO2 SLP186 T02330172 KDAB 241553Z 10005KT 10SM FEW035 26/17 A3003 RMK AO2 SLP169 T02610167 CWWB 241600Z AUTO 12011KT 05/M05 RMK AO1 SLP214 T00451047 58006 KBRL 241653Z AUTO 17011KT 10SM -RA FEW022 BKN070 OVC090 16/07 A2974 RMK AO2 LTG DSNT N RAB1559E08B24 SLP069 P0000 T01560067 EGEC 241620Z 15012KT 120V190 9999 FEW018 14/05 Q1018 CYDL 241600Z AUTO 05005KT 9SM CLR M01/M05 A2967 RMK SLP071 CXMM 241600Z AUTO 09009KT M00/M00 RMK AO1 6PAST HR SOG 00 1008 SLP116 P0002 T10031001 50019 EGDM 241550Z 10004KT 9999 FEW030 BKN250 15/04 Q1017 BLU NOSIG CYED 241653Z AUTO 31009KT 9SM OVC011 03/M00 A2969 KCIN 241635Z AUTO 31012KT 10SM FEW016 FEW024 OVC035 12/09 A2968 RMK AO2 NZNP 241600Z 30016KT 8000 SHRA SCT016 18/16 Q1018 RMK ALT VATSIM USE ONLY CWVN 241600Z AUTO 27014KT 09/M00 RMK AO1 PK WND 26020/1535 SLP081 T00941004 50004 CWWE 241600Z AUTO 03012G25KT 03/ RMK AO1 7PAST HR 1017 PK WND 05025/1559 SLP913 P0003 T0029 50040 CYDN 241647Z AUTO 13012KT 3SM -RA BR BKN007 OVC024 03/02 A2973 RMK SLP080 KBRO 241553Z 17015G21KT 10SM FEW026 28/20 A2985 RMK AO2 SLP107 T02830200 PHOG 241554Z 04015KT 10SM FEW020 SCT041 22/19 A3007 RMK AO2 RAE06 SLP187 P0001 T02220194 KBQX 241635Z AUTO 12008KT 9SM OVC017 24/21 A2992 RMK A01 CWUW 241652Z AUTO 17019KT 3/8SM BKN002 OVC073 OVC089 OVC098 M18/ A3003 NZOH 241600Z 32009KT 20KM BKN011 16/14 Q1016 RMK ALT NZPM VATSIM USE ONLY CXMO 241600Z AUTO 31010KT 06/M00 RMK AO1 T00611002 CWWF 241600Z AUTO 26009G15KT 07/04 RMK AO1 SLP066 T00710039 51009 CWUX 241400Z AUTO 27014KT 03/M01 RMK AO1 PK WND 27021/1305 SLP089 T00261006 53017 VDSR 241630Z 25006KT 9000 NSC 28/23 Q1008 CYCX 241643Z 02011G16KT 6SM -RASN OVC009 RMK SF8 KDAG 241650Z AUTO 29016KT 10SM CLR 19/M03 A3001 RMK AO2 SLP146 T01891028 NZNR 241600Z 33004KT 40KM BKN065 14/11 Q1016 RMK ALT VATSIM USE ONLY CYDP 241616Z 11012KT 15SM FEW018 SCT024 OVC090 RMK SC1SC2AC4 VEJS 240100Z 27002KT 2500 HZ FEW020 27/17 Q1007 CWVP 241600Z AUTO 28006KT 04/M00 RMK AO1 SOG 01 0000 SLP070 T00371004 50019 CYCY 241600Z 04002KT 25SM SCT100 BKN250 M13/M18 A3018 RMK AS3CS4 SLP224 CYEG 241600Z 33010KT 15SM FEW011 BKN016 03/M00 A2969 RMK SF1SC6 SLP081 ORER 241600Z 35006KT CAVOK 23/07 Q1009 NZNS 241600Z 19002KT 40KM BKN018 12/11 Q1015 RMK ALT VATSIM USE ONLY CWVQ 241600Z AUTO 28013G21KT 08/M05 RMK AO1 PK WND 29021/1556 SLP140 T00771050 53002 CYDQ 241600Z AUTO 28007KT 9SM FEW017 01/M02 A2972 RMK SLP093 KCIR 241635Z AUTO 18015G20KT 10SM CLR 24/04 A2987 RMK AO2 T02420042 PWINO UNKL 241630Z 22004G07MPS CAVOK 06/M12 Q1015 NOSIG RMK QFE735 29////65 ZSQD 241600Z 15004MPS CAVOK 14/04 Q1020 NOSIG EGDR 241550Z 10010KT 9999 FEW020 SCT200 13/08 Q1016 BLU TEMPO SCT020 WHT KBTA 241635Z AUTO 32017G21KT 7SM OVC010 12/09 A2972 RMK AO2 T01170092 PGWT 240950Z 05011KT 7SM FEW016 SCT150 27/21 A2986 RMK LAST CWXA 241600Z AUTO 24009G15KT 06/M11 RMK AO1 PK WND 26017/1520 SLP056 T00561109 58004 TVSV 241600Z 10015KT 9999 SCT020 BKN280 30/23 Q1016 -HZ KCKB 241553Z VRB05KT 10SM CLR 11/M04 A3013 RMK AO2 SLP203 T01061044 NZNV 241600Z 02006KT 30KM BKN080 11/09 Q1002 RMK ALT VATSIM USE ONLY CWVT 241600Z AUTO 08012G17KT 01/M04 RMK AO1 PK WND 09020/1529 SLP137 T00061036 51007 CWWK 241600Z AUTO 05001KT 09/08 RMK AO1 SLP044 T00900080 53025 CYEK 241600Z 33008KT 12SM SKC M15/M18 A3050 RMK TR SC SLP328 CYFB 241600Z 32004KT 320V020 20SM BKN017 M12/M17 A3039 RMK SC7 INTMT -SN SLP296 KDAL 241607Z 21013G23KT 10SM SCT024 BKN033 BKN250 23/17 A2979 RMK AO2 T02330167 KCIU 241635Z AUTO 13010KT 10SM SCT120 10/M07 A3013 RMK AO1 KCKC 241633Z AUTO 09008G16KT 10SM OVC031 03/M06 A2998 RMK AO2 CWWL 241600Z AUTO 36022KT 07/03 RMK AO1 PK WND 01027/1543 SLP983 T00710033 56008 CWXC 241600Z AUTO 36010KT 03/01 RMK AO1 1019 SLP088 T00250008 50002 CWVU 241600Z AUTO 36021G26KT 04/04 RMK AO1 2PAST HR SOG 05 3014 PK WND 00026/1557 SLP955 P0001 T00420038 50012 CYFC 241600Z AUTO 02012G21KT 9SM -RA OVC013 04/02 A2948 RMK MAX WND 01017KT AT 1535Z SLP983 KDAN 241553Z AUTO 01003KT 10SM CLR 17/M02 A3013 RMK AO2 SLP196 T01671017 CYEN 241600Z 30010KT 15SM FEW016 BKN030 BKN070 BKN250 09/05 A2970 RMK CU2SC4AC1CI0 SLP074 KCKF 241635Z AUTO 16003KT 10SM OVC080 29/11 A3003 RMK AO2 T02870109 PHNY 241556Z AUTO 05012KT 10SM BKN044 21/18 A3010 RMK AO2 TSNO T02050183 SLP175 $ EGEO 241520Z 27007KT 9999 FEW036 13/06 Q1019 EGDX 241550Z 10007KT 9999 FEW020 SCT050 14/07 Q1016 BLU EGFF 241650Z 11005KT 9999 SCT020CB SCT038 15/06 Q1017 CXMY 241600Z AUTO 02/02 RMK AO1 2PAST HR M P0005 T00240015 50041 CXNP 241600Z AUTO 03010G21KT 03/02 RMK AO1 9PAST HR 3012 PK WND 02021/1558 SLP958 P0007 T00290022 50074 EGDY 241550Z 25003KT 9999 FEW022TCU SCT030 13/09 Q1017 BLU NOSIG KCKI 241635Z AUTO 11006KT 10SM CLR 23/05 A3009 RMK AO2 KCJR 241635Z AUTO 35006KT 10SM CLR 16/M10 A3012 RMK AO2 CWXI 241600Z AUTO 06019G24KT 00/M03 RMK AO1 SOG 69 1003 PK WND 07029/1511 SLP140 T00001026 CYER 241600Z AUTO 06008KT 010V080 9SM -SN OVC019 M05/M12 A3039 RMK SLP292 KDCA 241652Z 01006KT 10SM FEW180 SCT250 15/M04 A3009 RMK AO2 SLP190 T01501044 CWWS 241600Z AUTO 07014KT 02/M03 RMK AO1 SOG 62 8005 PK WND 06017/1522 SLP128 T00211030 CXPA 241600Z AUTO 25004KT 01/M01 RMK AO1 T00051009 NZPM 241600Z 32009KT 20KM BKN011 16/14 Q1016 RMK ALT VATSIM USE ONLY CYET 241637Z AUTO 15003KT 060V210 9SM SCT023 04/M01 A2968 RMK SLP077 KBTL 241553Z 14011KT 10SM BKN110 11/M04 A3009 RMK AO2 SLP192 T01061044 CWWU 241600Z 04017G25KT 7SM -DZ BKN012 03/M01 A2967 RMK SC7 SLP047 CXOL 241600Z AUTO 20001KT 05/01 RMK AO1 T00520005 CWXL 241600Z AUTO 28009KT 10/M04 RMK AO1 6PAST HR M P0002 T00961042 50006 CXPC 241600Z AUTO 07/M11 RMK AO1 SLP210 T00651107 55002 KBTM 241553Z AUTO 00000KT 10SM BKN050 OVC060 04/M05 A2984 RMK AO2 SLP107 T00441050 KCKM 241635Z AUTO 19008KT 10SM 24/12 A2991 RMK AO1 CYEV 241600Z 10010KT 15SM BKN210 M03/M10 A2994 RMK CI7 SLP146 EGGD 241650Z 22004KT 9999 VCSH SCT033 12/09 Q1017 KDAW 241651Z AUTO 31020G32KT 10SM CLR 11/M03 A2965 RMK AO2 PK WND 32034/1608 SLP038 T01111033 KCLE 241651Z VRB04KT 10SM BKN095 12/M08 A3017 RMK AO2 SLP219 T01171083 KCKN 241635Z AUTO 15008KT 5SM UP OVC008 04/04 A2977 RMK AO2 P0001 KDBN 241635Z AUTO 00000KT 10SM CLR 26/13 A3004 RMK AO2 NZPP 241600Z 31009KT 40KM BKN014 16/15 Q1015 RMK ALT VATSIM USE ONLY CYGE 241600Z 15004KT 30SM FEW080 SCT150 SCT190 06/M01 A2974 RMK AC1AC3AC1 ACSL ASOCTD E SLP089 KBUF 241554Z 36009KT 10SM FEW140 FEW230 FEW280 09/M09 A3015 RMK AO2 SLP214 T00891094 CYFO 241600Z 06012G17KT 15SM FEW020 BKN070 OVC250 M01/M06 A2996 RMK SC2AS2CI2 SLP160 CWWX 241600Z AUTO 13004KT 03/M04 RMK AO1 SLP224 T00251040 50004 KBTP 241635Z AUTO 00000KT 10SM CLR 10/M06 A3015 RMK AO1 KCKP 241635Z AUTO 32006KT 10SM OVC012 10/08 A2969 RMK AO2 T00950080 KDAY 241556Z 12014KT 10SM SCT140 BKN170 13/M07 A3009 RMK AO2 SLP191 T01281072 KDBQ 241553Z 16022G30KT 10SM BKN050 BKN100 13/04 A2975 RMK AO2 PK WND 17030/1544 SLP077 T01280039 CYGH 241600Z 10016KT 25SM FEW100 OVC240 01/M05 A2994 RMK AC2CI1 SLP144 CWWZ 242200Z AUTO 35014KT 07/M01 RMK AO1 PK WND 35017/2145 SLP152 T00681010 53003 KBTR 241612Z 18009KT 10SM BKN018 26/18 A2997 RMK AO2 WSHFT 1552 T02610178 KCLI 241635Z AUTO 09009G14KT 7SM -RA SCT008 SCT019 OVC048 03/03 A2998 RMK AO2 P0004 CYFR 241600Z 12008G17KT 15SM BKN290 00/M06 A3009 RMK CS3 090V150 SLP201 CWXR 241600Z AUTO 12009KT M13/ A3036 RMK SLP293 KCMA 241555Z 00000KT 10SM CLR 17/06 A2999 RMK AO2 SLP163 T01720061 $ NZRC 241600Z 02006KT 30KM BKN080 11/09 Q1002 RMK ALT NZNV VATSIM USE ONLY CYHA 241500Z 04011KT 15SM -SN FEW010 FEW030 M08/M11 A3035 RMK SF1SC1 SLP283 CWZA 241600Z AUTO 03005KT 07/05 RMK AO1 4PAST HR 3020 SLP052 P0021 T00660049 50091 CWYJ 241600Z AUTO 26006KT 11/05 RMK AO1 3018 PK WND 30017/1501 SLP029 T01120054 50016 CYFS 241600Z 09005KT 15SM FEW030 OVC075 01/M04 A3002 RMK SC1AS6 SLP178 KCLK 241635Z AUTO 34022G30KT 10SM CLR 20/00 A2985 RMK AO2 CYFT 241600Z 05013KT 15SM -SN FEW010 OVC018 M01/M04 A3020 RMK ST2SC6 SLP233 CYGK 241600Z 01012G18KT 15SM BKN250 08/M07 A3007 RMK CI5 SLP186 CWYK 241600Z AUTO 12007KT M08/ A3006 RMK SLP242 KCLL 241553Z 19011KT 10SM SCT024 OVC043 24/18 A2988 RMK AO2 SLP112 T02390183 KDDC 241652Z AUTO 35021G28KT 10SM CLR 16/03 A2993 RMK AO2 PK WND 34030/1640 SLP118 T01610028 NZQN 241600Z 00000KT 40KM BKN080 09/08 Q1006 RMK ALT VATSIM USE ONLY CXPL 241600Z AUTO 28014KT 09/M01 RMK AO1 PK WND 29018/1519 T00881012 CWYL 241600Z AUTO 25008KT 02/M07 RMK AO1 SOG 111 8004 SLP073 T00211066 CYGL 241600Z 30010KT 15SM FEW007 FEW220 M04/M11 A3015 RMK SF1CI2 SF TR SLP225 KCKV 241652Z AUTO 19007KT 10SM CLR 22/06 A2992 RMK AO2 SLP128 T02220056 EFOU 241650Z AUTO 26012KT CAVOK 05/M05 Q1025 KCLM 241553Z AUTO 03003KT 10SM FEW065 11/08 A2963 RMK AO2 SLP033 T01110078 KBTV 241554Z 33015G24KT 10SM SCT055 SCT100 08/M06 A2991 RMK AO2 PK WND 32029/1512 SLP130 ACSL ALQDS T00831056 KCMD 241635Z AUTO 18009KT 10SM CLR 23/08 A3000 RMK AO2 T02270076 KDCM 241635Z AUTO 08006KT 10SM CLR 21/04 A3011 RMK AO2 CWYM 241600Z AUTO 28013KT M15/ A3009 RMK SLP260 CYHD 241655Z AUTO 09007G17KT 9SM OVC065 05/M01 A2991 RMK SLP146 KBVE 241651Z AUTO 18007KT 10SM CLR 23/18 A3000 RMK AO2 SLP160 T02330178 EGHE 241650Z 12013KT CAVOK 12/09 Q1016 CYHE 241626Z AUTO 19005KT 150V240 9SM -RA SCT012 SCT017 OVC046 06/06 A2971 RMK PRESRR PCPN 1.8MM PAST HR SLP060 KF44 241635Z AUTO 21012G19KT 170V230 10SM OVC026 22/17 A2983 RMK AO2 DNYO 241600Z 32005KT CAVOK 30/24 Q1006 CXOX 241600Z AUTO 07016G22KT M01/M05 RMK AO1 PK WND 07023/1500 SLP141 T10131050 51005 EFPO 241650Z AUTO 26006KT CAVOK 08/M08 Q1030 CXOY 241600Z AUTO 31019KT 05/M00 RMK AO1 PK WND 30025/1503 T00471001 CWZG 241600Z AUTO 23007KT 04/M09 RMK AO1 SOG 00 8007 SLP074 T00431094 CYGP 241600Z 08006KT 5/8SM -SN VV004 M00/M01 A2979 RMK SN8 /S06/ SLP089 EGGP 241650Z VRB03KT 9999 FEW030 16/07 Q1017 KCMH 241651Z 12010KT 10SM SCT110 BKN200 15/M09 A3008 RMK AO2 SLP187 T01501094 KDDH 241554Z AUTO 34011G24KT 10SM CLR 08/M07 A2986 RMK AO2 PK WND 32029/1511 SLP115 T00831067 KF46 241635Z AUTO 17018G24KT 10SM SCT022 BKN028 BKN035 24/18 A2979 RMK AO2 T02410180 CYHH 241600Z 33008KT 15SM BKN020 M03/M07 A3011 RMK SC5 SLP213 EGHH 241650Z 18005KT 9999 FEW030 15/07 Q1016 CYGQ 241600Z 13007KT 15SM SCT020 SCT100 OVC230 09/M05 A3008 RMK SC3AC1CS2 HALO SLP204 KBUR 241553Z 00000KT 10SM CLR 17/05 A2999 RMK AO2 SLP146 T01720050 KBVI 241547Z 00000KT 10SM CLR 09/M09 A3016 KCMI 241553Z 14020G27KT 10SM CLR 19/01 A2991 RMK AO2 PK WND 13031/1511 SLP127 T01890011 CYHI 241600Z 09011KT 15SM FEW250 M09/M11 A3047 RMK CI1 SLP323 EGHI 241650Z 34001KT 9999 FEW042 15/06 Q1016 CYGR 241600Z 07019G27KT 15SM OVC030 02/M02 A2959 RMK SC8 SLP020 KCLS 241255Z AUTO 27006KT 4SM +RA SCT010 BKN023 OVC044 10/10 A2969 RMK AO2 P0008 KCLT 241652Z 13003KT 10SM CLR 19/02 A3011 RMK AO2 SLP192 T01940022 KCNB 241635Z AUTO 36007KT 10SM SCT006 BKN009 OVC085 07/06 A2973 RMK AO2 T00670061 CYGT 241600Z 28011KT 10SM DRSN FEW040 FEW075 M21/M23 A3011 RMK SC2AC1 SLP205 CXRB 241600Z AUTO 34007KT M19/M24 RMK AO1 SOG 02 1007 SLP280 T11901242 CYHK 241600Z AUTO 34011KT 9SM CLR M19/M21 A3040 RMK SLP303 KDCU 241553Z AUTO 13008KT 10SM CLR 23/06 A2998 RMK AO2 SLP149 T02280061 KDEC 241554Z 14015KT 10SM CLR 17/03 A2989 RMK AO2 PK WND 15026/1500 SLP121 T01720028 KCNC 241635Z AUTO 27005KT 6SM -RA SCT009 SCT075 12/11 A2969 RMK AO2 KBUU 241635Z AUTO 11014G19KT 10SM OVC070 11/02 A2991 RMK AO2 T01100024 KDED 241635Z AUTO 16004KT 10SM FEW041 FEW049 SCT060 28/18 A3002 RMK AO1 CWZL 241600Z AUTO 30009KT 07/01 RMK AO1 SLP012 T00700011 57003 KBWD 241635Z AUTO 33017G24KT 6SM HZ CLR 27/04 A2989 RMK AO2 NZRO 241600Z 11001KT 25KM SCT100 13/12 Q1020 RMK ALT NZTG VATSIM USE ONLY CYHM 241600Z VRB02KT 15SM FEW160 FEW230 09/M09 A3015 RMK AC1CI1 AC TR CI TR SLP216 CYGV 241600Z AUTO 06014KT 9SM BKN031 02/M02 A2986 RMK SLP114 PHSF 241556Z AUTO 12006KT 11SM CLR 07/03 A3033 RMK AO2 SLP174 T00670034 KBVN 241635Z AUTO 33020G24KT 10SM CLR 15/02 A2977 RMK AO2 T01530021 CWZN 241600Z AUTO 05032G43KT 04/M02 RMK AO1 PK WND 06043/1551 SLP020 T00391015 58008 EGGW 241650Z 02002KT 9999 FEW031 14/09 Q1017 KBVO 241653Z AUTO 20013G20KT 9SM -TSRA SCT025 BKN031 OVC100 21/17 A2967 RMK AO2 PK WND 19026/1625 LTG DSNT N AND NE AND S RAB51 TSB45 SLP036 P0000 T02060172 CYGW 241600Z AUTO 28005KT 8SM -SN FEW005 M12/M13 A3023 RMK SLP239 CWZO 241600Z AUTO 28019KT RMK AO1 PK WND 28024/1524 CYGX 241600Z 08011KT 15SM FEW015 SCT200 M05/M11 A3031 RMK SC1CI0 SLP276 ZSSS 241630Z 12005MPS CAVOK 18/13 Q1017 NOSIG KBWG 241553Z AUTO 17004KT 10SM CLR 19/03 A2998 RMK AO2 SLP149 T01940028 KBUY 241554Z AUTO 25004KT 10SM CLR 17/M01 A3013 RMK AO2 SLP202 T01671011 KDCY 241635Z AUTO 14014G19KT 10SM CLR 18/03 A2995 RMK AO2 T01800034 CWYY 241600Z AUTO 14002KT 09/06 RMK AO1 3004 SLP055 T00870055 50002 KDEH 241635Z AUTO 12010G18KT 3SM -RA OVC028 06/05 A2972 RMK AO2 EGHQ 241650Z 13010KT 9999 FEW028 12/07 Q1016 CXRH 241600Z AUTO 08009G23KT 06/M03 RMK AO1 23 T00611031 CWZQ 241640Z AUTO 08053G72KT 03/M02 RMK AO1 T00251022 UNNT 241630Z 16004MPS CAVOK 07/M06 Q1013 07090070 16090070 NOSIG RMK QFE749/0999 KCMR 241655Z AUTO 13005KT 10SM CLR 15/M15 A3021 RMK AO1 KBWI 241554Z 35009G21KT 10SM FEW150 SCT250 13/M08 A3008 RMK AO2 SLP186 T01281078 KCNI 241635Z AUTO 14007KT 110V180 10SM CLR 21/M06 A3005 RMK AO2 KBXA 241635Z AUTO 22007KT 10SM 26/16 A2999 RMK AO2 T02560162 KBVS 241635Z AUTO 15006KT 10SM FEW010 BKN014 OVC038 11/09 A2969 RMK A01 P000 EGJA 241650Z 03007KT 9999 FEW010 11/10 Q1016 CWZS 241600Z AUTO 01004KT 01/01 RMK AO1 0PAST HR 3020 SLP061 P0008 T00130013 50090 EFSA 241620Z AUTO 28009KT CAVOK 11/M08 Q1025 KCNK 241555Z AUTO 35012G19KT 10SM OVC070 12/07 A2977 RMK AO2 RAB14E54 SLP070 P0001 T01220072 CYIK 241600Z 23006KT 15SM -SN OVC020 M12/M15 A3037 RMK SC8 SLP287 EGJB 241650Z 03006KT 350V080 9999 FEW015 13/07 Q1016 KBVU 241635Z AUTO 00000KT 10SM VCTS CLR 21/M11 A3001 RMK AO2 LTG DSNT N AND S CXSC 241600Z AUTO 28011KT 08/02 RMK AO1 PK WND 26018/1502 T00760021 UNOO 241630Z 17004MPS CAVOK 12/M07 Q1003 25CLRD60 NOSIG RMK QFE744 CXRL 241600Z AUTO 01/M00 RMK AO1 6PAST HR M P0002 T00071001 50013 CYHU 241600Z AUTO 33016G26KT 9SM CLR 10/M04 A2990 RMK MAX WND 33026KT AT 1558Z SLP127 KCNM 241553Z AUTO 10SM CLR 21/M08 A3007 RMK AO2 PK WND 35028/1506 SLP138 T02111083 $ KCOD 241635Z 24012G17KT 10SM CLR 11/M06 A2986 RMK AO1 CWZV 241600Z AUTO 01009KT 08/01 RMK AO1 3PAST HR 3006 PK WND 00018/1537 SLP996 P0001 T00840007 50005 KDEN 241553Z 19008KT 10SM FEW250 08/M06 A3002 RMK AO2 SLP143 T00781056 KCOE 241635Z AUTO 17008KT 10SM OVC022 06/03 A2978 RMK AO1 P0001 NZTG 241600Z 11001KT 25KM SCT100 13/12 Q1020 RMK ALT VATSIM USE ONLY CWZW 241600Z AUTO 09004KT M00/M06 RMK AO1 SOG 31 3007 SLP085 T10011061 CYIN 241648Z AUTO 14015G21KT 8SM -RA BKN009 OVC017 02/01 A2953 RMK SLP022 KCMX 241553Z AUTO 09007KT 10SM OVC070 03/M06 A3003 RMK AO2 SLP180 T00331056 KCNO 241553Z 00000KT 10SM SCT250 18/07 A3000 RMK AO2 SLP154 T01780072 KBVX 241635Z AUTO 21008KT 10SM CLR 23/13 A2986 RMK AO1 NZSP 241150Z 03015KT 0400 BLSN BKN000 M58/ A2835 RMK BLSN BKN000 CLN AIR 01014G19KT ALL WNDS GRID KCOF 241558Z AUTO 09007KT 10SM CLR 25/21 A3003 RMK AO2 SLP173 T02510212 CYJF 241621Z 06016G23KT 1SM -SN BLSN OVC006 RMK SN6SF2 KBWP 241635Z AUTO 11008KT 2 1/2SM SCT004 BKN034 OVC043 05/03 A2974 RMK AO1 P0001 KBVY 241553Z 31025G35KT 10SM CLR 11/M04 A2966 RMK AO2 PK WND 31035/1551 SLP041 T01061039 CYIO 241600Z 23003KT 10SM FEW029 SCT043 SCT076 BKN096 M18/M21 A3016 RMK SC1SC2AC1AC1 SLP221 EFRO 241650Z AUTO 32008KT CAVOK 08/M10 Q1021 KCMY 241635Z AUTO 12009KT 4SM RA OVC050 05/04 A2982 RMK AO2 P0008 T00500040 ZUCK 241600Z 02005MPS CAVOK 20/15 Q1009 NOSIG CYHY 241600Z 07011KT 15SM FEW080 BKN230 M00/M04 A3003 RMK AC1CI0 SLP182 KDEQ 241625Z AUTO VRB04KT 9SM BKN021 BKN036 OVC046 21/18 A2980 RMK AO2 LTG DSNT E RAE1557 P0000 T02060178 CXSH 241600Z AUTO 34011G17KT 08/M04 RMK AO1 PK WND 35023/1526 SLP111 T00801035 51012 CYHZ 241600Z 06013G19KT 4SM RA BR OVC009 03/02 A2930 RMK SF8 SLP926 KDFI 241553Z AUTO 13011KT 10SM CLR 12/M06 A3012 RMK AO2 SLP200 T01221061 EFSI 241650Z AUTO 25007KT 190V320 CAVOK 09/M09 Q1028 EGKA 241520Z 17005KT 9999 FEW030 13/09 Q1017 EGJJ 241650Z 02005KT 9999 FEW016 13/10 Q1016 NOSIG CYKA 241600Z 10010KT 25SM FEW010 FEW019 OVC043 06/04 A2965 RMK SF1SC2SC6 SF TR SLP049 KDET 241553Z 14005KT 10SM SCT110 11/M10 A3018 RMK AO2 SLP223 T01111100 KF70 241635Z AUTO 24003KT 10SM CLR 18/08 A3000 RMK AO1 KBXK 241635Z AUTO 12008KT 10SM CLR 24/M06 A2996 RMK AO1 EGKB 241650Z 10006KT 070V140 9999 SCT045 15/07 Q1017 KCNU 241652Z AUTO 23020G34KT 2SM TSRA BKN023 BKN027 OVC100 17/12 A2965 RMK AO2 PK WND 24034/1647 LTG DSNT SW-N RAB40 TSB15E30B50 PRESRR SLP032 P0007 T01720122 EHAK 241625Z AUTO 10018KT 7000 SCT000/// BKN002/// OVC003/// 08/08 Q1021 KCPC 241635Z AUTO 11004KT 7SM CLR 20/02 A3011 RMK AO2 T01960021 CXSL 241600Z AUTO 08005KT 01/01 RMK AO1 T00140005 50006 KCOM 241635Z AUTO 35016G23KT 5SM HZ CLR 24/03 A2992 RMK AO2 T02440028 CYKD 241600Z 13007KT 15SM FEW100 BKN220 M03/M09 A2994 RMK AC2CS5 SLP138 KCNW 241555Z 20015G21KT 10SM BKN019 24/18 A2984 CXTD 241600Z AUTO 07016G23KT 02/01 RMK AO1 3PAST HR 8001 PK WND 05026/1534 SLP958 P0001 T00180013 50011 CYIV 241600Z 07013G20KT 15SM FEW100 BKN250 00/M03 A3008 RMK AC2CI0 SLP200 PHTO 241653Z 22007KT 10SM BKN028 BKN040 19/18 A3011 RMK AO2 RAB33E50 SLP194 P0000 T01940183 KCON 241651Z AUTO 33019G34KT 10SM CLR 11/M05 A2971 RMK AO2 PK WND 33034/1646 SLP062 T01061050 KDEW 241634Z AUTO 11003KT 10SM OVC004 06/05 A2976 RMK AO2 RAE18 P0001 T00610050 EHAM 241625Z 36005KT 5000 TSRA FEW025 SCT045CB 18/13 Q1017 TEMPO VRB10G20KT 2500 TSRAGR CYKF 241600Z AUTO 30008KT 260V360 9SM CLR 09/M09 A3015 RMK SLP217 KBYG 241553Z AUTO VRB03KT 10SM CLR 09/M08 A2988 RMK AO2 SLP106 T00891083 KCNY 241653Z AUTO 00000KT 10SM CLR 12/M13 A3012 RMK AO2 SLP183 T01221128 CZBF 241600Z 05017G28KT 5/8SM -SN VV005 M00/M01 A2968 RMK SN8 SLP055 KBYH 241552Z 18012G20KT 10SM BKN200 25/08 A2987 CYKG 241500Z 00000KT 7SM -SN OVC020 M10/M12 A3032 RMK SC8 NEXT OBS 241700 UTC SLP284 CXSP 241600Z AUTO 05006KT 01/01 RMK AO1 T00110009 KCOQ 241636Z AUTO 08008KT 1 3/4SM -SN OVC004 01/01 A2984 RMK AO2 P0002 CXTH 241600Z AUTO 07004KT 02/02 RMK AO1 T00170015 50004 KBYI 241553Z AUTO 20013KT 10SM OVC065 09/01 A2998 RMK AO2 RAB13E38 SLP146 P0000 T00890011 VEPT 241450Z 30002KT 5000 HZ NSC 32/12 Q1004 NOSIG CXSR 241600Z AUTO 29006KT M02/M04 RMK AO1 SOG 54 1004 SLP072 T10151037 KCOS 241554Z 19009G14KT 150V220 10SM FEW080 FEW200 08/M03 A3006 RMK AO2 SLP167 T00781028 NZTU 241600Z 24001KT 15KM VCSH BKN085 08/08 Q1008 RMK ALT VATSIM USE ONLY CYLA 241600Z 04017KT 15SM -SN SCT022 BKN070 M05/M08 A3028 RMK SC3AS2 AC ASOCTD SLP257 CYKJ 241600Z AUTO 09013G21KT 9SM CLR M04/M08 A3003 RMK MAX WND 08018KT AT 1550Z SLP201 KCOT 241553Z AUTO 00000KT 10SM OVC018 23/18 A2987 RMK AO2 SLP107 T02330183 KCPK 241635Z AUTO 33006KT 7SM CLR 17/M04 A3010 RMK AO2 KCQB 241635Z AUTO 31018G25KT 10SM OVC018 19/16 A2974 RMK AO2 CYJT 241600Z 06030KT 15SM FEW080 SCT200 06/M04 A2966 RMK AC1CI2 SLP045 KCQC 241653Z AUTO 28014G21KT 10SM CLR 12/M15 A3014 RMK AO2 SLP156 T01171150 EGKK 241650Z 12004KT 070V150 9999 FEW044 16/08 Q1017 EHBK 241625Z AUTO 08006KT 050V120 9999 TS FEW038CB 19/10 Q1015 TEMPO 5000 TSRAGR SCT020CB KCOU 241554Z 17009G19KT 10SM CLR 19/06 A2975 RMK AO2 SLP069 T01940056 CYLC 241600Z 01008KT 15SM FEW015 FEW020 M14/M17 A3039 RMK SF1SC1 SLP298 CYKL 241611Z AUTO 11013G22KT 9SM SCT017 BKN024 OVC042 M01/M05 A2994 RMK SLP171 EGLC 241650Z 11008KT 9999 FEW048 16/09 Q1017 CYLD 241600Z 00000KT 15SM SCT210 06/M10 A3014 RMK CI2 SLP227 KDFW 241553Z 20018G23KT 10SM SCT026 BKN037 24/18 A2978 RMK AO2 SLP076 T02440178 KCQF 241635Z AUTO 26005KT 10SM BKN021 BKN029 22/18 A3000 RMK AO2 CYKO 241600Z 17007KT 10SM -SN BKN022 OVC150 M10/M13 A3039 RMK SC6AC2 SLP293 EGLF 241620Z 32005KT 270V010 9999 FEW040 17/07 Q1017 CXTO 241600Z AUTO 11/M10 RMK AO1 SLP216 T01071103 58002 CXTP 241600Z AUTO 00000KT 01/M02 RMK AO1 SOG 00 8006 SLP084 T00081015 OSDI 241600Z 36005KT CAVOK 29/M02 Q1012 EFTP 241650Z AUTO 27009KT CAVOK 10/M09 Q1029 CYKQ 241600Z 29011KT 12SM -SN OVC015 M05/M08 A3026 RMK SC8 SLP247 CYLH 241600Z AUTO 07011G17KT 9SM CLR 05/M06 A3010 RMK MAX WND 07017KT AT 1552Z SLP207 KCPR 241553Z 22024KT 10SM CLR 08/M08 A2995 RMK AO2 PK WND 21032/1546 SLP136 T00781078 NZWB 241600Z 19002KT 40KM BKN018 12/11 Q1015 RMK ALT NZNS VATSIM USE ONLY KBYS 241555Z AUTO 34003KT 10SM CLR 17/M04 A2999 RMK AO2 SLP136 T01741036 $ KCPS 241553Z 14012G20KT 10SM CLR 19/06 A2983 RMK AO2 SLP097 T01940056 $ CYLJ 241600Z 07012G20KT 2 1/2SM -RASN BR OVC005 01/M00 A2970 RMK SF8 VIS SE 1 SLP080 CYMA 241600Z 09005KT 20SM VCSH SCT040 BKN070 BKN220 04/M00 A2966 RMK SC4AC1CI1 SH N TCU ASOCTD ACSL SLP067 EFVA 241650Z AUTO 24010KT 210V280 CAVOK 07/M08 Q1028 KCPT 241635Z AUTO 24011G17KT 10SM FEW033 BKN040 26/18 A2983 RMK AO2 CZDB 241600Z AUTO 05012KT 01/M00 RMK AO1 3PAST HR 3011 PK WND 06018/1509 SLP938 P0005 T00141002 50064 CYLK 241600Z 08013KT 15SM FEW210 M07/M11 A3027 RMK CI0 SLP268 ORMM 241600Z 29008KT CAVOK 32/04 Q1009 NOSIG CYLL 241600Z 05008KT 3SM -RASN BR OVC003 01/01 A2964 RMK ST8 SLP066 EGMC 241650Z 09008KT CAVOK 15/10 Q1017 EFTU 241650Z AUTO 29006KT CAVOK 09/M07 Q1030 EGLL 241620Z 06005KT 010V090 9999 FEW048 17/07 Q1017 KCQM 241635Z AUTO 11006KT 3SM DZ OVC012 02/01 A2988 RMK AO2 EGMD 241650Z 08013KT 9999 FEW035 14/11 Q1017 CXTV 241600Z AUTO 08004KT M06/M11 RMK AO1 SLP141 T10581111 58011 KDGW 241553Z AUTO 29014KT 10SM CLR 11/M09 A2994 RMK AO2 SLP125 T01061094 KDHN 241553Z VRB03KT 10SM CLR 25/12 A3004 RMK AO2 SLP169 T02500122 KCRE 241553Z 12008KT 10SM CLR 19/06 A3012 RMK AO2 SLP199 T01940056 KCPW 241638Z AUTO 22012G18KT 10SM CLR M02/M14 A3023 RMK AO2 KBZN 241556Z 16006KT 10SM OVC075 09/M03 A2984 RMK AO2 SLP101 T00941033 KCRG 241553Z VRB03KT 10SM SCT060 BKN080 28/18 A3002 RMK AO2 SLP164 T02780178 KBYY 241635Z AUTO 17016G20KT 10SM CLR 25/21 A2987 RMK AO2 T02430214 KCRH 241635Z AUTO 17013KT 9SM CLR 23/20 A2995 RMK A01 ORNI 241600Z 00000KT 9000 NSC 30/06 Q1011 NOSIG CYKY 241600Z 30014G24KT 15SM OVC020 04/01 A2964 RMK SC8 SLP058 CZCP 241600Z AUTO 09018KT 9SM CLR M14/ A3028 RMK SLP266 EGMH 241650Z 07010KT 9999 FEW018 FEW022TCU 13/09 Q1017 CYKZ 241600Z 35008KT 15SM FEW260 09/M10 A3015 RMK CI1 CI TR SLP215 CYMH 241600Z 02010G20KT 15SM OVC026 00/M03 A3007 RMK SC8 SLP183 NZWK 241600Z 11001KT 25KM SCT100 13/12 Q1020 RMK ALT NZTG VATSIM USE ONLY CZCR 241600Z AUTO 09010KT 01/M00 RMK AO1 4PAST HR SOG 30 1019 SLP059 P0005 T00071001 50063 KDIJ 241556Z AUTO 22015KT 10SM FEW050 BKN075 06/M06 A3000 RMK AO2 T00551055 SLP132 $ CYMJ 241600Z 30017KT 15SM BKN026 BKN250 07/01 A2967 RMK SC6CI1 SLP064 KCQT 241647Z AUTO 27003KT 10SM CLR 21/09 A2998 RMK AO2 SLP152 T02110089 KDHT 241553Z AUTO 34017G24KT 10SM CLR 14/M04 A3006 RMK AO2 PK WND 36030/1454 SLP137 T01441039 KDIK 241556Z AUTO 27017KT 10SM CLR 12/M06 A2974 RMK AO2 PK WND 28026/1542 SLP079 T01221056 CYNA 241600Z AUTO 07021G30KT 9SM CLR 02/M03 A2985 RMK MAX WND 07024KT AT 1546Z SLP109 CYLT 241500Z 34003KT 15SM FEW240 M21/M25 A3046 RMK CI0 JBI 0.49 SLP322 EFUT 241620Z AUTO 30007KT 260V340 CAVOK 11/M10 Q1027 CYNC 241600Z 35010KT 15SM BKN015 OVC040 M04/M07 A3022 RMK SC6SC2 LAST OBS/NEXT 041600 UTC SLP237 CYLU 241600Z 08005KT 12SM -SN FEW025 BKN040 BKN080 M01/M04 A3024 RMK SC1SC4AC1 SLP247 EGNC 241650Z 10007KT 9999 SCT031 13/08 Q1019 NZWN 241630Z AUTO 33015KT 300V030 9999 BKN016/// BKN100/// 17/14 Q1013 TEMPO BKN014 EHDL 241625Z AUTO 33009KT //// // SCT063 BKN069 16/13 Q1016 RETS TXKF 241555Z 28029KT 9999 SCT043 21/09 Q1010  CXVM 241600Z AUTO 05006KT 02/01 RMK AO1 T00180013 50005 CYMM 241648Z AUTO 09010KT 1SM -SN SCT006 OVC019 01/01 A2986 RMK SLP127 CYND 241600Z 34012G22KT 15SM SKC 07/M09 A3004 RMK SLP175 KCQW 241635Z AUTO CLR 19/01 A3012 RMK AO2 NZWP 241507Z 29006KT 30KM SCT045 14/14 Q1020 RMK NZAA VATSIM USE ONLY CXVN 242300Z AUTO 35005KT 07/M04 RMK AO1 SLP153 T00701041 53012 CYNE 241600Z AUTO 07013G21KT 9SM CLR 01/M05 A2998 RMK SLP166 CYLW 241633Z AUTO 34008KT 9SM FEW007 OVC018 05/04 A2969 RMK SLP065 KCQX 241652Z AUTO 31013G29KT 10SM CLR 10/M03 A2965 RMK AO2 PK WND 31030/1634 SLP040 T01001033 CYMO 241600Z AUTO /////KT 9SM OVC014 M03/M07 A3028 RMK WND MISG SLP253 KCSG 241651Z 13003KT 10SM CLR 27/09 A2999 RMK AO2 SLP151 T02670089 KCRP 241651Z 16015G22KT 10SM BKN030 BKN150 BKN250 28/19 A2985 RMK AO2 SLP106 T02830194 NZWR 241507Z 29006KT 30KM SCT045 14/14 Q1020 RMK NZAA VATSIM USE ONLY KCRQ 241553Z 16004KT 10SM CLR 17/11 A2998 RMK AO2 SLP150 T01670106 NZWS 241600Z 03008KT 15KM VCSH BKN013 16/15 Q1014 RMK ALT VATSIM USE ONLY EGNH 241520Z 32009KT 9999 FEW032CB FEW048 14/09 Q1018 EHEH 241640Z AUTO 04009KT 9999 -TSRA FEW014 SCT015CB OVC060 16/12 Q1015 WHT 36008KT CAVOK TEMPO VRB10G20KT 4000 -TSRA SCT040CB SCT045 EFVR 241620Z AUTO 29008KT 260V330 CAVOK 11/M08 Q1026 KCRS 241553Z AUTO 20018G28KT 10SM FEW020 OVC028 23/17 A2984 RMK AO2 PK WND 18028/1549 RAE01 SLP101 P0000 T02280172 NZWU 241600Z 32009KT 20KM BKN011 16/14 Q1016 RMK ALT NZPM VATSIM USE ONLY CZFA 241600Z 13010KT 30SM FEW014 SCT022 BKN038 BKN073 M00/M02 A2968 RMK ST1SC2SC3AC1 SLP083 CYOA 241500Z 10012KT 15SM SKC M16/M20 A3033 RMK SLP327 EGNJ 241650Z 07010KT 9999 FEW045 14/10 Q1018 KCTB 241556Z AUTO 23015KT 10SM CLR 09/M02 A2973 RMK AO2 SLP075 T00941022 TSNO KDKB 241635Z AUTO 15020G28KT 10SM SCT065 OVC120 14/04 A2988 RMK AO2 T01440036 CYMT 241600Z 30011KT 15SM SCT030 02/M06 A2999 RMK CU2 SLP174 CYMU 241600Z 09007KT 15SM FEW150 M06/M10 A3019 RMK AC2 SLP232 CZEL 241600Z AUTO 01006KT 08/M10 RMK AO1 SLP217 T00821097 58003 CYOC 241600Z 26004KT 35SM BKN037 OVC090 M05/M08 A2981 RMK SC5AS3 SUN DMLY VISBL SLP113 KCSM 241553Z 33023G34KT 10SM CLR 18/04 A2987 RMK AO2 PK WND 34038/1511 SLP100 T01830039 CXWM 241600Z AUTO 27013KT 09/M06 RMK AO1 PK WND 26022/1522 T00921059 CZEM 241611Z 35010G15KT 15SM OVC018 RMK SC8 CYNM 241600Z AUTO 35011G17KT 300V010 9SM BKN012 M05/M08 A3017 RMK SLP235 CYOD 241600Z 08012KT 6SM -RASN BR FEW010 OVC014 02/01 A2971 RMK SF2SC6 SLP085 EGNM 241650Z 28004KT 9999 FEW020 SCT035 12/08 Q1018 KCRW 241554Z 06007KT 030V100 10SM SCT100 SCT250 14/M05 A3010 RMK AO2 SLP193 T01391050 EHDV 241625Z AUTO 10011KT 0150 FG VV000 09/09 Q1019 EHFD 241625Z AUTO 09021KT 5000 FEW000/// BKN002/// OVC003/// 08/08 Q1020 CXVW 241600Z AUTO 22008KT 01/M01 RMK AO1 T00051009 CXWN 241600Z AUTO 11005KT 04/03 RMK AO1 2PAST HR 6011 SLP091 P0001 T00410028 50009 KCRX 241630Z AUTO 19009KT 10SM CLR 24/08 A2992 RMK AO2 EGNO 241650Z 36008KT 320V040 9999 FEW026 15/07 Q1018 CYMX 241600Z 33012G21KT 45SM BKN000 09/M05 A2995 RMK CU5 CUFRA ASOCTD SLP143 KEBG 241635Z AUTO 17013G17KT 10SM CLR 30/19 A2982 RMK AO2 T03020188 KCSQ 241635Z AUTO 16005KT 9SM BKN042 13/12 A2967 RMK AO2 UNTT 241600Z 20005MPS CAVOK 07/M08 Q1011 NOSIG RMK QFE743 KEAR 241635Z AUTO 34019G26KT 10SM CLR 16/01 A2983 RMK AO1 EGNR 241650Z VRB03KT 9999 FEW038 17/05 Q1018 KCTJ 241632Z AUTO 13007KT 1 1/2SM HZ VV007 23/06 A3003 RMK AO2 VIS 1V4 CYPA 241600Z 08023KT 5SM -SN OVC010 01/M01 A2967 RMK SC8 CIG RAG SLP067 CYOJ 241631Z 12008KT 12SM OVC018 01/M03 A2985 RMK SC8 SLP124 KDKK 241553Z AUTO 28006KT 10SM CLR 07/M07 A3018 RMK AO2 SLP226 T00671067 EGNS 241620Z 14004KT 110V170 9999 FEW020 12/08 Q1018 NOSIG EGPA 241650Z 13012KT 3000 -RA BR FEW001 BKN002 OVC003 09/08 Q1020 KCUB 241553Z AUTO VRB06KT 10SM CLR 21/02 A3011 RMK AO2 SLP193 T02060022 KEAT 241606Z AUTO VRB04KT 10SM -RA SCT013 BKN050 OVC110 08/04 A2970 RMK AO2 P0000 T00780039 EGPB 241620Z 13015KT 6000 SCT005 BKN006 08/07 Q1023 NOSIG EGNT 241650Z 07007KT 9999 FEW020 11/08 Q1019 KEAU 241556Z 13013G21KT 10SM -RA SCT014 BKN043 OVC050 05/04 A2980 RMK AO2 PK WND 13028/1511 SLP098 P0002 T00500039 CYPC 241600Z 13013G27KT 15SM BKN240 M05/M10 A3026 RMK CI2 SLP249 ZUGY 241600Z 01003MPS 6000 -DZ FEW005 BKN013 OVC030 14/13 Q1012 NOSIG EGPC 241650Z 12011KT 0500 FG VV/// 09/08 Q1020 KCSV 241553Z AUTO 18007KT 120V220 10SM CLR 20/M01 A3004 RMK AO2 SLP160 T02001011 CZFM 241600Z 00000KT 35SM FEW180 OVC240 M05/M10 A2992 RMK AC1CS7 SLP136 EGNV 241650Z 05011KT 9999 FEW040 13/08 Q1019 CZEV 241600Z AUTO 11012KT M03/M11 RMK AO1 SOG 48 8013 SLP144 T10341108 EGOM 241550Z AUTO 10005KT 9999 -SHRA FEW038/// BKN050/// 11/08 Q1018 CYPD 241617Z AUTO 07021G33KT 2 1/4SM -RA BR OVC004 01/00 A2937 RMK MAX WND 07025KT AT 1605Z SLP951 EGPD 241650Z 13009KT 9999 FEW014 12/06 Q1020 BECMG 2000 BR BKN004 CZFN 241600Z 08012KT 30SM FEW040 BKN090 M03/M05 A3009 RMK SC2AC5 SLP196 CYPE 241600Z 15005KT 3/4SM BR VV003 M00/M00 A2970 RMK FG8 SE-SW VIS 1/2 FG SLP086 EGPE 241650Z 01005KT 9999 FEW026 FEW046TCU 15/09 Q1018 KDLF 241558Z AUTO 00000KT 10SM CLR 25/17 A2989 RMK AO2 SLP110 T02460173 $ CYOO 241600Z AUTO 33014G20KT 300V360 9SM CLR 10/M10 A3014 RMK MAX WND 36022KT AT 1507Z SLP209 EGNX 241650Z 22004KT 180V250 9999 SCT025 16/06 Q1018 EGPF 241650Z VRB05KT 9999 FEW040 15/06 Q1019 KECG 241554Z 33008KT 10SM CLR 16/M03 A3012 RMK AO2 SLP197 T01611033 CYPG 241637Z 13011KT 3SM -DZ BR OVC004 RMK SF8 EGOP 241550Z AUTO 20010KT 9999 // NCD 13/09 Q1017 EHGG 241625Z AUTO 06011KT 6000 NCD 18/14 Q1017 BECMG 8000 KDLH 241605Z 09012KT 3/4SM R09/5500V6000FT -SN BR OVC004 01/00 A2987 RMK AO2 P0002 T00110000 KCUH 241635Z AUTO 31012G20KT 10SM OVC017 16/15 A2973 RMK AO2 CXYH 241600Z AUTO 36003KT M01/M02 RMK AO1 SOG 20 4000 SLP151 T10141021 CYPH 241600Z 05017G22KT 15SM FEW015 FEW150 M09/M11 A3031 RMK SC0AC0 SLP267 KDKR 241630Z AUTO 18007KT 9SM FEW049 FEW060 23/22 A2991 RMK AO2 P0001 EGPH 241650Z 07009KT 9999 FEW030 14/06 Q1019 KDMA 241558Z AUTO 16006KT 10SM CLR 23/M10 A3002 RMK AO2 SLP131 T02271102 $ KEBS 241635Z AUTO 21009KT 10SM FEW044 OVC060 11/09 A2966 RMK AO2 EGPI 241650Z 15012KT 110V180 9999 FEW025 13/05 Q1018 EGQA 241450Z 09010KT 9999 FEW008 SCT025 17/// Q1019 BLU CZFS 241600Z AUTO 06004KT 01/M05 RMK AO1 SOG 14 3004 SLP175 T00081048 EGOS 241550Z 13002KT 9999 FEW040 BKN200 14/05 Q1017 BLU NOSIG CYQA 241600Z AUTO 36006G17KT 300V030 9SM CLR 07/M10 A3013 RMK SLP215 EHFS 241625Z AUTO 01012KT 340V040 9999 NSC 15/10 Q1017 KCVB 241635Z AUTO 23003KT 10SM OVC013 23/18 A2992 RMK AO2 T02280181 CYQB 241600Z 33012G19KT 30SM BKN042 07/M01 A2980 RMK SC7 SLP093 KDLL 241635Z AUTO 09009KT 10SM -DZ OVC060 06/03 A2984 RMK AO2 T00600026 EGPK 241650Z 28005KT 9999 FEW030 14/06 Q1019 KEDC 241635Z AUTO 21008KT 9SM OVC016 22/19 A2989 RMK AO2 KCUL 241635Z AUTO 14012KT 10SM CLR 20/06 A2990 RMK AO2 T02010057 KCVC 241635Z AUTO 08006KT 10SM CLR 22/M03 A3005 RMK AO2 CXZC 241600Z AUTO 35004KT M03/M06 RMK AO1 SOG 19 2001 SLP254 T10281064 50006 CYPL 241600Z 18004KT 140V200 15SM SCT100 BKN230 10/M06 A3001 RMK AC4CS3 CI ASOCTD SLP177 EGPL 241650Z AUTO 22012KT 9999 NCD 11/08 Q1019 VGEG 241650Z 22005KT 5000 HZ NSC 30/27 Q1006 NOSIG CYQD 241600Z 10016G25KT 15SM FEW009 BKN020 OVC070 M01/M06 A2992 RMK SF1SC5AS2 SLP145 KDLN 241553Z AUTO 19017KT 10SM OVC065 08/M04 A2984 RMK AO2 SLP095 T00781039 TSNO PNO EGPM 241620Z 14017KT 9000 FEW008 BKN012 08/06 Q1023 NOSIG EGOV 241550Z 05008KT 9999 FEW025 SCT200 13/06 Q1018 BLU NOSIG KEDE 241635Z AUTO 36007KT 340V040 10SM SCT110 17/M03 A3011 RMK AO2 T01651031 EGPN 241650Z 07007KT 040V100 9999 FEW015 SCT040 11/08 Q1019 CYOW 241600Z 34017G23KT 300V360 15SM FEW180 08/M12 A3004 RMK AC1 SLP176 EGPO 241650Z 16006KT 9999 FEW028 13/08 Q1019 CYQF 241600Z 30006KT 15SM FEW030 04/M01 A2969 RMK SC1 SLP085 KCTY 241653Z AUTO VRB04KT 27/18 A3000 RMK AO1 SLP159 T02670178 KCVG 241652Z 10012G16KT 10SM FEW130 SCT160 BKN300 15/M02 A3003 RMK AO2 SLP166 T01501022 KECP 241553Z 12005KT 10SM CLR 25/17 A2999 RMK AO2 SLP167 T02500167 $ KDLP 241635Z AUTO VRB06KT 8SM CLR 22/21 A3001 RMK A01 CYOY 241600Z AUTO 33013G22KT 9SM OVC034 05/M03 A2979 RMK SLP095 CYQG 241600Z 14006KT 15SM FEW120 BKN260 10/M08 A3017 RMK AC2CI1 SLP221 KCVH 241630Z AUTO 00000KT 10SM BKN018 OVC026 14/10 A3014 RMK AO1 KDMH 241554Z AUTO 13/M08 A3009 RMK AO1 SLP188 T01331083 KCTZ 241635Z AUTO 03006KT 10SM CLR 18/02 A3013 RMK AO2 T01830019 CYQH 241610Z 13010KT 20SM OVC025 RMK SC8 CYPQ 241600Z AUTO 33011G19KT 9SM CLR 08/M08 A3011 RMK SLP203 EHFZ 241625Z AUTO 10010KT 0150 FG VV000 10/10 Q1019 CYQI 241600Z 36012KT 5SM -RA BR OVC005 07/06 A2931 RMK SF8 SLP926 CYPR 241600Z AUTO VRB02KT 9SM CLR 06/02 A2952 RMK SLP998 KCWA 241645Z 10012G18KT 5SM -RA OVC007 03/03 A2990 KDLS 241553Z AUTO 00000KT 10SM -RA FEW043 BKN050 OVC075 11/09 A2979 RMK AO2 SLP088 P0004 T01110089 EHGR 241625Z AUTO 35012KT 9999 FEW290 19/11 Q1016 BLU KEDJ 241630Z AUTO 11010G18KT 10SM FEW043 FEW110 12/M08 A3006 RMK A01 P000 KECS 241635Z AUTO 10SM CLR 09/M05 A2989 RMK AO2 CYRA 241600Z 06007KT 15SM FEW220 M05/M14 A3023 RMK CI2 SLP257 KCUT 241553Z AUTO 26012G19KT 10SM CLR 09/M09 A2987 RMK AO2 SLP096 T00891089 EGQK 241550Z 36005KT CAVOK 14/08 Q1018 BLU CYRB 241600Z 33011KT 15SM SKC M19/M24 A3036 RMK SLP292 CYQK 241600Z 12011KT 12SM -RA OVC010 03/02 A2986 RMK SC8 SLP127 KCWC 241635Z AUTO 32016G32KT 10SM CLR 22/05 A2987 RMK AO2 T02210052 KECU 241635Z AUTO 33010G16KT 10SM CLR 27/11 A2996 RMK AO2 CYQL 241600Z 25019G26KT 40SM FEW080 SCT300 10/M06 A2970 RMK AC2CI1 SLP073 DENSITY ALT 3300FT EGQL 241550Z 10012KT 9999 FEW025 SCT250 11/07 Q1020 BLU NOSIG KEED 241556Z AUTO 13004KT 10SM CLR 22/M12 A2995 RMK AO2 SLP118 T02221117 EGPU 241620Z AUTO 18009KT 9999 NCD 12/06 Q1018 CYQM 241600Z 03021G31KT 5SM -RASN BR BKN005 OVC007 01/00 A2945 RMK SF7SF1 /R10/ SLP975 KDMN 241553Z AUTO 11008KT 10SM CLR 18/M10 A3011 RMK AO2 SLP137 T01781100 KCVN 241635Z AUTO 01014G23KT CLR 16/M02 A3012 RMK AO1 EGQM 241550Z AUTO 03006KT 9999 SCT180/// 11/08 Q1019 CYPW 241600Z 11012G19KT 070V140 20SM -SHRA SCT008 SCT015 BKN040 BKN090 09/08 A2956 RMK SF3SC1SC1AC2 TCU ASOCTD SLP013 KDMO 241627Z AUTO 15009KT 9SM VCTS -RA FEW075 OVC100 16/11 A2971 RMK AO2 LTG DSNT ALQDS TSE03 P0003 T01560111 KCWF 241550Z 17013KT 10SM SCT025 BKN055 26/18 A2994 KCVO 241635Z 22009G14KT 10SM FEW047 BKN060 BKN075 11/08 A2989 RMK AO1 CYPX 241600Z 09007KT 15SM FEW025 BKN085 M09/M14 A3038 RMK SC2AC3 SLP291 CYPY 241600Z AUTO 07013G19KT 9SM CLR M02/M06 A3001 RMK SLP178 KDLZ 241637Z AUTO 12012KT 10SM SCT110 12/M08 A3009 RMK AO2 CYQQ 241600Z 13018G24KT 20SM FEW009 BKN040 BKN080 09/08 A2953 RMK SF1SC4AC2 SLP002 KCWI 241635Z 16021G30KT 10SM FEW060 SCT075 16/03 A2978 RMK AO1 CYQR 241600Z 28014KT 15SM OVC021 05/02 A2967 RMK SC8 CU ASOCTD CIG RAG SLP067 KCVS 241558Z AUTO 36016G21KT 10SM CLR 15/M02 A3010 RMK AO2 PK WND 36029/14 SLP148 T01451025 $ CYRJ 241600Z 32017G26KT 25SM BKN030 05/M03 A2988 RMK SC7 SLP125 EGQS 241550Z 10008KT 9999 FEW045 SCT060 13/08 Q1018 BLU NOSIG EHJA 241625Z AUTO VRB05KT 1200 BR BKN000/// OVC001/// 10/10 Q1019 CYQT 241600Z 08013KT 20SM OVC080 04/M01 A3006 RMK AS8 SLP190 CYSB 241600Z 06011KT 20SM FEW160 BKN200 05/M09 A3016 RMK AC2CI3 SLP228 KDNL 241553Z AUTO 12009KT 10SM CLR 23/03 A3007 RMK AO2 SLP178 T02280033 KEDU 241635Z AUTO 15007KT 10SM CLR 17/11 A3007 RMK AO1 OTBD 241630Z 36009KT CAVOK 30/18 Q1010 NOSIG EGSC 241650Z VRB03KT 9999 SCT032TCU 16/10 Q1017 KEFD 241550Z 16006KT 10SM BKN021 BKN100 26/20 A2992 CXZU 241600Z AUTO 30008KT 02/M01 RMK AO1 SLP086 T00191011 50002 CYSC 241600Z AUTO 31013G21KT 9SM OVC041 06/M03 A2980 RMK MAX WND 30018KT AT 1531Z SLP100 CYQU 241600Z 28008KT 25SM BKN017 01/M03 A2973 RMK SC6 SLP095 CYRL 241600Z 14007G16KT 15SM BKN080 OVC100 07/M00 A2993 RMK AS6AC2 SLP148 CYSD 241600Z 28003KT 25SM FEW025 FEW120 08/02 A2971 RMK CU1AC1 SLP077 EGSD 241650Z 04006KT 7000 3500W FEW018 13/11 Q1018 CXZV 241600Z AUTO 10009G15KT M00/M00 RMK AO1 8PAST HR SOG 93 1019 PK WND 08020/1522 SLP115 P0003 T10021003 50087 CYQV 241600Z AUTO 12010KT 8SM OVC004 04/03 A2965 RMK SLP060 KEEN 241635Z AUTO 34021G29KT 10SM CLR 09/M05 A2979 RMK AO1 KDMW 241635Z AUTO 34006G15KT 10SM CLR 12/M12 A3007 RMK AO2 KCVW 241635Z AUTO 18010G16KT 10SM SCT013 24/21 A2995 RMK A01 KEDW 241558Z 03003KT 80SM FEW250 14/M02 A3003 RMK AO2A SLP162 T01361018 KDNN 241635Z AUTO 16008G18KT 10SM CLR 21/03 A3003 RMK AO2 KEEO 241553Z AUTO 00000KT 10SM CLR 06/M09 A3013 RMK AO2 SLP186 T00561094 KCVX 241635Z AUTO 10008KT 10SM OVC100 09/M07 A3014 RMK AO2 T00881068 CYQW 241647Z AUTO 08008KT 6SM -RA BR OVC016 03/02 A2965 RMK SLP060 CYSF 241600Z AUTO 10015G20KT 9SM CLR M05/M11 A3022 RMK SLP254 CYQX 241600Z 05017G27KT 15SM OVC015 01/M03 A2980 RMK SC8 SLP100 CZHY 241600Z AUTO 09008KT M00/M05 RMK AO1 SLP172 T10041050 56002 CYQY 241600Z 07023KT 8SM BKN012 OVC016 01/M02 A2949 RMK SC6SC2 SLP988 CYRQ 241600Z AUTO 33015G20KT 280V360 9SM SCT049 BKN055 09/M03 A2986 RMK MAX WND 36018KT AT 1518Z SLP112 CYQZ 241636Z AUTO 33002KT 9SM -RA BKN042 OVC055 02/M01 A2957 RMK SLP033 EGSH 241650Z 05006KT 020V080 9000 SCT019 13/10 Q1018 KDPA 241652Z 16017G29KT 10SM OVC120 16/03 A2989 RMK AO2 PK WND 15030/1613 SLP122 T01610033 KDNS 241635Z AUTO 30008KT 10SM OVC013 10/09 A2970 RMK AO2 ORSU 241600Z VRB02KT CAVOK 16/11 Q1015 CYSJ 241600Z 02017G23KT 8SM -RA BKN007 OVC016 04/03 A2939 RMK SF5SC3 SLP956 KEET 241553Z AUTO 16006KT 10SM FEW070 23/09 A3000 RMK AO2 SLP155 T02330089 KEFK 241635Z AUTO 28015G22KT 260V320 10SM OVC044 06/M04 A2983 RMK AO2 T00551041 CYSK 241600Z 35014KT 15SM -SN BKN030 M08/M09 A3025 RMK SC3 SLP249 CYRT 241600Z 32012KT 15SM SCT250 M16/M19 A3044 RMK CI3 SLP314 CYSL 241600Z 36008KT 3/4SM -SN VV001 00/00 A2961 RMK SN8 SLP040 EGTC 241650Z VRB02KT 9999 FEW020 14/10 Q1017 KCWV 241635Z AUTO 00000KT 10SM CLR 26/17 A3002 RMK AO2 KDNV 241635Z AUTO 15014G21KT 10SM CLR 16/02 A2990 RMK AO2 T01640019 CZKD 241600Z AUTO 08013G18KT M06/M09 RMK AO1 SOG 40 6001 PK WND 08021/1547 SLP251 T10571090 CYSM 241600Z 09006G15KT 15SM BKN220 02/M05 A3006 RMK CI1 SLP194 CYRV 241619Z AUTO VRB02KT 9SM -RA SCT006 BKN029 BKN041 OVC050 03/02 A2975 RMK SLP090 KEGE 241650Z 00000KT 10SM SKC 08/M11 A3015 EHKD 241655Z AUTO 36006KT 6000 BR BKN110 16/13 Q1017 WHT 03007KT 5000 BR BKN080 TEMPO VRB15G25KT 4000 SHRA TSRA SCT018CB BKN020 CYSN 241600Z 32005KT 15SM FEW250 09/M09 A3017 RMK CI2 SLP218 CYTE 241651Z AUTO 22013KT 5SM -SN OVC015 M11/M13 A3030 RMK SLP267 KCXO 241605Z 17009KT 10SM -RA FEW095 23/18 A2988 RMK AO2 P0000 T02330178 EGTE 241650Z 19008KT 9999 FEW018 13/08 Q1017 KDPG 241558Z 13007KT 10SM SCT120 BKN220 12/M10 A3006 RMK SLP162 NOSPECI T01171098 KCXP 241655Z AUTO 19007KT 10SM FEW070 14/M03 A3005 RMK AO2 CYSP 241600Z 23003KT 330V310 15SM FEW110 BKN220 OVC260 08/M06 A3011 RMK AC2CI3CI0 SLP212 CYTH 241600Z 06019G24KT 15SM BKN015 OVC250 M05/M08 A3019 RMK SC7CI0 SLP242 KEGI 241555Z 23003KT 10SM FEW020 24/17 A3001 RMK AO2A SLP164 T02430167 $ EHJR 241625Z AUTO 36009G10KT ///////// 10/09 Q1018 W11/H8 OSLK 241600Z 27004KT CAVOK 28/16 Q1008 KEHA 241648Z AUTO 33010KT 15/M01 RMK AO1 PK WND 25 000 T01501011 CYUA 241630Z AUTO 08004KT 9SM CLR M06/ A2987 RMK ICG EGSS 241650Z 14009KT 100V210 9999 SCT024 15/10 Q1017 KEFT 241635Z AUTO 13017G23KT 10SM OVC055 12/04 A2982 RMK AO2 T01150035 CYUB 241600Z 11013G18KT 15SM FEW080 SCT240 M08/M12 A3001 RMK AS1CI0 SLP165 EGUB 241550Z 35005KT 9999 FEW025 BKN250 15/08 Q1017 BLU NOSIG KEHC 241635Z AUTO 15011KT 9SM CLR 26/20 A2995 RMK A01 KDPL 241635Z AUTO 32003KT 10SM CLR 17/M02 A3014 RMK AO2 T01691021 CYTL 241600Z AUTO 09010G18KT 9SM CLR M01/M06 A3018 RMK SLP235 KDOV 241558Z AUTO 32015G21KT 10SM CLR 13/M06 A3001 RMK AO2 PK WND 29027/46 SLP166 T01311063 $ KCXY 241556Z 32006KT 10SM CLR 12/M09 A3009 RMK AO2 SLP192 T01171094 CYSY 241600Z 11016KT 10SM BKN120 M10/M11 A3035 RMK AS4 SLP288 VGHS 241550Z 00000KT 5000 HZ NSC 33/14 Q1004 NOSIG KDQH 241635Z AUTO 26003KT SCT050 SCT065 BKN080 26/14 A3002 RMK AO2 PWINO CYTQ 241600Z 05018KT 10SM OVC012 M06/M08 A3024 RMK SC8 SLP245 CYTR 241600Z 34014KT 15SM FEW140 BKN250 09/M08 A3009 RMK AC0CI0 AC FLOCCUS WITH VIRGA SLP192 KCYS 241553Z 27017KT 10SM CLR 08/M09 A3000 RMK AO2 PK WND 27027/1539 SLP131 T00781094 KDRA 241652Z AUTO VRB03KT 10SM CLR 21/M12 A3001 RMK AO2 SLP130 T02061117 CYTS 241600Z 36007KT 15SM SKC 04/M10 A3017 RMK SLP232 EHMA 241625Z AUTO 07015KT 050V110 3500 BR NSC 12/11 Q1018 EGVA 241612Z AUTO 10005KT 9999 CLR 15/07 A3003 RMK AO2 RAE1605DZB1605E1611 EICK 241630Z 12014KT 9999 SCT016 11/07 Q1015 NOSIG CYUL 241600Z 28019G25KT 30SM FEW050 09/M05 A2993 RMK SC1 SC TR SLP136 CYVC 241600Z 06015G24KT 15SM OVC020 M01/M05 A2990 RMK SC8 SLP144 KEGV 241635Z AUTO 13007G14KT 2SM -SN OVC012 01/00 A2996 RMK AO2 T00101002 EGUL 241558Z AUTO 00000KT 9999 BKN036 BKN045 16/11 A3003 RMK AO2 SLP172 T01610109 CZMD 241600Z AUTO 06011G16KT 9SM BKN085 BKN240 02/M06 A3010 RMK SLP207 EHKV 241625Z AUTO 02009KT 0400 FG VV000 10/10 Q1019 EGUN 241610Z AUTO VRB02KT 9999 BKN029 OVC036 16/12 A3004 RMK AO2 RAE1600 CIG 029V036 BKN V SCT KEHO 241615Z AUTO 00000KT 10SM CLR 18/01 A3012 RMK AO2 T01770005 EGUO 241450Z 08007KT 9999 BKN030 14/05 Q1018 BLU EHMG 241625Z AUTO 07015KT 0750 DZ VV000 11/10 Q1018 CYTZ 241600Z AUTO 17010KT 9SM CLR 08/M02 A3016 RMK SLP214 KEHR 241635Z AUTO 15008KT 110V190 10SM CLR 19/05 A2992 RMK AO1 KDRI 241635Z AUTO 15011KT 10SM SCT024 SCT029 SCT060 25/18 A2993 RMK AO2 T02510179 CZMJ 241600Z AUTO 29016G22KT 07/02 RMK AO1 PK WND 29023/1505 SLP066 T00680015 51008 CYUS 241600Z AUTO 31011KT CLR M22/ A3035 RMK SLP287 CYWA 241600Z AUTO 31012G17KT 9SM CLR 07/M11 A3009 RMK SLP196 KEIK 241636Z AUTO 15008KT 10SM CLR 12/M04 A3000 RMK AO2 T01151044 KCZT 241635Z AUTO 33003KT 10SM 24/18 A2987 RMK AO2 CYUT 241615Z 33010G16KT 25SM VCSH BKN020 M13/M18 A3030 RMK SC7 SLP264 EGWC 241350Z 00000KT 9999 SCT025 13/09 Q1019 BLU EIDL 241600Z 35007KT 330V030 CAVOK 12/07 Q1019 KDRM 241635Z AUTO 17004KT 10SM CLR 10/M08 A3015 RMK AO2 T00961083 CYVM 241600Z 05002KT 15SM IC SKC M16/M20 A3027 RMK SC TR SLP252 KDRO 241553Z AUTO 13007KT 10SM CLR 07/M12 A3016 RMK AO2 SLP189 T00671117 CYWE 241600Z AUTO 07012G17KT 9SM CLR M12/M19 A3026 RMK MAX WND 07017KT AT 1557Z SLP286 EHLW 241625Z AUTO 06010KT 6000 HZ FEW360 18/13 Q1017 WHT EGVN 241550Z 11001KT 9999 FEW040 BKN200 15/04 Q1017 NOSIG EGUW 241550Z 12007KT 9999 FEW028 SCT070 BKN250 15/09 Q1017 BLU NOSIG KFAF 241558Z AUTO 31009KT 10SM CLR 15/00 A3010 RMK AO2 SLP196 T01451004 $ CYVO 241600Z 33013G20KT 15SM SKC 02/M09 A3011 RMK SLP215 CYUX 241600Z 30014KT 10SM IC DRSN FEW010 FEW100 FEW220 M19/M22 A3017 RMK CF1AC1CS1 CF TR AC TR SLP216 EGVO 241550Z 36004KT 9999 SCT034 SCT220 15/07 Q1017 BLU NOSIG EGUY 241450Z VRB01KT 9999 SCT036TCU BKN200 16/08 Q1018 BLU EGVP 241550Z 06002KT 9999 FEW030 BKN220 16/04 Q1017 BLU NOSIG CYUY 241600Z 34012G18KT 310V040 15SM SKC 02/M09 A3015 RMK SLP226 CYWG 241650Z 13011G18KT 10SM BKN008 OVC018 05/03 A2978 RMK SF7SC1 SLP092 CYVP 241600Z 07011KT 8SM -SN BKN016 BKN033 OVC070 M01/M04 A3019 RMK SF5SC2AS1 SLP227 KCZZ 241652Z AUTO 21004KT 20/M01 A2997 RMK AO1 SLP126 T02001011 CYVQ 241600Z 12021G26KT 30SM FEW040 BKN100 OVC200 M01/M06 A3002 RMK SC1AC4CI3 SLP172 CYWH 241600Z 28008G15KT 15SM FEW014 FEW040 SCT070 BKN220 11/06 A2963 RMK CF1CU2AC2CI2 SLP034 KEIR 241635Z AUTO 16005KT 10SM CLR 23/19 A2999 RMK A01 CYVR 241600Z 09015KT 15SM FEW013 SCT100 BKN220 09/07 A2964 RMK SC1AS2CI4 CF ASOCTD SLP036 CYWJ 241600Z 08009G21KT 40SM SCT180 BKN250 M05/M09 A3014 RMK AC0CS0 SLP223 KDRT 241553Z AUTO 28008KT 10SM CLR 26/17 A2989 RMK AO2 SLP105 T02610167 $ CYWK 241600Z 11008KT 2 1/2SM -SN BKN012 OVC022 M02/M04 A2986 RMK SF7SC1 SLP141 CYVT 241600Z 09013G20KT 10SM OVC020 01/M04 A2984 RMK SC8 SLP124 CZMT 241600Z 32006KT 15SM FEW006 FEW220 06/04 A2958 RMK CF1CI1 TRS CLDS SLP018 KH21 241635Z AUTO 12005KT 10SM SCT027 SCT050 OVC100 17/10 A2972 RMK AO2 LTG DSNT NW CZMU 241600Z AUTO 30009KT 01/01 RMK AO1 T00140012 CYXC 241600Z 20004KT 25SM VCSH BKN045 OVC080 06/M02 A2976 RMK SC7AC1 SLP095 CYWL 241600Z 09011KT 15SM BKN040 OVC080 02/01 A2954 RMK SC6AC2 SLP026 KDSM 241630Z 16009KT 8SM FEW006 BKN055 OVC070 13/12 A2967 RMK AO2 T01330117 KFAM 241635Z AUTO 17013G18KT 140V200 10SM CLR 23/06 A2985 RMK AO1 EGXC 241550Z 09010KT 9999 FEW032 SCT080 BKN250 15/09 Q1018 BLU NOSIG EGXD 241550Z AUTO 01002KT 9999 // SCT044/// 17/06 Q1018 CYXD 241606Z AUTO 30011KT 9SM OVC015 03/M03 A2969 CYVV 241600Z 36006KT 15SM FEW220 SCT250 08/M08 A3018 RMK CI1CC0 SLP227 EGXE 241550Z 04010KT 9999 FEW035 BKN250 15/09 Q1018 BLU NOSIG CYXE 241622Z 27010KT 10SM -DZ OVC007 03/03 A2958 RMK ST8 SLP038 EIDW 241630Z 12010KT 9999 FEW013 SCT250 12/04 Q1017 NOSIG KFBG 241558Z AUTO VRB03KT 10SM CLR 17/02 A3014 RMK AO2 SLP209 T01680022 $ CYXH 241600Z 23008KT 30SM FEW024 07/02 A2972 RMK CU1 SLP080 KFAR 241628Z 12012KT 3SM -RA BR SCT007 OVC050 06/04 A2974 RMK AO2 P0000 T00560044 KDUA 241635Z AUTO 23013G21KT 10SM SCT030 BKN035 OVC044 24/17 A2977 RMK AO2 CYXJ 241600Z 33010KT 15SM FEW015 SCT180 M01/M04 A2972 RMK SC2AC1 SLP098 KFAT 241553Z 00000KT 10SM CLR 16/06 A3008 RMK AO2 SLP185 T01610056 KDUB 241635Z AUTO 28014G23KT 10SM OVC049 04/M07 A2994 RMK AO2 CYYB 241600Z 35009G19KT 15SM SCT250 05/M10 A3014 RMK CI3 SLP223 KFBL 241633Z AUTO 10008KT 2SM HZ OVC010 07/04 A2972 RMK AO2 KDTL 241634Z AUTO 18007KT 2SM UP SCT006 OVC012 03/02 A2978 RMK AO2 P0013 KDUC 241635Z AUTO 34020G28KT 10SM CLR 21/12 A2981 RMK AO2 TSNO KEKM 241555Z 14015G22KT 10SM SCT120 14/M03 A3004 RMK A02 CZOL 241600Z AUTO 33010KT 02/01 RMK AO1 T00230005 EGWU 241550Z 05002KT 9999 SCT040 BKN070 17/06 Q1017 BLU NOSIG CYXL 241600Z 14010G16KT 15SM SCT100 BKN140 OVC210 06/M02 A2998 RMK AC4AC3CI1 SLP166 CZPC 241600Z AUTO 27012KT 9SM BKN160 BKN210 06/M04 A2971 RMK SLP081 CYYC 241600Z 26007KT 40SM FEW190 FEW300 07/M09 A2968 RMK AC1CI1 CI TR SLP081 DENSITY ALT 3600FT KELD 241650Z AUTO 17011KT 10SM SCT027 BKN031 OVC065 23/17 A2988 RMK AO2 KDSV 241554Z AUTO 33011KT 10SM CLR 09/M06 A3013 RMK AO2 SLP216 T00941056 EGYD 241550Z 09006KT 9999 FEW030 BKN250 15/08 Q1018 BLU TEMPO -SHRA SCT024 WHT CYYD 241600Z 30002KT 25SM FEW120 BKN230 03/M03 A2957 RMK AC1CI6 SLP025 KEKN 241651Z AUTO VRB03KT 10SM CLR 13/M09 A3009 RMK AO2 SLP202 T01281094 TSNO KDTN 241615Z 18011KT 10SM SCT024 BKN065 23/18 A2986 RMK AO2 CYXN 241600Z 32006KT 15SM FEW220 M15/M18 A3047 RMK CI1 SLP319 EGYE 241550Z 07006KT 9999 BKN025 ///// Q1018 BLU CYYE 241604Z 00000KT 3/4SM -SN VV009 M00/M01 A2981 RMK SN8 SLP116 KDTO 241553Z 21016G22KT 10SM FEW025 SCT030 BKN038 23/17 A2978 RMK AO2 SLP076 T02330172 KEKO 241556Z AUTO VRB03KT 10SM BKN095 08/M02 A3002 RMK AO2 SLP155 T00831022 CYYF 241600Z 36006KT 15SM -RA SCT013 BKN023 OVC040 06/04 A2969 RMK SF3SC4SC1 SLP060 KFAY 241553Z AUTO 11004KT 10SM CLR 18/01 A3014 RMK AO2 SLP201 T01780006 KDUG 241556Z AUTO 24004KT 10SM CLR 19/M12 A3009 RMK AO2 SLP138 T01891117 CYWY 241647Z 21004KT 25SM FEW012 OVC025 RMK SC0SC8 CYXP 241619Z 26008KT 15SM FEW012 M16/M19 A3036 RMK ST1 SLP286 CYYG 241651Z 04022KT 5SM RASN BR BKN006 OVC011 01/M00 A2946 RMK SF7NS1 SLP978 EGXP 241550Z AUTO 08003KT 9999 // BKN070/// 15/07 Q1018 KDUH 241635Z AUTO 09009G14KT 060V120 10SM OVC100 10/M02 A3013 RMK AO2 KEKQ 241556Z AUTO 16005KT 10SM CLR 19/04 A3003 RMK AO2 T01940038 SLP172 EHPG 241625Z AUTO 34008KT 300V050 9999 NSC 11/10 Q1018 CYXQ 241612Z 00000KT 2SM -SN FEW008 SCT025 OVC085 RMK ST2SC1AS5 EGYH 241450Z 07010KT CAVOK 13/10 Q1018 BLU CYYH 241600Z 32012KT 15SM SKC M18/M22 A3035 RMK SLP283 KFCI 241555Z AUTO 31008KT 10SM CLR 16/M05 A3014 RMK AO1 KFBR 241635Z AUTO 28013G16KT 10SM BKN100 08/M07 A3010 RMK AO2 T00821068 CYXR 241600Z AUTO 35009G15KT 310V020 9SM CLR 03/M07 A3017 RMK SLP230 KDTS 241633Z AUTO 20007KT 170V230 7SM BKN009 23/18 A3002 RMK AO2 T02280183 TSNO KDUJ 241556Z AUTO 36010KT 10SM CLR 09/M09 A3010 RMK AO2 SLP203 T00941094 TSNO EGXS 241550Z AUTO /////KT 9999 // BKN080/// 12/09 Q1019 CYXS 241600Z AUTO 36010KT 9SM CLR 04/M02 A2957 RMK SLP037 CYYJ 241600Z 22011KT 30SM FEW025TCU FEW042 SCT084 BKN200 11/06 A2964 RMK TCU1SC1AC2CI2 TCU TR SLP036 CYXT 241600Z 36017G23KT 20SM FEW150 FEW220 05/M02 A2954 RMK AC1CI1 SLP010 EGXT 241550Z AUTO 04004KT 9999 SCT033/// 16/07 Q1017 EGXU 241550Z 08008KT 9999 FEW045 BKN190 16/07 Q1018 BLU NOSIG CYXU 241600Z 13004KT 010V150 15SM SCT150 10/M07 A3017 RMK AC4 SLP225 CYYL 241606Z AUTO 07017G23KT 9SM SCT017 M05/M09 A3015 RMK MAX WND 07018KT AT 1601Z SLP236 KFCM 241650Z 09007KT 1 1/2SM -RA BR FEW006 OVC012 06/04 A2972 RMK AO2 P0005 KELM 241553Z 01013G22KT 10SM CLR 09/M08 A3009 RMK AO2 SLP193 T00941083 KDTW 241553Z 14008KT 10SM SCT085 SCT140 BKN220 11/M09 A3018 RMK AO2 SLP221 T01061094 KELN 241553Z AUTO 24004KT 10SM SCT025 OVC039 09/07 A2971 RMK AO2 RAB1454E43 SLP064 P0003 T00890067 TSNO EGXV 241550Z AUTO 07007KT 9999 NCD 14/09 Q1018 EGYM 241550Z 05011KT 7000 VCSH FEW022TCU SCT026 BKN100 15/10 Q1018 WHT NOSIG CYZE 241600Z AUTO 01007KT 9SM CLR 10/M08 A3016 RMK SLP220 CYYN 241600Z AUTO 28021G28KT 9SM CLR 07/00 A2966 RMK MAX WND 28024KT AT 1538Z SLP061 KELO 241632Z AUTO 11011G21KT 10SM SCT016 BKN032 03/01 A2991 RMK AO2 EHQE 241625Z AUTO 03013KT 1500 BR NSC 11/11 Q//// EGXW 241550Z 06005KT 9999 FEW030 BKN070 14/08 Q1018 BLU NOSIG CYZF 241600Z 06012KT 15SM FEW240 M05/M12 A3018 RMK CI2 SLP238 CYXX 241600Z 01003KT 340V040 4SM -RA FEW008 OVC020 07/07 A2967 RMK SF1NS7 SLP047 KELP 241651Z 36011KT 10SM CLR 22/M11 A3009 RMK AO2 SLP125 T02171106 CYZG 241600Z CCA 24003KT 15SM -SN FEW025 M11/M13 A3029 RMK SC2 SNW CVR ONE LOOSE LAST OBS/NEXT 251200 UTC SLP286 CYXY 241600Z 17015KT 6SM -SN BKN037 OVC090 M01/M03 A2962 RMK SC6AC2 SLP063 EGYP 241550Z 34011KT 9999 FEW002 BKN021 07/03 Q1025 WHT NOSIG EGXZ 241550Z 04005KT 9999 SCT028 BKN049 16/08 Q1018 BLU CYXZ 241600Z 04008KT 15SM FEW220 OVC300 09/M07 A3013 RMK CC2CI1 SLP217 CYYQ 241600Z 06007KT 10SM -SN FEW011 BKN021 M08/M11 A3046 RMK SF2SC5 SLP317 CYZH 241635Z AUTO 34003KT 9SM SCT012 SCT016 OVC029 01/01 A2973 RMK SLP092 CYYR 241600Z 06019G27KT 15SM FEW028 BKN042 01/M06 A3010 RMK CF1SC6 SLP196 KFCS 241558Z AUTO 21008KT 10SM CLR 10/M03 A3003 RMK AO2 SLP171 T00971033 $ CZPS 241600Z AUTO 31009KT 04/M01 RMK AO1 T00371013 KDVK 241630Z AUTO 10007KT 10SM CLR 17/04 A3002 RMK AO2 KFDK 241653Z 30006G16KT 10SM SKC 14/M03 A3011 CYYT 241600Z 03016G21KT 15SM SCT005 OVC010 00/M01 A2969 RMK SF3SC5 SLP059 KDVL 241635Z AUTO 20006KT 5SM OVC005 05/02 A2971 RMK AO1 CYYU 241600Z 12002KT 15SM FEW200 05/M09 A3019 RMK CS1 SLP237 KEND 241555Z 33025G37KT 10SM FEW032 SCT120 18/11 A2977 RMK AO2A PK WND 31039/24 SLP076 KEMM 241635Z AUTO 27014G17KT 10SM SCT080 06/M08 A3006 RMK AO2 KDVN 241652Z AUTO 16024G32KT 10SM FEW070 FEW085 17/04 A2974 RMK AO2 PK WND 17032/1647 LTG DSNT SE AND W SLP072 T01670039 EHRD 241625Z AUTO 33006KT 280V020 9000 NSC 15/12 Q1017 NOSIG KDVO 241635Z AUTO 34006KT 040V050 10SM FEW023 16/10 A3011 RMK AO2 KDUX 241635Z AUTO 34019G29KT 10SM CLR 16/M01 A3004 RMK AO2 T01601012 KELY 241553Z AUTO 17006KT 10SM FEW095 11/M10 A3007 RMK AO2 SLP154 T01061100 KEMP 241626Z AUTO 35012KT 10SM SCT030 BKN100 14/12 A2964 RMK AO2 WSHFT 1549 LTG DSNT NE AND E RAE18 TSE18 P0005 T01390122 KDVP 241633Z AUTO 33013G20KT 7SM BKN007 OVC075 07/06 A2971 RMK AO2 T00650057 CYZP 241600Z AUTO 31013KT 9SM CLR 07/04 A2956 RMK SLP011 CYYY 241600Z 05014G21KT 1/2SM R06/4000FT/D -SN FG VV002 01/M01 A2975 RMK SN8 /S04/ SLP078 KDWH 241553Z 16005KT 9SM -RA FEW041 SCT065 BKN075 23/19 A2988 RMK AO2 RAB28 SLP114 P0000 T02280189 KELZ 241556Z AUTO 33012G20KT 10SM CLR 08/M10 A3010 RMK AO2 SLP206 T00781100 CYYZ 241600Z 36008G17KT 15SM FEW270 09/M10 A3015 RMK CI1 SLP215 KFDR 241553Z AUTO 33027G38KT 10SM CLR 22/04 A2982 RMK AO2 PK WND 32040/1517 SLP083 T02170039 CYZR 241600Z AUTO 04004KT 350V060 9SM BKN120 BKN140 08/M03 A3017 RMK SLP223 KFFA 241635Z AUTO 03007KT 360V060 CLR 12/03 A3010 RMK AO2 T01230027 PWINO CYZS 241600Z 27003KT 15SM BKN210 M15/M20 A3030 RMK CI2 SLP269 EHSA 241625Z AUTO 36009G11KT 5000 ///////// 11/10 Q1017 W10/H5 KDVT 241553Z 15006KT 10SM CLR 22/M09 A2996 RMK AO2 SLP125 T02221094 KEMT 241545Z 00000KT 10SM CLR 17/07 A3000 CYZT 241631Z 10014G20KT 20SM -SHRA FEW012 SCT049 BKN080 08/06 A2944 RMK SF1SC4AC3 SF TR SLP971 KFFC 241553Z AUTO VRB03KT 10SM CLR 22/07 A3005 RMK AO2 SLP173 T02220072 KENL 241635Z AUTO 13014G18KT 10SM CLR 20/04 A2985 RMK AO2 T02030035 TSNO CYZU 241600Z 31010KT 15SM BKN012 02/M02 A2970 RMK CU6 SH S SLP086 EHSC 241625Z AUTO 01012G14KT 5000 ///////// 11/11 Q1017 W11/H4 KEMV 241635Z AUTO 34006KT 10SM CLR 16/M02 A3012 RMK AO2 CYZV 241600Z 11014G20KT 3/4SM R09/4500FT/U -SN OVC007 M00/M02 A2987 RMK SN5SF3 SLP117 KFDW 241655Z AUTO 05004KT 10SM CLR 21/03 A3009 RMK AO1 KEOE 241635Z AUTO 06005KT 10SM CLR 21/05 A3012 RMK AO2 CYZW 241600Z 09005KT 30SM OVC035 M00/M04 A2968 RMK SC7 CLIMAT 3.5/-2.5/TRCM/TRCM/44032 SLP084 CYZX 241600Z 03013KT 6SM -RA BR FEW009 OVC015 04/03 A2936 RMK SF2SC6 VIS VRB 4-8 WNDY HILL 05015G24KT SLP942 KFDY 241553Z AUTO 11013KT 10SM CLR 12/M07 A3011 RMK AO2 SLP197 T01171072 KFEP 241635Z AUTO 14023G26KT 10SM BKN055 OVC080 14/04 A2982 RMK AO2 LTG DSNT SW T01390044 CZRP 241600Z AUTO 31019KT M18/M20 RMK AO1 PK WND 31022/1559 SLP334 T11751195 51004 CYZY 241600Z AUTO 34008KT 310V010 9SM CLR 03/M02 A2967 RMK SLP072 KDYA 241635Z AUTO 00000KT 10SM CLR 27/15 A2996 RMK AO2 T02660146 CZSJ 241634Z AUTO 08015G20KT 6SM HZ BKN180 04/M06 A3003 RMK SLP182 KEOK 241635Z AUTO 18010G16KT 10SM FEW043 FEW055 SCT080 18/04 A2974 RMK AO2 KFET 241635Z AUTO 33016G21KT 10SM BKN018 BKN100 14/09 A2974 RMK AO2 T01380093 CZTB 241600Z AUTO 09010KT 04/M01 RMK AO1 SLP189 T00351014 58008 KFFL 241635Z AUTO 17010KT 6SM -RA OVC044 13/06 A2975 RMK AO2 KFFM 241633Z AUTO 13007KT 7SM -RA BKN022 BKN027 OVC032 05/04 A2974 RMK AO2 P0006 KENV 241635Z 11004KT 10SM FEW110 10/M07 A3003 RMK AO1 CZSM 241600Z AUTO 07006KT 01/M09 RMK AO1 SLP187 T00051090 50000 KENW 241553Z 13017G24KT 10SM FEW090 11/02 A2995 RMK AO2 PK WND 14028/1537 SLP148 T01110022 KFEW 241556Z 30018G27KT 12SM CLR 07/M10 A3003 RMK AO2A PK WND 29030/16 SLP147 ALSTG/SLP ESTMD T00741099 KDWX 241635Z AUTO 22011KT 10SM CLR 07/M08 A3013 RMK AO2 T00651078 VHHH 241630Z 08019KT 9000 FEW007 25/22 Q1011 NOSIG KFFO 241558Z AUTO 09014KT 10SM BKN140 BKN160 12/M08 A3009 RMK AO2 SLP194 T01241079 PLCH 241500Z VRB02KT 9999 SCT020 SCT040 26/24 Q1009 CZSP 241600Z AUTO 05013G18KT 01/M00 RMK AO1 9PAST HR 1007 PK WND 03020/1541 SLP987 P0011 T00051002 50129 KEPH 241553Z AUTO 21007KT 10SM CLR 11/08 A2970 RMK AO2 SLP060 T01060078 ZUUU 241600Z 34002MPS 310V020 4000 -SHRA BR FEW033TCU SCT033 19/16 Q1010 NOSIG KDXR 241553Z 35014G28KT 10SM CLR 11/M09 A2988 RMK AO2 PK WND 33028/1545 SLP118 T01111094 KH78 241045Z 27004KT 12SM FEW060 21/19 A2995 RMK SEAS 1-2 KFFT 241553Z AUTO 10009KT 10SM BKN100 13/04 A3005 RMK AO2 SLP177 T01330039 KDZB 241635Z AUTO 27006KT 10SM SCT029 SCT035 27/16 A2987 RMK AO2 T02650164 KFHB 241635Z AUTO 11005KT 10SM BKN080 25/18 A3001 RMK AO1 CZST 241600Z 00000KT 15SM SCT065 BKN160 OVC240 02/M01 A2963 RMK SC3AC2CI3 SLP034 KDYL 241554Z AUTO 32011G21KT 10SM CLR 12/M07 A3000 RMK AO2 PK WND 32028/1533 SLP162 T01171072 FABL 241600Z 24005KT CAVOK 13/04 Q1021 NOSIG KFGN 241633Z AUTO 11008KT 10SM RA SCT004 OVC008 02/02 A2983 RMK AO2 P0002 EIKN 241630Z 13007KT 100V180 9999 FEW023 SCT045 BKN090 13/04 Q1016 NOSIG KDXX 241633Z AUTO 05007KT 5SM -RA CLR 08/07 A2971 RMK AO2 P0001 KFFX 241631Z AUTO 11009KT 10SM -DZ SCT028 BKN039 OVC065 09/02 A3005 RMK AO2 T00900016 KFFZ 241556Z 13007KT 30SM FEW250 22/M10 A2996 PKMJ 240656Z 04005KT 15SM FEW015 SCT050 BKN120 OVC300 28/25 A2979 KDYR 241635Z 16005KT 10SM CLR 23/07 A2990 RMK AO1 KDYS 241558Z AUTO 34020G27KT 10SM CLR 22/03 A2994 RMK AO2 PK WND 34030/26 SLP101 T02170027 $ KDYT 241633Z AUTO 04014KT 10SM UP OVC015 01/00 A2990 RMK AO2 CZUM 241600Z AUTO 09010G18KT 9SM OVC050 01/M06 A2995 RMK PCPN 0.5MM PAST HR SLP167 EIME 241600Z 07009KT 9999 FEW020 SCT032 13/07 Q1017 KFGX 241635Z AUTO 12009G14KT 10SM CLR 13/M01 A3008 RMK AO2 T01291015 KFIG 241554Z AUTO 30009KT 10SM CLR 11/M10 A3011 RMK AO2 SLP202 T01061100 EIKY 241630Z 14013KT 9999 FEW042 13/05 Q1014 PKMR 241550Z 04010KT 15SM FEW015 SCT050 OVC300 28/24 A2975 RMK SLP075 T02760243 KERI 241651Z 32007KT 10SM CLR 07/M03 A3017 RMK AO2 SLP222 T00721033 KFHR 241553Z AUTO VRB06KT 10SM CLR 11/07 A2964 RMK AO2 SLP036 T01110067 FACT 241600Z 17007KT CAVOK 17/09 Q1020 NOSIG EHVK 241625Z AUTO 35006KT 9999 FEW015CB BKN260/// 16/13 Q1015 RETS BLU KFHU 241555Z VRB03KT 10SM FEW280 19/M11 A3010 RMK SLP144 KESC 241635Z AUTO 11011KT 10SM OVC065 06/M04 A3007 RMK AO1 EHVL 241648Z AUTO 02008KT 5000 BR OVC120 14/12 Q1017 WHT RMK TS INFO NOT AVBL CZVL 241600Z AUTO 32010KT 9SM BKN014 03/01 A2969 RMK MAX WND 33017KT AT 1534Z SLP078 KGAD 241635Z AUTO 14004KT 10SM CLR 23/08 A3000 RMK AO1 PNO TSNO FACV 240742Z 09007KT CAVOK 12/02 Q1023 KESF 241650Z AUTO 19009G16KT 10SM BKN028 25/18 A2991 RMK AO2 KGAF 241635Z AUTO 15013KT 5SM BR OVC005 04/04 A2975 RMK AO2 VIAR 241630Z 00000KT 5000 HZ FEW040 BKN200 27/13 Q1007 KGAG 241553Z AUTO 35023G32KT 10SM FEW070 18/03 A2990 RMK AO2 PK WND 35033/1512 SLP108 T01780028 KEQY 241553Z AUTO VRB04KT 10SM CLR 18/02 A3013 RMK AO2 SLP209 T01780017 KI16 241635Z AUTO 10SM CLR 18/00 A3010 RMK AO2 T01760003 KGAI 241635Z AUTO 29008KT 10SM CLR 13/M05 A3011 RMK AO1 KFKA 241633Z AUTO 12010G17KT 7SM BKN014 OVC025 05/04 A2972 RMK AO2 T00520038 KETB 241630Z AUTO 11013KT 10SM BKN060 BKN065 OVC075 06/01 A2995 RMK AO2 KFIT 241652Z AUTO 32025G34KT 10SM CLR 13/M05 A2972 RMK AO2 PK WND 36038/1620 SLP066 T01281050 VIBN 241630Z 32002KT 5000 HZ NSC 30/11 Q1006 KETC 241635Z AUTO 00000KT 10SM CLR 17/M03 A3013 RMK AO2 T01701026 FAEL 241600Z 25014KT 9999 FEW007 BKN042 15/13 Q1020 KGBD 241635Z AUTO 33015G19KT 10SM FEW090 13/06 A2988 RMK AO1 KERV 241635Z AUTO 34004KT 10SM SCT025 24/18 A2991 RMK AO2 T02380181 KESN 241545Z 34012G20KT 10SM SKC 13/M03 A3013 KGAO 241635Z AUTO 20008KT 10SM SCT027 SCT032 27/18 A2999 RMK AO2 T02670177 EINN 241630Z 15012KT 9999 FEW018CB SCT200 14/05 Q1015 NOSIG EHWO 241625Z AUTO 01007KT 9999 FEW260 17/11 Q1016 RETS BLU KERY 241634Z AUTO 15010KT 10SM OVC110 08/M05 A3012 RMK AO2 T00791046 KGBG 241635Z AUTO 14011G21KT 10SM SCT050 BKN065 BKN100 17/04 A2977 RMK AO2 LTG DSNT W T01650035 FADY 240629Z 13005KT 9999 FEW018 09/04 Q1022 KETH 241635Z AUTO 07005KT 2 1/2SM -RA SCT002 SCT020 BKN041 07/06 A2975 RMK AO2 P0004 KEST 241652Z AUTO 32005KT 4SM BR OVC007 07/07 A2968 RMK AO2 SLP057 T00670067 KGBK 241635Z AUTO 10007G13KT 040V130 10SM SCT022 BKN026 M18/M20 A2997 RMK A01 KGCC 241553Z AUTO 02006G16KT 10SM CLR 09/M04 A2988 RMK AO2 SLP125 T00891044 KFKL 241635Z AUTO 32005KT 10SM CLR 09/M09 A3015 RMK AO1 FAGC 241700Z AUTO 22004KT //// // ////// 14/M00 Q1021 KFLD 241553Z AUTO 13010KT 10SM OVC080 07/02 A2996 RMK AO2 RAE39 SLP151 P0000 T00720022 KGCD 241615Z AUTO 19017G24KT 10SM SCT044 SCT060 SCT100 09/04 A2986 RMK AO2 KFKN 241635Z AUTO 32006KT 10SM CLR 17/M04 A3011 RMK AO1 KEUF 241558Z AUTO VRB04KT 10SM BKN075 27/08 A3000 RMK AO2 SLP157 T02720078 PWINO $ KEUG 241554Z 23008KT 10SM FEW035 BKN055 BKN070 11/08 A2990 RMK AO2 RAE20 SLP124 P0000 T01110083 KFLG 241557Z 06007KT 10SM CLR 11/M12 A3017 RMK AO2 SLP165 T01061117 KI35 241635Z AUTO 08003KT 10SM CLR 20/00 A3003 RMK AO1 FAGG 241600Z 11006KT 9999 FEW010 15/12 Q1021 KFKS 241634Z AUTO 14009KT 10SM BKN060 11/M05 A3007 RMK AO2 T01071051 KGDB 241631Z AUTO 30005KT 5SM -RA OVC006 07/06 A2973 RMK AO2 T00650056 KEVB 241647Z AUTO 09006KT 10SM SKC 27/20 A3003 KGCK 241554Z 01022G29KT 10SM CLR 16/M01 A2995 RMK AO2 PK WND 35030/1459 SLP119 T01611011 KI39 241635Z AUTO 09007KT 10SM CLR 17/02 A3002 RMK AO2 KFLL 241553Z 14008KT 9SM FEW035 28/20 A3001 RMK AO2 SLP163 T02780200 KEUL 241635Z AUTO 14010KT 10SM BKN070 OVC090 11/03 A2996 RMK AO1 KGCM 241635Z AUTO 17018G24KT 10SM OVC016 18/16 A2971 RMK AO2 LTG DSNT N VIDP 241630Z 00000KT 2200 HZ NSC 30/05 Q1007 NOSIG KGCN 241554Z 16007KT 10SM CLR 12/M12 A3016 RMK AO2 SLP177 T01221117 KFME 241636Z AUTO 34008G16KT 10SM CLR 14/M07 A3010 RMK AO1 KFLO 241553Z 08006KT 10SM CLR 20/03 A3012 RMK AO2 SLP196 T02000028 KFLP 241635Z 20008KT 10SM FEW120 21/10 A2982 RMK AO1 KFMH 241635Z AUTO 32018G27KT 10SM CLR 12/M04 A2967 RMK AO2 KGDJ 241635Z AUTO 31015G24KT 10SM CLR 28/11 A2983 RMK AO2 T02800113 CZZJ 241600Z AUTO 24001KT 03/M02 RMK AO1 SLP078 T00331021 50001 KEWB 241553Z 33013G29KT 280V350 10SM CLR 11/M06 A2969 RMK AO2 PK WND 30031/1457 SLP052 T01111056 KFNB 241611Z AUTO 34008KT 10SM SCT012 OVC023 13/11 A2970 RMK AO2 T01330111 KEVM 241634Z AUTO 10007KT 3SM -DZ BKN010 OVC016 02/02 A2988 RMK AO2 KFMM 241635Z AUTO 31013G18KT 10SM CLR 13/M09 A3000 RMK AO2 T01311095 KGED 241554Z AUTO 34009G20KT 10SM CLR 14/M10 A3005 RMK AO2 SLP176 T01391100 KFMN 241553Z 00000KT 10SM CLR 08/M13 A3015 RMK AO2 SLP194 T00831128 KGDP 241651Z AUTO 22005KT 9SM CLR 21/M08 A3016 RMK AO2 SLP141 T02061078 KGEG 241553Z 20018G24KT 10SM BKN013 OVC019 08/06 A2973 RMK AO2 RAE12 SLP072 P0000 T00780061 KFLY 241629Z AUTO 21009G15KT 10SM CLR 08/M03 A3006 RMK AO2 T00781029 KGFA 241556Z AUTO 19011KT 10SM BKN070 OVC085 09/M02 A2975 RMK AO2 SLP111 T00941017 TSNO $ KFOA 241635Z AUTO 16013G18KT 10SM CLR 20/03 A2990 RMK AO2 T01950033 KEWK 241635Z AUTO 33018G27KT 10SM OVC023 12/07 A2979 RMK AO1 FAJB 241700Z AUTO 22003KT //// // ////// 14/00 Q1021 KFNL 241635Z AUTO 21007KT 10SM CLR 10/M06 A3002 RMK AO1 KEVV 241554Z 15008KT 10SM CLR 18/03 A2995 RMK AO2 SLP141 T01830028 KGDV 241635Z AUTO 26018G24KT 10SM CLR 12/M03 A2980 RMK AO1 KFOD 241635Z AUTO 27006KT 10SM OVC065 11/08 A2967 RMK AO1 DRRM 241600Z 32004KT 9999 FEW040 BKN300 40/17 Q1006 KFOE 241646Z 28020G28KT 1 3/4SM +TSRA BR SCT009 BKN031 OVC060 14/13 A2972 RMK AO2 PK WND 28036/1636 LTG DSNT ALQDS RAB11 TSB28 PRESRR P0008 T01440128 KEVW 241553Z AUTO 22013KT 10SM OVC090 06/M07 A3007 RMK AO2 SLP169 T00561072 KEWN 241554Z VRB04KT 10SM CLR 17/00 A3015 RMK AO2 SLP209 T01720000 DRRN 241600Z VRB02KT 9999 FEW046 BKN260 44/04 Q1004 NOSIG KFMY 241553Z VRB04KT 10SM CLR 27/16 A3002 RMK AO2 SLP168 T02670161 EISG 241630Z VRB03KT CAVOK ///// Q1016 KEWR 241651Z 34023KT 10SM SCT250 16/M11 A2991 RMK AO2 SLP127 T01561111 $ EKAH 241650Z AUTO 04005KT 9999NDV OVC056/// 11/03 Q1024 KFNT 241553Z 15008G18KT 10SM CLR 11/M09 A3015 RMK AO2 SLP213 T01111094 KGFK 241603Z 15010KT 5SM -RA BR BKN006 OVC014 06/04 A2976 RMK AO2 P0000 KFOK 241553Z 32022G30KT 10SM CLR 13/M10 A2983 RMK AO2 PK WND 34037/1522 SLP102 T01331100 KI69 241633Z AUTO 15005KT 10SM CLR 14/M05 A3007 RMK AO1 DRRT 241600Z 18006KT 9999 SCT040TCU BKN300 41/15 Q1006 KGFL 241553Z AUTO 36015G26KT 10SM CLR 11/M07 A2990 RMK AO2 PK WND 34031/1538 SLP128 T01111067 KGEU 241647Z 11003KT 20SM FEW200 24/M05 A2998 KGEV 241635Z AUTO 14006KT 10SM CLR 16/M02 A3009 RMK AO2 T01551023 KEYE 241553Z AUTO 12013KT 10SM CLR 14/00 A3001 RMK AO2 SLP160 T01440000 PWINO $ KGGE 241635Z AUTO 09011KT 10SM CLR 20/11 A3011 RMK AO2 KEYF 241635Z AUTO 11003KT 10SM CLR 19/01 A3012 RMK AO2 T01870011 KGEY 241553Z AUTO 09008KT 10SM CLR 10/M06 A2990 RMK AO2 SLP123 T01001061 KGGG 241553Z 20012KT 10SM FEW022 BKN050 24/17 A2985 RMK AO2 SLP101 T02390172 KI75 241635Z AUTO 00000KT 10SM OVC012 14/13 A2966 RMK AO2 T01380126 KGEZ 241553Z AUTO 14017G24KT 10SM CLR 16/M02 A3003 RMK AO2 SLP168 T01611017 KGGI 241635Z AUTO 17017KT 7SM -RA SCT047 BKN070 OVC085 09/08 A2969 RMK AO2 P0002 T00900076 EKBI 241620Z 09011KT 9999 BKN023 09/04 Q1023 FALA 241600Z 22005KT CAVOK 17/01 Q1020 NOSIG KFPK 241635Z AUTO 12009KT 10SM SCT060 SCT070 BKN090 11/M05 A3008 RMK AO2 T01111052 KFOT 241635Z AUTO 12011KT 5SM SCT027 12/10 A3004 RMK AO1 P0001 KGHB 241635Z AUTO 16007KT 10SM CLR 25/20 A2998 RMK A01 KFQD 241635Z AUTO 17006KT 10SM CLR 18/02 A3011 RMK AO2 T01810017 FAKM 240625Z 22009KT 9999 SCT010 07/05 Q1022 EKAV 241650Z AUTO 05002KT 9999NDV BKN059/// ///// Q1024 FALE 241600Z 20006KT 9999 SCT025 21/15 Q1013 NOSIG FAKN 241600Z 27004KT 9999 FEW030 SCT090 22/13 Q1015 NOSIG KEXX 241635Z AUTO 15006KT 10SM CLR 17/01 A3011 RMK AO2 T01720014 KEZF 241635Z AUTO 00000KT 10SM CLR 15/M05 A3010 RMK AO2 T01491049 KGHG 241635Z AUTO RMK AO2 PWINO TSNO KGGP 241635Z AUTO 13016G21KT 10SM CLR 15/M02 A2999 RMK AO2 KFOZ 241621Z AUTO 12012G16KT 7SM OVC007 03/02 A2984 RMK AO2 WAAA 241630Z VRB02KT 8000 FEW021 26/25 Q1009 KFPR 241553Z 15008KT 100V170 10SM CLR 29/19 A3003 RMK AO2 SLP167 T02890189 EKCH 241650Z 08008KT 040V110 CAVOK 09/04 Q1023 NOSIG PKWA 241640Z AUTO 08016G20KT 10SM SCT018 BKN100 OVC120 28/23 A2976 KGIC 241635Z AUTO 21016G23KT 10SM SCT045 OVC050 07/02 A2987 RMK AO1 T00710022 KEZM 241635Z AUTO 10003KT 10SM OVC080 28/13 A3005 RMK AO2 T02820127 FALM 240600Z 14005KT CAVOK 17/// Q1019 KGGW 241553Z AUTO 29013KT 10SM CLR 10/M01 A2977 RMK AO2 SLP088 T01001006 TSNO KEYW 241553Z 13007KT 10SM SCT065 26/20 A3003 RMK AO2 SLP169 T02610200 KGIF 241553Z AUTO A3004 RMK AO2 SLPNO PWINO TSNO $ KFRG 241553Z 33019G27KT 10SM CLR 12/M11 A2988 RMK AO2 PK WND 32027/1550 SLP118 T01171111 URKA 241630Z 00000MPS CAVOK 13/11 Q1017 NOSIG RMK QFE758/1011 SC070 WABB 232200Z WABB 232200Z 31002KT 9999 FEW018 26/25 Q1009 NSG KFRI 241644Z AUTO 33012G27KT 10SM -RA BKN040 BKN080 12/12 A2971 RMK AO2 WSHFT 36 KEZS 241635Z AUTO 08006KT 10SM -RA SCT012 BKN024 OVC034 05/03 A3001 RMK AO2 P0003 T00450027 EKEB 241650Z AUTO 08006KT 040V120 9999NDV OVC016/// 10/06 Q1022 KFRM 241635Z 00000KT 5SM OVC007 06/04 A2971 RMK AO1 KFSD 241556Z 34016G21KT 10SM FEW008 BKN090 10/08 A2971 RMK AO2 SLP066 T01000078 VIJP 241630Z 00000KT 3500 HZ FEW035 30/12 Q1009 NOSIG FAMM 241600Z 19005KT CAVOK 16/M00 Q1020 NOSIG KGHW 241633Z AUTO 08003KT 7SM -RA SCT006 BKN013 OVC017 05/04 A2975 RMK AO2 P0006 KFSE 241635Z AUTO 15003KT 2 1/2SM RA BKN007 OVC023 03/02 A2979 RMK AO2 P0006 KHAE 241635Z AUTO 17006KT 10SM OVC050 18/00 A2977 RMK AO2 LTG DSNT N AND W FALW 241600Z AUTO 22008KT //// // ////// 17/05 Q1019 PMDY 241633Z AUTO 16010KT CLR 22/21 A3018 RMK AO2 TSNO $ KHAF 241635Z AUTO 25003KT 2SM BR OVC004 12/12 A3014 RMK AO2 EIWF 241630Z 16007KT 120V200 9999 SCT017 12/08 Q1017 URKK 241630Z 06003MPS 9999 FEW036CB SCT060 BKN080 16/12 Q1017 NOSIG RMK QFE759 SC070 KHAI 241635Z AUTO 13012G19KT 10SM SCT120 13/M04 A3005 RMK AO2 T01331038 KFSI 241558Z AUTO 34029G37KT 10SM CLR 21/09 A2979 RMK AO2 PK WND 36039/32 SLP081 T02050088 USCC 241630Z 36006MPS 9999 -SHRASN BKN008CB OVC070 01/M01 Q0996 27000060 TEMPO 1100 SHRASN BKN005 RMK QFE727 FAOB 241300Z 20010KT 9999 SCT035 19/12 Q1020 KFSM 241611Z 12003KT 7SM -TSRA FEW034 SCT060 BKN070 17/15 A2979 RMK AO2 TSB05 P0001 T01670150 KHAO 241553Z AUTO 11009KT 10SM CLR 14/M03 A3010 RMK AO2 SLP193 T01391033 KFSO 241635Z AUTO 30012G18KT 10SM SCT050 11/M04 A2991 RMK AO2 T01051038 KHBG 241553Z AUTO VRB06KT 10SM SCT036 26/17 A2999 RMK AO2 SLP151 T02610167 KFTG 241551Z 20005KT 50SM FEW220 09/M06 A3003 VILK 241630Z VRB02KT 4000 HZ NSC 28/13 Q1005 KHBI 241635Z AUTO 00000KT 10SM CLR 17/00 A3014 RMK AO2 T01661004 KGKJ 241553Z AUTO 10SM CLR 08/M09 A3015 RMK AO2 SLP217 T00831094 TSNO WADD 241630Z 34003KT 300V360 9999 SCT017 28/25 Q1008 NOSIG USCM 241630Z 34005MPS 8000 OVC033CB 07/M01 Q0992 NOSIG 19090060 RMK QFE707 KGJT 241553Z 13008KT 10SM CLR 09/M11 A3015 RMK AO2 SLP194 T00891106 KFST 241553Z AUTO 34018KT 10SM CLR 23/M09 A3005 RMK AO2 SLP131 T02331094 KFTK 241558Z AUTO 10008KT 10SM CLR 16/03 A2999 RMK AO2 SLP157 T01630027 KGLD 241553Z AUTO 34021G28KT 10SM CLR 14/M04 A2996 RMK AO2 PK WND 32029/1523 SLP128 T01441044 EKGC 241650Z AUTO 11018KT 9999NDV 08/06 Q1022 KHCD 241633Z AUTO 07007KT 10SM -DZ OVC009 06/05 A2973 RMK AO2 T00550050 KFTN 241630Z AUTO 35006KT 10SM FEW025 27/19 A2988 RMK AO1 KFSW 241635Z AUTO 17016G22KT 10SM SCT049 SCT065 17/04 A2975 RMK AO2 KGLE 241635Z AUTO 26018G25KT 10SM CLR 22/14 A2981 RMK AO2 T02220141 FAPE 241600Z 25007KT 9999 FEW015 15/13 Q1021 NOSIG EKGF 241650Z 09019KT 9999 BKN008 08/06 Q1022 KGLH 241553Z AUTO 19004KT 9SM CLR 24/16 A2990 RMK AO2 SLP130 T02390161 KHBR 241553Z AUTO 35025G35KT 10SM CLR 21/04 A2986 RMK AO2 PK WND 34038/1527 SLP100 T02060044 WADL 241530Z 00000KT 7000 FEW016 26/26 Q1009 NOSIG URML 241630Z 33007MPS 9999 BKN100 19/06 Q1013 NOSIG RMK QFE759/1013 SC070 FAOR 241630Z 22011KT CAVOK 15/01 Q1022 NOSIG DRZA 241600Z 16008KT 7000 NSC 41/03 Q1008 URMM 241630Z 30005G07MPS 9999 BKN046CB BKN100 14/10 Q1017 R30/CLRD70 TEMPO 0700 +TSRA RMK QFE735/0980 EKHA 241650Z AUTO 10015KT 9999NDV 08/07 Q1022 URMN 241630Z 35006G09MPS 9999 BKN040CB OVC110 14/09 Q1017 NOSIG RMK QFE726 SC06 FBFT 241600Z 28003KT 9999 FEW030 BKN065 23/17 Q1017 KFUL 241553Z 00000KT 10SM CLR 18/11 A2998 RMK AO2 SLP152 T01830111 KHDC 241635Z AUTO 20006KT 10SM SCT031 26/15 A2999 RMK AO2 URMO 241530Z VRB01MPS 9999 FEW040 BKN100 15/08 Q1016 NOSIG RMK QFE718/0957 SC070 KHBV 241635Z AUTO 19006KT 10SM OVC023 26/19 A2986 RMK AO2 T02560189 ZWSH 241600Z AUTO 00000MPS 1300 R26/1300N SA 16/M12 Q1019 KFVE 241553Z AUTO 35012KT 1/4SM SN FG VV003 00/M01 A2963 RMK AO2 SLP042 P0005 T00001006 EKHD 241650Z AUTO 10018KT 9999NDV 08/06 Q1023 KFTW 241553Z 22012G19KT 10SM FEW024 SCT030 BKN036 24/18 A2979 RMK AO2 SLP078 T02390178 KHDE 241635Z AUTO 35015G25KT 10SM CLR 16/00 A2985 RMK AO2 T01570000 FAPN 241600Z AUTO 28002KT //// // ////// 20/06 Q1018 KHCO 241633Z AUTO 13012KT 7SM -DZ SCT014 OVC090 05/04 A2976 RMK AO2 P0001 KFTY 241553Z 08006KT 10SM CLR 21/05 A3005 RMK AO2 SLP172 T02110050 KGKY 241603Z 18010G18KT 10SM FEW025 SCT034 24/17 A2980 RMK AO2 FAPP 241600Z 35004KT CAVOK 19/13 Q1018 NOSIG URMT 241630Z 05006G09MPS 9999 BKN021CB OVC100 11/05 Q1018 NOSIG RMK QFE725 SC055 KGLR 241553Z AUTO 13012KT 10SM OVC100 07/M09 A3011 RMK AO2 SLP208 T00721094 KGLS 241652Z 16023G29KT 10SM FEW012 SCT022 BKN100 23/21 A2985 RMK AO2 PK WND 16029/1649 SLP108 T02330206 KFWA 241554Z 13015KT 10SM FEW110 SCT160 BKN250 13/M04 A3008 RMK AO2 SLP186 T01331044 KGNA 241556Z AUTO 08013KT 03/M02 A3001 RMK AO2 SLP171 T00281022 PWINO KGMJ 241635Z AUTO 18015G22KT 10SM -DZ SCT046 BKN075 BKN090 19/16 A2971 RMK AO2 LTG DSNT NW KFWB 241635Z AUTO 22007G19KT 10SM CLR 19/12 A2972 RMK AO2 LTG DSNT N KGNC 241635Z AUTO 02012G18KT 10SM CLR 18/00 A3009 RMK AO2 T01790000 KFWC 241635Z AUTO 15011KT 10SM CLR 20/07 A2989 RMK AO2 KHDN 241635Z AUTO 33007KT 10SM CLR 05/M09 A3015 RMK AO1 KGLW 241635Z AUTO 15004KT 10SM CLR 21/04 A2996 RMK AO2 T02080041 KHDO 241651Z AUTO VRB03KT 10SM BKN020 26/18 A2991 RMK AO2 SLP114 T02560178 EKHN 241650Z AUTO 10012KT 9999NDV BKN014/// 10/08 Q1024 KHEF 241455Z 01006G15KT 10SM CLR 12/M06 A3015 KGNF 241635Z AUTO 23006KT 10SM CLR 25/11 A2991 RMK AO2 KGLY 241655Z AUTO 13010KT 10SM BKN038 BKN044 OVC090 16/13 A2966 RMK AO2 LTG DSNT NW-NE P0005 ZYCC 241600Z 17003MPS 9999 FEW030 14/01 Q1017 NOSIG KHEI 241553Z AUTO 28016G23KT 10SM CLR 12/M04 A2979 RMK AO2 SLP098 T01171039 DRZR 241600Z 00000KT 9999 FEW040 BKN300 40/12 Q1006 EKHR 241650Z AUTO 10012KT 9999NDV OVC013/// 09/07 Q1022 FASB 232225Z 10006KT CAVOK 10/04 Q1022 KGMU 241553Z 03008KT 10SM CLR 19/01 A3012 RMK AO2 SLP195 T01890006 KHFD 241553Z 32016G25KT 10SM CLR 11/M08 A2982 RMK AO2 PK WND 32029/1454 SLP096 T01111083 KFXE 241553Z 14007KT 10SM SCT030 29/18 A3001 RMK AO2 SLP166 T02890183 KFWN 241553Z AUTO 33008G22KT 290V350 10SM CLR 13/M09 A2995 RMK AO2 PK WND 34029/1533 SLP143 T01281094 PWINO PNO $ KHFF 241556Z AUTO VRB03KT 12SM CLR 18/01 A3015 RMK AO2 SLP212 T01780006 KFVX 241635Z AUTO 09005KT 10SM CLR 17/M07 A3009 RMK AO2 KHEQ 241635Z AUTO 30014G21KT 10SM CLR 16/M07 A2996 RMK AO2 KGNR 241556Z AUTO 33023G32KT 01/M01 A2956 RMK AO1 PK WND 34035/1522 SLP025 T00111006 FASI 241700Z AUTO /////KT //// // ////// 11/M06 Q1022 KFWS 241550Z 20015KT 10SM SCT022 24/18 A2982 KHFJ 241635Z AUTO 20012G19KT 10SM CLR 19/13 A2969 RMK AO2 LTG DSNT N AND NW DTKA 241600Z 26005KT 220V300 9999 FEW020 20/12 Q1017 NOSIG EKKA 241650Z AUTO 08008KT 9999NDV SCT055/// BKN082/// 10/05 Q1023 KGOK 241553Z AUTO 32013G23KT 10SM SCT024 OVC031 18/11 A2976 RMK AO2 PK WND 31026/1506 SLP073 T01780111 KGNT 241635Z AUTO 36005KT 10SM CLR 11/M12 A3020 RMK AO2 T01121121 FCBB 241600Z 33004KT 290V010 9999 FEW030CB 32/22 Q1007 TEMPO TS KGNV 241553Z 14003KT 10SM CLR 26/18 A3002 RMK AO2 SLP165 T02610178 KGON 241615Z 33017G23KT 300V360 10SM CLR 13/M07 A2976 RMK AO2 PK WND 34026/1604 FBKE 241600Z 20007KT CAVOK 25/16 Q1016 USHH 241630Z 04003MPS 9999 SCT030 BKN080 00/M07 Q1006 NOSIG RMK QFE751 06////60 KGOO 241635Z AUTO 15006KT 10SM SCT110 12/02 A3008 RMK AO1 KHEY 241653Z AUTO VRB04KT 10SM BKN070 27/13 A2998 RMK AO2 SLP041 T02720128 KGOP 241635Z AUTO 22011G16KT 10SM CLR 26/17 A2987 RMK AO2 KGPH 241655Z AUTO 15003KT 7SM -RA OVC005 14/14 A2963 RMK AO2 KHEZ 241635Z AUTO 18010G18KT 10SM SCT026 25/18 A2993 RMK AO1 KFWZ 241635Z AUTO 23012G16KT 10SM SCT027 M01/M06 RMK AO2 KGPI 241644Z 16009KT 9SM -RA FEW012 OVC019 05/03 A2979 RMK AO2 P0001 T00500028 KFYJ 241635Z AUTO RMK AO2 PNO KGPM 241550Z 19011G18KT 10SM SCT021 SCT027 BKN033 23/17 A2982 KGOV 241635Z AUTO 13008KT 10SM BKN100 OVC120 11/M09 A3011 RMK AO2 T01111092 KHHF 241635Z AUTO 32018G25KT 10SM CLR 18/03 A2996 RMK AO2 T01800025 KHHG 241635Z AUTO 12011G18KT 110V170 10SM BKN110 14/M04 A3003 RMK AO2 T01401044 KFZG 241635Z AUTO 12005KT 10SM 27/17 A3003 RMK AO2 T02710165 KFXY 241635Z AUTO 14006KT 10SM OVC023 07/06 A2967 RMK AO2 UTAA 241630Z 29007MPS 9999 BKN130 FEW050CB BKN050 21/06 Q1011 R30/CLRD70 TEMPO VRB10G15MPS TS PROBA PROBA KHGR 241553Z 32011G18KT 10SM CLR 11/M08 A3011 RMK AO2 SLP207 T01111078 KHIB 241553Z AUTO 12010KT 6SM BR OVC008 03/01 A2985 RMK AO2 CIG 006V011 SLP125 T00280011 KGRB 241553Z 09007KT 5SM -RA BR OVC040 05/03 A3002 RMK AO2 SLP172 P0010 T00500033 KGPT 241621Z AUTO 16009KT 4SM HZ FEW002 FEW023 26/18 A2999 RMK AO2 T02560178 TSNO DTMB 241630Z 08009KT CAVOK 22/12 Q1016 NOSIG KFYV 241553Z 19012G21KT 10SM FEW100 17/14 A2976 RMK AO2 PK WND 18026/1536 LTG DSNT W TSB36E51RAE14 SLP070 P0003 T01670139 KGRD 241556Z AUTO 07008KT 020V110 10SM CLR 21/04 A3011 RMK AO2 SLP192 T02060039 KHIE 241652Z AUTO 31013G21KT 10SM OVC042 06/M04 A2978 RMK AO2 SLP093 T00561039 KGRF 241640Z AUTO 16012G18KT 10SM DZ BKN021 BKN029 11/08 A2975 RMK AO2 BKN021 V SCT KHIF 241558Z 10008KT 10SM SCT110 BKN180 08/M04 A3006 RMK AO2A SLP166 T00801037 URRR 241630Z 05004G07MPS CAVOK 11/M02 Q1019 04CLRD70 NOSIG FAUP 241600Z 00000KT CAVOK 21/00 Q1019 NOSIG KGPZ 241635Z AUTO 11011G19KT 10SM OVC006 02/01 A2982 RMK AO1 UTAK 241600Z 32006MPS 9999 FEW010 BKN200 12/08 Q1013 NOSIG KGRI 241553Z 34020G29KT 10SM CLR 15/04 A2979 RMK AO2 PK WND 34029/1546 SLP083 T01500039 KHHR 241553Z 16004KT 10SM CLR 18/09 A2999 RMK AO2 SLP155 T01780094 KHII 241635Z AUTO 19003KT 10SM CLR 22/M09 A2995 RMK AO2 ZWWW 241630Z 26001MPS CAVOK 04/M04 Q1022 NOSIG UTAM 241600Z 00000MPS 6000 FEW066CB SCT066 SCT100 OVC230 18/13 Q1012 NOSIG RMK SC 07 KGRK 241617Z 19012G19KT 7SM SCT025 24/17 A2985 KIAB 241643Z AUTO 34018G32KT 10SM BKN020 OVC025 14/12 A2975 RMK AO2 BKN V OVC KGSB 241558Z AUTO VRB04KT 10SM FEW220 16/M01 A3014 RMK AO2 SLP209 T01591012 $ FAUT 241146Z 24018KT 5000 RA SCT009 OVC014 11/09 Q1017 KIAD 241652Z 31009KT 10SM FEW190 SCT250 13/M07 A3010 RMK AO2 SLP192 T01331072 KHHV 241635Z AUTO 15016KT 4SM HZ CLR 23/20 A2991 RMK A01 KHHW 241635Z AUTO 21008G18KT 10SM OVC024 24/19 A2978 RMK AO2 LTG DSNT E T02360188 FBMN 241600Z 00000KT 9999 FEW025 SCT070 24/19 Q1017 KHIO 241553Z 20006KT 10SM FEW018 BKN047 BKN060 12/08 A2981 RMK AO2 SLP093 T01170083 KIAG 241553Z 03011KT 10SM SCT220 09/M11 A3015 RMK AO2 SLP220 T00891111 KFZY 241554Z AUTO 32010G19KT 10SM CLR 06/M07 A3009 RMK AO2 SLP194 T00611072 URSS 241630Z 29002MPS 9999 FEW016 OVC230 14/11 Q1016 NOSIG RMK R06/30003MPS MT OBSC QFE760 02000070 06000070 ZYHB 241600Z 18005MPS CAVOK 15/02 Q1014 NOSIG KIAH 241553Z 16009G15KT 10SM FEW027 24/18 A2988 RMK AO2 SLP118 T02440178 KGSH 241553Z AUTO 13018G27KT 10SM SCT110 14/M04 A3005 RMK AO2 PK WND 13027/1548 SLP176 T01391039 KHJH 241635Z AUTO 35012G18KT 10SM OVC085 14/06 A2979 RMK AO2 T01380059 UTAT 241600Z 23008MPS 3300 BR BKN008 OVC100 17/14 Q1002 99CLRD70 NOSIG KGRR 241553Z 13013KT 10SM -RA BKN065 BKN090 OVC200 11/01 A3008 RMK AO2 SLP188 P0000 T01110006 KHKA 241553Z AUTO 18014KT 10SM CLR 23/06 A2988 RMK AO2 SLP116 T02280061 UTAV 241600Z 25002MPS 7000 FEW033 BKN200 16/11 Q1011 KGTB 241631Z AUTO 33014G18KT 10SM CLR 07/M10 A3003 RMK AO2 WSHFT 26 FAWK 241100Z 29011KT 9999 FEW020 20/// Q1022 EKOD 241450Z 04008KT 9999 FEW028 BKN040 09/07 Q1024 FAVV 241700Z AUTO 25003KT //// // ////// 11/M01 Q1020 KGTF 241553Z 21010KT 10SM OVC110 09/M01 A2977 RMK AO2 SLP098 T00891006 KHJO 241553Z AUTO 34006KT 9SM CLR 16/08 A3008 RMK AO2 SLP186 T01610078 KGSO 241554Z 13007KT 10SM FEW180 SCT250 16/M01 A3013 RMK AO2 SLP198 T01611006 KGSP 241553Z 05007KT 340V070 10SM CLR 18/01 A3010 RMK AO2 SLP188 T01830011 KGRY 241640Z AUTO 18006G17KT 10SM CLR 23/20 A3000 RMK A01 WALL 241530Z 32004KT 8000 SCT020 26/25 Q1009 NOSIG UTDD 241630Z 08004MPS 9999 SCT066CB SCT130 15/12 Q1013 0929//50 TEMPO TSRA RMK QFE692/0923 KGUC 241635Z AUTO 33004KT 10SM CLR 04/M13 A3019 RMK AO1 KHLC 241553Z AUTO 33014G23KT 10SM CLR 14/03 A2990 RMK AO2 SLP119 T01440033 $ KIBM 241635Z AUTO 30012G23KT 10SM CLR 12/M12 A2995 RMK AO2 T01161120 KHLG 241553Z 10SM SCT120 08/M07 A3015 RMK AO2 SLP218 T00831067 URWA 241630Z 01007G10MPS 9999 BKN026 08/01 Q1015 NOSIG RMK QFE763/1017 SC060 KGTR 241645Z 17009KT 10SM SKC 26/12 A2997 UTDL 241630Z 26007G12MPS 9999 FEW070CB SCT130 OVC200 21/10 Q1009 NOSIG RMK QFE719/0959 88CLRD70 KIDA 241553Z 19013KT 10SM BKN075 BKN095 09/M03 A2997 RMK AO2 SLP142 T00941033 KHKS 241553Z 15006G15KT 10SM CLR 26/16 A2994 RMK AO2 SLP131 T02560156 WAMM 241630Z 16002KT 8000 FEW023 24/23 Q1009 NOSIG KGTU 241653Z 21008G15KT 10SM OVC023 24/18 A2987 KGUL 241635Z AUTO 10SM 23/20 A2994 RMK A01 KICL 241635Z AUTO 32008KT 10SM OVC014 13/11 A2971 RMK AO2 KHLN 241553Z 00000KT 10SM OVC065 04/02 A2981 RMK AO2 SLP121 T00440022 URWI 241600Z 03005G08MPS CAVOK 10/01 Q1017 NOSIG KGUP 241553Z AUTO VRB05KT 10SM CLR 09/M12 A3020 RMK AO2 SLP160 T00941122 KHKY 241553Z 25003KT 10SM CLR 16/01 A3013 RMK AO2 SLP189 T01610006 UTFA 232000Z 00000MPS 9999 NSC 14/06 Q1014 R88/09//70 KHLR 241603Z AUTO 18012KT 10SM BKN024 26/17 A2985 RMK AO2 PWINO $ KICR 241553Z AUTO 31018G27KT 10SM CLR 17/M06 A2981 RMK AO2 PK WND 31028/1511 SLP089 T01721056 KGUR 241635Z AUTO 33009KT 10SM CLR 16/M04 A2994 RMK AO2 T01611038 KIDI 241635Z AUTO 02005KT 10SM CLR 09/M07 A3013 RMK AO2 KGUS 241558Z AUTO 12019G23KT 10SM FEW210 15/M01 A3001 RMK AO2 SLP166 T01461013 KICT 241553Z 31013G23KT 10SM -RA BKN017 BKN070 13/11 A2976 RMK AO2 PK WND 31030/1521 RAB26 SLP070 P0000 T01330106 KHNB 241635Z AUTO 16008KT 10SM CLR 18/06 A2995 RMK AO1 KGWB 241635Z AUTO 10013G19KT 10SM SCT120 12/M05 A3007 RMK AO2 USNN 241630Z VRB01MPS CAVOK M01/M07 Q1006 NOSIG RMK QFE750 210///65 KGVL 241553Z AUTO 07009KT 10SM CLR 19/02 A3010 RMK AO2 SLP185 T01890022 UTFF 241600Z 22004MPS 9999 NSC 22/04 Q1004 R18/CLRD70 KHND 241556Z VRB03KT 10SM CLR 19/M08 A3001 RMK AO2 T01881083 SLP150 KHMN 241558Z AUTO 36014G20KT 10SM CLR 21/M12 A3009 RMK AO2 SLP130 T02061119 $ KHLX 241635Z AUTO 21008KT 10SM CLR 15/M04 A3012 RMK AO2 KGUY 241553Z AUTO 35019G26KT 10SM CLR 16/00 A2998 RMK AO2 PK WND 35032/1524 SLP119 T01610000 KIDP 241635Z AUTO 19021G27KT 10SM VCTS BKN020 OVC029 21/16 A2963 RMK AO2 LTG DSNT SW THRU N WBGB 241600Z 12003KT 9999 SCT014 SCT150 BKN300 27/25 Q1009 KGXA 241555Z AUTO 30008KT 10SM CLR 14/M03 A3004 RMK AO2 SLP170 T01371033 TSNO $ KIFA 241635Z AUTO 16012KT 10SM OVC005 09/08 A2966 RMK AO2 T00870075 KHOB 241650Z 36016G20KT 9SM SKC 18/00 A3009 KGVT 241635Z AUTO 20021G25KT 10SM SCT023 BKN030 BKN036 23/16 A2981 RMK AO2 EKSB 241650Z 09011KT 9999 BKN020 09/06 Q1022 UTFN 241630Z 27003MPS 9999 SCT050CB BKN100 24/00 Q1003 R28/CLRD70 NOSIG URWW 241630Z 01006MPS CAVOK 08/M08 Q1018 NOSIG RMK SC070 EKRK 241650Z AUTO 08009KT 9999NDV BKN060/// BKN075/// 10/03 Q1023 WAOO 241200Z 16004KT 9000 FEW018 29/26 Q1007 NOSIG WBGG 241630Z 25003KT 9999 FEW020 SCT150 BKN300 26/24 Q1009 NOSIG KIEN 241652Z AUTO 28011G19KT 10SM CLR 14/M05 A2988 RMK AO2 SLP112 T01441050 KHOE 241635Z AUTO 14006KT 10SM SCT065 28/15 A3001 RMK AO2 EKRN 241650Z AUTO 07016KT 9999NDV BKN088/// 10/03 Q1022 KGXF 241555Z 34003KT 10SM FEW250 25/M09 A2995 RMK SLP130 KGWO 241553Z AUTO 18007KT 10SM FEW002 24/13 A2991 RMK AO2 SLP127 T02440133 TSNO KGWR 241635Z AUTO 00000KT 10SM BKN005 07/07 A2974 RMK A01 P000 KIER 241635Z AUTO 20011G16KT 10SM SCT024 SCT029 26/19 A2989 RMK AO2 T02610185 KHNR 241635Z AUTO 33018KT 10SM SCT019 OVC043 13/10 A2971 RMK AO2 DTTA 241630Z 31010KT 270V340 9999 FEW026 24/07 Q1016 NOSIG KGYB 241635Z AUTO 22007KT 10SM OVC024 23/18 A2992 RMK AO2 T02340178 FDBB 241600Z AUTO 00000KT //// // ////// 24/20 Q//// FBSK 241600Z 22005KT CAVOK 22/00 Q1017 NOSIG DTTB 241600Z 31012KT 280V020 9999 FEW020 22/12 Q1017 WAPP 232200Z 02002KT 9999 FEW018 24/23 Q1009 DTTD 241500Z 05006KT 360V120 CAVOK 27/02 Q1017 USPP 241630Z 01003G06MPS CAVOK 00/M05 Q1007 03090060 NOSIG RMK QFE745/0993 KHON 241555Z AUTO 32012KT 10SM CLR 14/03 A2974 RMK AO2 SLP071 T01440028 KGWW 241635Z AUTO 17003KT 10SM CLR 17/00 A3013 RMK AO2 T01690003 EKSN 241350Z 04008KT 9999 -RA FEW026 BKN065 08/03 Q1027 EKTE 241650Z AUTO 10019KT 9999NDV BKN007 BKN009 08/06 Q1023 WBGR 241600Z 06002KT 9999 SCT014 BKN150 28/25 Q1009 DTTF 241600Z 23010KT 180V260 CAVOK 28/04 Q1014 KIFP 241635Z AUTO 20003KT 10SM CLR 21/M08 A2996 RMK AO2 KHOP 241558Z AUTO 14005KT 10SM CLR 21/04 A2993 RMK AO2 SLP135 T02070044 FBSP 241500Z 00000KT 9999 FEW025 SCT075 24/18 Q1016 WBGS 241600Z 18003KT 9999 SCT018 BKN150 26/24 Q1009 DTTG 241600Z AUTO 31005KT 230V360 NCD 27/02 Q1017 KGYH 241647Z 03004KT 10SM CLR 20/02 A3009 EKSP 241650Z 08010KT 9999 FEW014 BKN024 09/06 Q1022 KHNZ 241635Z AUTO 00000KT 10SM CLR 16/M03 A3011 RMK AO2 T01641033 KGYI 241635Z AUTO 22017G23KT 10SM SCT029 BKN034 BKN040 24/16 A2978 RMK AO2 T02350159 DTTJ 241630Z VRB02KT CAVOK 26/05 Q1016 NOSIG KHOT 241618Z AUTO 19004KT 10SM OVC055 23/14 A2985 RMK AO2 LTG DSNT N AND NW TSB1557E12 KHOU 241553Z 17009KT 10SM BKN028 BKN250 24/18 A2987 RMK AO2 SLP119 T02440183 KGYL 241634Z AUTO 07008KT 7SM -DZ OVC006 06/04 A2972 RMK AO2 P0001 T00550037 DTTK 241600Z 33002KT CAVOK 28/04 Q1016 DTTL 241600Z 30007KT 230V020 CAVOK 22/08 Q1017 KIGM 241651Z AUTO VRB04KT 10SM CLR 22/M13 A3002 RMK AO2 SLP116 T02171133 WBGY 241600Z 00000KT 9999 SCT022 BKN300 27/26 Q1009 KHPN 241556Z 30019G24KT 10SM CLR 12/M10 A2987 RMK AO2 PK WND 29029/1533 SLP117 T01221100 DTTN 241600Z 32009KT 9999 FEW020 25/12 Q1016 KGXY 241635Z AUTO 17005KT 10SM CLR A3001 RMK AO1 KGZH 241553Z AUTO 16006KT 10SM CLR 26/17 A3001 RMK AO2 SLP159 T02610172 KIGQ 241635Z AUTO 15014G22KT 10SM SCT120 16/02 A2995 RMK AO2 T01560017 KGYR 241647Z 06005KT 10SM FEW180 BKN250 A2997 KHQI 241635Z AUTO 13010KT 9SM CLR 23/21 A2996 RMK A01 DTTR 241600Z 36010KT CAVOK 27/02 Q1018 KIIB 241635Z AUTO 14012KT 5SM -RA 08/07 A2969 RMK AO2 P0005 KGZL 241635Z AUTO 18010G16KT 10SM BKN024 OVC080 21/15 A2975 RMK AO2 KHQM 241637Z AUTO 20016KT 6SM -RA BR FEW015 BKN034 OVC055 10/09 A2974 RMK AO2 RAB16 P0004 T01000089 EKVD 241550Z 08011KT CAVOK 09/04 Q1022 WARQ 241100Z 21010KT 7000 SCT015 28/23 Q1006 RA TO N KIGX 241556Z AUTO VRB03KT 10SM CLR 16/M02 A3015 RMK AO2 SLP205 T01611022 DTTX 241600Z 16010KT CAVOK 23/06 Q1017 NOSIG WARR 241630Z 13004KT 090V200 6000 SCT018 FEW020CB 27/23 Q1009 NOSIG USRR 241630Z 02003MPS 360V060 7000 BKN160 M02/M08 Q1007 NOSIG RMK QFE750 25////60 KGYY 241545Z 15018G31KT 10SM SCT110 OVC250 15/01 A2995 EKVG 241650Z AUTO 14013KT 9999NDV -RA BKN007/// BKN028/// 09/08 Q1019 RMK OVC004/// WIND 850FT 15023KT DTTZ 241600Z 27008KT 240V300 CAVOK 28/07 Q1016 NOSIG KHRI 241553Z AUTO 21010KT 10SM CLR 15/09 A2976 RMK AO2 SLP075 T01500094 TSNO KHRJ 241635Z AUTO 00000KT 10SM CLR 16/M01 A3013 RMK AO2 T01641010 KHSA 241650Z 16010KT 7SM SCT030 26/15 A2999 EKVJ 241350Z 09014KT 9999 BKN015 BKN030 10/06 Q1024 KHSB 241635Z AUTO 13006KT 10SM CLR 22/04 A2989 RMK AO2 T02190039 KHRL 241652Z 18020G25KT 10SM CLR 31/19 A2981 RMK AO2 SLP095 T03060189 KJAC 241552Z 17015G21KT 10SM OVC050 04/M05 A3000 KHQU 241635Z AUTO 00000KT 10SM CLR 23/08 A3009 RMK AO1 T02290082 KIJD 241652Z AUTO 33019G30KT 10SM CLR 12/M07 A2977 RMK AO2 PK WND 33032/1633 SLP080 T01221072 KHSE 241651Z AUTO 10SM CLR 14/03 A3011 RMK AO2 SLP197 T01440033 TSNO KHRO 241553Z AUTO 20013G19KT 10SM -RA OVC110 19/12 A2982 RMK AO2 RAB37 SLP088 P0000 T01940122 ELLX 241650Z 05006KT 9999 FEW040CB BKN050 17/07 Q1014 NOSIG USSS 241630Z 01005MPS 0900 R08L/2000 +SHSN SCT006 OVC011CB M01/M01 Q1001 08590335 TEMPO 1100 SHSN BKN006 RMK QFE731 KHQZ 241455Z 18016G25KT 10SM BKN020 OVC026 22/17 A2980 WBKK 241630Z 10003KT 9999 FEW014 SCT140 BKN270 27/25 Q1009 NOSIG KHSI 241553Z AUTO 34020KT 10SM CLR 14/05 A2980 RMK AO2 PK WND 35028/1501 SLP085 T01440050 WBKL 241600Z 34001KT 9999 FEW010 BKN130 BKN290 29/25 Q1009 KL18 241635Z AUTO 00000KT 10SM CLR 18/09 A2999 RMK AO2 KHRT 241558Z AUTO 17008KT 10SM CLR 23/16 A3001 RMK AO2 RAB1517E1546DZB1526E1534 SLP164 P0000 T02290164 $ UUBP 241600Z 02004MPS CAVOK 11/M10 Q1025 NOSIG RMK QFE751 SC070 KJAN 241554Z 18007KT 10SM SCT250 26/16 A2994 RMK AO2 SLP136 T02560161 KHRX 241635Z AUTO 35016G22KT 10SM CLR 17/M02 A3007 RMK AO2 T01651020 USTR 241630Z 04006G09MPS 2400 -SHSN BKN006 OVC014CB M00/M00 Q1000 TEMPO 0200 +SHSNRA VV002 RMK QBB180 QFE740/0987 03290060 30950029 KIIY 241635Z AUTO 14005KT 1/2SM HZ VV005 24/05 A3006 RMK AO2 KHSP 241635Z AUTO 15005KT 10SM OVC080 09/M06 A3013 RMK AO2 WBKS 241600Z 11003KT 9999 FEW016 BKN300 28/25 Q1008 WATT 241100Z 00000KT 8000 SCT018 27/25 Q1009 NOSIG WBKT 241600Z 11004KT 9999 FEW015 BKN280 29/25 Q1009 KHUA 241555Z 16006KT 7SM SKC 22/05 A2999 KJAS 241635Z AUTO 18012G17KT 10SM BKN025 BKN031 24/18 A2992 RMK AO2 T02440182 UUDD 241630Z 36005MPS CAVOK 06/M11 Q1025 NOSIG KHST 241558Z AUTO 21004KT 10SM CLR 28/18 A3002 RMK AO2 SLP169 T02760180 $ KIKK 241635Z AUTO 12015G21KT 10SM BKN120 16/04 A2993 RMK AO2 T01550039 UUBW 241630Z 34005G10MPS CAVOK 06/M12 Q1025 NOSIG WBKW 241600Z 35002KT 9999 FEW017 BKN300 26/24 Q1009 KHTL 241553Z AUTO 17012KT 10SM BKN095 10/M08 A3012 RMK AO2 SLP210 T01001078 KHSV 241553Z 15010KT 10SM BKN250 23/06 A2998 RMK AO2 SLP148 T02330056 KILE 241635Z AUTO 20009G15KT 10SM FEW026 FEW036 26/15 A2984 RMK AO1 KHTO 241350Z 32016G25KT 10SM SKC 08/M06 A2980 KHUF 241553Z 13014KT 10SM CLR 17/03 A2996 RMK AO2 SLP144 T01670033 KJAX 241556Z 00000KT 10SM FEW035 BKN080 27/18 A3001 RMK AO2 SLP164 T02670183 KIJX 241635Z AUTO 14017KT 10SM SCT060 20/04 A2981 RMK AO2 LTG DSNT NW T01950040 KILG 241651Z 32015G21KT 10SM CLR 14/M06 A3004 RMK AO2 PK WND 31032/1556 SLP171 T01391061 KL35 241635Z AUTO 27003KT 10SM CLR 11/M08 A3013 RMK AO2 KJBR 241553Z AUTO 17015G20KT 10SM CLR 22/08 A2986 RMK AO2 SLP108 T02170078 UUDL 241630Z 30004MPS CAVOK 04/M11 Q1023 NOSIG RMK QFE759 23000060 KHTS 241651Z 11007KT 080V150 10SM SCT120 14/M06 A3006 RMK AO2 SLP178 T01441056 KL38 241635Z AUTO 17008KT 10SM SCT028 SCT032 26/18 A2997 RMK AO2 T02570183 KIKT 241635Z AUTO 14006KT 10SM FEW013 24/19 A3001 RMK A01 UUEE 241630Z 33005MPS CAVOK 06/M11 Q1025 NOSIG KHUL 241553Z AUTO 36013G21KT 3SM -SN BR OVC006 02/01 A2954 RMK AO2 SLP009 P0003 T00170006 KILM 241553Z 09004KT 10SM CLR 19/02 A3012 RMK AO2 SLP200 T01940017 KJDD 241635Z AUTO 20012G19KT 020V030 8SM FEW027 SCT032 SCT040 24/17 A2982 RMK AO2 KIKV 241635Z AUTO 15008KT 8SM BKN006 OVC055 12/11 A2967 RMK AO2 KHUM 241550Z 16006KT 7SM BKN020 24/18 A2999 RMK ATIS Q VA RY18 ST KIKW 241633Z AUTO 11010G15KT 10SM BKN120 11/M09 A3012 RMK AO2 T01111089 KILN 241554Z AUTO 10008G17KT 10SM CLR 12/M09 A3009 RMK AO2 SLP200 T01171089 FCPP 241600Z 21007KT 9999 FEW020 FEW030CB 29/25 Q1006 NOSIG OYAA 241600Z 13011KT 9999 SCT020 28/23 Q1010 KHUT 241552Z 31020KT 10SM CLR 16/08 A2978 RMK AO2 SLP068 T01610083 $ KJCT 241651Z AUTO 32013G20KT 10SM CLR 31/04 A2989 RMK AO2 SLP084 T03060044 UTNN 241630Z 20005MPS 8000 SCT026 BKN100 17/10 Q1001 R33/190055 NOSIG KIML 241553Z AUTO 33020G25KT CLR 16/M07 A2993 RMK AO2 PK WND 33027/1522 SLP126 T01561067 $ EKYT 241650Z 04007KT CAVOK 10/04 Q1025 RMK BKN067 KIMM 241655Z AUTO 00000KT 8SM CLR 31/17 A3002 RMK A01 P000 KHWD 241554Z 27008KT 10SM CLR 14/11 A3012 RMK AO2 SLP208 T01390106 KIND 241554Z 12015KT 10SM FEW060 FEW120 BKN250 14/01 A3000 RMK AO2 SLP160 T01390006 KJDN 241648Z AUTO 26016G23KT 12/M06 A2979 RMK AO1 SLP096 T01221061 KHVN 241553Z 33013G24KT 10SM CLR 13/M11 A2983 RMK AO2 PK WND 32029/1527 SLP101 T01281111 KJEF 241553Z 18013G21KT 10SM CLR 21/05 A2975 RMK AO2 SLP061 T02110050 KINF 241635Z AUTO 17005KT 10SM CLR 27/16 A3002 RMK AO2 ZYTL 241630Z 08003MPS CAVOK 14/03 Q1020 NOSIG KHVR 241553Z AUTO 23012KT 10SM CLR 09/M03 A2977 RMK AO2 SLP091 T00891028 UTNU 241630Z 22004MPS 200V260 6000 OVC024CB 16/10 Q1003 R13/19//55 NOSIG KHVS 241635Z AUTO 06008KT 10SM CLR 21/01 A3011 RMK AO2 KINJ 241635Z AUTO 20017G26KT 10SM SCT023 SCT029 25/18 A2982 RMK AO2 T02510177 KINK 241634Z AUTO 35011KT 10SM BKN028 23/M03 A3004 RMK AO2 T02281033 KIMT 241554Z AUTO 13008KT 10SM BKN050 OVC060 05/M06 A3004 RMK AO2 SLP182 T00501061 KIOB 241635Z AUTO 10006KT 10SM CLR 15/02 A3006 RMK AO2 KINL 241627Z AUTO 13011KT 4SM -RA BR OVC009 04/02 A2986 RMK AO2 CIG 006V013 P0002 T00390022 KHXD 241550Z 05007G15KT 8SM SKC 21/15 A3006 KHWO 241553Z 14005KT 10SM SCT039 29/18 A3003 RMK AO2 SLP167 T02890178 OYAR 241500Z 36004KT 9999 FEW030 SCT060 23/M02 Q//// KJER 241553Z AUTO 28004KT 10SM -RA BKN036 OVC046 07/04 A2999 RMK AO2 SLP160 P0000 T00670039 OYAT 241500Z 14012KT 9999 FEW035 31/08 Q1016 KJES 241635Z AUTO 09004KT 10SM CLR 27/14 A3001 RMK AO2 KHYA 241556Z 33019G28KT 10SM CLR 10/M03 A2963 RMK AO2 PK WND 32031/1502 SLP035 T01001033 KINS 241558Z AUTO 00000KT 10SM CLR 16/M12 A3002 RMK AO2 SLP136 T01551118 KJFK 241651Z 31024G30KT 10SM SCT250 15/M13 A2989 RMK AO2 PK WND 32031/1610 SLP123 FU PLUME DSNT SW DRFTG SE T01501128 KINT 241554Z VRB03KT 10SM CLR 16/M02 A3014 RMK AO2 SLP202 T01561017 ZYTX 241630Z 15003MPS CAVOK 15/M00 Q1018 NOSIG ENAL 241650Z 06017KT CAVOK 10/04 Q1025 KHWV 241556Z AUTO 32021G32KT 10SM CLR 13/M09 A2985 RMK AO2 PK WND 31034/1503 SLP108 T01281094 TSNO KINW 241556Z AUTO 11004KT 10SM CLR 12/M10 A3015 RMK AO2 SLP178 T01221100 TSNO ENAN 241650Z 25011KT 9999 FEW015 SCT020 06/01 Q1027 KHWY 241635Z AUTO 29006KT 10SM CLR 15/00 A3011 RMK AO2 T01511002 KJGG 241635Z AUTO 32012KT 10SM CLR 18/M02 A3011 RMK AO1 KHYI 241548Z 22010KT 7SM OVC017 22/17 A2991 FDJR 241700Z AUTO 19005KT //// // ////// 12/// Q1016 KIPJ 241635Z AUTO 02004KT 10SM CLR 18/00 A3012 RMK AO2 T01831004 ENAT 241550Z 32013KT 9999 VCSH FEW012 BKN024 05/01 Q1021 RMK WIND 700FT 32020KT KIPL 241553Z AUTO 30005KT 10SM CLR 23/09 A2990 RMK AO2 SLP126 T02280094 ENBL 241620Z 17007KT 100V240 CAVOK 14/M03 Q1024 KIOW 241652Z AUTO 18011KT 6SM VCTS -RA SCT035 OVC047 11/08 A2976 RMK AO2 LTG DSNT NE-SE RAB07 SLP079 P0015 T01110083 KHZE 241635Z AUTO 28017G25KT 10SM CLR 13/M03 A2974 RMK AO2 KIPN 241635Z AUTO 11004KT 10SM CLR 22/20 A3002 RMK A01 ENBN 241550Z 35007KT CAVOK 13/M00 Q1027 KJFX 241655Z AUTO 17007KT 10SM CLR 27/09 A2996 RMK A02 P-128 ENBO 241650Z 30003KT CAVOK 09/M03 Q1028 NOSIG UTSA 241630Z 20006MPS 9000 NSC 15/12 Q1010 R25/CLRD70 NOSIG KJFZ 241635Z AUTO 21004KT 10SM CLR 19/M02 A3005 RMK AO2 T01891016 UTSB 241630Z 23004MPS 190V260 9999 FEW050CB BKN100 16/12 Q1011 R19/CLRD70 NOSIG WBSB 241630Z 22001KT 9999 SCT015 BKN140 29/26 Q1009 NOSIG KHYR 241644Z AUTO 10008G14KT 4SM RA BR BKN014 OVC020 03/02 A2985 RMK AO2 P0008 T00280017 ENBR 241650Z 34007KT CAVOK 12/02 Q1026 NOSIG RMK WIND 1200FT 31008KT KHYS 241635Z AUTO 34018G25KT 10SM BKN100 14/04 A2990 RMK AO1 ENBS 241550Z 33022KT 9999 VCSH SCT014 BKN025 01/M05 Q1015 KIPT 241554Z 36011G21KT 320V030 10SM CLR 12/M10 A3007 RMK AO2 SLP186 T01171100 OYDM 241600Z 28007KT 9999 SCT030 21/01 Q//// KHZL 241635Z AUTO 29015G23KT 10SM CLR 10/M13 A3002 RMK AO2 ENBV 241150Z 29022KT 9999 VCSH FEW008 SCT017 BKN042 03/02 Q1015 KHYW 241635Z AUTO 07003KT 5SM HZ CLR 21/06 A3010 RMK AO2 ENCN 241650Z 03006KT CAVOK 08/M01 Q1027 KHYX 241635Z AUTO 13010KT 10SM BKN120 12/M10 A3013 RMK AO2 UTSK 241400Z 28006MPS 9999 OVC033CB 18/15 Q1010 R16/CLRD70 KHZR 241635Z AUTO 17008G17KT 10SM SCT021 SCT027 25/18 A2995 RMK AO2 T02470184 KIRK 241652Z AUTO 18007KT 3SM RA BR BKN026 BKN035 OVC090 11/09 A2976 RMK AO2 P0010 FDLV 241600Z AUTO 14002KT //// // ////// 25/17 Q//// FDND 241600Z AUTO /////KT //// // ////// 26/17 Q//// KJHW 241635Z AUTO 32009KT 280V040 10SM CLR 05/M09 A3013 RMK AO1 KHZX 241629Z AUTO 10007G14KT 7SM OVC008 02/01 A2981 RMK AO2 P0001 KHZY 241553Z AUTO VRB04KT 10SM CLR 09/M07 A3018 RMK AO2 SLP224 T00941072 UTSS 241630Z 25006MPS 9999 BKN048CB FEW120 15/12 Q1012 R88/19//60 NOSIG FDNH 241700Z AUTO 00000KT //// // ////// ///// Q//// UTST 241630Z 02004MPS 9999 SCT042CB BKN160 20/12 Q1011 R88/CLRD70 TEMPO VRB10G15MPS 3000 -TSRA SQ RMK FLUSHES N ENDR 241620Z AUTO 34006KT 12/06 Q1027 KIRS 241634Z AUTO 11017G20KT 10SM CLR 13/M03 A3004 RMK AO2 KJKA 241635Z AUTO 16007KT 10SM CLR 23/18 A3000 RMK AO2 T02320184 FDMS 241600Z 00000KT 9999 SCT035 24/17 Q1013 NOSIG KM19 241556Z AUTO 17016KT 10SM CLR 23/11 A2985 RMK AO2 T02330105 SLP107 ENFB 241620Z AUTO 18009KT 120V220 9999NDV BKN057/// 10/04 Q1027 W///S3 ENEK 241620Z 09019KT 9999 BKN007 07/06 Q1023 W09/S4 ENDU 241650Z 27005KT 9999 FEW035 SCT070 06/M01 Q1026 KISM 241650Z 14008KT 10SM SCT040 28/19 A3001 KISN 241652Z AUTO 31014G18KT 10SM BKN037 12/02 A2974 RMK AO2 SLP083 T01220022 KISO 241556Z AUTO 04003KT 10SM CLR 16/M02 A3016 RMK AO2 FEFF 241600Z 23005KT 200V260 9999 FEW016 SCT150 32/24 Q1006 NOSIG KM25 241655Z AUTO 18010G16KT 10SM CLR 22/06 A2990 RMK AO2 PNO KISP 241556Z 32023G31KT 10SM FEW250 13/M11 A2983 RMK AO2 PK WND 30035/1504 SLP100 T01331106 LBBG 241630Z 06009MPS 9999 FEW028 SCT045 15/11 Q1010 NOSIG ENFG 241450Z VRB04KT CAVOK 08/M07 Q1027 KISQ 241634Z AUTO 13006KT 10SM OVC100 05/M04 A3010 RMK AO2 T00511041 KITH 241556Z 33015KT 10SM CLR 07/M06 A3007 RMK AO2 T00721061 SLP193 UTTT 241630Z 23003MPS 180V260 9999 OVC066CB 19/12 Q1010 R08R/CLRD70 TEMPO 25010G15MPS KJKJ 241634Z AUTO 14006KT 3SM -RA OVC005 06/06 A2976 RMK AO2 P0001 KM30 241635Z AUTO 13006KT 10SM CLR 22/02 A2987 RMK AO2 T02240022 OYHD 241600Z AUTO /////KT //// ////// /// /// /// ///// Q//// KJKL 241553Z AUTO VRB04KT 10SM CLR 16/01 A3007 RMK AO2 SLP177 T01560011 ENFL 241620Z 31007KT CAVOK 10/05 Q1026 ENGC 241620Z 19006KT 170V240 9999 FEW048 BKN065 09/04 Q1027 W07/S4 ENEV 241550Z 32003KT 260V010 CAVOK 10/M04 Q1027 RMK WIND 1400FT 24008KT KISW 241554Z AUTO 12011G18KT 6SM -RA BR FEW011 BKN070 OVC085 04/03 A2991 RMK AO2 SLP137 P0006 T00440033 FDNY 241600Z AUTO 17002KT //// // ////// 24/17 Q1021 OYHJ 241500Z 26012KT 9999 SCT018 FEW025CB SCT100 21/15 Q//// KITR 241553Z AUTO 34020G25KT 10SM CLR 13/M09 A3000 RMK AO2 PK WND 34027/1503 SLP137 T01281094 OYIB 241500Z 25004KT 9999 SCT020 22/12 Q1020 KM40 241655Z AUTO 18009G14KT 10SM CLR 28/18 A2995 RMK AO2 FDOT 241600Z AUTO /////KT //// // ////// 23/17 Q1012 FEFT 240800Z 30004KT 9999 FEW005 SCT150 BKN300 25/22 Q1011 UUMO 241630Z 34005G08MPS CAVOK 06/M11 Q1025 NOSIG RMK QFE753/1005 26090060 ENHD 241620Z 16004KT 080V220 CAVOK 11/01 Q1026 ENGM 241650Z 15003KT CAVOK 12/M08 Q1027 NOSIG KJLN 241653Z 21024G39KT 10SM -RA SCT035 SCT070 22/14 A2966 RMK AO2 PK WND 19039/1635 LTG DSNT N AND NW RAB44 TSB18E53 SLP034 OCNL LTGCG OHD TS OHD MOV NE P0000 T02220139 ENHE 241620Z 02013KT CAVOK 07/05 Q1027 W///S4 ENHF 241550Z 25011G22KT 220V300 8000 SHRA SCT010 BKN014 03/01 Q1021 RMK WIND 1254FT 29033KT UUOB 241630Z 04005MPS CAVOK 10/M09 Q1023 NOSIG RMK SC060 KIWA 241547Z 15005KT 35SM FEW250 23/M06 A2997 ENHK 241350Z 29021KT 9999 -RA FEW005 SCT008 BKN016 05/03 Q1023 RERA KIWD 241635Z AUTO 13013G20KT 10SM SCT022 BKN038 OVC045 04/M01 A2990 RMK AO1